Wetterdaten: Donnerstag, 28.03.2019
Datum Zeit Temp. A. Feuchte A. Luftdruck Regen Wind Richtung Richtung Sonnenschein ET UV Solar Taupunkt Windchill Windböen
28.03.2019 00:00 1,6 °C 87 % 1032,3 hPa 0,0 mm 0,0 km/h (0 Bft) O-NO 71 ° 0 min 0,000 mm 0,0 UV-I 0 W/m² -0,3 °C 1,6 °C 0,0 km/h (0 Bft)
28.03.2019 00:01 1,6 °C 87 % 1032,4 hPa 0,0 mm 0,0 km/h (0 Bft) O-NO 71 ° 0 min 0,000 mm 0,0 UV-I 0 W/m² -0,3 °C 1,6 °C 0,0 km/h (0 Bft)
28.03.2019 00:02 1,5 °C 87 % 1032,3 hPa 0,0 mm 0,0 km/h (0 Bft) O-NO 71 ° 0 min 0,000 mm 0,0 UV-I 0 W/m² -0,4 °C 1,5 °C 0,0 km/h (0 Bft)
28.03.2019 00:03 1,4 °C 87 % 1032,3 hPa 0,0 mm 0,0 km/h (0 Bft) O-NO 71 ° 0 min 0,000 mm 0,0 UV-I 0 W/m² -0,5 °C 1,4 °C 0,0 km/h (0 Bft)
28.03.2019 00:04 1,4 °C 88 % 1032,3 hPa 0,0 mm 0,0 km/h (0 Bft) O-NO 71 ° 0 min 0,000 mm 0,0 UV-I 0 W/m² -0,4 °C 1,4 °C 0,0 km/h (0 Bft)
28.03.2019 00:05 1,4 °C 88 % 1032,4 hPa 0,0 mm 0,0 km/h (0 Bft) O-NO 71 ° 0 min 0,000 mm 0,0 UV-I 0 W/m² -0,4 °C 1,4 °C 0,0 km/h (0 Bft)
28.03.2019 00:06 1,4 °C 88 % 1032,4 hPa 0,0 mm 0,0 km/h (0 Bft) O-NO 71 ° 0 min 0,000 mm 0,0 UV-I 0 W/m² -0,4 °C 1,4 °C 0,0 km/h (0 Bft)
28.03.2019 00:07 1,4 °C 88 % 1032,3 hPa 0,0 mm 0,0 km/h (0 Bft) O-NO 71 ° 0 min 0,000 mm 0,0 UV-I 0 W/m² -0,4 °C 1,4 °C 0,0 km/h (0 Bft)
28.03.2019 00:08 1,4 °C 88 % 1032,3 hPa 0,0 mm 1,7 km/h (1 Bft) O-NO 71 ° 0 min 0,000 mm 0,0 UV-I 0 W/m² -0,4 °C 1,4 °C 3,2 km/h (1 Bft)
28.03.2019 00:09 1,4 °C 88 % 1032,3 hPa 0,0 mm 3,0 km/h (1 Bft) O-NO 71 ° 0 min 0,000 mm 0,0 UV-I 0 W/m² -0,4 °C 1,4 °C 3,2 km/h (1 Bft)
28.03.2019 00:10 1,5 °C 88 % 1032,3 hPa 0,0 mm 0,6 km/h (0 Bft) O-NO 71 ° 0 min 0,000 mm 0,0 UV-I 0 W/m² -0,3 °C 1,5 °C 1,6 km/h (1 Bft)
28.03.2019 00:11 1,6 °C 88 % 1032,3 hPa 0,0 mm 0,0 km/h (0 Bft) O-NO 71 ° 0 min 0,000 mm 0,0 UV-I 0 W/m² -0,2 °C 1,6 °C 0,0 km/h (0 Bft)
28.03.2019 00:12 1,6 °C 88 % 1032,3 hPa 0,0 mm 0,0 km/h (0 Bft) O-NO 71 ° 0 min 0,000 mm 0,0 UV-I 0 W/m² -0,2 °C 1,6 °C 0,0 km/h (0 Bft)
28.03.2019 00:13 1,6 °C 87 % 1032,3 hPa 0,0 mm 0,0 km/h (0 Bft) O-NO 71 ° 0 min 0,000 mm 0,0 UV-I 0 W/m² -0,3 °C 1,6 °C 0,0 km/h (0 Bft)
28.03.2019 00:14 1,6 °C 87 % 1032,3 hPa 0,0 mm 0,0 km/h (0 Bft) O-NO 71 ° 0 min 0,000 mm 0,0 UV-I 0 W/m² -0,3 °C 1,6 °C 0,0 km/h (0 Bft)
28.03.2019 00:15 1,7 °C 87 % 1032,3 hPa 0,0 mm 0,5 km/h (0 Bft) O-NO 71 ° 0 min 0,000 mm 0,0 UV-I 0 W/m² -0,2 °C 1,7 °C 1,6 km/h (1 Bft)
28.03.2019 00:16 1,7 °C 87 % 1032,3 hPa 0,0 mm 0,2 km/h (0 Bft) O-NO 71 ° 0 min 0,000 mm 0,0 UV-I 0 W/m² -0,2 °C 1,7 °C 1,6 km/h (1 Bft)
28.03.2019 00:17 1,7 °C 87 % 1032,3 hPa 0,0 mm 0,0 km/h (0 Bft) O-NO 71 ° 0 min 0,000 mm 0,0 UV-I 0 W/m² -0,2 °C 1,7 °C 0,0 km/h (0 Bft)
28.03.2019 00:18 1,7 °C 87 % 1032,3 hPa 0,0 mm 0,0 km/h (0 Bft) O-NO 71 ° 0 min 0,000 mm 0,0 UV-I 0 W/m² -0,2 °C 1,7 °C 0,0 km/h (0 Bft)
28.03.2019 00:19 1,7 °C 87 % 1032,3 hPa 0,0 mm 0,0 km/h (0 Bft) O-NO 71 ° 0 min 0,000 mm 0,0 UV-I 0 W/m² -0,2 °C 1,7 °C 0,0 km/h (0 Bft)
28.03.2019 00:20 1,7 °C 87 % 1032,3 hPa 0,0 mm 0,0 km/h (0 Bft) O-NO 71 ° 0 min 0,000 mm 0,0 UV-I 0 W/m² -0,2 °C 1,7 °C 0,0 km/h (0 Bft)
28.03.2019 00:21 1,7 °C 87 % 1032,3 hPa 0,0 mm 0,0 km/h (0 Bft) O-NO 71 ° 0 min 0,000 mm 0,0 UV-I 0 W/m² -0,2 °C 1,7 °C 0,0 km/h (0 Bft)
28.03.2019 00:22 1,7 °C 87 % 1032,3 hPa 0,0 mm 0,0 km/h (0 Bft) O-NO 71 ° 0 min 0,000 mm 0,0 UV-I 0 W/m² -0,2 °C 1,7 °C 0,0 km/h (0 Bft)
28.03.2019 00:23 1,7 °C 87 % 1032,3 hPa 0,0 mm 0,0 km/h (0 Bft) O-NO 71 ° 0 min 0,000 mm 0,0 UV-I 0 W/m² -0,2 °C 1,7 °C 0,0 km/h (0 Bft)
28.03.2019 00:24 1,7 °C 87 % 1032,3 hPa 0,0 mm 0,0 km/h (0 Bft) O-NO 71 ° 0 min 0,000 mm 0,0 UV-I 0 W/m² -0,2 °C 1,7 °C 0,0 km/h (0 Bft)
28.03.2019 00:25 1,7 °C 87 % 1032,3 hPa 0,0 mm 0,4 km/h (0 Bft) O-NO 71 ° 0 min 0,000 mm 0,0 UV-I 0 W/m² -0,2 °C 1,7 °C 1,6 km/h (1 Bft)
28.03.2019 00:26 1,7 °C 87 % 1032,3 hPa 0,0 mm 0,0 km/h (0 Bft) O-NO 71 ° 0 min 0,000 mm 0,0 UV-I 0 W/m² -0,2 °C 1,7 °C 0,0 km/h (0 Bft)
28.03.2019 00:27 1,7 °C 87 % 1032,3 hPa 0,0 mm 0,0 km/h (0 Bft) O-NO 71 ° 0 min 0,000 mm 0,0 UV-I 0 W/m² -0,2 °C 1,7 °C 0,0 km/h (0 Bft)
28.03.2019 00:28 1,7 °C 87 % 1032,3 hPa 0,0 mm 0,0 km/h (0 Bft) O-NO 71 ° 0 min 0,000 mm 0,0 UV-I 0 W/m² -0,2 °C 1,7 °C 0,0 km/h (0 Bft)
28.03.2019 00:29 1,7 °C 87 % 1032,3 hPa 0,0 mm 0,0 km/h (0 Bft) O-NO 71 ° 0 min 0,000 mm 0,0 UV-I 0 W/m² -0,2 °C 1,7 °C 0,0 km/h (0 Bft)
28.03.2019 00:30 1,7 °C 87 % 1032,3 hPa 0,0 mm 0,0 km/h (0 Bft) O-NO 71 ° 0 min 0,000 mm 0,0 UV-I 0 W/m² -0,2 °C 1,7 °C 0,0 km/h (0 Bft)
28.03.2019 00:31 1,7 °C 87 % 1032,3 hPa 0,0 mm 0,0 km/h (0 Bft) O-NO 71 ° 0 min 0,000 mm 0,0 UV-I 0 W/m² -0,2 °C 1,7 °C 0,0 km/h (0 Bft)
28.03.2019 00:32 1,7 °C 87 % 1032,3 hPa 0,0 mm 0,0 km/h (0 Bft) O-NO 71 ° 0 min 0,000 mm 0,0 UV-I 0 W/m² -0,2 °C 1,7 °C 0,0 km/h (0 Bft)
28.03.2019 00:33 1,7 °C 87 % 1032,3 hPa 0,0 mm 0,0 km/h (0 Bft) O-NO 71 ° 0 min 0,000 mm 0,0 UV-I 0 W/m² -0,2 °C 1,7 °C 0,0 km/h (0 Bft)
28.03.2019 00:34 1,7 °C 87 % 1032,3 hPa 0,0 mm 0,0 km/h (0 Bft) O-NO 71 ° 0 min 0,000 mm 0,0 UV-I 0 W/m² -0,2 °C 1,7 °C 0,0 km/h (0 Bft)
28.03.2019 00:35 1,6 °C 87 % 1032,3 hPa 0,0 mm 0,0 km/h (0 Bft) O-NO 71 ° 0 min 0,000 mm 0,0 UV-I 0 W/m² -0,3 °C 1,6 °C 0,0 km/h (0 Bft)
28.03.2019 00:36 1,6 °C 87 % 1032,3 hPa 0,0 mm 0,0 km/h (0 Bft) O-NO 71 ° 0 min 0,000 mm 0,0 UV-I 0 W/m² -0,3 °C 1,6 °C 0,0 km/h (0 Bft)
28.03.2019 00:37 1,6 °C 87 % 1032,3 hPa 0,0 mm 0,0 km/h (0 Bft) O-NO 71 ° 0 min 0,000 mm 0,0 UV-I 0 W/m² -0,3 °C 1,6 °C 0,0 km/h (0 Bft)
28.03.2019 00:38 1,5 °C 87 % 1032,3 hPa 0,0 mm 0,0 km/h (0 Bft) O-NO 71 ° 0 min 0,000 mm 0,0 UV-I 0 W/m² -0,4 °C 1,5 °C 0,0 km/h (0 Bft)
28.03.2019 00:39 1,5 °C 87 % 1032,3 hPa 0,0 mm 0,0 km/h (0 Bft) O-NO 71 ° 0 min 0,000 mm 0,0 UV-I 0 W/m² -0,4 °C 1,5 °C 0,0 km/h (0 Bft)
28.03.2019 00:40 1,5 °C 87 % 1032,3 hPa 0,0 mm 0,0 km/h (0 Bft) O-NO 71 ° 0 min 0,000 mm 0,0 UV-I 0 W/m² -0,4 °C 1,5 °C 0,0 km/h (0 Bft)
28.03.2019 00:41 1,5 °C 87 % 1032,3 hPa 0,0 mm 0,0 km/h (0 Bft) O-NO 71 ° 0 min 0,000 mm 0,0 UV-I 0 W/m² -0,4 °C 1,5 °C 0,0 km/h (0 Bft)
28.03.2019 00:42 1,4 °C 87 % 1032,3 hPa 0,0 mm 0,0 km/h (0 Bft) O-NO 71 ° 0 min 0,000 mm 0,0 UV-I 0 W/m² -0,5 °C 1,4 °C 0,0 km/h (0 Bft)
28.03.2019 00:43 1,4 °C 87 % 1032,3 hPa 0,0 mm 0,0 km/h (0 Bft) O-NO 71 ° 0 min 0,000 mm 0,0 UV-I 0 W/m² -0,5 °C 1,4 °C 0,0 km/h (0 Bft)
28.03.2019 00:44 1,4 °C 87 % 1032,3 hPa 0,0 mm 0,0 km/h (0 Bft) O-NO 71 ° 0 min 0,000 mm 0,0 UV-I 0 W/m² -0,5 °C 1,4 °C 0,0 km/h (0 Bft)
28.03.2019 00:45 1,4 °C 87 % 1032,3 hPa 0,0 mm 0,0 km/h (0 Bft) O-NO 71 ° 0 min 0,000 mm 0,0 UV-I 0 W/m² -0,5 °C 1,4 °C 0,0 km/h (0 Bft)
28.03.2019 00:46 1,4 °C 87 % 1032,3 hPa 0,0 mm 0,0 km/h (0 Bft) O-NO 71 ° 0 min 0,000 mm 0,0 UV-I 0 W/m² -0,5 °C 1,4 °C 0,0 km/h (0 Bft)
28.03.2019 00:47 1,4 °C 87 % 1032,3 hPa 0,0 mm 0,0 km/h (0 Bft) O-NO 71 ° 0 min 0,000 mm 0,0 UV-I 0 W/m² -0,5 °C 1,4 °C 0,0 km/h (0 Bft)
28.03.2019 00:48 1,4 °C 87 % 1032,3 hPa 0,0 mm 0,0 km/h (0 Bft) O-NO 71 ° 0 min 0,000 mm 0,0 UV-I 0 W/m² -0,5 °C 1,4 °C 0,0 km/h (0 Bft)
28.03.2019 00:49 1,4 °C 88 % 1032,3 hPa 0,0 mm 0,9 km/h (0 Bft) O-NO 71 ° 0 min 0,000 mm 0,0 UV-I 0 W/m² -0,4 °C 1,4 °C 3,2 km/h (1 Bft)
28.03.2019 00:50 1,4 °C 88 % 1032,2 hPa 0,0 mm 3,2 km/h (1 Bft) O 94 ° 0 min 0,000 mm 0,0 UV-I 0 W/m² -0,4 °C 1,4 °C 4,8 km/h (1 Bft)
28.03.2019 00:51 1,5 °C 88 % 1032,3 hPa 0,0 mm 3,0 km/h (1 Bft) O-SO 102 ° 0 min 0,000 mm 0,0 UV-I 0 W/m² -0,3 °C 1,5 °C 4,8 km/h (1 Bft)
28.03.2019 00:52 1,6 °C 88 % 1032,3 hPa 0,0 mm 1,7 km/h (1 Bft) O-SO 102 ° 0 min 0,000 mm 0,0 UV-I 0 W/m² -0,2 °C 1,6 °C 3,2 km/h (1 Bft)
28.03.2019 00:53 1,6 °C 87 % 1032,2 hPa 0,0 mm 0,1 km/h (0 Bft) O-SO 102 ° 0 min 0,000 mm 0,0 UV-I 0 W/m² -0,3 °C 1,6 °C 1,6 km/h (1 Bft)
28.03.2019 00:54 1,6 °C 87 % 1032,1 hPa 0,0 mm 0,9 km/h (0 Bft) O-SO 102 ° 0 min 0,000 mm 0,0 UV-I 0 W/m² -0,3 °C 1,6 °C 3,2 km/h (1 Bft)
28.03.2019 00:55 1,6 °C 87 % 1032,1 hPa 0,0 mm 5,0 km/h (1 Bft) S-SW 199 ° 0 min 0,000 mm 0,0 UV-I 0 W/m² -0,3 °C 0,2 °C 6,4 km/h (2 Bft)
28.03.2019 00:56 1,6 °C 87 % 1032,1 hPa 0,0 mm 5,3 km/h (1 Bft) S-SW 209 ° 0 min 0,000 mm 0,0 UV-I 0 W/m² -0,3 °C 0,1 °C 6,4 km/h (2 Bft)
28.03.2019 00:57 1,6 °C 87 % 1032,1 hPa 0,0 mm 3,0 km/h (1 Bft) S-SW 210 ° 0 min 0,000 mm 0,0 UV-I 0 W/m² -0,3 °C 1,6 °C 3,2 km/h (1 Bft)
28.03.2019 00:58 1,6 °C 87 % 1032,1 hPa 0,0 mm 0,1 km/h (0 Bft) S-SW 210 ° 0 min 0,000 mm 0,0 UV-I 0 W/m² -0,3 °C 1,6 °C 1,6 km/h (1 Bft)
28.03.2019 00:59 1,6 °C 87 % 1032,0 hPa 0,0 mm 0,0 km/h (0 Bft) S-SW 210 ° 0 min 0,000 mm 0,0 UV-I 0 W/m² -0,3 °C 1,6 °C 0,0 km/h (0 Bft)
28.03.2019 01:00 1,7 °C 87 % 1032,0 hPa 0,0 mm 0,0 km/h (0 Bft) S-SW 210 ° 0 min 0,000 mm 0,0 UV-I 0 W/m² -0,2 °C 1,7 °C 0,0 km/h (0 Bft)
28.03.2019 01:01 1,7 °C 87 % 1032,1 hPa 0,0 mm 0,0 km/h (0 Bft) S-SW 210 ° 0 min 0,000 mm 0,0 UV-I 0 W/m² -0,2 °C 1,7 °C 0,0 km/h (0 Bft)
28.03.2019 01:02 1,7 °C 87 % 1032,1 hPa 0,0 mm 0,8 km/h (0 Bft) S-SW 210 ° 0 min 0,000 mm 0,0 UV-I 0 W/m² -0,2 °C 1,7 °C 3,2 km/h (1 Bft)
28.03.2019 01:03 1,7 °C 87 % 1032,1 hPa 0,0 mm 1,3 km/h (1 Bft) S-SW 210 ° 0 min 0,000 mm 0,0 UV-I 0 W/m² -0,2 °C 1,7 °C 3,2 km/h (1 Bft)
28.03.2019 01:04 1,6 °C 87 % 1032,1 hPa 0,0 mm 0,0 km/h (0 Bft) S-SW 210 ° 0 min 0,000 mm 0,0 UV-I 0 W/m² -0,3 °C 1,6 °C 0,0 km/h (0 Bft)
28.03.2019 01:05 1,6 °C 87 % 1032,1 hPa 0,0 mm 0,0 km/h (0 Bft) S-SW 210 ° 0 min 0,000 mm 0,0 UV-I 0 W/m² -0,3 °C 1,6 °C 0,0 km/h (0 Bft)
28.03.2019 01:06 1,6 °C 87 % 1032,1 hPa 0,0 mm 0,0 km/h (0 Bft) S-SW 210 ° 0 min 0,000 mm 0,0 UV-I 0 W/m² -0,3 °C 1,6 °C 0,0 km/h (0 Bft)
28.03.2019 01:07 1,5 °C 87 % 1032,1 hPa 0,0 mm 0,0 km/h (0 Bft) S-SW 210 ° 0 min 0,000 mm 0,0 UV-I 0 W/m² -0,4 °C 1,5 °C 0,0 km/h (0 Bft)
28.03.2019 01:08 1,4 °C 87 % 1032,1 hPa 0,0 mm 0,0 km/h (0 Bft) S-SW 210 ° 0 min 0,000 mm 0,0 UV-I 0 W/m² -0,5 °C 1,4 °C 0,0 km/h (0 Bft)
28.03.2019 01:09 1,3 °C 87 % 1032,1 hPa 0,0 mm 0,0 km/h (0 Bft) S-SW 210 ° 0 min 0,000 mm 0,0 UV-I 0 W/m² -0,6 °C 1,3 °C 0,0 km/h (0 Bft)
28.03.2019 01:10 1,3 °C 87 % 1032,1 hPa 0,0 mm 0,0 km/h (0 Bft) S-SW 210 ° 0 min 0,000 mm 0,0 UV-I 0 W/m² -0,6 °C 1,3 °C 0,0 km/h (0 Bft)
28.03.2019 01:11 1,3 °C 87 % 1032,1 hPa 0,0 mm 0,0 km/h (0 Bft) S-SW 210 ° 0 min 0,000 mm 0,0 UV-I 0 W/m² -0,6 °C 1,3 °C 0,0 km/h (0 Bft)
28.03.2019 01:12 1,3 °C 87 % 1032,1 hPa 0,0 mm 0,0 km/h (0 Bft) S-SW 210 ° 0 min 0,000 mm 0,0 UV-I 0 W/m² -0,6 °C 1,3 °C 0,0 km/h (0 Bft)
28.03.2019 01:13 1,3 °C 87 % 1032,1 hPa 0,0 mm 0,0 km/h (0 Bft) S-SW 210 ° 0 min 0,000 mm 0,0 UV-I 0 W/m² -0,6 °C 1,3 °C 0,0 km/h (0 Bft)
28.03.2019 01:14 1,3 °C 87 % 1032,1 hPa 0,0 mm 0,0 km/h (0 Bft) S-SW 210 ° 0 min 0,000 mm 0,0 UV-I 0 W/m² -0,6 °C 1,3 °C 0,0 km/h (0 Bft)
28.03.2019 01:15 1,3 °C 87 % 1032,1 hPa 0,0 mm 0,0 km/h (0 Bft) S-SW 210 ° 0 min 0,000 mm 0,0 UV-I 0 W/m² -0,6 °C 1,3 °C 0,0 km/h (0 Bft)
28.03.2019 01:16 1,3 °C 87 % 1032,0 hPa 0,0 mm 0,0 km/h (0 Bft) S-SW 210 ° 0 min 0,000 mm 0,0 UV-I 0 W/m² -0,6 °C 1,3 °C 0,0 km/h (0 Bft)
28.03.2019 01:17 1,3 °C 87 % 1032,0 hPa 0,0 mm 0,8 km/h (0 Bft) S-SW 210 ° 0 min 0,000 mm 0,0 UV-I 0 W/m² -0,6 °C 1,3 °C 1,6 km/h (1 Bft)
28.03.2019 01:18 1,3 °C 87 % 1032,0 hPa 0,0 mm 1,1 km/h (1 Bft) S-SW 210 ° 0 min 0,000 mm 0,0 UV-I 0 W/m² -0,6 °C 1,3 °C 1,6 km/h (1 Bft)
28.03.2019 01:19 1,4 °C 88 % 1032,0 hPa 0,0 mm 0,7 km/h (0 Bft) S-SW 210 ° 0 min 0,000 mm 0,0 UV-I 0 W/m² -0,4 °C 1,4 °C 1,6 km/h (1 Bft)
28.03.2019 01:20 1,5 °C 88 % 1032,0 hPa 0,0 mm 0,2 km/h (0 Bft) S-SW 210 ° 0 min 0,000 mm 0,0 UV-I 0 W/m² -0,3 °C 1,5 °C 1,6 km/h (1 Bft)
28.03.2019 01:21 1,5 °C 88 % 1032,0 hPa 0,0 mm 0,0 km/h (0 Bft) S-SW 210 ° 0 min 0,000 mm 0,0 UV-I 0 W/m² -0,3 °C 1,5 °C 0,0 km/h (0 Bft)
28.03.2019 01:22 1,5 °C 88 % 1032,0 hPa 0,0 mm 0,0 km/h (0 Bft) S-SW 210 ° 0 min 0,000 mm 0,0 UV-I 0 W/m² -0,3 °C 1,5 °C 0,0 km/h (0 Bft)
28.03.2019 01:23 1,6 °C 87 % 1032,1 hPa 0,0 mm 0,0 km/h (0 Bft) S-SW 210 ° 0 min 0,000 mm 0,0 UV-I 0 W/m² -0,3 °C 1,6 °C 0,0 km/h (0 Bft)
28.03.2019 01:24 1,6 °C 87 % 1032,1 hPa 0,0 mm 0,1 km/h (0 Bft) S-SW 210 ° 0 min 0,000 mm 0,0 UV-I 0 W/m² -0,3 °C 1,6 °C 1,6 km/h (1 Bft)
28.03.2019 01:25 1,5 °C 87 % 1032,1 hPa 0,0 mm 0,5 km/h (0 Bft) S-SW 210 ° 0 min 0,000 mm 0,0 UV-I 0 W/m² -0,4 °C 1,5 °C 3,2 km/h (1 Bft)
28.03.2019 01:26 1,5 °C 87 % 1032,0 hPa 0,0 mm 0,0 km/h (0 Bft) S-SW 210 ° 0 min 0,000 mm 0,0 UV-I 0 W/m² -0,4 °C 1,5 °C 0,0 km/h (0 Bft)
28.03.2019 01:27 1,4 °C 87 % 1032,0 hPa 0,0 mm 0,0 km/h (0 Bft) S-SW 210 ° 0 min 0,000 mm 0,0 UV-I 0 W/m² -0,5 °C 1,4 °C 0,0 km/h (0 Bft)
28.03.2019 01:28 1,4 °C 87 % 1032,0 hPa 0,0 mm 0,0 km/h (0 Bft) S-SW 210 ° 0 min 0,000 mm 0,0 UV-I 0 W/m² -0,5 °C 1,4 °C 0,0 km/h (0 Bft)
28.03.2019 01:29 1,4 °C 87 % 1032,0 hPa 0,0 mm 0,0 km/h (0 Bft) S-SW 210 ° 0 min 0,000 mm 0,0 UV-I 0 W/m² -0,5 °C 1,4 °C 0,0 km/h (0 Bft)
28.03.2019 01:30 1,3 °C 87 % 1032,1 hPa 0,0 mm 0,1 km/h (0 Bft) S-SW 210 ° 0 min 0,000 mm 0,0 UV-I 0 W/m² -0,6 °C 1,3 °C 1,6 km/h (1 Bft)
28.03.2019 01:31 1,4 °C 87 % 1032,1 hPa 0,0 mm 2,7 km/h (1 Bft) S-SW 210 ° 0 min 0,000 mm 0,0 UV-I 0 W/m² -0,5 °C 1,4 °C 3,2 km/h (1 Bft)
28.03.2019 01:32 1,4 °C 87 % 1032,1 hPa 0,0 mm 0,9 km/h (0 Bft) S-SW 210 ° 0 min 0,000 mm 0,0 UV-I 0 W/m² -0,5 °C 1,4 °C 3,2 km/h (1 Bft)
28.03.2019 01:33 1,4 °C 87 % 1032,0 hPa 0,0 mm 0,0 km/h (0 Bft) S-SW 210 ° 0 min 0,000 mm 0,0 UV-I 0 W/m² -0,5 °C 1,4 °C 0,0 km/h (0 Bft)
28.03.2019 01:34 1,4 °C 87 % 1032,0 hPa 0,0 mm 0,0 km/h (0 Bft) S-SW 210 ° 0 min 0,000 mm 0,0 UV-I 0 W/m² -0,5 °C 1,4 °C 0,0 km/h (0 Bft)
28.03.2019 01:35 1,4 °C 87 % 1032,0 hPa 0,0 mm 0,0 km/h (0 Bft) S-SW 210 ° 0 min 0,000 mm 0,0 UV-I 0 W/m² -0,5 °C 1,4 °C 0,0 km/h (0 Bft)
28.03.2019 01:36 1,4 °C 87 % 1032,0 hPa 0,0 mm 0,0 km/h (0 Bft) S-SW 210 ° 0 min 0,000 mm 0,0 UV-I 0 W/m² -0,5 °C 1,4 °C 0,0 km/h (0 Bft)
28.03.2019 01:37 1,4 °C 87 % 1032,0 hPa 0,0 mm 0,0 km/h (0 Bft) S-SW 210 ° 0 min 0,000 mm 0,0 UV-I 0 W/m² -0,5 °C 1,4 °C 0,0 km/h (0 Bft)
28.03.2019 01:38 1,4 °C 87 % 1032,0 hPa 0,0 mm 0,0 km/h (0 Bft) S-SW 210 ° 0 min 0,000 mm 0,0 UV-I 0 W/m² -0,5 °C 1,4 °C 0,0 km/h (0 Bft)
28.03.2019 01:39 1,4 °C 87 % 1032,0 hPa 0,0 mm 0,0 km/h (0 Bft) S-SW 210 ° 0 min 0,000 mm 0,0 UV-I 0 W/m² -0,5 °C 1,4 °C 0,0 km/h (0 Bft)
28.03.2019 01:40 1,4 °C 87 % 1032,0 hPa 0,0 mm 0,0 km/h (0 Bft) S-SW 210 ° 0 min 0,000 mm 0,0 UV-I 0 W/m² -0,5 °C 1,4 °C 0,0 km/h (0 Bft)
28.03.2019 01:41 1,4 °C 87 % 1032,0 hPa 0,0 mm 0,0 km/h (0 Bft) S-SW 210 ° 0 min 0,000 mm 0,0 UV-I 0 W/m² -0,5 °C 1,4 °C 0,0 km/h (0 Bft)
28.03.2019 01:42 1,4 °C 87 % 1031,9 hPa 0,0 mm 0,0 km/h (0 Bft) S-SW 210 ° 0 min 0,000 mm 0,0 UV-I 0 W/m² -0,5 °C 1,4 °C 0,0 km/h (0 Bft)
28.03.2019 01:43 1,4 °C 88 % 1031,9 hPa 0,0 mm 0,0 km/h (0 Bft) S-SW 210 ° 0 min 0,000 mm 0,0 UV-I 0 W/m² -0,4 °C 1,4 °C 0,0 km/h (0 Bft)
28.03.2019 01:44 1,4 °C 88 % 1031,8 hPa 0,0 mm 0,0 km/h (0 Bft) S-SW 210 ° 0 min 0,000 mm 0,0 UV-I 0 W/m² -0,4 °C 1,4 °C 0,0 km/h (0 Bft)
28.03.2019 01:45 1,4 °C 88 % 1031,9 hPa 0,0 mm 0,0 km/h (0 Bft) S-SW 210 ° 0 min 0,000 mm 0,0 UV-I 0 W/m² -0,4 °C 1,4 °C 0,0 km/h (0 Bft)
28.03.2019 01:46 1,4 °C 88 % 1032,0 hPa 0,0 mm 0,0 km/h (0 Bft) S-SW 210 ° 0 min 0,000 mm 0,0 UV-I 0 W/m² -0,4 °C 1,4 °C 0,0 km/h (0 Bft)
28.03.2019 01:47 1,4 °C 88 % 1031,9 hPa 0,0 mm 0,0 km/h (0 Bft) S-SW 210 ° 0 min 0,000 mm 0,0 UV-I 0 W/m² -0,4 °C 1,4 °C 0,0 km/h (0 Bft)
28.03.2019 01:48 1,4 °C 88 % 1031,9 hPa 0,0 mm 0,0 km/h (0 Bft) S-SW 210 ° 0 min 0,000 mm 0,0 UV-I 0 W/m² -0,4 °C 1,4 °C 0,0 km/h (0 Bft)
28.03.2019 01:49 1,4 °C 88 % 1031,9 hPa 0,0 mm 0,0 km/h (0 Bft) S-SW 210 ° 0 min 0,000 mm 0,0 UV-I 0 W/m² -0,4 °C 1,4 °C 0,0 km/h (0 Bft)
28.03.2019 01:50 1,4 °C 88 % 1031,9 hPa 0,0 mm 0,0 km/h (0 Bft) S-SW 210 ° 0 min 0,000 mm 0,0 UV-I 0 W/m² -0,4 °C 1,4 °C 0,0 km/h (0 Bft)
28.03.2019 01:51 1,3 °C 88 % 1031,9 hPa 0,0 mm 0,0 km/h (0 Bft) S-SW 210 ° 0 min 0,000 mm 0,0 UV-I 0 W/m² -0,5 °C 1,3 °C 0,0 km/h (0 Bft)
28.03.2019 01:52 1,3 °C 88 % 1031,9 hPa 0,0 mm 0,0 km/h (0 Bft) S-SW 210 ° 0 min 0,000 mm 0,0 UV-I 0 W/m² -0,5 °C 1,3 °C 0,0 km/h (0 Bft)
28.03.2019 01:53 1,3 °C 87 % 1031,9 hPa 0,0 mm 0,0 km/h (0 Bft) S-SW 210 ° 0 min 0,000 mm 0,0 UV-I 0 W/m² -0,6 °C 1,3 °C 0,0 km/h (0 Bft)
28.03.2019 01:54 1,3 °C 88 % 1031,9 hPa 0,0 mm 0,0 km/h (0 Bft) S-SW 210 ° 0 min 0,000 mm 0,0 UV-I 0 W/m² -0,5 °C 1,3 °C 0,0 km/h (0 Bft)
28.03.2019 01:55 1,3 °C 88 % 1031,9 hPa 0,0 mm 0,0 km/h (0 Bft) S-SW 210 ° 0 min 0,000 mm 0,0 UV-I 0 W/m² -0,5 °C 1,3 °C 0,0 km/h (0 Bft)
28.03.2019 01:56 1,3 °C 88 % 1031,9 hPa 0,0 mm 0,0 km/h (0 Bft) S-SW 210 ° 0 min 0,000 mm 0,0 UV-I 0 W/m² -0,5 °C 1,3 °C 0,0 km/h (0 Bft)
28.03.2019 01:57 1,3 °C 88 % 1031,9 hPa 0,0 mm 0,0 km/h (0 Bft) S-SW 210 ° 0 min 0,000 mm 0,0 UV-I 0 W/m² -0,5 °C 1,3 °C 0,0 km/h (0 Bft)
28.03.2019 01:58 1,3 °C 88 % 1031,9 hPa 0,0 mm 0,0 km/h (0 Bft) S-SW 210 ° 0 min 0,000 mm 0,0 UV-I 0 W/m² -0,5 °C 1,3 °C 0,0 km/h (0 Bft)
28.03.2019 01:59 1,3 °C 88 % 1031,9 hPa 0,0 mm 0,0 km/h (0 Bft) S-SW 210 ° 0 min 0,000 mm 0,0 UV-I 0 W/m² -0,5 °C 1,3 °C 0,0 km/h (0 Bft)
28.03.2019 02:00 1,3 °C 88 % 1031,9 hPa 0,0 mm 0,0 km/h (0 Bft) S-SW 210 ° 0 min 0,000 mm 0,0 UV-I 0 W/m² -0,5 °C 1,3 °C 0,0 km/h (0 Bft)
28.03.2019 02:01 1,3 °C 88 % 1031,8 hPa 0,0 mm 0,0 km/h (0 Bft) S-SW 210 ° 0 min 0,000 mm 0,0 UV-I 0 W/m² -0,5 °C 1,3 °C 0,0 km/h (0 Bft)
28.03.2019 02:02 1,2 °C 88 % 1031,9 hPa 0,0 mm 0,0 km/h (0 Bft) S-SW 210 ° 0 min 0,000 mm 0,0 UV-I 0 W/m² -0,6 °C 1,2 °C 0,0 km/h (0 Bft)
28.03.2019 02:03 1,2 °C 88 % 1031,8 hPa 0,0 mm 0,0 km/h (0 Bft) S-SW 210 ° 0 min 0,000 mm 0,0 UV-I 0 W/m² -0,6 °C 1,2 °C 0,0 km/h (0 Bft)
28.03.2019 02:04 1,2 °C 88 % 1031,9 hPa 0,0 mm 0,0 km/h (0 Bft) S-SW 210 ° 0 min 0,000 mm 0,0 UV-I 0 W/m² -0,6 °C 1,2 °C 0,0 km/h (0 Bft)
28.03.2019 02:05 1,1 °C 88 % 1031,9 hPa 0,0 mm 0,0 km/h (0 Bft) S-SW 210 ° 0 min 0,000 mm 0,0 UV-I 0 W/m² -0,7 °C 1,1 °C 0,0 km/h (0 Bft)
28.03.2019 02:06 1,1 °C 88 % 1031,9 hPa 0,0 mm 0,0 km/h (0 Bft) S-SW 210 ° 0 min 0,000 mm 0,0 UV-I 0 W/m² -0,7 °C 1,1 °C 0,0 km/h (0 Bft)
28.03.2019 02:07 1,1 °C 88 % 1031,9 hPa 0,0 mm 0,0 km/h (0 Bft) S-SW 210 ° 0 min 0,000 mm 0,0 UV-I 0 W/m² -0,7 °C 1,1 °C 0,0 km/h (0 Bft)
28.03.2019 02:08 1,1 °C 88 % 1031,9 hPa 0,0 mm 0,0 km/h (0 Bft) S-SW 210 ° 0 min 0,000 mm 0,0 UV-I 0 W/m² -0,7 °C 1,1 °C 0,0 km/h (0 Bft)
28.03.2019 02:09 1,1 °C 88 % 1031,8 hPa 0,0 mm 0,0 km/h (0 Bft) S-SW 210 ° 0 min 0,000 mm 0,0 UV-I 0 W/m² -0,7 °C 1,1 °C 0,0 km/h (0 Bft)
28.03.2019 02:10 1,1 °C 88 % 1031,9 hPa 0,0 mm 0,0 km/h (0 Bft) S-SW 210 ° 0 min 0,000 mm 0,0 UV-I 0 W/m² -0,7 °C 1,1 °C 0,0 km/h (0 Bft)
28.03.2019 02:11 1,0 °C 88 % 1031,9 hPa 0,0 mm 0,0 km/h (0 Bft) S-SW 210 ° 0 min 0,000 mm 0,0 UV-I 0 W/m² -0,8 °C 1,0 °C 0,0 km/h (0 Bft)
28.03.2019 02:12 1,0 °C 88 % 1031,9 hPa 0,0 mm 0,0 km/h (0 Bft) S-SW 210 ° 0 min 0,000 mm 0,0 UV-I 0 W/m² -0,8 °C 1,0 °C 0,0 km/h (0 Bft)
28.03.2019 02:13 1,0 °C 88 % 1031,8 hPa 0,0 mm 0,0 km/h (0 Bft) S-SW 210 ° 0 min 0,000 mm 0,0 UV-I 0 W/m² -0,8 °C 1,0 °C 0,0 km/h (0 Bft)
28.03.2019 02:14 1,1 °C 89 % 1031,9 hPa 0,0 mm 0,0 km/h (0 Bft) S-SW 210 ° 0 min 0,000 mm 0,0 UV-I 0 W/m² -0,5 °C 1,1 °C 0,0 km/h (0 Bft)
28.03.2019 02:15 1,1 °C 89 % 1031,9 hPa 0,0 mm 0,0 km/h (0 Bft) S-SW 210 ° 0 min 0,000 mm 0,0 UV-I 0 W/m² -0,5 °C 1,1 °C 0,0 km/h (0 Bft)
28.03.2019 02:16 1,1 °C 89 % 1031,9 hPa 0,0 mm 0,0 km/h (0 Bft) S-SW 210 ° 0 min 0,000 mm 0,0 UV-I 0 W/m² -0,5 °C 1,1 °C 0,0 km/h (0 Bft)
28.03.2019 02:17 1,2 °C 89 % 1031,9 hPa 0,0 mm 0,0 km/h (0 Bft) S-SW 210 ° 0 min 0,000 mm 0,0 UV-I 0 W/m² -0,4 °C 1,2 °C 0,0 km/h (0 Bft)
28.03.2019 02:18 1,2 °C 89 % 1031,9 hPa 0,0 mm 0,0 km/h (0 Bft) S-SW 210 ° 0 min 0,000 mm 0,0 UV-I 0 W/m² -0,4 °C 1,2 °C 0,0 km/h (0 Bft)
28.03.2019 02:19 1,1 °C 88 % 1031,9 hPa 0,0 mm 0,0 km/h (0 Bft) S-SW 210 ° 0 min 0,000 mm 0,0 UV-I 0 W/m² -0,7 °C 1,1 °C 0,0 km/h (0 Bft)
28.03.2019 02:20 1,1 °C 88 % 1031,9 hPa 0,0 mm 0,0 km/h (0 Bft) S-SW 210 ° 0 min 0,000 mm 0,0 UV-I 0 W/m² -0,7 °C 1,1 °C 0,0 km/h (0 Bft)
28.03.2019 02:21 1,1 °C 89 % 1031,9 hPa 0,0 mm 0,0 km/h (0 Bft) S-SW 210 ° 0 min 0,000 mm 0,0 UV-I 0 W/m² -0,5 °C 1,1 °C 0,0 km/h (0 Bft)
28.03.2019 02:22 1,1 °C 88 % 1031,9 hPa 0,0 mm 0,0 km/h (0 Bft) S-SW 210 ° 0 min 0,000 mm 0,0 UV-I 0 W/m² -0,7 °C 1,1 °C 0,0 km/h (0 Bft)
28.03.2019 02:23 0,9 °C 88 % 1031,9 hPa 0,0 mm 0,0 km/h (0 Bft) S-SW 210 ° 0 min 0,000 mm 0,0 UV-I 0 W/m² -0,9 °C 0,9 °C 0,0 km/h (0 Bft)
28.03.2019 02:24 0,9 °C 88 % 1031,9 hPa 0,0 mm 0,0 km/h (0 Bft) S-SW 210 ° 0 min 0,000 mm 0,0 UV-I 0 W/m² -0,9 °C 0,9 °C 0,0 km/h (0 Bft)
28.03.2019 02:25 0,8 °C 88 % 1031,9 hPa 0,0 mm 0,0 km/h (0 Bft) S-SW 210 ° 0 min 0,000 mm 0,0 UV-I 0 W/m² -1,0 °C 0,8 °C 0,0 km/h (0 Bft)
28.03.2019 02:26 0,8 °C 89 % 1031,9 hPa 0,0 mm 0,0 km/h (0 Bft) S-SW 210 ° 0 min 0,000 mm 0,0 UV-I 0 W/m² -0,8 °C 0,8 °C 0,0 km/h (0 Bft)
28.03.2019 02:27 0,8 °C 89 % 1031,9 hPa 0,0 mm 0,0 km/h (0 Bft) S-SW 210 ° 0 min 0,000 mm 0,0 UV-I 0 W/m² -0,8 °C 0,8 °C 0,0 km/h (0 Bft)
28.03.2019 02:28 0,8 °C 89 % 1031,9 hPa 0,0 mm 0,0 km/h (0 Bft) S-SW 210 ° 0 min 0,000 mm 0,0 UV-I 0 W/m² -0,8 °C 0,8 °C 0,0 km/h (0 Bft)
28.03.2019 02:29 0,8 °C 89 % 1031,9 hPa 0,0 mm 0,0 km/h (0 Bft) S-SW 210 ° 0 min 0,000 mm 0,0 UV-I 0 W/m² -0,8 °C 0,8 °C 0,0 km/h (0 Bft)
28.03.2019 02:30 0,8 °C 89 % 1031,9 hPa 0,0 mm 0,0 km/h (0 Bft) S-SW 210 ° 0 min 0,000 mm 0,0 UV-I 0 W/m² -0,8 °C 0,8 °C 0,0 km/h (0 Bft)
28.03.2019 02:31 0,8 °C 89 % 1031,9 hPa 0,0 mm 2,6 km/h (1 Bft) S-SW 210 ° 0 min 0,000 mm 0,0 UV-I 0 W/m² -0,8 °C 0,8 °C 3,2 km/h (1 Bft)
28.03.2019 02:32 0,9 °C 89 % 1031,8 hPa 0,0 mm 1,5 km/h (1 Bft) S-SW 210 ° 0 min 0,000 mm 0,0 UV-I 0 W/m² -0,7 °C 0,9 °C 1,6 km/h (1 Bft)
28.03.2019 02:33 0,8 °C 89 % 1031,8 hPa 0,0 mm 0,1 km/h (0 Bft) S-SW 210 ° 0 min 0,000 mm 0,0 UV-I 0 W/m² -0,8 °C 0,8 °C 1,6 km/h (1 Bft)
28.03.2019 02:34 0,9 °C 89 % 1031,8 hPa 0,0 mm 0,0 km/h (0 Bft) S-SW 210 ° 0 min 0,000 mm 0,0 UV-I 0 W/m² -0,7 °C 0,9 °C 0,0 km/h (0 Bft)
28.03.2019 02:35 0,9 °C 89 % 1031,8 hPa 0,0 mm 0,0 km/h (0 Bft) S-SW 210 ° 0 min 0,000 mm 0,0 UV-I 0 W/m² -0,7 °C 0,9 °C 0,0 km/h (0 Bft)
28.03.2019 02:36 0,9 °C 89 % 1031,8 hPa 0,0 mm 0,0 km/h (0 Bft) S-SW 210 ° 0 min 0,000 mm 0,0 UV-I 0 W/m² -0,7 °C 0,9 °C 0,0 km/h (0 Bft)
28.03.2019 02:37 0,8 °C 89 % 1031,9 hPa 0,0 mm 0,0 km/h (0 Bft) S-SW 210 ° 0 min 0,000 mm 0,0 UV-I 0 W/m² -0,8 °C 0,8 °C 0,0 km/h (0 Bft)
28.03.2019 02:38 0,8 °C 89 % 1031,9 hPa 0,0 mm 0,0 km/h (0 Bft) S-SW 210 ° 0 min 0,000 mm 0,0 UV-I 0 W/m² -0,8 °C 0,8 °C 0,0 km/h (0 Bft)
28.03.2019 02:39 0,7 °C 89 % 1031,9 hPa 0,0 mm 0,0 km/h (0 Bft) S-SW 210 ° 0 min 0,000 mm 0,0 UV-I 0 W/m² -0,9 °C 0,7 °C 0,0 km/h (0 Bft)
28.03.2019 02:40 0,6 °C 88 % 1031,9 hPa 0,0 mm 0,0 km/h (0 Bft) S-SW 210 ° 0 min 0,000 mm 0,0 UV-I 0 W/m² -1,2 °C 0,6 °C 0,0 km/h (0 Bft)
28.03.2019 02:41 0,5 °C 88 % 1031,9 hPa 0,0 mm 0,0 km/h (0 Bft) S-SW 210 ° 0 min 0,000 mm 0,0 UV-I 0 W/m² -1,3 °C 0,5 °C 0,0 km/h (0 Bft)
28.03.2019 02:42 0,4 °C 89 % 1031,9 hPa 0,0 mm 0,0 km/h (0 Bft) S-SW 210 ° 0 min 0,000 mm 0,0 UV-I 0 W/m² -1,2 °C 0,4 °C 0,0 km/h (0 Bft)
28.03.2019 02:43 0,4 °C 89 % 1031,9 hPa 0,0 mm 0,0 km/h (0 Bft) S-SW 210 ° 0 min 0,000 mm 0,0 UV-I 0 W/m² -1,2 °C 0,4 °C 0,0 km/h (0 Bft)
28.03.2019 02:44 0,4 °C 89 % 1031,8 hPa 0,0 mm 0,0 km/h (0 Bft) S-SW 210 ° 0 min 0,000 mm 0,0 UV-I 0 W/m² -1,2 °C 0,4 °C 0,0 km/h (0 Bft)
28.03.2019 02:45 0,5 °C 90 % 1031,8 hPa 0,0 mm 0,0 km/h (0 Bft) S-SW 210 ° 0 min 0,000 mm 0,0 UV-I 0 W/m² -0,9 °C 0,5 °C 0,0 km/h (0 Bft)
28.03.2019 02:46 0,6 °C 90 % 1031,8 hPa 0,0 mm 0,0 km/h (0 Bft) S-SW 210 ° 0 min 0,000 mm 0,0 UV-I 0 W/m² -0,8 °C 0,6 °C 0,0 km/h (0 Bft)
28.03.2019 02:47 0,7 °C 90 % 1031,8 hPa 0,0 mm 0,0 km/h (0 Bft) S-SW 210 ° 0 min 0,000 mm 0,0 UV-I 0 W/m² -0,7 °C 0,7 °C 0,0 km/h (0 Bft)
28.03.2019 02:48 0,7 °C 90 % 1031,8 hPa 0,0 mm 0,0 km/h (0 Bft) S-SW 210 ° 0 min 0,000 mm 0,0 UV-I 0 W/m² -0,7 °C 0,7 °C 0,0 km/h (0 Bft)
28.03.2019 02:49 0,8 °C 90 % 1031,8 hPa 0,0 mm 0,0 km/h (0 Bft) S-SW 210 ° 0 min 0,000 mm 0,0 UV-I 0 W/m² -0,6 °C 0,8 °C 0,0 km/h (0 Bft)
28.03.2019 02:50 0,8 °C 90 % 1031,8 hPa 0,0 mm 0,0 km/h (0 Bft) S-SW 210 ° 0 min 0,000 mm 0,0 UV-I 0 W/m² -0,6 °C 0,8 °C 0,0 km/h (0 Bft)
28.03.2019 02:51 0,9 °C 90 % 1031,8 hPa 0,0 mm 0,0 km/h (0 Bft) S-SW 210 ° 0 min 0,000 mm 0,0 UV-I 0 W/m² -0,6 °C 0,9 °C 0,0 km/h (0 Bft)
28.03.2019 02:52 1,0 °C 90 % 1031,8 hPa 0,0 mm 0,0 km/h (0 Bft) S-SW 210 ° 0 min 0,000 mm 0,0 UV-I 0 W/m² -0,5 °C 1,0 °C 0,0 km/h (0 Bft)
28.03.2019 02:53 1,1 °C 90 % 1031,8 hPa 0,0 mm 0,0 km/h (0 Bft) S-SW 210 ° 0 min 0,000 mm 0,0 UV-I 0 W/m² -0,4 °C 1,1 °C 0,0 km/h (0 Bft)
28.03.2019 02:54 1,1 °C 90 % 1031,8 hPa 0,0 mm 0,0 km/h (0 Bft) S-SW 210 ° 0 min 0,000 mm 0,0 UV-I 0 W/m² -0,4 °C 1,1 °C 0,0 km/h (0 Bft)
28.03.2019 02:55 1,1 °C 89 % 1031,8 hPa 0,0 mm 0,0 km/h (0 Bft) S-SW 210 ° 0 min 0,000 mm 0,0 UV-I 0 W/m² -0,5 °C 1,1 °C 0,0 km/h (0 Bft)
28.03.2019 02:56 1,1 °C 89 % 1031,8 hPa 0,0 mm 0,0 km/h (0 Bft) S-SW 210 ° 0 min 0,000 mm 0,0 UV-I 0 W/m² -0,5 °C 1,1 °C 0,0 km/h (0 Bft)
28.03.2019 02:57 1,1 °C 89 % 1031,8 hPa 0,0 mm 0,0 km/h (0 Bft) S-SW 210 ° 0 min 0,000 mm 0,0 UV-I 0 W/m² -0,5 °C 1,1 °C 0,0 km/h (0 Bft)
28.03.2019 02:58 1,0 °C 89 % 1031,8 hPa 0,0 mm 0,0 km/h (0 Bft) S-SW 210 ° 0 min 0,000 mm 0,0 UV-I 0 W/m² -0,6 °C 1,0 °C 0,0 km/h (0 Bft)
28.03.2019 02:59 0,9 °C 89 % 1031,8 hPa 0,0 mm 0,0 km/h (0 Bft) S-SW 210 ° 0 min 0,000 mm 0,0 UV-I 0 W/m² -0,7 °C 0,9 °C 0,0 km/h (0 Bft)
28.03.2019 03:00 0,8 °C 89 % 1031,7 hPa 0,0 mm 0,0 km/h (0 Bft) S-SW 210 ° 0 min 0,000 mm 0,0 UV-I 0 W/m² -0,8 °C 0,8 °C 0,0 km/h (0 Bft)
28.03.2019 03:01 0,7 °C 89 % 1031,8 hPa 0,0 mm 0,0 km/h (0 Bft) S-SW 210 ° 0 min 0,000 mm 0,0 UV-I 0 W/m² -0,9 °C 0,7 °C 0,0 km/h (0 Bft)
28.03.2019 03:02 0,7 °C 89 % 1031,7 hPa 0,0 mm 0,0 km/h (0 Bft) S-SW 210 ° 0 min 0,000 mm 0,0 UV-I 0 W/m² -0,9 °C 0,7 °C 0,0 km/h (0 Bft)
28.03.2019 03:03 0,7 °C 89 % 1031,7 hPa 0,0 mm 0,0 km/h (0 Bft) S-SW 210 ° 0 min 0,000 mm 0,0 UV-I 0 W/m² -0,9 °C 0,7 °C 0,0 km/h (0 Bft)
28.03.2019 03:04 0,7 °C 89 % 1031,7 hPa 0,0 mm 0,0 km/h (0 Bft) S-SW 210 ° 0 min 0,000 mm 0,0 UV-I 0 W/m² -0,9 °C 0,7 °C 0,0 km/h (0 Bft)
28.03.2019 03:05 0,7 °C 89 % 1031,7 hPa 0,0 mm 0,0 km/h (0 Bft) S-SW 210 ° 0 min 0,000 mm 0,0 UV-I 0 W/m² -0,9 °C 0,7 °C 0,0 km/h (0 Bft)
28.03.2019 03:06 0,7 °C 89 % 1031,7 hPa 0,0 mm 0,0 km/h (0 Bft) S-SW 210 ° 0 min 0,000 mm 0,0 UV-I 0 W/m² -0,9 °C 0,7 °C 0,0 km/h (0 Bft)
28.03.2019 03:07 0,6 °C 90 % 1031,7 hPa 0,0 mm 0,0 km/h (0 Bft) S-SW 210 ° 0 min 0,000 mm 0,0 UV-I 0 W/m² -0,8 °C 0,6 °C 0,0 km/h (0 Bft)
28.03.2019 03:08 0,6 °C 90 % 1031,6 hPa 0,0 mm 0,0 km/h (0 Bft) S-SW 210 ° 0 min 0,000 mm 0,0 UV-I 0 W/m² -0,8 °C 0,6 °C 0,0 km/h (0 Bft)
28.03.2019 03:09 0,7 °C 90 % 1031,6 hPa 0,0 mm 0,0 km/h (0 Bft) S-SW 210 ° 0 min 0,000 mm 0,0 UV-I 0 W/m² -0,7 °C 0,7 °C 0,0 km/h (0 Bft)
28.03.2019 03:10 0,7 °C 90 % 1031,6 hPa 0,0 mm 0,0 km/h (0 Bft) S-SW 210 ° 0 min 0,000 mm 0,0 UV-I 0 W/m² -0,7 °C 0,7 °C 0,0 km/h (0 Bft)
28.03.2019 03:11 0,7 °C 90 % 1031,6 hPa 0,0 mm 0,0 km/h (0 Bft) S-SW 210 ° 0 min 0,000 mm 0,0 UV-I 0 W/m² -0,7 °C 0,7 °C 0,0 km/h (0 Bft)
28.03.2019 03:12 0,7 °C 90 % 1031,6 hPa 0,0 mm 0,0 km/h (0 Bft) S-SW 210 ° 0 min 0,000 mm 0,0 UV-I 0 W/m² -0,7 °C 0,7 °C 0,0 km/h (0 Bft)
28.03.2019 03:13 0,7 °C 90 % 1031,6 hPa 0,0 mm 0,0 km/h (0 Bft) S-SW 210 ° 0 min 0,000 mm 0,0 UV-I 0 W/m² -0,7 °C 0,7 °C 0,0 km/h (0 Bft)
28.03.2019 03:14 0,7 °C 90 % 1031,6 hPa 0,0 mm 0,0 km/h (0 Bft) S-SW 210 ° 0 min 0,000 mm 0,0 UV-I 0 W/m² -0,7 °C 0,7 °C 0,0 km/h (0 Bft)
28.03.2019 03:15 0,7 °C 90 % 1031,6 hPa 0,0 mm 0,0 km/h (0 Bft) S-SW 210 ° 0 min 0,000 mm 0,0 UV-I 0 W/m² -0,7 °C 0,7 °C 0,0 km/h (0 Bft)
28.03.2019 03:16 0,7 °C 90 % 1031,6 hPa 0,0 mm 0,0 km/h (0 Bft) S-SW 210 ° 0 min 0,000 mm 0,0 UV-I 0 W/m² -0,7 °C 0,7 °C 0,0 km/h (0 Bft)
28.03.2019 03:17 0,6 °C 90 % 1031,6 hPa 0,0 mm 0,0 km/h (0 Bft) S-SW 210 ° 0 min 0,000 mm 0,0 UV-I 0 W/m² -0,8 °C 0,6 °C 0,0 km/h (0 Bft)
28.03.2019 03:18 0,6 °C 90 % 1031,7 hPa 0,0 mm 0,0 km/h (0 Bft) S-SW 210 ° 0 min 0,000 mm 0,0 UV-I 0 W/m² -0,8 °C 0,6 °C 0,0 km/h (0 Bft)
28.03.2019 03:19 0,6 °C 90 % 1031,7 hPa 0,0 mm 0,0 km/h (0 Bft) S-SW 210 ° 0 min 0,000 mm 0,0 UV-I 0 W/m² -0,8 °C 0,6 °C 0,0 km/h (0 Bft)
28.03.2019 03:20 0,6 °C 90 % 1031,7 hPa 0,0 mm 0,0 km/h (0 Bft) S-SW 210 ° 0 min 0,000 mm 0,0 UV-I 0 W/m² -0,8 °C 0,6 °C 0,0 km/h (0 Bft)
28.03.2019 03:21 0,6 °C 90 % 1031,7 hPa 0,0 mm 0,0 km/h (0 Bft) S-SW 210 ° 0 min 0,000 mm 0,0 UV-I 0 W/m² -0,8 °C 0,6 °C 0,0 km/h (0 Bft)
28.03.2019 03:22 0,6 °C 90 % 1031,6 hPa 0,0 mm 0,0 km/h (0 Bft) S-SW 210 ° 0 min 0,000 mm 0,0 UV-I 0 W/m² -0,8 °C 0,6 °C 0,0 km/h (0 Bft)
28.03.2019 03:23 0,6 °C 90 % 1031,7 hPa 0,0 mm 0,0 km/h (0 Bft) S-SW 210 ° 0 min 0,000 mm 0,0 UV-I 0 W/m² -0,8 °C 0,6 °C 0,0 km/h (0 Bft)
28.03.2019 03:24 0,6 °C 90 % 1031,7 hPa 0,0 mm 0,0 km/h (0 Bft) S-SW 210 ° 0 min 0,000 mm 0,0 UV-I 0 W/m² -0,8 °C 0,6 °C 0,0 km/h (0 Bft)
28.03.2019 03:25 0,6 °C 90 % 1031,7 hPa 0,0 mm 0,0 km/h (0 Bft) S-SW 210 ° 0 min 0,000 mm 0,0 UV-I 0 W/m² -0,8 °C 0,6 °C 0,0 km/h (0 Bft)
28.03.2019 03:26 0,6 °C 90 % 1031,7 hPa 0,0 mm 0,0 km/h (0 Bft) S-SW 210 ° 0 min 0,000 mm 0,0 UV-I 0 W/m² -0,8 °C 0,6 °C 0,0 km/h (0 Bft)
28.03.2019 03:27 0,6 °C 90 % 1031,7 hPa 0,0 mm 0,0 km/h (0 Bft) S-SW 210 ° 0 min 0,000 mm 0,0 UV-I 0 W/m² -0,8 °C 0,6 °C 0,0 km/h (0 Bft)
28.03.2019 03:28 0,6 °C 90 % 1031,8 hPa 0,0 mm 0,0 km/h (0 Bft) S-SW 210 ° 0 min 0,000 mm 0,0 UV-I 0 W/m² -0,8 °C 0,6 °C 0,0 km/h (0 Bft)
28.03.2019 03:29 0,6 °C 90 % 1031,8 hPa 0,0 mm 0,0 km/h (0 Bft) S-SW 210 ° 0 min 0,000 mm 0,0 UV-I 0 W/m² -0,8 °C 0,6 °C 0,0 km/h (0 Bft)
28.03.2019 03:30 0,6 °C 90 % 1031,8 hPa 0,0 mm 0,0 km/h (0 Bft) S-SW 210 ° 0 min 0,000 mm 0,0 UV-I 0 W/m² -0,8 °C 0,6 °C 0,0 km/h (0 Bft)
28.03.2019 03:31 0,6 °C 90 % 1031,7 hPa 0,0 mm 0,0 km/h (0 Bft) S-SW 210 ° 0 min 0,000 mm 0,0 UV-I 0 W/m² -0,8 °C 0,6 °C 0,0 km/h (0 Bft)
28.03.2019 03:32 0,6 °C 90 % 1031,7 hPa 0,0 mm 0,0 km/h (0 Bft) S-SW 210 ° 0 min 0,000 mm 0,0 UV-I 0 W/m² -0,8 °C 0,6 °C 0,0 km/h (0 Bft)
28.03.2019 03:33 0,6 °C 90 % 1031,7 hPa 0,0 mm 0,0 km/h (0 Bft) S-SW 210 ° 0 min 0,000 mm 0,0 UV-I 0 W/m² -0,8 °C 0,6 °C 0,0 km/h (0 Bft)
28.03.2019 03:34 0,6 °C 90 % 1031,7 hPa 0,0 mm 0,0 km/h (0 Bft) S-SW 210 ° 0 min 0,000 mm 0,0 UV-I 0 W/m² -0,8 °C 0,6 °C 0,0 km/h (0 Bft)
28.03.2019 03:35 0,6 °C 90 % 1031,7 hPa 0,0 mm 0,0 km/h (0 Bft) S-SW 210 ° 0 min 0,000 mm 0,0 UV-I 0 W/m² -0,8 °C 0,6 °C 0,0 km/h (0 Bft)
28.03.2019 03:36 0,6 °C 90 % 1031,7 hPa 0,0 mm 0,0 km/h (0 Bft) S-SW 210 ° 0 min 0,000 mm 0,0 UV-I 0 W/m² -0,8 °C 0,6 °C 0,0 km/h (0 Bft)
28.03.2019 03:37 0,6 °C 90 % 1031,7 hPa 0,0 mm 0,0 km/h (0 Bft) S-SW 210 ° 0 min 0,000 mm 0,0 UV-I 0 W/m² -0,8 °C 0,6 °C 0,0 km/h (0 Bft)
28.03.2019 03:38 0,6 °C 90 % 1031,7 hPa 0,0 mm 0,0 km/h (0 Bft) S-SW 210 ° 0 min 0,000 mm 0,0 UV-I 0 W/m² -0,8 °C 0,6 °C 0,0 km/h (0 Bft)
28.03.2019 03:39 0,6 °C 90 % 1031,7 hPa 0,0 mm 0,0 km/h (0 Bft) S-SW 210 ° 0 min 0,000 mm 0,0 UV-I 0 W/m² -0,8 °C 0,6 °C 0,0 km/h (0 Bft)
28.03.2019 03:40 0,6 °C 90 % 1031,7 hPa 0,0 mm 0,0 km/h (0 Bft) S-SW 210 ° 0 min 0,000 mm 0,0 UV-I 0 W/m² -0,8 °C 0,6 °C 0,0 km/h (0 Bft)
28.03.2019 03:41 0,6 °C 90 % 1031,6 hPa 0,0 mm 0,0 km/h (0 Bft) S-SW 210 ° 0 min 0,000 mm 0,0 UV-I 0 W/m² -0,8 °C 0,6 °C 0,0 km/h (0 Bft)
28.03.2019 03:42 0,6 °C 90 % 1031,7 hPa 0,0 mm 0,0 km/h (0 Bft) S-SW 210 ° 0 min 0,000 mm 0,0 UV-I 0 W/m² -0,8 °C 0,6 °C 0,0 km/h (0 Bft)
28.03.2019 03:43 0,6 °C 90 % 1031,6 hPa 0,0 mm 0,0 km/h (0 Bft) S-SW 210 ° 0 min 0,000 mm 0,0 UV-I 0 W/m² -0,8 °C 0,6 °C 0,0 km/h (0 Bft)
28.03.2019 03:44 0,6 °C 90 % 1031,6 hPa 0,0 mm 0,0 km/h (0 Bft) S-SW 210 ° 0 min 0,000 mm 0,0 UV-I 0 W/m² -0,8 °C 0,6 °C 0,0 km/h (0 Bft)
28.03.2019 03:45 0,7 °C 90 % 1031,6 hPa 0,0 mm 0,0 km/h (0 Bft) S-SW 210 ° 0 min 0,000 mm 0,0 UV-I 0 W/m² -0,7 °C 0,7 °C 0,0 km/h (0 Bft)
28.03.2019 03:46 0,7 °C 90 % 1031,7 hPa 0,0 mm 0,0 km/h (0 Bft) S-SW 210 ° 0 min 0,000 mm 0,0 UV-I 0 W/m² -0,7 °C 0,7 °C 0,0 km/h (0 Bft)
28.03.2019 03:47 0,7 °C 90 % 1031,6 hPa 0,0 mm 0,0 km/h (0 Bft) S-SW 210 ° 0 min 0,000 mm 0,0 UV-I 0 W/m² -0,7 °C 0,7 °C 0,0 km/h (0 Bft)
28.03.2019 03:48 0,7 °C 90 % 1031,6 hPa 0,0 mm 0,0 km/h (0 Bft) S-SW 210 ° 0 min 0,000 mm 0,0 UV-I 0 W/m² -0,7 °C 0,7 °C 0,0 km/h (0 Bft)
28.03.2019 03:49 0,7 °C 90 % 1031,6 hPa 0,0 mm 0,0 km/h (0 Bft) S-SW 210 ° 0 min 0,000 mm 0,0 UV-I 0 W/m² -0,7 °C 0,7 °C 0,0 km/h (0 Bft)
28.03.2019 03:50 0,7 °C 90 % 1031,6 hPa 0,0 mm 0,0 km/h (0 Bft) S-SW 210 ° 0 min 0,000 mm 0,0 UV-I 0 W/m² -0,7 °C 0,7 °C 0,0 km/h (0 Bft)
28.03.2019 03:51 0,7 °C 90 % 1031,6 hPa 0,0 mm 0,0 km/h (0 Bft) S-SW 210 ° 0 min 0,000 mm 0,0 UV-I 0 W/m² -0,7 °C 0,7 °C 0,0 km/h (0 Bft)
28.03.2019 03:52 0,7 °C 90 % 1031,6 hPa 0,0 mm 0,0 km/h (0 Bft) S-SW 210 ° 0 min 0,000 mm 0,0 UV-I 0 W/m² -0,7 °C 0,7 °C 0,0 km/h (0 Bft)
28.03.2019 03:53 0,6 °C 90 % 1031,6 hPa 0,0 mm 0,0 km/h (0 Bft) S-SW 210 ° 0 min 0,000 mm 0,0 UV-I 0 W/m² -0,8 °C 0,6 °C 0,0 km/h (0 Bft)
28.03.2019 03:54 0,6 °C 90 % 1031,6 hPa 0,0 mm 0,0 km/h (0 Bft) S-SW 210 ° 0 min 0,000 mm 0,0 UV-I 0 W/m² -0,8 °C 0,6 °C 0,0 km/h (0 Bft)
28.03.2019 03:55 0,6 °C 90 % 1031,6 hPa 0,0 mm 0,0 km/h (0 Bft) S-SW 210 ° 0 min 0,000 mm 0,0 UV-I 0 W/m² -0,8 °C 0,6 °C 0,0 km/h (0 Bft)
28.03.2019 03:56 0,6 °C 90 % 1031,6 hPa 0,0 mm 0,0 km/h (0 Bft) S-SW 210 ° 0 min 0,000 mm 0,0 UV-I 0 W/m² -0,8 °C 0,6 °C 0,0 km/h (0 Bft)
28.03.2019 03:57 0,5 °C 90 % 1031,5 hPa 0,0 mm 0,0 km/h (0 Bft) S-SW 210 ° 0 min 0,000 mm 0,0 UV-I 0 W/m² -0,9 °C 0,5 °C 0,0 km/h (0 Bft)
28.03.2019 03:58 0,5 °C 90 % 1031,5 hPa 0,0 mm 0,0 km/h (0 Bft) S-SW 210 ° 0 min 0,000 mm 0,0 UV-I 0 W/m² -0,9 °C 0,5 °C 0,0 km/h (0 Bft)
28.03.2019 03:59 0,5 °C 90 % 1031,6 hPa 0,0 mm 0,0 km/h (0 Bft) S-SW 210 ° 0 min 0,000 mm 0,0 UV-I 0 W/m² -0,9 °C 0,5 °C 0,0 km/h (0 Bft)
28.03.2019 04:00 0,5 °C 90 % 1031,6 hPa 0,0 mm 0,0 km/h (0 Bft) S-SW 210 ° 0 min 0,000 mm 0,0 UV-I 0 W/m² -0,9 °C 0,5 °C 0,0 km/h (0 Bft)
28.03.2019 04:02 0,5 °C 90 % 1031,6 hPa 0,0 mm 0,0 km/h (0 Bft) S-SW 210 ° 0 min 0,000 mm 0,0 UV-I 0 W/m² -0,9 °C 0,5 °C 0,0 km/h (0 Bft)
28.03.2019 04:03 0,5 °C 90 % 1031,6 hPa 0,0 mm 0,0 km/h (0 Bft) S-SW 210 ° 0 min 0,000 mm 0,0 UV-I 0 W/m² -0,9 °C 0,5 °C 0,0 km/h (0 Bft)
28.03.2019 04:04 0,4 °C 90 % 1031,6 hPa 0,0 mm 0,0 km/h (0 Bft) S-SW 210 ° 0 min 0,000 mm 0,0 UV-I 0 W/m² -1,0 °C 0,4 °C 0,0 km/h (0 Bft)
28.03.2019 04:05 0,4 °C 90 % 1031,6 hPa 0,0 mm 0,0 km/h (0 Bft) S-SW 210 ° 0 min 0,000 mm 0,0 UV-I 0 W/m² -1,0 °C 0,4 °C 0,0 km/h (0 Bft)
28.03.2019 04:06 0,4 °C 90 % 1031,6 hPa 0,0 mm 0,0 km/h (0 Bft) S-SW 210 ° 0 min 0,000 mm 0,0 UV-I 0 W/m² -1,0 °C 0,4 °C 0,0 km/h (0 Bft)
28.03.2019 04:07 0,4 °C 90 % 1031,6 hPa 0,0 mm 0,0 km/h (0 Bft) S-SW 210 ° 0 min 0,000 mm 0,0 UV-I 0 W/m² -1,0 °C 0,4 °C 0,0 km/h (0 Bft)
28.03.2019 04:08 0,3 °C 90 % 1031,6 hPa 0,0 mm 0,0 km/h (0 Bft) S-SW 210 ° 0 min 0,000 mm 0,0 UV-I 0 W/m² -1,1 °C 0,3 °C 0,0 km/h (0 Bft)
28.03.2019 04:09 0,3 °C 90 % 1031,6 hPa 0,0 mm 0,0 km/h (0 Bft) S-SW 210 ° 0 min 0,000 mm 0,0 UV-I 0 W/m² -1,1 °C 0,3 °C 0,0 km/h (0 Bft)
28.03.2019 04:10 0,3 °C 90 % 1031,6 hPa 0,0 mm 0,0 km/h (0 Bft) S-SW 210 ° 0 min 0,000 mm 0,0 UV-I 0 W/m² -1,1 °C 0,3 °C 0,0 km/h (0 Bft)
28.03.2019 04:11 0,3 °C 90 % 1031,6 hPa 0,0 mm 0,0 km/h (0 Bft) S-SW 210 ° 0 min 0,000 mm 0,0 UV-I 0 W/m² -1,1 °C 0,3 °C 0,0 km/h (0 Bft)
28.03.2019 04:12 0,3 °C 91 % 1031,6 hPa 0,0 mm 0,0 km/h (0 Bft) S-SW 210 ° 0 min 0,000 mm 0,0 UV-I 0 W/m² -1,0 °C 0,3 °C 0,0 km/h (0 Bft)
28.03.2019 04:13 0,3 °C 91 % 1031,6 hPa 0,0 mm 0,0 km/h (0 Bft) S-SW 210 ° 0 min 0,000 mm 0,0 UV-I 0 W/m² -1,0 °C 0,3 °C 0,0 km/h (0 Bft)
28.03.2019 04:14 0,4 °C 91 % 1031,6 hPa 0,0 mm 0,0 km/h (0 Bft) S-SW 210 ° 0 min 0,000 mm 0,0 UV-I 0 W/m² -0,9 °C 0,4 °C 0,0 km/h (0 Bft)
28.03.2019 04:15 0,4 °C 91 % 1031,6 hPa 0,0 mm 0,0 km/h (0 Bft) S-SW 210 ° 0 min 0,000 mm 0,0 UV-I 0 W/m² -0,9 °C 0,4 °C 0,0 km/h (0 Bft)
28.03.2019 04:16 0,4 °C 90 % 1031,6 hPa 0,0 mm 0,0 km/h (0 Bft) S-SW 210 ° 0 min 0,000 mm 0,0 UV-I 0 W/m² -1,0 °C 0,4 °C 0,0 km/h (0 Bft)
28.03.2019 04:17 0,4 °C 90 % 1031,7 hPa 0,0 mm 0,0 km/h (0 Bft) S-SW 210 ° 0 min 0,000 mm 0,0 UV-I 0 W/m² -1,0 °C 0,4 °C 0,0 km/h (0 Bft)
28.03.2019 04:18 0,4 °C 90 % 1031,7 hPa 0,0 mm 0,0 km/h (0 Bft) S-SW 210 ° 0 min 0,000 mm 0,0 UV-I 0 W/m² -1,0 °C 0,4 °C 0,0 km/h (0 Bft)
28.03.2019 04:19 0,4 °C 90 % 1031,6 hPa 0,0 mm 0,0 km/h (0 Bft) S-SW 210 ° 0 min 0,000 mm 0,0 UV-I 0 W/m² -1,0 °C 0,4 °C 0,0 km/h (0 Bft)
28.03.2019 04:20 0,4 °C 90 % 1031,7 hPa 0,0 mm 0,0 km/h (0 Bft) S-SW 210 ° 0 min 0,000 mm 0,0 UV-I 0 W/m² -1,0 °C 0,4 °C 0,0 km/h (0 Bft)
28.03.2019 04:21 0,4 °C 90 % 1031,7 hPa 0,0 mm 0,0 km/h (0 Bft) S-SW 210 ° 0 min 0,000 mm 0,0 UV-I 0 W/m² -1,0 °C 0,4 °C 0,0 km/h (0 Bft)
28.03.2019 04:22 0,4 °C 90 % 1031,7 hPa 0,0 mm 0,0 km/h (0 Bft) S-SW 210 ° 0 min 0,000 mm 0,0 UV-I 0 W/m² -1,0 °C 0,4 °C 0,0 km/h (0 Bft)
28.03.2019 04:23 0,4 °C 90 % 1031,6 hPa 0,0 mm 0,0 km/h (0 Bft) S-SW 210 ° 0 min 0,000 mm 0,0 UV-I 0 W/m² -1,0 °C 0,4 °C 0,0 km/h (0 Bft)
28.03.2019 04:24 0,4 °C 91 % 1031,6 hPa 0,0 mm 0,0 km/h (0 Bft) S-SW 210 ° 0 min 0,000 mm 0,0 UV-I 0 W/m² -0,9 °C 0,4 °C 0,0 km/h (0 Bft)
28.03.2019 04:25 0,4 °C 90 % 1031,6 hPa 0,0 mm 0,0 km/h (0 Bft) S-SW 210 ° 0 min 0,000 mm 0,0 UV-I 0 W/m² -1,0 °C 0,4 °C 0,0 km/h (0 Bft)
28.03.2019 04:26 0,4 °C 90 % 1031,6 hPa 0,0 mm 0,0 km/h (0 Bft) S-SW 210 ° 0 min 0,000 mm 0,0 UV-I 0 W/m² -1,0 °C 0,4 °C 0,0 km/h (0 Bft)
28.03.2019 04:27 0,4 °C 91 % 1031,6 hPa 0,0 mm 0,1 km/h (0 Bft) S-SW 210 ° 0 min 0,000 mm 0,0 UV-I 0 W/m² -0,9 °C 0,4 °C 1,6 km/h (1 Bft)
28.03.2019 04:28 0,4 °C 91 % 1031,7 hPa 0,0 mm 0,0 km/h (0 Bft) S-SW 210 ° 0 min 0,000 mm 0,0 UV-I 0 W/m² -0,9 °C 0,4 °C 0,0 km/h (0 Bft)
28.03.2019 04:29 0,4 °C 90 % 1031,6 hPa 0,0 mm 0,0 km/h (0 Bft) S-SW 210 ° 0 min 0,000 mm 0,0 UV-I 0 W/m² -1,0 °C 0,4 °C 0,0 km/h (0 Bft)
28.03.2019 04:30 0,4 °C 90 % 1031,7 hPa 0,0 mm 0,0 km/h (0 Bft) S-SW 210 ° 0 min 0,000 mm 0,0 UV-I 0 W/m² -1,0 °C 0,4 °C 0,0 km/h (0 Bft)
28.03.2019 04:31 0,4 °C 90 % 1031,7 hPa 0,0 mm 0,0 km/h (0 Bft) S-SW 210 ° 0 min 0,000 mm 0,0 UV-I 0 W/m² -1,0 °C 0,4 °C 0,0 km/h (0 Bft)
28.03.2019 04:32 0,3 °C 90 % 1031,6 hPa 0,0 mm 0,0 km/h (0 Bft) S-SW 210 ° 0 min 0,000 mm 0,0 UV-I 0 W/m² -1,1 °C 0,3 °C 0,0 km/h (0 Bft)
28.03.2019 04:33 0,3 °C 90 % 1031,6 hPa 0,0 mm 0,0 km/h (0 Bft) S-SW 210 ° 0 min 0,000 mm 0,0 UV-I 0 W/m² -1,1 °C 0,3 °C 0,0 km/h (0 Bft)
28.03.2019 04:34 0,3 °C 91 % 1031,6 hPa 0,0 mm 0,0 km/h (0 Bft) S-SW 210 ° 0 min 0,000 mm 0,0 UV-I 0 W/m² -1,0 °C 0,3 °C 0,0 km/h (0 Bft)
28.03.2019 04:35 0,3 °C 91 % 1031,6 hPa 0,0 mm 0,0 km/h (0 Bft) S-SW 210 ° 0 min 0,000 mm 0,0 UV-I 0 W/m² -1,0 °C 0,3 °C 0,0 km/h (0 Bft)
28.03.2019 04:36 0,3 °C 91 % 1031,6 hPa 0,0 mm 0,0 km/h (0 Bft) S-SW 210 ° 0 min 0,000 mm 0,0 UV-I 0 W/m² -1,0 °C 0,3 °C 0,0 km/h (0 Bft)
28.03.2019 04:37 0,3 °C 91 % 1031,6 hPa 0,0 mm 0,0 km/h (0 Bft) S-SW 210 ° 0 min 0,000 mm 0,0 UV-I 0 W/m² -1,0 °C 0,3 °C 0,0 km/h (0 Bft)
28.03.2019 04:38 0,2 °C 91 % 1031,7 hPa 0,0 mm 0,0 km/h (0 Bft) S-SW 210 ° 0 min 0,000 mm 0,0 UV-I 0 W/m² -1,1 °C 0,2 °C 0,0 km/h (0 Bft)
28.03.2019 04:39 0,2 °C 90 % 1031,7 hPa 0,0 mm 0,0 km/h (0 Bft) S-SW 210 ° 0 min 0,000 mm 0,0 UV-I 0 W/m² -1,2 °C 0,2 °C 0,0 km/h (0 Bft)
28.03.2019 04:40 0,1 °C 90 % 1031,6 hPa 0,0 mm 0,0 km/h (0 Bft) S-SW 210 ° 0 min 0,000 mm 0,0 UV-I 0 W/m² -1,3 °C 0,1 °C 0,0 km/h (0 Bft)
28.03.2019 04:41 0,2 °C 90 % 1031,6 hPa 0,0 mm 0,0 km/h (0 Bft) S-SW 210 ° 0 min 0,000 mm 0,0 UV-I 0 W/m² -1,2 °C 0,2 °C 0,0 km/h (0 Bft)
28.03.2019 04:42 0,2 °C 91 % 1031,6 hPa 0,0 mm 0,0 km/h (0 Bft) S-SW 210 ° 0 min 0,000 mm 0,0 UV-I 0 W/m² -1,1 °C 0,2 °C 0,0 km/h (0 Bft)
28.03.2019 04:43 0,1 °C 91 % 1031,6 hPa 0,0 mm 0,0 km/h (0 Bft) S-SW 210 ° 0 min 0,000 mm 0,0 UV-I 0 W/m² -1,2 °C 0,1 °C 0,0 km/h (0 Bft)
28.03.2019 04:44 0,1 °C 91 % 1031,6 hPa 0,0 mm 0,0 km/h (0 Bft) S-SW 210 ° 0 min 0,000 mm 0,0 UV-I 0 W/m² -1,2 °C 0,1 °C 0,0 km/h (0 Bft)
28.03.2019 04:45 0,1 °C 91 % 1031,6 hPa 0,0 mm 0,0 km/h (0 Bft) S-SW 210 ° 0 min 0,000 mm 0,0 UV-I 0 W/m² -1,2 °C 0,1 °C 0,0 km/h (0 Bft)
28.03.2019 04:46 0,1 °C 91 % 1031,6 hPa 0,0 mm 0,0 km/h (0 Bft) S-SW 210 ° 0 min 0,000 mm 0,0 UV-I 0 W/m² -1,2 °C 0,1 °C 0,0 km/h (0 Bft)
28.03.2019 04:47 0,1 °C 91 % 1031,6 hPa 0,0 mm 0,0 km/h (0 Bft) S-SW 210 ° 0 min 0,000 mm 0,0 UV-I 0 W/m² -1,2 °C 0,1 °C 0,0 km/h (0 Bft)
28.03.2019 04:48 0,2 °C 91 % 1031,6 hPa 0,0 mm 0,0 km/h (0 Bft) S-SW 210 ° 0 min 0,000 mm 0,0 UV-I 0 W/m² -1,1 °C 0,2 °C 0,0 km/h (0 Bft)
28.03.2019 04:49 0,2 °C 91 % 1031,6 hPa 0,0 mm 0,0 km/h (0 Bft) S-SW 210 ° 0 min 0,000 mm 0,0 UV-I 0 W/m² -1,1 °C 0,2 °C 0,0 km/h (0 Bft)
28.03.2019 04:50 0,2 °C 91 % 1031,6 hPa 0,0 mm 0,0 km/h (0 Bft) S-SW 210 ° 0 min 0,000 mm 0,0 UV-I 0 W/m² -1,1 °C 0,2 °C 0,0 km/h (0 Bft)
28.03.2019 04:51 0,2 °C 91 % 1031,6 hPa 0,0 mm 0,0 km/h (0 Bft) S-SW 210 ° 0 min 0,000 mm 0,0 UV-I 0 W/m² -1,1 °C 0,2 °C 0,0 km/h (0 Bft)
28.03.2019 04:52 0,2 °C 91 % 1031,6 hPa 0,0 mm 0,0 km/h (0 Bft) S-SW 210 ° 0 min 0,000 mm 0,0 UV-I 0 W/m² -1,1 °C 0,2 °C 0,0 km/h (0 Bft)
28.03.2019 04:53 0,3 °C 91 % 1031,6 hPa 0,0 mm 0,0 km/h (0 Bft) S-SW 210 ° 0 min 0,000 mm 0,0 UV-I 0 W/m² -1,0 °C 0,3 °C 0,0 km/h (0 Bft)
28.03.2019 04:54 0,2 °C 91 % 1031,6 hPa 0,0 mm 0,0 km/h (0 Bft) S-SW 210 ° 0 min 0,000 mm 0,0 UV-I 0 W/m² -1,1 °C 0,2 °C 0,0 km/h (0 Bft)
28.03.2019 04:55 0,3 °C 91 % 1031,6 hPa 0,0 mm 0,0 km/h (0 Bft) S-SW 210 ° 0 min 0,000 mm 0,0 UV-I 0 W/m² -1,0 °C 0,3 °C 0,0 km/h (0 Bft)
28.03.2019 04:56 0,2 °C 91 % 1031,6 hPa 0,0 mm 0,0 km/h (0 Bft) S-SW 210 ° 0 min 0,000 mm 0,0 UV-I 0 W/m² -1,1 °C 0,2 °C 0,0 km/h (0 Bft)
28.03.2019 04:57 0,2 °C 91 % 1031,6 hPa 0,0 mm 0,0 km/h (0 Bft) S-SW 210 ° 0 min 0,000 mm 0,0 UV-I 0 W/m² -1,1 °C 0,2 °C 0,0 km/h (0 Bft)
28.03.2019 04:58 0,3 °C 91 % 1031,6 hPa 0,0 mm 0,0 km/h (0 Bft) S-SW 210 ° 0 min 0,000 mm 0,0 UV-I 0 W/m² -1,0 °C 0,3 °C 0,0 km/h (0 Bft)
28.03.2019 04:59 0,3 °C 91 % 1031,6 hPa 0,0 mm 0,0 km/h (0 Bft) S-SW 210 ° 0 min 0,000 mm 0,0 UV-I 0 W/m² -1,0 °C 0,3 °C 0,0 km/h (0 Bft)
28.03.2019 05:00 0,3 °C 91 % 1031,6 hPa 0,0 mm 0,0 km/h (0 Bft) S-SW 210 ° 0 min 0,000 mm 0,0 UV-I 0 W/m² -1,0 °C 0,3 °C 0,0 km/h (0 Bft)
28.03.2019 05:01 0,2 °C 91 % 1031,6 hPa 0,0 mm 0,0 km/h (0 Bft) S-SW 210 ° 0 min 0,000 mm 0,0 UV-I 0 W/m² -1,1 °C 0,2 °C 0,0 km/h (0 Bft)
28.03.2019 05:02 0,2 °C 91 % 1031,6 hPa 0,0 mm 0,0 km/h (0 Bft) S-SW 210 ° 0 min 0,000 mm 0,0 UV-I 0 W/m² -1,1 °C 0,2 °C 0,0 km/h (0 Bft)
28.03.2019 05:03 0,2 °C 91 % 1031,6 hPa 0,0 mm 0,0 km/h (0 Bft) S-SW 210 ° 0 min 0,000 mm 0,0 UV-I 0 W/m² -1,1 °C 0,2 °C 0,0 km/h (0 Bft)
28.03.2019 05:04 0,2 °C 91 % 1031,6 hPa 0,0 mm 0,0 km/h (0 Bft) S-SW 210 ° 0 min 0,000 mm 0,0 UV-I 0 W/m² -1,1 °C 0,2 °C 0,0 km/h (0 Bft)
28.03.2019 05:05 0,3 °C 91 % 1031,6 hPa 0,0 mm 0,0 km/h (0 Bft) S-SW 210 ° 0 min 0,000 mm 0,0 UV-I 0 W/m² -1,0 °C 0,3 °C 0,0 km/h (0 Bft)
28.03.2019 05:06 0,4 °C 91 % 1031,6 hPa 0,0 mm 0,0 km/h (0 Bft) S-SW 210 ° 0 min 0,000 mm 0,0 UV-I 0 W/m² -0,9 °C 0,4 °C 0,0 km/h (0 Bft)
28.03.2019 05:07 0,5 °C 91 % 1031,6 hPa 0,0 mm 0,0 km/h (0 Bft) S-SW 210 ° 0 min 0,000 mm 0,0 UV-I 0 W/m² -0,8 °C 0,5 °C 0,0 km/h (0 Bft)
28.03.2019 05:08 0,7 °C 91 % 1031,6 hPa 0,0 mm 0,0 km/h (0 Bft) S-SW 210 ° 0 min 0,000 mm 0,0 UV-I 0 W/m² -0,6 °C 0,7 °C 0,0 km/h (0 Bft)
28.03.2019 05:09 0,7 °C 92 % 1031,6 hPa 0,0 mm 2,7 km/h (1 Bft) NO 54 ° 0 min 0,000 mm 0,0 UV-I 0 W/m² -0,4 °C 0,7 °C 4,8 km/h (1 Bft)
28.03.2019 05:10 0,8 °C 91 % 1031,6 hPa 0,0 mm 2,2 km/h (1 Bft) NO 54 ° 0 min 0,000 mm 0,0 UV-I 0 W/m² -0,5 °C 0,8 °C 3,2 km/h (1 Bft)
28.03.2019 05:11 0,8 °C 91 % 1031,6 hPa 0,0 mm 0,0 km/h (0 Bft) NO 54 ° 0 min 0,000 mm 0,0 UV-I 0 W/m² -0,5 °C 0,8 °C 0,0 km/h (0 Bft)
28.03.2019 05:12 0,8 °C 91 % 1031,6 hPa 0,0 mm 0,0 km/h (0 Bft) NO 54 ° 0 min 0,000 mm 0,0 UV-I 0 W/m² -0,5 °C 0,8 °C 0,0 km/h (0 Bft)
28.03.2019 05:13 0,8 °C 91 % 1031,6 hPa 0,0 mm 2,2 km/h (1 Bft) NO 54 ° 0 min 0,000 mm 0,0 UV-I 0 W/m² -0,5 °C 0,8 °C 6,4 km/h (2 Bft)
28.03.2019 05:14 0,9 °C 91 % 1031,6 hPa 0,0 mm 0,5 km/h (0 Bft) NO 54 ° 0 min 0,000 mm 0,0 UV-I 0 W/m² -0,4 °C 0,9 °C 3,2 km/h (1 Bft)
28.03.2019 05:15 0,9 °C 91 % 1031,6 hPa 0,0 mm 2,9 km/h (1 Bft) O-NO 63 ° 0 min 0,000 mm 0,0 UV-I 0 W/m² -0,4 °C 0,9 °C 6,4 km/h (2 Bft)
28.03.2019 05:16 0,9 °C 91 % 1031,7 hPa 0,0 mm 0,0 km/h (0 Bft) O-NO 63 ° 0 min 0,000 mm 0,0 UV-I 0 W/m² -0,4 °C 0,9 °C 0,0 km/h (0 Bft)
28.03.2019 05:17 0,9 °C 91 % 1031,7 hPa 0,0 mm 0,0 km/h (0 Bft) O-NO 63 ° 0 min 0,000 mm 0,0 UV-I 0 W/m² -0,4 °C 0,9 °C 0,0 km/h (0 Bft)
28.03.2019 05:18 0,9 °C 91 % 1031,6 hPa 0,0 mm 1,3 km/h (1 Bft) O-NO 63 ° 0 min 0,000 mm 0,0 UV-I 0 W/m² -0,4 °C 0,9 °C 3,2 km/h (1 Bft)
28.03.2019 05:19 0,9 °C 91 % 1031,6 hPa 0,0 mm 1,7 km/h (1 Bft) O-NO 63 ° 0 min 0,000 mm 0,0 UV-I 0 W/m² -0,4 °C 0,9 °C 3,2 km/h (1 Bft)
28.03.2019 05:20 0,9 °C 91 % 1031,6 hPa 0,0 mm 0,3 km/h (0 Bft) O-NO 63 ° 0 min 0,000 mm 0,0 UV-I 0 W/m² -0,4 °C 0,9 °C 3,2 km/h (1 Bft)
28.03.2019 05:21 1,0 °C 91 % 1031,6 hPa 0,0 mm 0,0 km/h (0 Bft) O-NO 63 ° 0 min 0,000 mm 0,0 UV-I 0 W/m² -0,3 °C 1,0 °C 0,0 km/h (0 Bft)
28.03.2019 05:22 0,9 °C 91 % 1031,6 hPa 0,0 mm 0,3 km/h (0 Bft) O-NO 63 ° 0 min 0,000 mm 0,0 UV-I 0 W/m² -0,4 °C 0,9 °C 1,6 km/h (1 Bft)
28.03.2019 05:23 0,9 °C 91 % 1031,6 hPa 0,0 mm 0,7 km/h (0 Bft) O-NO 63 ° 0 min 0,000 mm 0,0 UV-I 0 W/m² -0,4 °C 0,9 °C 3,2 km/h (1 Bft)
28.03.2019 05:24 1,0 °C 91 % 1031,6 hPa 0,0 mm 0,0 km/h (0 Bft) O-NO 63 ° 0 min 0,000 mm 0,0 UV-I 0 W/m² -0,3 °C 1,0 °C 0,0 km/h (0 Bft)
28.03.2019 05:25 1,1 °C 91 % 1031,5 hPa 0,0 mm 0,1 km/h (0 Bft) O-NO 63 ° 0 min 0,000 mm 0,0 UV-I 0 W/m² -0,2 °C 1,1 °C 1,6 km/h (1 Bft)
28.03.2019 05:26 1,1 °C 91 % 1031,5 hPa 0,0 mm 1,9 km/h (1 Bft) O 86 ° 0 min 0,000 mm 0,0 UV-I 0 W/m² -0,2 °C 1,1 °C 4,8 km/h (1 Bft)
28.03.2019 05:27 1,1 °C 91 % 1031,5 hPa 0,0 mm 2,4 km/h (1 Bft) O 86 ° 0 min 0,000 mm 0,0 UV-I 0 W/m² -0,2 °C 1,1 °C 4,8 km/h (1 Bft)
28.03.2019 05:28 1,1 °C 91 % 1031,5 hPa 0,0 mm 0,3 km/h (0 Bft) O 86 ° 0 min 0,000 mm 0,0 UV-I 0 W/m² -0,2 °C 1,1 °C 1,6 km/h (1 Bft)
28.03.2019 05:29 1,1 °C 91 % 1031,5 hPa 0,0 mm 2,3 km/h (1 Bft) O-NO 78 ° 0 min 0,000 mm 0,0 UV-I 0 W/m² -0,2 °C 1,1 °C 4,8 km/h (1 Bft)
28.03.2019 05:30 1,1 °C 91 % 1031,6 hPa 0,0 mm 1,7 km/h (1 Bft) O 94 ° 0 min 0,000 mm 0,0 UV-I 0 W/m² -0,2 °C 1,1 °C 6,4 km/h (2 Bft)
28.03.2019 05:31 1,1 °C 91 % 1031,6 hPa 0,0 mm 1,7 km/h (1 Bft) O-NO 65 ° 0 min 0,000 mm 0,0 UV-I 0 W/m² -0,2 °C 1,1 °C 6,4 km/h (2 Bft)
28.03.2019 05:32 1,1 °C 91 % 1031,6 hPa 0,0 mm 0,0 km/h (0 Bft) O-NO 65 ° 0 min 0,000 mm 0,0 UV-I 0 W/m² -0,2 °C 1,1 °C 0,0 km/h (0 Bft)
28.03.2019 05:33 1,1 °C 91 % 1031,5 hPa 0,0 mm 0,1 km/h (0 Bft) O-NO 65 ° 0 min 0,000 mm 0,0 UV-I 0 W/m² -0,2 °C 1,1 °C 1,6 km/h (1 Bft)
28.03.2019 05:34 1,1 °C 91 % 1031,5 hPa 0,0 mm 0,0 km/h (0 Bft) O-NO 65 ° 0 min 0,000 mm 0,0 UV-I 0 W/m² -0,2 °C 1,1 °C 0,0 km/h (0 Bft)
28.03.2019 05:35 1,1 °C 91 % 1031,5 hPa 0,0 mm 0,0 km/h (0 Bft) O-NO 65 ° 0 min 0,000 mm 0,0 UV-I 0 W/m² -0,2 °C 1,1 °C 0,0 km/h (0 Bft)
28.03.2019 05:36 1,1 °C 91 % 1031,5 hPa 0,0 mm 0,0 km/h (0 Bft) O-NO 65 ° 0 min 0,000 mm 0,0 UV-I 0 W/m² -0,2 °C 1,1 °C 0,0 km/h (0 Bft)
28.03.2019 05:37 1,1 °C 91 % 1031,6 hPa 0,0 mm 0,1 km/h (0 Bft) O-NO 65 ° 0 min 0,000 mm 0,0 UV-I 0 W/m² -0,2 °C 1,1 °C 1,6 km/h (1 Bft)
28.03.2019 05:38 1,1 °C 91 % 1031,6 hPa 0,0 mm 1,9 km/h (1 Bft) O-NO 65 ° 0 min 0,000 mm 0,0 UV-I 0 W/m² -0,2 °C 1,1 °C 4,8 km/h (1 Bft)
28.03.2019 05:39 1,1 °C 90 % 1031,6 hPa 0,0 mm 0,0 km/h (0 Bft) O-NO 65 ° 0 min 0,000 mm 0,0 UV-I 0 W/m² -0,4 °C 1,1 °C 0,0 km/h (0 Bft)
28.03.2019 05:40 1,1 °C 90 % 1031,6 hPa 0,0 mm 0,0 km/h (0 Bft) O-NO 65 ° 0 min 0,000 mm 0,0 UV-I 0 W/m² -0,4 °C 1,1 °C 0,0 km/h (0 Bft)
28.03.2019 05:41 1,1 °C 91 % 1031,6 hPa 0,0 mm 0,0 km/h (0 Bft) O-NO 65 ° 0 min 0,000 mm 0,0 UV-I 0 W/m² -0,2 °C 1,1 °C 0,0 km/h (0 Bft)
28.03.2019 05:42 1,1 °C 91 % 1031,7 hPa 0,0 mm 0,3 km/h (0 Bft) O-NO 65 ° 0 min 0,000 mm 0,0 UV-I 0 W/m² -0,2 °C 1,1 °C 1,6 km/h (1 Bft)
28.03.2019 05:43 1,1 °C 91 % 1031,7 hPa 0,0 mm 0,0 km/h (0 Bft) O-NO 65 ° 0 min 0,000 mm 0,0 UV-I 0 W/m² -0,2 °C 1,1 °C 0,0 km/h (0 Bft)
28.03.2019 05:44 1,0 °C 91 % 1031,6 hPa 0,0 mm 0,0 km/h (0 Bft) O-NO 65 ° 0 min 0,000 mm 0,0 UV-I 0 W/m² -0,3 °C 1,0 °C 0,0 km/h (0 Bft)
28.03.2019 05:45 1,0 °C 90 % 1031,6 hPa 0,0 mm 0,0 km/h (0 Bft) O-NO 65 ° 0 min 0,000 mm 0,0 UV-I 0 W/m² -0,5 °C 1,0 °C 0,0 km/h (0 Bft)
28.03.2019 05:46 0,9 °C 91 % 1031,7 hPa 0,0 mm 0,0 km/h (0 Bft) O-NO 65 ° 0 min 0,000 mm 0,0 UV-I 0 W/m² -0,4 °C 0,9 °C 0,0 km/h (0 Bft)
28.03.2019 05:47 0,9 °C 90 % 1031,7 hPa 0,0 mm 0,0 km/h (0 Bft) O-NO 65 ° 0 min 0,000 mm 0,0 UV-I 0 W/m² -0,6 °C 0,9 °C 0,0 km/h (0 Bft)
28.03.2019 05:48 0,9 °C 90 % 1031,7 hPa 0,0 mm 0,5 km/h (0 Bft) O-NO 65 ° 0 min 0,000 mm 0,0 UV-I 0 W/m² -0,6 °C 0,9 °C 3,2 km/h (1 Bft)
28.03.2019 05:49 0,8 °C 91 % 1031,7 hPa 0,0 mm 0,0 km/h (0 Bft) O-NO 65 ° 0 min 0,000 mm 0,0 UV-I 0 W/m² -0,5 °C 0,8 °C 0,0 km/h (0 Bft)
28.03.2019 05:50 0,8 °C 90 % 1031,6 hPa 0,0 mm 0,0 km/h (0 Bft) O-NO 65 ° 0 min 0,000 mm 0,0 UV-I 0 W/m² -0,6 °C 0,8 °C 0,0 km/h (0 Bft)
28.03.2019 05:51 0,8 °C 90 % 1031,7 hPa 0,0 mm 0,0 km/h (0 Bft) O-NO 65 ° 0 min 0,000 mm 0,0 UV-I 0 W/m² -0,6 °C 0,8 °C 0,0 km/h (0 Bft)
28.03.2019 05:52 0,7 °C 91 % 1031,7 hPa 0,0 mm 0,0 km/h (0 Bft) O-NO 65 ° 0 min 0,000 mm 0,0 UV-I 0 W/m² -0,6 °C 0,7 °C 0,0 km/h (0 Bft)
28.03.2019 05:53 0,7 °C 91 % 1031,7 hPa 0,0 mm 0,0 km/h (0 Bft) O-NO 65 ° 0 min 0,000 mm 0,0 UV-I 0 W/m² -0,6 °C 0,7 °C 0,0 km/h (0 Bft)
28.03.2019 05:54 0,7 °C 91 % 1031,7 hPa 0,0 mm 0,9 km/h (0 Bft) O-NO 66 ° 0 min 0,000 mm 0,0 UV-I 0 W/m² -0,6 °C 0,7 °C 3,2 km/h (1 Bft)
28.03.2019 05:55 0,7 °C 91 % 1031,6 hPa 0,0 mm 0,1 km/h (0 Bft) O-NO 66 ° 0 min 0,000 mm 0,0 UV-I 0 W/m² -0,6 °C 0,7 °C 1,6 km/h (1 Bft)
28.03.2019 05:56 0,7 °C 91 % 1031,6 hPa 0,0 mm 0,0 km/h (0 Bft) O-NO 66 ° 0 min 0,000 mm 0,0 UV-I 0 W/m² -0,6 °C 0,7 °C 0,0 km/h (0 Bft)
28.03.2019 05:57 0,6 °C 91 % 1031,7 hPa 0,0 mm 2,3 km/h (1 Bft) O-NO 63 ° 0 min 0,000 mm 0,0 UV-I 0 W/m² -0,7 °C 0,6 °C 4,8 km/h (1 Bft)
28.03.2019 05:58 0,6 °C 91 % 1031,7 hPa 0,0 mm 1,8 km/h (1 Bft) O-NO 63 ° 0 min 0,000 mm 0,0 UV-I 0 W/m² -0,7 °C 0,6 °C 4,8 km/h (1 Bft)
28.03.2019 05:59 0,6 °C 91 % 1031,7 hPa 0,0 mm 3,8 km/h (1 Bft) O 93 ° 0 min 0,000 mm 0,0 UV-I 0 W/m² -0,7 °C 0,6 °C 4,8 km/h (1 Bft)
28.03.2019 06:00 0,6 °C 91 % 1031,7 hPa 0,0 mm 4,6 km/h (1 Bft) S-SO 153 ° 0 min 0,000 mm 0,0 UV-I 0 W/m² -0,7 °C -0,7 °C 6,4 km/h (2 Bft)
28.03.2019 06:01 0,7 °C 91 % 1031,6 hPa 0,0 mm 1,5 km/h (1 Bft) S-SO 153 ° 0 min 0,000 mm 0,0 UV-I 0 W/m² -0,6 °C 0,7 °C 4,8 km/h (1 Bft)
28.03.2019 06:02 0,7 °C 91 % 1031,6 hPa 0,0 mm 0,0 km/h (0 Bft) S-SO 153 ° 0 min 0,000 mm 0,0 UV-I 0 W/m² -0,6 °C 0,7 °C 0,0 km/h (0 Bft)
28.03.2019 06:03 0,7 °C 91 % 1031,5 hPa 0,0 mm 0,0 km/h (0 Bft) S-SO 153 ° 0 min 0,000 mm 0,0 UV-I 0 W/m² -0,6 °C 0,7 °C 0,0 km/h (0 Bft)
28.03.2019 06:04 0,6 °C 91 % 1031,6 hPa 0,0 mm 0,0 km/h (0 Bft) S-SO 153 ° 0 min 0,000 mm 0,0 UV-I 0 W/m² -0,7 °C 0,6 °C 0,0 km/h (0 Bft)
28.03.2019 06:05 0,6 °C 91 % 1031,6 hPa 0,0 mm 0,0 km/h (0 Bft) S-SO 153 ° 0 min 0,000 mm 0,0 UV-I 0 W/m² -0,7 °C 0,6 °C 0,0 km/h (0 Bft)
28.03.2019 06:06 0,6 °C 91 % 1031,5 hPa 0,0 mm 0,0 km/h (0 Bft) S-SO 153 ° 0 min 0,000 mm 0,0 UV-I 5 W/m² -0,7 °C 0,6 °C 0,0 km/h (0 Bft)
28.03.2019 06:07 0,4 °C 91 % 1031,6 hPa 0,0 mm 0,0 km/h (0 Bft) S-SO 153 ° 0 min 0,000 mm 0,0 UV-I 5 W/m² -0,9 °C 0,4 °C 0,0 km/h (0 Bft)
28.03.2019 06:08 0,4 °C 91 % 1031,6 hPa 0,0 mm 0,0 km/h (0 Bft) S-SO 153 ° 0 min 0,000 mm 0,0 UV-I 5 W/m² -0,9 °C 0,4 °C 0,0 km/h (0 Bft)
28.03.2019 06:09 0,4 °C 91 % 1031,6 hPa 0,0 mm 0,0 km/h (0 Bft) S-SO 153 ° 0 min 0,000 mm 0,0 UV-I 5 W/m² -0,9 °C 0,4 °C 0,0 km/h (0 Bft)
28.03.2019 06:10 0,4 °C 91 % 1031,6 hPa 0,0 mm 0,0 km/h (0 Bft) S-SO 153 ° 0 min 0,000 mm 0,0 UV-I 5 W/m² -0,9 °C 0,4 °C 0,0 km/h (0 Bft)
28.03.2019 06:11 0,4 °C 91 % 1031,5 hPa 0,0 mm 0,0 km/h (0 Bft) S-SO 153 ° 0 min 0,000 mm 0,0 UV-I 7 W/m² -0,9 °C 0,4 °C 0,0 km/h (0 Bft)
28.03.2019 06:12 0,3 °C 91 % 1031,5 hPa 0,0 mm 0,0 km/h (0 Bft) S-SO 153 ° 0 min 0,000 mm 0,0 UV-I 7 W/m² -1,0 °C 0,3 °C 0,0 km/h (0 Bft)
28.03.2019 06:13 0,3 °C 91 % 1031,6 hPa 0,0 mm 0,2 km/h (0 Bft) S-SO 153 ° 0 min 0,000 mm 0,0 UV-I 7 W/m² -1,0 °C 0,3 °C 1,6 km/h (1 Bft)
28.03.2019 06:14 0,3 °C 91 % 1031,5 hPa 0,0 mm 0,1 km/h (0 Bft) S-SO 153 ° 0 min 0,000 mm 0,0 UV-I 7 W/m² -1,0 °C 0,3 °C 1,6 km/h (1 Bft)
28.03.2019 06:15 0,2 °C 91 % 1031,6 hPa 0,0 mm 0,0 km/h (0 Bft) S-SO 153 ° 0 min 0,000 mm 0,0 UV-I 9 W/m² -1,1 °C 0,2 °C 0,0 km/h (0 Bft)
28.03.2019 06:16 0,2 °C 91 % 1031,5 hPa 0,0 mm 0,0 km/h (0 Bft) S-SO 153 ° 0 min 0,000 mm 0,0 UV-I 9 W/m² -1,1 °C 0,2 °C 0,0 km/h (0 Bft)
28.03.2019 06:17 0,2 °C 91 % 1031,6 hPa 0,0 mm 0,0 km/h (0 Bft) S-SO 153 ° 0 min 0,000 mm 0,0 UV-I 11 W/m² -1,1 °C 0,2 °C 0,0 km/h (0 Bft)
28.03.2019 06:18 0,2 °C 91 % 1031,6 hPa 0,0 mm 0,0 km/h (0 Bft) S-SO 153 ° 0 min 0,000 mm 0,0 UV-I 11 W/m² -1,1 °C 0,2 °C 0,0 km/h (0 Bft)
28.03.2019 06:19 0,2 °C 91 % 1031,6 hPa 0,0 mm 0,0 km/h (0 Bft) S-SO 153 ° 0 min 0,000 mm 0,0 UV-I 11 W/m² -1,1 °C 0,2 °C 0,0 km/h (0 Bft)
28.03.2019 06:20 0,2 °C 91 % 1031,6 hPa 0,0 mm 0,0 km/h (0 Bft) S-SO 153 ° 0 min 0,000 mm 0,0 UV-I 11 W/m² -1,1 °C 0,2 °C 0,0 km/h (0 Bft)
28.03.2019 06:21 0,2 °C 91 % 1031,6 hPa 0,0 mm 0,0 km/h (0 Bft) S-SO 153 ° 0 min 0,000 mm 0,0 UV-I 12 W/m² -1,1 °C 0,2 °C 0,0 km/h (0 Bft)
28.03.2019 06:22 0,2 °C 91 % 1031,6 hPa 0,0 mm 0,0 km/h (0 Bft) S-SO 153 ° 0 min 0,000 mm 0,0 UV-I 12 W/m² -1,1 °C 0,2 °C 0,0 km/h (0 Bft)
28.03.2019 06:23 0,2 °C 91 % 1031,5 hPa 0,0 mm 0,0 km/h (0 Bft) S-SO 153 ° 0 min 0,000 mm 0,0 UV-I 12 W/m² -1,1 °C 0,2 °C 0,0 km/h (0 Bft)
28.03.2019 06:24 0,3 °C 91 % 1031,6 hPa 0,0 mm 0,0 km/h (0 Bft) S-SO 153 ° 0 min 0,000 mm 0,0 UV-I 12 W/m² -1,0 °C 0,3 °C 0,0 km/h (0 Bft)
28.03.2019 06:25 0,3 °C 91 % 1031,6 hPa 0,0 mm 0,0 km/h (0 Bft) S-SO 153 ° 0 min 0,000 mm 0,0 UV-I 12 W/m² -1,0 °C 0,3 °C 0,0 km/h (0 Bft)
28.03.2019 06:26 0,2 °C 91 % 1031,6 hPa 0,0 mm 0,0 km/h (0 Bft) S-SO 153 ° 0 min 0,000 mm 0,0 UV-I 14 W/m² -1,1 °C 0,2 °C 0,0 km/h (0 Bft)
28.03.2019 06:27 0,2 °C 91 % 1031,6 hPa 0,0 mm 0,0 km/h (0 Bft) S-SO 153 ° 0 min 0,000 mm 0,0 UV-I 14 W/m² -1,1 °C 0,2 °C 0,0 km/h (0 Bft)
28.03.2019 06:28 0,1 °C 91 % 1031,6 hPa 0,0 mm 0,0 km/h (0 Bft) S-SO 153 ° 0 min 0,000 mm 0,0 UV-I 14 W/m² -1,2 °C 0,1 °C 0,0 km/h (0 Bft)
28.03.2019 06:29 0,1 °C 91 % 1031,6 hPa 0,0 mm 0,0 km/h (0 Bft) S-SO 153 ° 0 min 0,000 mm 0,0 UV-I 14 W/m² -1,2 °C 0,1 °C 0,0 km/h (0 Bft)
28.03.2019 06:30 0,1 °C 91 % 1031,6 hPa 0,0 mm 0,0 km/h (0 Bft) S-SO 153 ° 0 min 0,000 mm 0,0 UV-I 16 W/m² -1,2 °C 0,1 °C 0,0 km/h (0 Bft)
28.03.2019 06:31 0,1 °C 91 % 1031,6 hPa 0,0 mm 0,0 km/h (0 Bft) S-SO 153 ° 0 min 0,000 mm 0,0 UV-I 16 W/m² -1,2 °C 0,1 °C 0,0 km/h (0 Bft)
28.03.2019 06:32 0,0 °C 91 % 1031,6 hPa 0,0 mm 0,0 km/h (0 Bft) S-SO 153 ° 0 min 0,000 mm 0,0 UV-I 18 W/m² -1,3 °C 0,0 °C 0,0 km/h (0 Bft)
28.03.2019 06:33 0,0 °C 91 % 1031,7 hPa 0,0 mm 0,0 km/h (0 Bft) S-SO 153 ° 0 min 0,000 mm 0,0 UV-I 18 W/m² -1,3 °C 0,0 °C 0,0 km/h (0 Bft)
28.03.2019 06:34 0,0 °C 91 % 1031,7 hPa 0,0 mm 0,0 km/h (0 Bft) S-SO 153 ° 0 min 0,000 mm 0,0 UV-I 19 W/m² -1,3 °C 0,0 °C 0,0 km/h (0 Bft)
28.03.2019 06:35 0,0 °C 91 % 1031,7 hPa 0,0 mm 0,0 km/h (0 Bft) S-SO 153 ° 0 min 0,000 mm 0,0 UV-I 21 W/m² -1,3 °C 0,0 °C 0,0 km/h (0 Bft)
28.03.2019 06:36 0,0 °C 91 % 1031,7 hPa 0,0 mm 0,0 km/h (0 Bft) S-SO 153 ° 0 min 0,000 mm 0,0 UV-I 21 W/m² -1,3 °C 0,0 °C 0,0 km/h (0 Bft)
28.03.2019 06:37 0,0 °C 91 % 1031,7 hPa 0,0 mm 0,0 km/h (0 Bft) S-SO 153 ° 0 min 0,000 mm 0,0 UV-I 21 W/m² -1,3 °C 0,0 °C 0,0 km/h (0 Bft)
28.03.2019 06:38 0,1 °C 91 % 1031,7 hPa 0,0 mm 0,0 km/h (0 Bft) S-SO 153 ° 0 min 0,000 mm 0,0 UV-I 21 W/m² -1,2 °C 0,1 °C 0,0 km/h (0 Bft)
28.03.2019 06:39 0,1 °C 92 % 1031,7 hPa 0,0 mm 0,0 km/h (0 Bft) S-SO 153 ° 0 min 0,000 mm 0,0 UV-I 23 W/m² -1,0 °C 0,1 °C 0,0 km/h (0 Bft)
28.03.2019 06:40 0,1 °C 92 % 1031,7 hPa 0,0 mm 0,0 km/h (0 Bft) S-SO 153 ° 0 min 0,000 mm 0,0 UV-I 25 W/m² -1,0 °C 0,1 °C 0,0 km/h (0 Bft)
28.03.2019 06:41 0,1 °C 92 % 1031,8 hPa 0,0 mm 0,0 km/h (0 Bft) S-SO 153 ° 0 min 0,000 mm 0,0 UV-I 26 W/m² -1,0 °C 0,1 °C 0,0 km/h (0 Bft)
28.03.2019 06:42 0,1 °C 92 % 1031,8 hPa 0,0 mm 0,0 km/h (0 Bft) S-SO 153 ° 0 min 0,000 mm 0,0 UV-I 28 W/m² -1,0 °C 0,1 °C 0,0 km/h (0 Bft)
28.03.2019 06:43 0,0 °C 91 % 1031,8 hPa 0,0 mm 0,1 km/h (0 Bft) S-SO 153 ° 0 min 0,000 mm 0,0 UV-I 30 W/m² -1,3 °C 0,0 °C 1,6 km/h (1 Bft)
28.03.2019 06:44 -0,1 °C 91 % 1031,8 hPa 0,0 mm 0,0 km/h (0 Bft) S-SO 153 ° 0 min 0,000 mm 0,0 UV-I 30 W/m² -1,4 °C -0,1 °C 0,0 km/h (0 Bft)
28.03.2019 06:45 -0,2 °C 91 % 1031,8 hPa 0,0 mm 0,0 km/h (0 Bft) S-SO 153 ° 0 min 0,000 mm 0,0 UV-I 32 W/m² -1,5 °C -0,2 °C 0,0 km/h (0 Bft)
28.03.2019 06:46 -0,2 °C 91 % 1031,8 hPa 0,0 mm 0,0 km/h (0 Bft) S-SO 153 ° 0 min 0,000 mm 0,0 UV-I 32 W/m² -1,5 °C -0,2 °C 0,0 km/h (0 Bft)
28.03.2019 06:47 -0,2 °C 91 % 1031,8 hPa 0,0 mm 0,0 km/h (0 Bft) S-SO 153 ° 0 min 0,000 mm 0,0 UV-I 32 W/m² -1,5 °C -0,2 °C 0,0 km/h (0 Bft)
28.03.2019 06:48 -0,2 °C 92 % 1031,8 hPa 0,0 mm 0,0 km/h (0 Bft) S-SO 153 ° 0 min 0,000 mm 0,0 UV-I 32 W/m² -1,3 °C -0,2 °C 0,0 km/h (0 Bft)
28.03.2019 06:49 -0,2 °C 92 % 1031,9 hPa 0,0 mm 0,0 km/h (0 Bft) S-SO 153 ° 0 min 0,000 mm 0,0 UV-I 33 W/m² -1,3 °C -0,2 °C 0,0 km/h (0 Bft)
28.03.2019 06:50 -0,1 °C 92 % 1031,9 hPa 0,0 mm 0,0 km/h (0 Bft) S-SO 153 ° 0 min 0,000 mm 0,0 UV-I 35 W/m² -1,2 °C -0,1 °C 0,0 km/h (0 Bft)
28.03.2019 06:51 -0,1 °C 92 % 1031,8 hPa 0,0 mm 0,0 km/h (0 Bft) S-SO 153 ° 0 min 0,000 mm 0,0 UV-I 35 W/m² -1,2 °C -0,1 °C 0,0 km/h (0 Bft)
28.03.2019 06:52 -0,1 °C 92 % 1031,9 hPa 0,0 mm 0,0 km/h (0 Bft) S-SO 153 ° 0 min 0,000 mm 0,0 UV-I 37 W/m² -1,2 °C -0,1 °C 0,0 km/h (0 Bft)
28.03.2019 06:53 -0,1 °C 92 % 1031,9 hPa 0,0 mm 0,0 km/h (0 Bft) S-SO 153 ° 0 min 0,000 mm 0,0 UV-I 39 W/m² -1,2 °C -0,1 °C 0,0 km/h (0 Bft)
28.03.2019 06:54 -0,2 °C 92 % 1031,9 hPa 0,0 mm 0,0 km/h (0 Bft) S-SO 153 ° 0 min 0,000 mm 0,0 UV-I 40 W/m² -1,3 °C -0,2 °C 0,0 km/h (0 Bft)
28.03.2019 06:55 -0,2 °C 91 % 1032,0 hPa 0,0 mm 0,0 km/h (0 Bft) S-SO 153 ° 0 min 0,000 mm 0,0 UV-I 40 W/m² -1,5 °C -0,2 °C 0,0 km/h (0 Bft)
28.03.2019 06:56 -0,3 °C 91 % 1032,0 hPa 0,0 mm 0,0 km/h (0 Bft) S-SO 153 ° 0 min 0,000 mm 0,0 UV-I 42 W/m² -1,6 °C -0,3 °C 0,0 km/h (0 Bft)
28.03.2019 06:57 -0,4 °C 91 % 1032,0 hPa 0,0 mm 0,0 km/h (0 Bft) S-SO 153 ° 0 min 0,000 mm 0,0 UV-I 42 W/m² -1,7 °C -0,4 °C 0,0 km/h (0 Bft)
28.03.2019 06:58 -0,3 °C 92 % 1032,0 hPa 0,0 mm 0,0 km/h (0 Bft) S-SO 153 ° 0 min 0,000 mm 0,0 UV-I 44 W/m² -1,4 °C -0,3 °C 0,0 km/h (0 Bft)
28.03.2019 06:59 -0,2 °C 92 % 1032,0 hPa 0,0 mm 0,0 km/h (0 Bft) S-SO 153 ° 0 min 0,000 mm 0,0 UV-I 44 W/m² -1,3 °C -0,2 °C 0,0 km/h (0 Bft)
28.03.2019 07:00 -0,2 °C 92 % 1032,0 hPa 0,0 mm 0,0 km/h (0 Bft) S-SO 153 ° 0 min 0,000 mm 0,0 UV-I 46 W/m² -1,3 °C -0,2 °C 0,0 km/h (0 Bft)
28.03.2019 07:01 -0,1 °C 92 % 1032,0 hPa 0,0 mm 0,0 km/h (0 Bft) S-SO 153 ° 0 min 0,000 mm 0,0 UV-I 46 W/m² -1,2 °C -0,1 °C 0,0 km/h (0 Bft)
28.03.2019 07:02 -0,1 °C 92 % 1032,0 hPa 0,0 mm 0,0 km/h (0 Bft) S-SO 153 ° 0 min 0,000 mm 0,0 UV-I 46 W/m² -1,2 °C -0,1 °C 0,0 km/h (0 Bft)
28.03.2019 07:03 -0,1 °C 92 % 1032,0 hPa 0,0 mm 0,0 km/h (0 Bft) S-SO 153 ° 0 min 0,000 mm 0,0 UV-I 46 W/m² -1,2 °C -0,1 °C 0,0 km/h (0 Bft)
28.03.2019 07:04 0,0 °C 92 % 1032,0 hPa 0,0 mm 0,0 km/h (0 Bft) S-SO 153 ° 0 min 0,000 mm 0,0 UV-I 44 W/m² -1,1 °C 0,0 °C 0,0 km/h (0 Bft)
28.03.2019 07:05 0,0 °C 92 % 1032,0 hPa 0,0 mm 0,0 km/h (0 Bft) S-SO 153 ° 0 min 0,000 mm 0,0 UV-I 44 W/m² -1,1 °C 0,0 °C 0,0 km/h (0 Bft)
28.03.2019 07:06 0,0 °C 92 % 1032,1 hPa 0,0 mm 0,0 km/h (0 Bft) S-SO 153 ° 0 min 0,000 mm 0,0 UV-I 46 W/m² -1,1 °C 0,0 °C 0,0 km/h (0 Bft)
28.03.2019 07:07 0,1 °C 92 % 1032,0 hPa 0,0 mm 0,0 km/h (0 Bft) S-SO 153 ° 0 min 0,000 mm 0,0 UV-I 47 W/m² -1,0 °C 0,1 °C 0,0 km/h (0 Bft)
28.03.2019 07:08 0,1 °C 92 % 1032,0 hPa 0,0 mm 0,0 km/h (0 Bft) S-SO 153 ° 0 min 0,000 mm 0,0 UV-I 47 W/m² -1,0 °C 0,1 °C 0,0 km/h (0 Bft)
28.03.2019 07:09 0,1 °C 92 % 1032,0 hPa 0,0 mm 0,0 km/h (0 Bft) S-SO 153 ° 0 min 0,000 mm 0,0 UV-I 49 W/m² -1,0 °C 0,1 °C 0,0 km/h (0 Bft)
28.03.2019 07:10 0,1 °C 92 % 1032,0 hPa 0,0 mm 0,0 km/h (0 Bft) S-SO 153 ° 0 min 0,000 mm 0,0 UV-I 49 W/m² -1,0 °C 0,1 °C 0,0 km/h (0 Bft)
28.03.2019 07:11 0,1 °C 92 % 1032,0 hPa 0,0 mm 0,0 km/h (0 Bft) S-SO 153 ° 0 min 0,000 mm 0,0 UV-I 53 W/m² -1,0 °C 0,1 °C 0,0 km/h (0 Bft)
28.03.2019 07:12 0,1 °C 92 % 1032,0 hPa 0,0 mm 0,0 km/h (0 Bft) S-SO 153 ° 0 min 0,000 mm 0,0 UV-I 54 W/m² -1,0 °C 0,1 °C 0,0 km/h (0 Bft)
28.03.2019 07:13 0,2 °C 92 % 1032,0 hPa 0,0 mm 0,0 km/h (0 Bft) S-SO 153 ° 0 min 0,000 mm 0,0 UV-I 54 W/m² -0,9 °C 0,2 °C 0,0 km/h (0 Bft)
28.03.2019 07:14 0,2 °C 92 % 1032,0 hPa 0,0 mm 0,0 km/h (0 Bft) S-SO 153 ° 0 min 0,000 mm 0,0 UV-I 54 W/m² -0,9 °C 0,2 °C 0,0 km/h (0 Bft)
28.03.2019 07:15 0,2 °C 92 % 1032,1 hPa 0,0 mm 0,0 km/h (0 Bft) S-SO 153 ° 0 min 0,000 mm 0,0 UV-I 54 W/m² -0,9 °C 0,2 °C 0,0 km/h (0 Bft)
28.03.2019 07:16 0,2 °C 92 % 1032,0 hPa 0,0 mm 0,0 km/h (0 Bft) S-SO 153 ° 0 min 0,000 mm 0,0 UV-I 54 W/m² -0,9 °C 0,2 °C 0,0 km/h (0 Bft)
28.03.2019 07:17 0,1 °C 91 % 1032,0 hPa 0,0 mm 0,0 km/h (0 Bft) S-SO 153 ° 0 min 0,000 mm 0,0 UV-I 53 W/m² -1,2 °C 0,1 °C 0,0 km/h (0 Bft)
28.03.2019 07:18 0,0 °C 91 % 1032,0 hPa 0,0 mm 0,0 km/h (0 Bft) S-SO 153 ° 0 min 0,000 mm 0,0 UV-I 53 W/m² -1,3 °C 0,0 °C 0,0 km/h (0 Bft)
28.03.2019 07:19 -0,1 °C 92 % 1032,0 hPa 0,0 mm 0,0 km/h (0 Bft) S-SO 153 ° 0 min 0,000 mm 0,0 UV-I 53 W/m² -1,2 °C -0,1 °C 0,0 km/h (0 Bft)
28.03.2019 07:20 0,0 °C 92 % 1032,0 hPa 0,0 mm 0,0 km/h (0 Bft) S-SO 153 ° 0 min 0,000 mm 0,0 UV-I 51 W/m² -1,1 °C 0,0 °C 0,0 km/h (0 Bft)
28.03.2019 07:21 0,0 °C 92 % 1032,0 hPa 0,0 mm 0,0 km/h (0 Bft) S-SO 153 ° 0 min 0,000 mm 0,0 UV-I 47 W/m² -1,1 °C 0,0 °C 0,0 km/h (0 Bft)
28.03.2019 07:22 0,1 °C 92 % 1032,0 hPa 0,0 mm 0,0 km/h (0 Bft) S-SO 153 ° 0 min 0,000 mm 0,0 UV-I 47 W/m² -1,0 °C 0,1 °C 0,0 km/h (0 Bft)
28.03.2019 07:23 0,1 °C 92 % 1032,0 hPa 0,0 mm 0,0 km/h (0 Bft) S-SO 153 ° 0 min 0,000 mm 0,0 UV-I 46 W/m² -1,0 °C 0,1 °C 0,0 km/h (0 Bft)
28.03.2019 07:24 0,1 °C 92 % 1032,0 hPa 0,0 mm 0,0 km/h (0 Bft) S-SO 153 ° 0 min 0,000 mm 0,0 UV-I 44 W/m² -1,0 °C 0,1 °C 0,0 km/h (0 Bft)
28.03.2019 07:25 0,1 °C 92 % 1032,0 hPa 0,0 mm 0,0 km/h (0 Bft) S-SO 153 ° 0 min 0,000 mm 0,0 UV-I 44 W/m² -1,0 °C 0,1 °C 0,0 km/h (0 Bft)
28.03.2019 07:26 0,2 °C 92 % 1032,0 hPa 0,0 mm 0,0 km/h (0 Bft) S-SO 153 ° 0 min 0,000 mm 0,0 UV-I 44 W/m² -0,9 °C 0,2 °C 0,0 km/h (0 Bft)
28.03.2019 07:27 0,3 °C 92 % 1032,0 hPa 0,0 mm 0,0 km/h (0 Bft) S-SO 153 ° 0 min 0,000 mm 0,0 UV-I 44 W/m² -0,8 °C 0,3 °C 0,0 km/h (0 Bft)
28.03.2019 07:28 0,3 °C 92 % 1032,0 hPa 0,0 mm 0,0 km/h (0 Bft) S-SO 153 ° 0 min 0,000 mm 0,0 UV-I 44 W/m² -0,8 °C 0,3 °C 0,0 km/h (0 Bft)
28.03.2019 07:29 0,3 °C 92 % 1032,1 hPa 0,0 mm 0,0 km/h (0 Bft) S-SO 153 ° 0 min 0,000 mm 0,0 UV-I 46 W/m² -0,8 °C 0,3 °C 0,0 km/h (0 Bft)
28.03.2019 07:30 0,2 °C 92 % 1032,1 hPa 0,0 mm 0,0 km/h (0 Bft) S-SO 153 ° 0 min 0,000 mm 0,0 UV-I 46 W/m² -0,9 °C 0,2 °C 0,0 km/h (0 Bft)
28.03.2019 07:31 0,2 °C 91 % 1032,1 hPa 0,0 mm 0,0 km/h (0 Bft) S-SO 153 ° 0 min 0,000 mm 0,0 UV-I 46 W/m² -1,1 °C 0,2 °C 0,0 km/h (0 Bft)
28.03.2019 07:32 0,0 °C 91 % 1032,1 hPa 0,0 mm 0,0 km/h (0 Bft) S-SO 153 ° 0 min 0,000 mm 0,0 UV-I 47 W/m² -1,3 °C 0,0 °C 0,0 km/h (0 Bft)
28.03.2019 07:33 -0,1 °C 91 % 1032,1 hPa 0,0 mm 0,0 km/h (0 Bft) S-SO 153 ° 0 min 0,000 mm 0,0 UV-I 49 W/m² -1,4 °C -0,1 °C 0,0 km/h (0 Bft)
28.03.2019 07:34 -0,2 °C 91 % 1032,1 hPa 0,0 mm 0,0 km/h (0 Bft) S-SO 153 ° 0 min 0,000 mm 0,0 UV-I 49 W/m² -1,5 °C -0,2 °C 0,0 km/h (0 Bft)
28.03.2019 07:35 -0,2 °C 91 % 1032,1 hPa 0,0 mm 0,0 km/h (0 Bft) S-SO 153 ° 0 min 0,000 mm 0,0 UV-I 53 W/m² -1,5 °C -0,2 °C 0,0 km/h (0 Bft)
28.03.2019 07:36 -0,2 °C 91 % 1032,1 hPa 0,0 mm 0,0 km/h (0 Bft) S-SO 153 ° 0 min 0,000 mm 0,0 UV-I 54 W/m² -1,5 °C -0,2 °C 0,0 km/h (0 Bft)
28.03.2019 07:37 -0,2 °C 92 % 1032,1 hPa 0,0 mm 0,0 km/h (0 Bft) S-SO 153 ° 0 min 0,000 mm 0,0 UV-I 54 W/m² -1,3 °C -0,2 °C 0,0 km/h (0 Bft)
28.03.2019 07:38 -0,2 °C 92 % 1032,1 hPa 0,0 mm 0,0 km/h (0 Bft) S-SO 153 ° 0 min 0,000 mm 0,0 UV-I 54 W/m² -1,3 °C -0,2 °C 0,0 km/h (0 Bft)
28.03.2019 07:39 -0,2 °C 92 % 1032,0 hPa 0,0 mm 0,0 km/h (0 Bft) S-SO 153 ° 0 min 0,000 mm 0,0 UV-I 54 W/m² -1,3 °C -0,2 °C 0,0 km/h (0 Bft)
28.03.2019 07:40 -0,1 °C 92 % 1032,1 hPa 0,0 mm 0,0 km/h (0 Bft) S-SO 153 ° 0 min 0,000 mm 0,0 UV-I 54 W/m² -1,2 °C -0,1 °C 0,0 km/h (0 Bft)
28.03.2019 07:41 -0,1 °C 92 % 1032,1 hPa 0,0 mm 0,0 km/h (0 Bft) S-SO 153 ° 0 min 0,000 mm 0,0 UV-I 54 W/m² -1,2 °C -0,1 °C 0,0 km/h (0 Bft)
28.03.2019 07:42 -0,1 °C 92 % 1032,0 hPa 0,0 mm 0,0 km/h (0 Bft) S-SO 153 ° 0 min 0,000 mm 0,0 UV-I 54 W/m² -1,2 °C -0,1 °C 0,0 km/h (0 Bft)
28.03.2019 07:43 -0,1 °C 92 % 1032,0 hPa 0,0 mm 0,0 km/h (0 Bft) S-SO 153 ° 0 min 0,000 mm 0,7 UV-I 56 W/m² -1,2 °C -0,1 °C 0,0 km/h (0 Bft)
28.03.2019 07:44 -0,2 °C 91 % 1032,0 hPa 0,0 mm 0,0 km/h (0 Bft) S-SO 153 ° 0 min 0,000 mm 0,7 UV-I 58 W/m² -1,5 °C -0,2 °C 0,0 km/h (0 Bft)
28.03.2019 07:45 -0,3 °C 91 % 1032,0 hPa 0,0 mm 0,0 km/h (0 Bft) S-SO 153 ° 0 min 0,000 mm 0,7 UV-I 60 W/m² -1,6 °C -0,3 °C 0,0 km/h (0 Bft)
28.03.2019 07:46 -0,3 °C 92 % 1031,9 hPa 0,0 mm 0,0 km/h (0 Bft) S-SO 153 ° 0 min 0,000 mm 0,7 UV-I 76 W/m² -1,4 °C -0,3 °C 0,0 km/h (0 Bft)
28.03.2019 07:47 -0,3 °C 92 % 1031,9 hPa 0,0 mm 0,0 km/h (0 Bft) S-SO 153 ° 0 min 0,000 mm 0,7 UV-I 65 W/m² -1,4 °C -0,3 °C 0,0 km/h (0 Bft)
28.03.2019 07:48 -0,3 °C 92 % 1032,0 hPa 0,0 mm 0,0 km/h (0 Bft) S-SO 153 ° 0 min 0,000 mm 0,7 UV-I 88 W/m² -1,4 °C -0,3 °C 0,0 km/h (0 Bft)
28.03.2019 07:49 -0,3 °C 92 % 1032,0 hPa 0,0 mm 0,0 km/h (0 Bft) S-SO 153 ° 0 min 0,000 mm 0,8 UV-I 155 W/m² -1,4 °C -0,3 °C 0,0 km/h (0 Bft)
28.03.2019 07:50 -0,2 °C 92 % 1032,0 hPa 0,0 mm 0,0 km/h (0 Bft) S-SO 153 ° 0 min 0,000 mm 0,8 UV-I 142 W/m² -1,3 °C -0,2 °C 0,0 km/h (0 Bft)
28.03.2019 07:51 -0,2 °C 92 % 1032,0 hPa 0,0 mm 0,0 km/h (0 Bft) S-SO 153 ° 0 min 0,000 mm 0,8 UV-I 127 W/m² -1,3 °C -0,2 °C 0,0 km/h (0 Bft)
28.03.2019 07:52 -0,1 °C 92 % 1032,1 hPa 0,0 mm 0,0 km/h (0 Bft) S-SO 153 ° 0 min 0,000 mm 0,9 UV-I 197 W/m² -1,2 °C -0,1 °C 0,0 km/h (0 Bft)
28.03.2019 07:53 0,1 °C 92 % 1032,1 hPa 0,0 mm 0,0 km/h (0 Bft) S-SO 153 ° 0 min 0,000 mm 0,8 UV-I 121 W/m² -1,0 °C 0,1 °C 0,0 km/h (0 Bft)
28.03.2019 07:54 0,2 °C 92 % 1032,1 hPa 0,0 mm 0,0 km/h (0 Bft) S-SO 153 ° 0 min 0,000 mm 0,8 UV-I 141 W/m² -0,9 °C 0,2 °C 0,0 km/h (0 Bft)
28.03.2019 07:55 0,3 °C 92 % 1032,1 hPa 0,0 mm 0,0 km/h (0 Bft) S-SO 153 ° 0 min 0,000 mm 0,9 UV-I 113 W/m² -0,8 °C 0,3 °C 0,0 km/h (0 Bft)
28.03.2019 07:56 0,4 °C 92 % 1032,1 hPa 0,0 mm 0,0 km/h (0 Bft) S-SO 153 ° 0 min 0,000 mm 0,8 UV-I 114 W/m² -0,7 °C 0,4 °C 0,0 km/h (0 Bft)
28.03.2019 07:57 0,6 °C 93 % 1032,1 hPa 0,0 mm 0,0 km/h (0 Bft) S-SO 153 ° 0 min 0,000 mm 0,9 UV-I 156 W/m² -0,4 °C 0,6 °C 0,0 km/h (0 Bft)
28.03.2019 07:58 0,7 °C 92 % 1032,1 hPa 0,0 mm 0,0 km/h (0 Bft) S-SO 150 ° 0 min 0,000 mm 0,9 UV-I 134 W/m² -0,4 °C 0,7 °C 0,0 km/h (0 Bft)
28.03.2019 07:59 0,7 °C 92 % 1032,1 hPa 0,0 mm 2,7 km/h (1 Bft) O-NO 62 ° 0 min 0,000 mm 0,9 UV-I 142 W/m² -0,4 °C 0,7 °C 4,8 km/h (1 Bft)
28.03.2019 08:00 0,7 °C 92 % 1032,1 hPa 0,0 mm 1,7 km/h (1 Bft) O-NO 62 ° 0 min 0,000 mm 0,9 UV-I 116 W/m² -0,4 °C 0,7 °C 4,8 km/h (1 Bft)
28.03.2019 08:01 0,8 °C 92 % 1032,1 hPa 0,0 mm 3,7 km/h (1 Bft) O-NO 63 ° 0 min 0,025 mm 1,0 UV-I 116 W/m² -0,3 °C 0,8 °C 4,8 km/h (1 Bft)
28.03.2019 08:02 0,9 °C 92 % 1032,0 hPa 0,0 mm 0,1 km/h (0 Bft) O-NO 63 ° 0 min 0,000 mm 0,9 UV-I 127 W/m² -0,2 °C 0,9 °C 1,6 km/h (1 Bft)
28.03.2019 08:03 1,0 °C 92 % 1032,0 hPa 0,0 mm 0,0 km/h (0 Bft) O-NO 63 ° 0 min 0,000 mm 0,9 UV-I 132 W/m² -0,2 °C 1,0 °C 0,0 km/h (0 Bft)
28.03.2019 08:04 1,1 °C 92 % 1031,9 hPa 0,0 mm 0,0 km/h (0 Bft) O-NO 63 ° 0 min 0,000 mm 1,0 UV-I 130 W/m² -0,1 °C 1,1 °C 0,0 km/h (0 Bft)
28.03.2019 08:05 1,2 °C 92 % 1031,9 hPa 0,0 mm 1,1 km/h (1 Bft) O-NO 63 ° 0 min 0,000 mm 1,0 UV-I 206 W/m² 0,0 °C 1,2 °C 3,2 km/h (1 Bft)
28.03.2019 08:06 1,2 °C 92 % 1031,9 hPa 0,0 mm 2,4 km/h (1 Bft) O-NO 78 ° 0 min 0,000 mm 1,0 UV-I 165 W/m² 0,0 °C 1,2 °C 6,4 km/h (2 Bft)
28.03.2019 08:07 1,2 °C 91 % 1031,9 hPa 0,0 mm 3,0 km/h (1 Bft) O-NO 78 ° 0 min 0,000 mm 1,0 UV-I 132 W/m² -0,1 °C 1,2 °C 4,8 km/h (1 Bft)
28.03.2019 08:08 1,2 °C 92 % 1031,9 hPa 0,0 mm 0,9 km/h (0 Bft) O-NO 78 ° 0 min 0,000 mm 1,0 UV-I 178 W/m² 0,0 °C 1,2 °C 3,2 km/h (1 Bft)
28.03.2019 08:09 1,3 °C 92 % 1031,9 hPa 0,0 mm 1,9 km/h (1 Bft) O-NO 78 ° 0 min 0,000 mm 1,0 UV-I 167 W/m² 0,1 °C 1,3 °C 4,8 km/h (1 Bft)
28.03.2019 08:10 1,3 °C 92 % 1031,9 hPa 0,0 mm 1,2 km/h (1 Bft) O-NO 78 ° 0 min 0,000 mm 1,0 UV-I 195 W/m² 0,1 °C 1,3 °C 3,2 km/h (1 Bft)
28.03.2019 08:11 1,3 °C 91 % 1031,9 hPa 0,0 mm 3,0 km/h (1 Bft) NO 46 ° 0 min 0,000 mm 1,1 UV-I 134 W/m² -0,0 °C 1,3 °C 4,8 km/h (1 Bft)
28.03.2019 08:12 1,4 °C 92 % 1031,9 hPa 0,0 mm 2,4 km/h (1 Bft) NO 46 ° 0 min 0,000 mm 1,1 UV-I 174 W/m² 0,2 °C 1,4 °C 4,8 km/h (1 Bft)
28.03.2019 08:13 1,5 °C 91 % 1031,9 hPa 0,0 mm 2,6 km/h (1 Bft) NO 46 ° 0 min 0,000 mm 1,2 UV-I 250 W/m² 0,2 °C 1,5 °C 4,8 km/h (1 Bft)
28.03.2019 08:14 1,6 °C 91 % 1032,0 hPa 0,0 mm 2,3 km/h (1 Bft) NO 46 ° 0 min 0,000 mm 1,1 UV-I 178 W/m² 0,3 °C 1,6 °C 4,8 km/h (1 Bft)
28.03.2019 08:15 1,7 °C 91 % 1032,0 hPa 0,0 mm 0,8 km/h (0 Bft) NO 46 ° 0 min 0,000 mm 1,2 UV-I 209 W/m² 0,4 °C 1,7 °C 3,2 km/h (1 Bft)
28.03.2019 08:16 1,8 °C 92 % 1032,1 hPa 0,0 mm 3,1 km/h (1 Bft) O-NO 57 ° 0 min 0,000 mm 1,2 UV-I 221 W/m² 0,6 °C 1,8 °C 6,4 km/h (2 Bft)
28.03.2019 08:17 1,9 °C 91 % 1032,0 hPa 0,0 mm 4,4 km/h (1 Bft) NO 40 ° 0 min 0,000 mm 1,2 UV-I 267 W/m² 0,6 °C 1,9 °C 6,4 km/h (2 Bft)
28.03.2019 08:18 2,0 °C 91 % 1032,1 hPa 0,0 mm 2,9 km/h (1 Bft) NO 42 ° 0 min 0,000 mm 1,3 UV-I 229 W/m² 0,7 °C 2,0 °C 6,4 km/h (2 Bft)
28.03.2019 08:19 2,1 °C 91 % 1032,1 hPa 0,0 mm 0,5 km/h (0 Bft) NO 42 ° 0 min 0,000 mm 1,2 UV-I 223 W/m² 0,8 °C 2,1 °C 1,6 km/h (1 Bft)
28.03.2019 08:20 2,2 °C 91 % 1032,1 hPa 0,0 mm 3,6 km/h (1 Bft) O-NO 57 ° 0 min 0,000 mm 1,2 UV-I 213 W/m² 0,9 °C 2,2 °C 6,4 km/h (2 Bft)
28.03.2019 08:21 2,3 °C 91 % 1032,1 hPa 0,0 mm 3,4 km/h (1 Bft) O-NO 65 ° 0 min 0,000 mm 1,3 UV-I 250 W/m² 1,0 °C 2,3 °C 6,4 km/h (2 Bft)
28.03.2019 08:22 2,3 °C 90 % 1032,1 hPa 0,0 mm 3,7 km/h (1 Bft) O-NO 65 ° 0 min 0,000 mm 1,3 UV-I 220 W/m² 0,8 °C 2,3 °C 6,4 km/h (2 Bft)
28.03.2019 08:23 2,3 °C 90 % 1032,1 hPa 0,0 mm 0,7 km/h (0 Bft) O-NO 66 ° 0 min 0,000 mm 1,2 UV-I 193 W/m² 0,8 °C 2,3 °C 3,2 km/h (1 Bft)
28.03.2019 08:24 2,3 °C 90 % 1032,1 hPa 0,0 mm 0,0 km/h (0 Bft) O-NO 66 ° 0 min 0,000 mm 1,2 UV-I 190 W/m² 0,8 °C 2,3 °C 0,0 km/h (0 Bft)
28.03.2019 08:25 2,4 °C 90 % 1032,1 hPa 0,0 mm 1,4 km/h (1 Bft) O 82 ° 0 min 0,000 mm 1,2 UV-I 192 W/m² 0,9 °C 2,4 °C 4,8 km/h (1 Bft)
28.03.2019 08:26 2,4 °C 90 % 1032,1 hPa 0,0 mm 1,0 km/h (0 Bft) O 82 ° 0 min 0,000 mm 1,2 UV-I 185 W/m² 0,9 °C 2,4 °C 3,2 km/h (1 Bft)
28.03.2019 08:27 2,4 °C 90 % 1032,1 hPa 0,0 mm 1,0 km/h (0 Bft) O-NO 71 ° 0 min 0,000 mm 1,2 UV-I 197 W/m² 0,9 °C 2,4 °C 4,8 km/h (1 Bft)
28.03.2019 08:28 2,5 °C 89 % 1032,1 hPa 0,0 mm 4,4 km/h (1 Bft) NO 49 ° 0 min 0,000 mm 1,3 UV-I 193 W/m² 0,9 °C 2,5 °C 6,4 km/h (2 Bft)
28.03.2019 08:29 2,6 °C 89 % 1032,1 hPa 0,0 mm 0,5 km/h (0 Bft) NO 49 ° 0 min 0,000 mm 1,3 UV-I 200 W/m² 1,0 °C 2,6 °C 3,2 km/h (1 Bft)
28.03.2019 08:30 2,6 °C 89 % 1032,1 hPa 0,0 mm 2,4 km/h (1 Bft) O-NO 60 ° 0 min 0,000 mm 1,3 UV-I 199 W/m² 1,0 °C 2,6 °C 4,8 km/h (1 Bft)
28.03.2019 08:31 2,7 °C 89 % 1032,1 hPa 0,0 mm 2,3 km/h (1 Bft) O-NO 61 ° 0 min 0,000 mm 1,3 UV-I 204 W/m² 1,1 °C 2,7 °C 3,2 km/h (1 Bft)
28.03.2019 08:32 2,7 °C 89 % 1032,1 hPa 0,0 mm 4,4 km/h (1 Bft) O-NO 64 ° 0 min 0,000 mm 1,3 UV-I 213 W/m² 1,1 °C 2,7 °C 6,4 km/h (2 Bft)
28.03.2019 08:33 2,7 °C 88 % 1032,1 hPa 0,0 mm 5,4 km/h (1 Bft) O-NO 58 ° 0 min 0,000 mm 1,4 UV-I 218 W/m² 0,9 °C 1,3 °C 6,4 km/h (2 Bft)
28.03.2019 08:34 2,8 °C 88 % 1032,1 hPa 0,0 mm 4,7 km/h (1 Bft) O-NO 58 ° 0 min 0,000 mm 1,3 UV-I 213 W/m² 1,0 °C 1,7 °C 6,4 km/h (2 Bft)
28.03.2019 08:35 2,8 °C 87 % 1032,2 hPa 0,0 mm 3,7 km/h (1 Bft) NO 54 ° 0 min 0,000 mm 1,4 UV-I 241 W/m² 0,9 °C 2,8 °C 8,0 km/h (2 Bft)
28.03.2019 08:36 2,9 °C 88 % 1032,2 hPa 0,0 mm 3,2 km/h (1 Bft) NO 53 ° 0 min 0,000 mm 1,4 UV-I 283 W/m² 1,1 °C 2,9 °C 4,8 km/h (1 Bft)
28.03.2019 08:37 2,9 °C 87 % 1032,2 hPa 0,0 mm 4,8 km/h (1 Bft) O-NO 71 ° 0 min 0,000 mm 1,4 UV-I 265 W/m² 1,0 °C 1,8 °C 6,4 km/h (2 Bft)
28.03.2019 08:38 3,0 °C 87 % 1032,3 hPa 0,0 mm 2,9 km/h (1 Bft) O-NO 71 ° 0 min 0,000 mm 1,4 UV-I 260 W/m² 1,1 °C 3,0 °C 6,4 km/h (2 Bft)
28.03.2019 08:39 3,0 °C 87 % 1032,3 hPa 0,0 mm 3,2 km/h (1 Bft) NO 52 ° 0 min 0,000 mm 1,4 UV-I 251 W/m² 1,1 °C 3,0 °C 6,4 km/h (2 Bft)
28.03.2019 08:40 3,1 °C 87 % 1032,3 hPa 0,0 mm 8,2 km/h (2 Bft) NO 41 ° 0 min 0,000 mm 1,4 UV-I 244 W/m² 1,2 °C 0,8 °C 11,3 km/h (2 Bft)
28.03.2019 08:41 3,1 °C 86 % 1032,3 hPa 0,0 mm 3,2 km/h (1 Bft) NO 35 ° 0 min 0,000 mm 1,4 UV-I 253 W/m² 1,0 °C 3,1 °C 8,0 km/h (2 Bft)
28.03.2019 08:42 3,1 °C 86 % 1032,2 hPa 0,0 mm 1,4 km/h (1 Bft) NO 38 ° 0 min 0,000 mm 1,4 UV-I 239 W/m² 1,0 °C 3,1 °C 3,2 km/h (1 Bft)
28.03.2019 08:43 3,1 °C 86 % 1032,3 hPa 0,0 mm 2,3 km/h (1 Bft) O 88 ° 0 min 0,000 mm 1,4 UV-I 237 W/m² 1,0 °C 3,1 °C 6,4 km/h (2 Bft)
28.03.2019 08:44 3,0 °C 86 % 1032,2 hPa 0,0 mm 5,5 km/h (1 Bft) O-NO 66 ° 0 min 0,000 mm 1,5 UV-I 267 W/m² 0,9 °C 1,6 °C 8,0 km/h (2 Bft)
28.03.2019 08:45 3,0 °C 86 % 1032,2 hPa 0,0 mm 1,8 km/h (1 Bft) O 89 ° 0 min 0,000 mm 1,5 UV-I 269 W/m² 0,9 °C 3,0 °C 6,4 km/h (2 Bft)
28.03.2019 08:46 3,1 °C 86 % 1032,2 hPa 0,0 mm 1,7 km/h (1 Bft) O-NO 75 ° 0 min 0,000 mm 1,6 UV-I 276 W/m² 1,0 °C 3,1 °C 4,8 km/h (1 Bft)
28.03.2019 08:47 3,2 °C 86 % 1032,2 hPa 0,0 mm 5,5 km/h (1 Bft) O-NO 63 ° 0 min 0,000 mm 1,5 UV-I 287 W/m² 1,1 °C 1,8 °C 8,0 km/h (2 Bft)
28.03.2019 08:48 3,2 °C 85 % 1032,3 hPa 0,0 mm 6,1 km/h (2 Bft) NO 41 ° 0 min 0,000 mm 1,6 UV-I 304 W/m² 0,9 °C 1,6 °C 8,0 km/h (2 Bft)
28.03.2019 08:49 3,3 °C 85 % 1032,2 hPa 0,0 mm 6,6 km/h (2 Bft) O-NO 76 ° 0 min 0,000 mm 1,6 UV-I 301 W/m² 1,0 °C 1,6 °C 12,9 km/h (3 Bft)
28.03.2019 08:50 3,4 °C 85 % 1032,2 hPa 0,0 mm 4,5 km/h (1 Bft) NO 47 ° 0 min 0,000 mm 1,5 UV-I 265 W/m² 1,1 °C 3,4 °C 6,4 km/h (2 Bft)
28.03.2019 08:51 3,6 °C 85 % 1032,2 hPa 0,0 mm 4,8 km/h (1 Bft) O-NO 57 ° 0 min 0,000 mm 1,5 UV-I 253 W/m² 1,3 °C 2,6 °C 8,0 km/h (2 Bft)
28.03.2019 08:52 3,6 °C 85 % 1032,2 hPa 0,0 mm 6,9 km/h (2 Bft) O-NO 62 ° 0 min 0,000 mm 1,6 UV-I 302 W/m² 1,3 °C 1,8 °C 12,9 km/h (3 Bft)
28.03.2019 08:53 3,6 °C 83 % 1032,2 hPa 0,0 mm 8,6 km/h (2 Bft) O 83 ° 0 min 0,000 mm 1,6 UV-I 264 W/m² 1,0 °C 1,3 °C 12,9 km/h (3 Bft)
28.03.2019 08:54 3,6 °C 83 % 1032,3 hPa 0,0 mm 7,6 km/h (2 Bft) SO 135 ° 0 min 0,000 mm 1,6 UV-I 258 W/m² 1,0 °C 1,6 °C 11,3 km/h (2 Bft)
28.03.2019 08:55 3,6 °C 83 % 1032,3 hPa 0,0 mm 6,2 km/h (2 Bft) O 90 ° 0 min 0,000 mm 1,6 UV-I 271 W/m² 1,0 °C 2,0 °C 11,3 km/h (2 Bft)
28.03.2019 08:56 3,6 °C 83 % 1032,2 hPa 0,0 mm 6,3 km/h (2 Bft) O 90 ° 0 min 0,000 mm 1,6 UV-I 297 W/m² 1,0 °C 2,0 °C 11,3 km/h (2 Bft)
28.03.2019 08:57 3,7 °C 84 % 1032,2 hPa 0,0 mm 5,4 km/h (1 Bft) O-NO 62 ° 0 min 0,000 mm 1,7 UV-I 287 W/m² 1,3 °C 2,4 °C 8,0 km/h (2 Bft)
28.03.2019 08:58 3,7 °C 84 % 1032,3 hPa 0,0 mm 4,8 km/h (1 Bft) NO 55 ° 0 min 0,000 mm 1,7 UV-I 294 W/m² 1,3 °C 2,7 °C 6,4 km/h (2 Bft)
28.03.2019 08:59 3,8 °C 83 % 1032,3 hPa 0,0 mm 7,0 km/h (2 Bft) O 81 ° 0 min 0,000 mm 1,7 UV-I 290 W/m² 1,2 °C 2,0 °C 9,7 km/h (2 Bft)
28.03.2019 09:00 3,8 °C 83 % 1032,3 hPa 0,0 mm 4,8 km/h (1 Bft) O 92 ° 0 min 0,000 mm 1,8 UV-I 302 W/m² 1,2 °C 2,8 °C 6,4 km/h (2 Bft)
28.03.2019 09:01 3,9 °C 83 % 1032,3 hPa 0,0 mm 5,8 km/h (2 Bft) O-NO 69 ° 0 min 0,077 mm 1,7 UV-I 294 W/m² 1,3 °C 2,5 °C 8,0 km/h (2 Bft)
28.03.2019 09:02 3,9 °C 83 % 1032,3 hPa 0,0 mm 10,7 km/h (2 Bft) O-NO 76 ° 0 min 0,000 mm 1,7 UV-I 297 W/m² 1,3 °C 1,2 °C 12,9 km/h (3 Bft)
28.03.2019 09:03 3,9 °C 82 % 1032,3 hPa 0,0 mm 8,4 km/h (2 Bft) O 80 ° 0 min 0,000 mm 1,7 UV-I 288 W/m² 1,1 °C 1,7 °C 11,3 km/h (2 Bft)
28.03.2019 09:04 3,9 °C 82 % 1032,3 hPa 0,0 mm 8,7 km/h (2 Bft) O 97 ° 0 min 0,000 mm 1,7 UV-I 292 W/m² 1,1 °C 1,7 °C 12,9 km/h (3 Bft)
28.03.2019 09:05 3,9 °C 82 % 1032,2 hPa 0,0 mm 4,1 km/h (1 Bft) NO 49 ° 0 min 0,000 mm 1,7 UV-I 302 W/m² 1,1 °C 3,9 °C 8,0 km/h (2 Bft)
28.03.2019 09:06 4,0 °C 83 % 1032,2 hPa 0,0 mm 7,2 km/h (2 Bft) O-NO 57 ° 0 min 0,000 mm 1,7 UV-I 283 W/m² 1,4 °C 2,2 °C 9,7 km/h (2 Bft)
28.03.2019 09:07 4,1 °C 83 % 1032,2 hPa 0,0 mm 5,8 km/h (2 Bft) NO 51 ° 0 min 0,000 mm 1,7 UV-I 253 W/m² 1,5 °C 2,8 °C 9,7 km/h (2 Bft)
28.03.2019 09:08 4,1 °C 82 % 1032,3 hPa 0,0 mm 8,4 km/h (2 Bft) O 99 ° 0 min 0,000 mm 1,6 UV-I 250 W/m² 1,3 °C 2,0 °C 11,3 km/h (2 Bft)
28.03.2019 09:09 4,1 °C 82 % 1032,2 hPa 0,0 mm 6,5 km/h (2 Bft) O-NO 61 ° 0 min 0,000 mm 1,7 UV-I 246 W/m² 1,3 °C 2,5 °C 9,7 km/h (2 Bft)
28.03.2019 09:10 4,1 °C 82 % 1032,3 hPa 0,0 mm 3,7 km/h (1 Bft) O 94 ° 0 min 0,000 mm 1,7 UV-I 250 W/m² 1,3 °C 4,1 °C 8,0 km/h (2 Bft)
28.03.2019 09:11 4,1 °C 82 % 1032,2 hPa 0,0 mm 3,3 km/h (1 Bft) O 101 ° 0 min 0,000 mm 1,7 UV-I 264 W/m² 1,3 °C 4,1 °C 6,4 km/h (2 Bft)
28.03.2019 09:12 4,1 °C 82 % 1032,2 hPa 0,0 mm 5,4 km/h (1 Bft) NO 36 ° 0 min 0,000 mm 1,8 UV-I 283 W/m² 1,3 °C 2,9 °C 8,0 km/h (2 Bft)
28.03.2019 09:13 4,1 °C 82 % 1032,2 hPa 0,0 mm 6,8 km/h (2 Bft) O-NO 72 ° 0 min 0,000 mm 1,8 UV-I 276 W/m² 1,3 °C 2,4 °C 11,3 km/h (2 Bft)
28.03.2019 09:14 4,2 °C 82 % 1032,2 hPa 0,0 mm 3,7 km/h (1 Bft) O-NO 73 ° 0 min 0,000 mm 1,9 UV-I 295 W/m² 1,4 °C 4,2 °C 6,4 km/h (2 Bft)
28.03.2019 09:15 4,2 °C 82 % 1032,2 hPa 0,0 mm 4,8 km/h (1 Bft) NO 52 ° 0 min 0,000 mm 2,1 UV-I 330 W/m² 1,4 °C 3,3 °C 9,7 km/h (2 Bft)
28.03.2019 09:16 4,2 °C 81 % 1032,2 hPa 0,0 mm 3,6 km/h (1 Bft) O 89 ° 0 min 0,000 mm 1,9 UV-I 297 W/m² 1,2 °C 4,2 °C 6,4 km/h (2 Bft)
28.03.2019 09:17 4,2 °C 82 % 1032,2 hPa 0,0 mm 5,8 km/h (2 Bft) NO 46 ° 0 min 0,000 mm 1,9 UV-I 283 W/m² 1,4 °C 2,9 °C 11,3 km/h (2 Bft)
28.03.2019 09:18 4,2 °C 82 % 1032,2 hPa 0,0 mm 6,9 km/h (2 Bft) NO 55 ° 0 min 0,000 mm 1,8 UV-I 276 W/m² 1,4 °C 2,5 °C 8,0 km/h (2 Bft)
28.03.2019 09:19 4,2 °C 82 % 1032,2 hPa 0,0 mm 5,8 km/h (2 Bft) O-NO 65 ° 0 min 0,000 mm 2,0 UV-I 327 W/m² 1,4 °C 2,9 °C 11,3 km/h (2 Bft)
28.03.2019 09:20 4,2 °C 81 % 1032,2 hPa 0,0 mm 4,0 km/h (1 Bft) NO 55 ° 0 min 0,000 mm 2,1 UV-I 327 W/m² 1,2 °C 4,2 °C 4,8 km/h (1 Bft)
28.03.2019 09:21 4,3 °C 81 % 1032,1 hPa 0,0 mm 4,0 km/h (1 Bft) NO 54 ° 0 min 0,000 mm 2,0 UV-I 327 W/m² 1,3 °C 4,3 °C 4,8 km/h (1 Bft)
28.03.2019 09:22 4,4 °C 82 % 1032,2 hPa 0,0 mm 2,2 km/h (1 Bft) O 87 ° 0 min 0,000 mm 2,3 UV-I 380 W/m² 1,6 °C 4,4 °C 4,8 km/h (1 Bft)
28.03.2019 09:23 4,5 °C 81 % 1032,2 hPa 0,0 mm 2,2 km/h (1 Bft) O 81 ° 0 min 0,000 mm 2,2 UV-I 343 W/m² 1,5 °C 4,5 °C 6,4 km/h (2 Bft)
28.03.2019 09:24 4,6 °C 80 % 1032,2 hPa 0,0 mm 5,6 km/h (1 Bft) O 88 ° 0 min 0,000 mm 2,2 UV-I 371 W/m² 1,5 °C 3,4 °C 9,7 km/h (2 Bft)
28.03.2019 09:25 4,6 °C 79 % 1032,2 hPa 0,0 mm 6,4 km/h (2 Bft) O-SO 123 ° 0 min 0,000 mm 2,3 UV-I 385 W/m² 1,3 °C 3,1 °C 9,7 km/h (2 Bft)
28.03.2019 09:26 4,7 °C 79 % 1032,2 hPa 0,0 mm 6,9 km/h (2 Bft) O-NO 72 ° 0 min 0,000 mm 2,3 UV-I 355 W/m² 1,4 °C 3,1 °C 12,9 km/h (3 Bft)
28.03.2019 09:27 4,7 °C 78 % 1032,1 hPa 0,0 mm 5,4 km/h (1 Bft) O-NO 76 ° 0 min 0,000 mm 2,4 UV-I 355 W/m² 1,2 °C 3,6 °C 8,0 km/h (2 Bft)
28.03.2019 09:28 4,9 °C 78 % 1032,1 hPa 0,0 mm 1,9 km/h (1 Bft) O-NO 76 ° 0 min 0,000 mm 2,5 UV-I 355 W/m² 1,4 °C 4,9 °C 3,2 km/h (1 Bft)
28.03.2019 09:29 5,0 °C 77 % 1032,1 hPa 0,0 mm 6,9 km/h (2 Bft) O-NO 62 ° 0 min 0,000 mm 2,5 UV-I 499 W/m² 1,3 °C 3,4 °C 12,9 km/h (3 Bft)
28.03.2019 09:30 5,1 °C 76 % 1032,1 hPa 0,0 mm 7,7 km/h (2 Bft) O-NO 78 ° 0 min 0,000 mm 2,4 UV-I 471 W/m² 1,2 °C 3,3 °C 11,3 km/h (2 Bft)
28.03.2019 09:31 5,1 °C 75 % 1032,0 hPa 0,0 mm 7,4 km/h (2 Bft) O-NO 78 ° 0 min 0,000 mm 2,7 UV-I 561 W/m² 1,0 °C 3,4 °C 11,3 km/h (2 Bft)
28.03.2019 09:32 5,1 °C 75 % 1032,1 hPa 0,0 mm 6,7 km/h (2 Bft) O-NO 76 ° 0 min 0,000 mm 2,7 UV-I 578 W/m² 1,0 °C 3,6 °C 8,0 km/h (2 Bft)
28.03.2019 09:33 5,1 °C 76 % 1032,0 hPa 0,0 mm 7,0 km/h (2 Bft) NO 52 ° 0 min 0,000 mm 2,6 UV-I 552 W/m² 1,2 °C 3,5 °C 9,7 km/h (2 Bft)
28.03.2019 09:34 5,2 °C 76 % 1032,0 hPa 0,0 mm 10,3 km/h (2 Bft) O 81 ° 0 min 0,000 mm 2,7 UV-I 534 W/m² 1,3 °C 2,8 °C 16,1 km/h (3 Bft)
28.03.2019 09:35 5,3 °C 76 % 1032,0 hPa 0,0 mm 5,1 km/h (1 Bft) O 94 ° 0 min 0,000 mm 2,7 UV-I 508 W/m² 1,4 °C 4,4 °C 9,7 km/h (2 Bft)
28.03.2019 09:36 5,3 °C 76 % 1032,0 hPa 0,0 mm 6,0 km/h (2 Bft) O-SO 105 ° 0 min 0,000 mm 2,7 UV-I 540 W/m² 1,4 °C 4,1 °C 9,7 km/h (2 Bft)
28.03.2019 09:37 5,4 °C 75 % 1032,0 hPa 0,0 mm 9,2 km/h (2 Bft) O-NO 73 ° 0 min 0,000 mm 2,8 UV-I 563 W/m² 1,3 °C 3,3 °C 14,5 km/h (3 Bft)
28.03.2019 09:38 5,4 °C 74 % 1032,1 hPa 0,0 mm 7,8 km/h (2 Bft) NO 51 ° 0 min 0,000 mm 2,8 UV-I 566 W/m² 1,1 °C 3,7 °C 11,3 km/h (2 Bft)
28.03.2019 09:39 5,6 °C 73 % 1032,1 hPa 0,0 mm 7,4 km/h (2 Bft) O-SO 102 ° 0 min 0,000 mm 2,8 UV-I 568 W/m² 1,2 °C 4,0 °C 12,9 km/h (3 Bft)
28.03.2019 09:40 5,6 °C 73 % 1032,1 hPa 0,0 mm 7,1 km/h (2 Bft) O 96 ° 0 min 0,000 mm 2,8 UV-I 571 W/m² 1,2 °C 4,1 °C 12,9 km/h (3 Bft)
28.03.2019 09:41 5,6 °C 73 % 1032,1 hPa 0,0 mm 9,5 km/h (2 Bft) NO 56 ° 0 min 0,000 mm 2,9 UV-I 571 W/m² 1,2 °C 3,5 °C 12,9 km/h (3 Bft)
28.03.2019 09:42 5,6 °C 72 % 1032,0 hPa 0,0 mm 11,6 km/h (2 Bft) O 79 ° 0 min 0,000 mm 2,9 UV-I 577 W/m² 1,0 °C 3,1 °C 17,7 km/h (3 Bft)
28.03.2019 09:43 5,6 °C 71 % 1032,1 hPa 0,0 mm 5,6 km/h (1 Bft) NO 55 ° 0 min 0,000 mm 2,9 UV-I 578 W/m² 0,8 °C 4,5 °C 8,0 km/h (2 Bft)
28.03.2019 09:44 5,6 °C 70 % 1032,1 hPa 0,0 mm 5,2 km/h (1 Bft) NO 50 ° 0 min 0,000 mm 2,9 UV-I 582 W/m² 0,6 °C 4,7 °C 8,0 km/h (2 Bft)
28.03.2019 09:45 5,7 °C 71 % 1032,1 hPa 0,0 mm 8,7 km/h (2 Bft) O-NO 63 ° 0 min 0,000 mm 2,9 UV-I 585 W/m² 0,9 °C 3,8 °C 16,1 km/h (3 Bft)
28.03.2019 09:46 5,8 °C 70 % 1032,1 hPa 0,0 mm 9,4 km/h (2 Bft) O-NO 69 ° 0 min 0,000 mm 2,9 UV-I 578 W/m² 0,8 °C 3,7 °C 12,9 km/h (3 Bft)
28.03.2019 09:47 5,8 °C 70 % 1032,1 hPa 0,0 mm 5,4 km/h (1 Bft) O 80 ° 0 min 0,000 mm 3,0 UV-I 584 W/m² 0,8 °C 4,8 °C 8,0 km/h (2 Bft)
28.03.2019 09:48 5,8 °C 70 % 1032,1 hPa 0,0 mm 5,6 km/h (1 Bft) NO 52 ° 0 min 0,000 mm 3,0 UV-I 591 W/m² 0,8 °C 4,8 °C 8,0 km/h (2 Bft)
28.03.2019 09:49 5,8 °C 70 % 1032,1 hPa 0,0 mm 4,9 km/h (1 Bft) O-NO 77 ° 1 min 0,000 mm 3,1 UV-I 612 W/m² 0,8 °C 5,0 °C 8,0 km/h (2 Bft)
28.03.2019 09:50 5,8 °C 70 % 1032,1 hPa 0,0 mm 4,8 km/h (1 Bft) O-SO 121 ° 1 min 0,000 mm 3,0 UV-I 619 W/m² 0,8 °C 5,1 °C 8,0 km/h (2 Bft)
28.03.2019 09:51 5,9 °C 70 % 1032,1 hPa 0,0 mm 3,7 km/h (1 Bft) NO 47 ° 1 min 0,000 mm 3,1 UV-I 629 W/m² 0,9 °C 5,9 °C 8,0 km/h (2 Bft)
28.03.2019 09:52 5,9 °C 70 % 1032,1 hPa 0,0 mm 1,6 km/h (1 Bft) NO 54 ° 0 min 0,000 mm 3,0 UV-I 589 W/m² 0,9 °C 5,9 °C 3,2 km/h (1 Bft)
28.03.2019 09:53 5,9 °C 69 % 1032,1 hPa 0,0 mm 5,8 km/h (2 Bft) O 87 ° 0 min 0,000 mm 2,8 UV-I 589 W/m² 0,7 °C 4,8 °C 11,3 km/h (2 Bft)
28.03.2019 09:54 6,1 °C 70 % 1032,1 hPa 0,0 mm 10,7 km/h (2 Bft) O-NO 61 ° 0 min 0,000 mm 3,2 UV-I 598 W/m² 1,0 °C 3,8 °C 14,5 km/h (3 Bft)
28.03.2019 09:55 6,1 °C 68 % 1032,1 hPa 0,0 mm 6,4 km/h (2 Bft) O-NO 71 ° 1 min 0,000 mm 3,2 UV-I 645 W/m² 0,6 °C 4,9 °C 11,3 km/h (2 Bft)
28.03.2019 09:56 6,2 °C 69 % 1032,0 hPa 0,0 mm 5,1 km/h (1 Bft) NO 54 ° 0 min 0,000 mm 2,7 UV-I 573 W/m² 0,9 °C 5,4 °C 9,7 km/h (2 Bft)
28.03.2019 09:57 6,3 °C 68 % 1032,0 hPa 0,0 mm 9,7 km/h (2 Bft) O-NO 65 ° 0 min 0,000 mm 2,8 UV-I 475 W/m² 0,8 °C 4,3 °C 12,9 km/h (3 Bft)
28.03.2019 09:58 6,4 °C 67 % 1032,0 hPa 0,0 mm 3,4 km/h (1 Bft) O-NO 61 ° 0 min 0,000 mm 2,9 UV-I 485 W/m² 0,7 °C 6,4 °C 8,0 km/h (2 Bft)
28.03.2019 09:59 6,4 °C 67 % 1032,0 hPa 0,0 mm 6,2 km/h (2 Bft) O-NO 62 ° 0 min 0,000 mm 2,8 UV-I 547 W/m² 0,7 °C 5,3 °C 9,7 km/h (2 Bft)
28.03.2019 10:00 6,4 °C 67 % 1032,1 hPa 0,0 mm 6,7 km/h (2 Bft) O 98 ° 0 min 0,000 mm 2,9 UV-I 504 W/m² 0,7 °C 5,1 °C 11,3 km/h (2 Bft)
28.03.2019 10:01 6,5 °C 67 % 1032,1 hPa 0,0 mm 10,1 km/h (2 Bft) O-NO 77 ° 0 min 0,203 mm 2,7 UV-I 529 W/m² 0,8 °C 4,4 °C 17,7 km/h (3 Bft)
28.03.2019 10:02 6,5 °C 66 % 1032,1 hPa 0,0 mm 11,9 km/h (2 Bft) O-NO 69 ° 0 min 0,000 mm 2,9 UV-I 585 W/m² 0,6 °C 4,1 °C 14,5 km/h (3 Bft)
28.03.2019 10:03 6,6 °C 65 % 1032,1 hPa 0,0 mm 6,6 km/h (2 Bft) O-NO 63 ° 0 min 0,000 mm 2,8 UV-I 585 W/m² 0,5 °C 5,4 °C 12,9 km/h (3 Bft)
28.03.2019 10:04 6,6 °C 65 % 1032,1 hPa 0,0 mm 8,6 km/h (2 Bft) O-NO 57 ° 0 min 0,000 mm 2,9 UV-I 510 W/m² 0,5 °C 4,9 °C 14,5 km/h (3 Bft)
28.03.2019 10:05 6,7 °C 64 % 1032,1 hPa 0,0 mm 10,4 km/h (2 Bft) O-NO 67 ° 1 min 0,000 mm 3,2 UV-I 664 W/m² 0,4 °C 4,6 °C 14,5 km/h (3 Bft)
28.03.2019 10:06 6,7 °C 64 % 1032,1 hPa 0,0 mm 10,4 km/h (2 Bft) N-NO 15 ° 1 min 0,000 mm 3,0 UV-I 664 W/m² 0,4 °C 4,6 °C 17,7 km/h (3 Bft)
28.03.2019 10:07 6,9 °C 65 % 1032,0 hPa 0,0 mm 12,5 km/h (3 Bft) O-NO 68 ° 0 min 0,000 mm 2,8 UV-I 531 W/m² 0,8 °C 4,5 °C 19,3 km/h (3 Bft)
28.03.2019 10:08 6,9 °C 64 % 1032,0 hPa 0,0 mm 12,1 km/h (2 Bft) O-NO 67 ° 0 min 0,000 mm 3,3 UV-I 575 W/m² 0,6 °C 4,5 °C 24,1 km/h (4 Bft)
28.03.2019 10:09 7,1 °C 60 % 1031,9 hPa 0,0 mm 16,1 km/h (3 Bft) O-NO 67 ° 1 min 0,000 mm 3,0 UV-I 615 W/m² -0,1 °C 4,2 °C 24,1 km/h (4 Bft)
28.03.2019 10:10 6,9 °C 60 % 1031,9 hPa 0,0 mm 12,3 km/h (3 Bft) O 89 ° 0 min 0,000 mm 3,3 UV-I 568 W/m² -0,3 °C 4,5 °C 17,7 km/h (3 Bft)
28.03.2019 10:11 6,9 °C 60 % 1031,9 hPa 0,0 mm 10,1 km/h (2 Bft) O-NO 72 ° 0 min 0,000 mm 3,0 UV-I 570 W/m² -0,3 °C 4,9 °C 16,1 km/h (3 Bft)
28.03.2019 10:12 7,0 °C 61 % 1031,9 hPa 0,0 mm 10,4 km/h (2 Bft) O-NO 61 ° 0 min 0,000 mm 2,9 UV-I 570 W/m² 0,0 °C 5,0 °C 12,9 km/h (3 Bft)
28.03.2019 10:13 7,1 °C 62 % 1032,0 hPa 0,0 mm 10,8 km/h (2 Bft) O 83 ° 0 min 0,000 mm 2,7 UV-I 459 W/m² 0,3 °C 5,0 °C 19,3 km/h (3 Bft)
28.03.2019 10:14 7,1 °C 60 % 1032,0 hPa 0,0 mm 13,7 km/h (3 Bft) NO 55 ° 0 min 0,000 mm 3,2 UV-I 459 W/m² -0,1 °C 4,5 °C 17,7 km/h (3 Bft)
28.03.2019 10:15 7,2 °C 60 % 1031,9 hPa 0,0 mm 13,7 km/h (3 Bft) O 84 ° 0 min 0,000 mm 3,5 UV-I 459 W/m² -0,0 °C 4,7 °C 17,7 km/h (3 Bft)
28.03.2019 10:16 7,2 °C 59 % 1031,9 hPa 0,0 mm 12,8 km/h (3 Bft) O-NO 75 ° 1 min 0,000 mm 3,6 UV-I 673 W/m² -0,3 °C 4,8 °C 17,7 km/h (3 Bft)
28.03.2019 10:17 7,2 °C 59 % 1031,9 hPa 0,0 mm 9,9 km/h (2 Bft) O 79 ° 1 min 0,000 mm 3,7 UV-I 664 W/m² -0,3 °C 5,3 °C 14,5 km/h (3 Bft)
28.03.2019 10:18 7,3 °C 59 % 1031,9 hPa 0,0 mm 9,0 km/h (2 Bft) O 88 ° 1 min 0,000 mm 3,5 UV-I 603 W/m² -0,2 °C 5,6 °C 16,1 km/h (3 Bft)
28.03.2019 10:19 7,4 °C 57 % 1031,9 hPa 0,0 mm 7,6 km/h (2 Bft) N-NO 17 ° 1 min 0,000 mm 3,9 UV-I 664 W/m² -0,5 °C 6,0 °C 14,5 km/h (3 Bft)
28.03.2019 10:20 7,5 °C 56 % 1031,9 hPa 0,0 mm 9,4 km/h (2 Bft) O-SO 121 ° 1 min 0,000 mm 3,0 UV-I 729 W/m² -0,7 °C 5,8 °C 19,3 km/h (3 Bft)
28.03.2019 10:21 7,4 °C 55 % 1031,9 hPa 0,0 mm 8,1 km/h (2 Bft) NO 50 ° 1 min 0,000 mm 2,9 UV-I 729 W/m² -1,0 °C 5,9 °C 14,5 km/h (3 Bft)
28.03.2019 10:22 7,4 °C 55 % 1031,8 hPa 0,0 mm 9,5 km/h (2 Bft) O-NO 57 ° 1 min 0,000 mm 3,5 UV-I 617 W/m² -1,0 °C 5,6 °C 16,1 km/h (3 Bft)
28.03.2019 10:23 7,6 °C 56 % 1031,8 hPa 0,0 mm 11,9 km/h (2 Bft) NO 54 ° 1 min 0,000 mm 3,6 UV-I 631 W/m² -0,6 °C 5,4 °C 17,7 km/h (3 Bft)
28.03.2019 10:24 7,7 °C 55 % 1031,9 hPa 0,0 mm 14,6 km/h (3 Bft) O 93 ° 1 min 0,000 mm 3,0 UV-I 631 W/m² -0,8 °C 5,1 °C 17,7 km/h (3 Bft)
28.03.2019 10:25 7,8 °C 55 % 1031,9 hPa 0,0 mm 13,3 km/h (3 Bft) O-SO 106 ° 1 min 0,000 mm 3,2 UV-I 631 W/m² -0,7 °C 5,4 °C 17,7 km/h (3 Bft)
28.03.2019 10:26 7,7 °C 54 % 1031,8 hPa 0,0 mm 6,0 km/h (2 Bft) N 355 ° 1 min 0,000 mm 3,5 UV-I 631 W/m² -1,0 °C 6,8 °C 12,9 km/h (3 Bft)
28.03.2019 10:27 7,8 °C 53 % 1031,8 hPa 0,0 mm 14,0 km/h (3 Bft) O-SO 104 ° 1 min 0,000 mm 3,5 UV-I 638 W/m² -1,2 °C 5,3 °C 20,9 km/h (4 Bft)
28.03.2019 10:28 7,8 °C 53 % 1031,9 hPa 0,0 mm 13,5 km/h (3 Bft) O-NO 70 ° 1 min 0,000 mm 3,6 UV-I 726 W/m² -1,2 °C 5,4 °C 19,3 km/h (3 Bft)
28.03.2019 10:29 7,8 °C 52 % 1031,8 hPa 0,0 mm 15,8 km/h (3 Bft) NO 46 ° 1 min 0,000 mm 3,6 UV-I 628 W/m² -1,4 °C 5,1 °C 22,5 km/h (4 Bft)
28.03.2019 10:30 7,8 °C 52 % 1031,8 hPa 0,0 mm 12,6 km/h (3 Bft) O-NO 77 ° 1 min 0,000 mm 3,9 UV-I 821 W/m² -1,4 °C 5,6 °C 17,7 km/h (3 Bft)
28.03.2019 10:31 7,7 °C 53 % 1031,7 hPa 0,0 mm 12,0 km/h (2 Bft) O 80 ° 1 min 0,000 mm 4,0 UV-I 865 W/m² -1,3 °C 5,5 °C 19,3 km/h (3 Bft)
28.03.2019 10:32 7,8 °C 53 % 1031,8 hPa 0,0 mm 13,8 km/h (3 Bft) NO 54 ° 1 min 0,000 mm 3,0 UV-I 888 W/m² -1,2 °C 5,4 °C 22,5 km/h (4 Bft)
28.03.2019 10:33 7,9 °C 52 % 1031,8 hPa 0,0 mm 18,1 km/h (3 Bft) O 79 ° 1 min 0,000 mm 2,8 UV-I 888 W/m² -1,3 °C 4,9 °C 24,1 km/h (4 Bft)
28.03.2019 10:34 7,8 °C 52 % 1031,8 hPa 0,0 mm 17,0 km/h (3 Bft) O-NO 69 ° 1 min 0,000 mm 2,5 UV-I 888 W/m² -1,4 °C 4,9 °C 20,9 km/h (4 Bft)
28.03.2019 10:35 7,8 °C 52 % 1031,8 hPa 0,0 mm 11,9 km/h (2 Bft) O-NO 64 ° 1 min 0,000 mm 2,8 UV-I 888 W/m² -1,4 °C 5,7 °C 17,7 km/h (3 Bft)
28.03.2019 10:36 7,7 °C 51 % 1031,8 hPa 0,0 mm 9,9 km/h (2 Bft) O-NO 61 ° 0 min 0,000 mm 3,1 UV-I 406 W/m² -1,8 °C 5,9 °C 14,5 km/h (3 Bft)
28.03.2019 10:37 7,6 °C 51 % 1031,8 hPa 0,0 mm 8,2 km/h (2 Bft) O 80 ° 0 min 0,000 mm 2,7 UV-I 406 W/m² -1,9 °C 6,1 °C 14,5 km/h (3 Bft)
28.03.2019 10:38 7,6 °C 53 % 1031,8 hPa 0,0 mm 12,4 km/h (3 Bft) O-NO 78 ° 0 min 0,000 mm 2,6 UV-I 401 W/m² -1,4 °C 5,3 °C 19,3 km/h (3 Bft)
28.03.2019 10:39 7,5 °C 53 % 1031,8 hPa 0,0 mm 18,8 km/h (3 Bft) O-NO 61 ° 0 min 0,000 mm 2,3 UV-I 401 W/m² -1,4 °C 4,4 °C 25,7 km/h (4 Bft)
28.03.2019 10:40 7,4 °C 52 % 1031,8 hPa 0,0 mm 15,8 km/h (3 Bft) O 80 ° 0 min 0,000 mm 2,6 UV-I 367 W/m² -1,8 °C 4,6 °C 22,5 km/h (4 Bft)
28.03.2019 10:41 7,4 °C 53 % 1031,8 hPa 0,0 mm 13,5 km/h (3 Bft) O-NO 69 ° 0 min 0,000 mm 2,4 UV-I 292 W/m² -1,5 °C 4,9 °C 22,5 km/h (4 Bft)
28.03.2019 10:42 7,5 °C 54 % 1031,8 hPa 0,0 mm 8,4 km/h (2 Bft) O-NO 59 ° 0 min 0,000 mm 2,5 UV-I 339 W/m² -1,2 °C 6,0 °C 12,9 km/h (3 Bft)
28.03.2019 10:43 7,6 °C 54 % 1031,8 hPa 0,0 mm 9,3 km/h (2 Bft) NO 51 ° 0 min 0,000 mm 2,9 UV-I 325 W/m² -1,1 °C 5,9 °C 19,3 km/h (3 Bft)
28.03.2019 10:44 7,5 °C 54 % 1031,8 hPa 0,0 mm 11,6 km/h (2 Bft) N-NO 26 ° 0 min 0,000 mm 3,7 UV-I 325 W/m² -1,2 °C 5,4 °C 16,1 km/h (3 Bft)
28.03.2019 10:45 7,6 °C 54 % 1031,8 hPa 0,0 mm 9,5 km/h (2 Bft) O-SO 109 ° 1 min 0,000 mm 3,6 UV-I 714 W/m² -1,1 °C 5,9 °C 19,3 km/h (3 Bft)
28.03.2019 10:46 7,8 °C 54 % 1031,8 hPa 0,0 mm 8,5 km/h (2 Bft) O 84 ° 1 min 0,000 mm 4,2 UV-I 779 W/m² -0,9 °C 6,3 °C 16,1 km/h (3 Bft)
28.03.2019 10:47 7,9 °C 53 % 1031,9 hPa 0,0 mm 9,3 km/h (2 Bft) NO 40 ° 0 min 0,000 mm 2,3 UV-I 309 W/m² -1,1 °C 6,3 °C 17,7 km/h (3 Bft)
28.03.2019 10:48 7,9 °C 53 % 1031,8 hPa 0,0 mm 14,4 km/h (3 Bft) O-NO 61 ° 0 min 0,000 mm 2,2 UV-I 227 W/m² -1,1 °C 5,4 °C 22,5 km/h (4 Bft)
28.03.2019 10:49 7,8 °C 52 % 1031,8 hPa 0,0 mm 9,0 km/h (2 Bft) O-NO 73 ° 0 min 0,000 mm 2,7 UV-I 279 W/m² -1,4 °C 6,2 °C 16,1 km/h (3 Bft)
28.03.2019 10:50 7,8 °C 53 % 1031,9 hPa 0,0 mm 10,4 km/h (2 Bft) O-NO 68 ° 0 min 0,000 mm 2,4 UV-I 279 W/m² -1,2 °C 5,9 °C 14,5 km/h (3 Bft)
28.03.2019 10:51 7,7 °C 52 % 1031,8 hPa 0,0 mm 7,1 km/h (2 Bft) O 98 ° 0 min 0,000 mm 2,2 UV-I 279 W/m² -1,5 °C 6,5 °C 12,9 km/h (3 Bft)
28.03.2019 10:52 7,7 °C 53 % 1031,9 hPa 0,0 mm 8,3 km/h (2 Bft) O 80 ° 0 min 0,000 mm 2,3 UV-I 237 W/m² -1,3 °C 6,2 °C 11,3 km/h (2 Bft)
28.03.2019 10:53 7,7 °C 54 % 1031,9 hPa 0,0 mm 8,0 km/h (2 Bft) NO 53 ° 0 min 0,000 mm 2,4 UV-I 272 W/m² -1,0 °C 6,3 °C 14,5 km/h (3 Bft)
28.03.2019 10:54 7,7 °C 54 % 1031,9 hPa 0,0 mm 5,1 km/h (1 Bft) O-NO 66 ° 0 min 0,000 mm 2,3 UV-I 315 W/m² -1,0 °C 7,1 °C 12,9 km/h (3 Bft)
28.03.2019 10:55 7,7 °C 54 % 1031,9 hPa 0,0 mm 6,4 km/h (2 Bft) O-NO 64 ° 0 min 0,000 mm 2,2 UV-I 232 W/m² -1,0 °C 6,7 °C 16,1 km/h (3 Bft)
28.03.2019 10:56 7,7 °C 53 % 1031,8 hPa 0,0 mm 13,7 km/h (3 Bft) O-NO 76 ° 0 min 0,000 mm 2,3 UV-I 236 W/m² -1,3 °C 5,3 °C 16,1 km/h (3 Bft)
28.03.2019 10:57 7,7 °C 55 % 1031,9 hPa 0,0 mm 8,6 km/h (2 Bft) O-NO 76 ° 0 min 0,000 mm 4,3 UV-I 236 W/m² -0,8 °C 6,2 °C 14,5 km/h (3 Bft)
28.03.2019 10:58 7,7 °C 54 % 1031,9 hPa 0,0 mm 7,5 km/h (2 Bft) O 81 ° 0 min 0,000 mm 2,9 UV-I 243 W/m² -1,0 °C 6,4 °C 12,9 km/h (3 Bft)
28.03.2019 10:59 7,7 °C 54 % 1032,0 hPa 0,0 mm 12,9 km/h (3 Bft) N-NO 30 ° 0 min 0,000 mm 2,2 UV-I 223 W/m² -1,0 °C 5,4 °C 19,3 km/h (3 Bft)
28.03.2019 11:00 7,7 °C 53 % 1031,9 hPa 0,0 mm 11,3 km/h (2 Bft) O 88 ° 0 min 0,000 mm 2,3 UV-I 232 W/m² -1,3 °C 5,6 °C 17,7 km/h (3 Bft)
28.03.2019 11:01 7,7 °C 53 % 1031,8 hPa 0,0 mm 14,0 km/h (3 Bft) O-NO 75 ° 0 min 0,254 mm 2,7 UV-I 232 W/m² -1,3 °C 5,2 °C 19,3 km/h (3 Bft)
28.03.2019 11:02 7,7 °C 52 % 1031,8 hPa 0,0 mm 12,9 km/h (3 Bft) O 96 ° 0 min 0,000 mm 2,2 UV-I 232 W/m² -1,5 °C 5,4 °C 19,3 km/h (3 Bft)
28.03.2019 11:03 7,6 °C 53 % 1031,9 hPa 0,0 mm 6,2 km/h (2 Bft) O-NO 78 ° 0 min 0,000 mm 2,5 UV-I 218 W/m² -1,4 °C 6,7 °C 14,5 km/h (3 Bft)
28.03.2019 11:04 7,6 °C 54 % 1031,8 hPa 0,0 mm 9,8 km/h (2 Bft) O-NO 59 ° 0 min 0,000 mm 2,6 UV-I 257 W/m² -1,1 °C 5,8 °C 16,1 km/h (3 Bft)
28.03.2019 11:05 7,7 °C 54 % 1031,9 hPa 0,0 mm 10,7 km/h (2 Bft) O-SO 105 ° 0 min 0,000 mm 4,5 UV-I 257 W/m² -1,0 °C 5,8 °C 17,7 km/h (3 Bft)
28.03.2019 11:06 7,8 °C 54 % 1031,9 hPa 0,0 mm 8,0 km/h (2 Bft) O-NO 63 ° 0 min 0,000 mm 4,0 UV-I 257 W/m² -0,9 °C 6,4 °C 17,7 km/h (3 Bft)
28.03.2019 11:07 7,9 °C 52 % 1031,9 hPa 0,0 mm 14,1 km/h (3 Bft) O-NO 63 ° 1 min 0,000 mm 4,4 UV-I 861 W/m² -1,3 °C 5,4 °C 20,9 km/h (4 Bft)
28.03.2019 11:08 8,1 °C 53 % 1031,9 hPa 0,0 mm 13,2 km/h (3 Bft) O-NO 57 ° 1 min 0,000 mm 3,6 UV-I 817 W/m² -0,9 °C 5,8 °C 19,3 km/h (3 Bft)
28.03.2019 11:09 8,1 °C 52 % 1031,9 hPa 0,0 mm 10,1 km/h (2 Bft) O 82 ° 1 min 0,000 mm 2,8 UV-I 817 W/m² -1,2 °C 6,3 °C 16,1 km/h (3 Bft)
28.03.2019 11:10 8,2 °C 53 % 1031,9 hPa 0,0 mm 8,2 km/h (2 Bft) O-NO 63 ° 0 min 0,000 mm 2,7 UV-I 329 W/m² -0,8 °C 6,8 °C 14,5 km/h (3 Bft)
28.03.2019 11:11 8,2 °C 52 % 1031,8 hPa 0,0 mm 5,2 km/h (1 Bft) SO 133 ° 0 min 0,000 mm 3,3 UV-I 329 W/m² -1,1 °C 7,6 °C 14,5 km/h (3 Bft)
28.03.2019 11:12 8,2 °C 52 % 1031,8 hPa 0,0 mm 10,7 km/h (2 Bft) O 90 ° 0 min 0,000 mm 4,5 UV-I 329 W/m² -1,1 °C 6,4 °C 17,7 km/h (3 Bft)
28.03.2019 11:13 8,3 °C 52 % 1031,8 hPa 0,0 mm 4,8 km/h (1 Bft) O 84 ° 1 min 0,000 mm 4,1 UV-I 823 W/m² -1,0 °C 7,9 °C 11,3 km/h (2 Bft)
28.03.2019 11:14 8,6 °C 54 % 1031,9 hPa 0,0 mm 4,9 km/h (1 Bft) O-SO 105 ° 1 min 0,000 mm 4,3 UV-I 823 W/m² -0,2 °C 8,2 °C 8,0 km/h (2 Bft)
28.03.2019 11:15 8,7 °C 51 % 1031,8 hPa 0,0 mm 4,3 km/h (1 Bft) O-NO 70 ° 1 min 0,000 mm 4,4 UV-I 795 W/m² -0,9 °C 8,7 °C 9,7 km/h (2 Bft)
28.03.2019 11:16 8,6 °C 50 % 1031,9 hPa 0,0 mm 15,8 km/h (3 Bft) O-NO 68 ° 1 min 0,000 mm 4,3 UV-I 791 W/m² -1,2 °C 6,1 °C 20,9 km/h (4 Bft)
28.03.2019 11:17 8,6 °C 50 % 1031,8 hPa 0,0 mm 13,6 km/h (3 Bft) O 81 ° 1 min 0,000 mm 4,3 UV-I 780 W/m² -1,2 °C 6,4 °C 17,7 km/h (3 Bft)
28.03.2019 11:18 8,6 °C 52 % 1031,9 hPa 0,0 mm 14,5 km/h (3 Bft) O 90 ° 1 min 0,000 mm 4,3 UV-I 772 W/m² -0,7 °C 6,3 °C 20,9 km/h (4 Bft)
28.03.2019 11:19 8,4 °C 51 % 1031,9 hPa 0,0 mm 16,5 km/h (3 Bft) O 94 ° 1 min 0,000 mm 4,2 UV-I 766 W/m² -1,1 °C 5,8 °C 22,5 km/h (4 Bft)
28.03.2019 11:20 8,3 °C 51 % 1031,8 hPa 0,0 mm 12,9 km/h (3 Bft) O-SO 109 ° 1 min 0,000 mm 4,3 UV-I 772 W/m² -1,2 °C 6,1 °C 17,7 km/h (3 Bft)
28.03.2019 11:21 8,3 °C 52 % 1031,8 hPa 0,0 mm 9,9 km/h (2 Bft) O-SO 105 ° 1 min 0,000 mm 4,2 UV-I 784 W/m² -1,0 °C 6,6 °C 14,5 km/h (3 Bft)
28.03.2019 11:22 8,3 °C 51 % 1031,7 hPa 0,0 mm 8,4 km/h (2 Bft) O 98 ° 1 min 0,000 mm 4,3 UV-I 766 W/m² -1,2 °C 6,9 °C 16,1 km/h (3 Bft)
28.03.2019 11:23 8,4 °C 54 % 1031,7 hPa 0,0 mm 9,0 km/h (2 Bft) O 84 ° 1 min 0,000 mm 4,3 UV-I 770 W/m² -0,4 °C 6,9 °C 16,1 km/h (3 Bft)
28.03.2019 11:24 8,6 °C 51 % 1031,7 hPa 0,0 mm 13,0 km/h (3 Bft) O-NO 78 ° 1 min 0,000 mm 4,3 UV-I 772 W/m² -1,0 °C 6,5 °C 17,7 km/h (3 Bft)
28.03.2019 11:25 8,6 °C 52 % 1031,8 hPa 0,0 mm 17,6 km/h (3 Bft) NO 40 ° 1 min 0,000 mm 4,4 UV-I 772 W/m² -0,7 °C 5,9 °C 24,1 km/h (4 Bft)
28.03.2019 11:26 8,5 °C 52 % 1031,8 hPa 0,0 mm 13,9 km/h (3 Bft) O-NO 67 ° 1 min 0,000 mm 4,2 UV-I 772 W/m² -0,8 °C 6,2 °C 20,9 km/h (4 Bft)
28.03.2019 11:27 8,4 °C 51 % 1031,7 hPa 0,0 mm 15,1 km/h (3 Bft) NO 37 ° 1 min 0,000 mm 4,4 UV-I 793 W/m² -1,1 °C 5,9 °C 24,1 km/h (4 Bft)
28.03.2019 11:28 8,4 °C 51 % 1031,7 hPa 0,0 mm 18,6 km/h (3 Bft) NO 45 ° 1 min 0,000 mm 4,3 UV-I 775 W/m² -1,1 °C 5,5 °C 29,0 km/h (5 Bft)
28.03.2019 11:29 8,4 °C 50 % 1031,7 hPa 0,0 mm 17,8 km/h (3 Bft) NO 37 ° 1 min 0,000 mm 4,3 UV-I 759 W/m² -1,4 °C 5,6 °C 24,1 km/h (4 Bft)
28.03.2019 11:30 8,4 °C 51 % 1031,7 hPa 0,0 mm 14,6 km/h (3 Bft) NO 40 ° 1 min 0,000 mm 4,3 UV-I 763 W/m² -1,1 °C 6,0 °C 22,5 km/h (4 Bft)
28.03.2019 11:31 8,4 °C 52 % 1031,7 hPa 0,0 mm 9,7 km/h (2 Bft) N-NO 17 ° 1 min 0,000 mm 4,3 UV-I 773 W/m² -0,9 °C 6,8 °C 14,5 km/h (3 Bft)
28.03.2019 11:32 8,5 °C 50 % 1031,7 hPa 0,0 mm 16,2 km/h (3 Bft) O-NO 59 ° 1 min 0,000 mm 2,7 UV-I 773 W/m² -1,3 °C 5,9 °C 24,1 km/h (4 Bft)
28.03.2019 11:33 8,6 °C 50 % 1031,6 hPa 0,0 mm 15,0 km/h (3 Bft) SO 132 ° 1 min 0,000 mm 4,3 UV-I 779 W/m² -1,2 °C 6,2 °C 20,9 km/h (4 Bft)
28.03.2019 11:34 8,6 °C 53 % 1031,7 hPa 0,0 mm 12,6 km/h (3 Bft) O-SO 115 ° 1 min 0,000 mm 4,4 UV-I 779 W/m² -0,4 °C 6,5 °C 17,7 km/h (3 Bft)
28.03.2019 11:35 8,7 °C 51 % 1031,7 hPa 0,0 mm 4,4 km/h (1 Bft) O-NO 62 ° 1 min 0,000 mm 4,0 UV-I 795 W/m² -0,9 °C 8,7 °C 17,7 km/h (3 Bft)
28.03.2019 11:36 8,7 °C 52 % 1031,6 hPa 0,0 mm 10,3 km/h (2 Bft) O 80 ° 1 min 0,000 mm 2,2 UV-I 795 W/m² -0,6 °C 7,0 °C 16,1 km/h (3 Bft)
28.03.2019 11:37 8,6 °C 52 % 1031,6 hPa 0,0 mm 5,6 km/h (1 Bft) S 187 ° 0 min 0,000 mm 2,3 UV-I 186 W/m² -0,7 °C 8,0 °C 11,3 km/h (2 Bft)
28.03.2019 11:38 8,4 °C 53 % 1031,6 hPa 0,0 mm 7,2 km/h (2 Bft) S-SO 167 ° 0 min 0,000 mm 3,5 UV-I 186 W/m² -0,6 °C 7,3 °C 16,1 km/h (3 Bft)
28.03.2019 11:39 8,3 °C 51 % 1031,6 hPa 0,0 mm 11,5 km/h (2 Bft) O-NO 64 ° 0 min 0,000 mm 2,3 UV-I 186 W/m² -1,2 °C 6,3 °C 20,9 km/h (4 Bft)
28.03.2019 11:40 8,3 °C 53 % 1031,6 hPa 0,0 mm 11,3 km/h (2 Bft) O 87 ° 0 min 0,000 mm 2,4 UV-I 186 W/m² -0,7 °C 6,4 °C 16,1 km/h (3 Bft)
28.03.2019 11:41 8,3 °C 53 % 1031,7 hPa 0,0 mm 11,3 km/h (2 Bft) O 98 ° 0 min 0,000 mm 2,2 UV-I 179 W/m² -0,7 °C 6,4 °C 16,1 km/h (3 Bft)
28.03.2019 11:42 8,3 °C 53 % 1031,6 hPa 0,0 mm 7,8 km/h (2 Bft) S-SO 153 ° 0 min 0,000 mm 2,0 UV-I 151 W/m² -0,7 °C 7,1 °C 11,3 km/h (2 Bft)
28.03.2019 11:43 8,2 °C 52 % 1031,6 hPa 0,0 mm 7,7 km/h (2 Bft) O 87 ° 0 min 0,000 mm 2,0 UV-I 144 W/m² -1,1 °C 7,0 °C 12,9 km/h (3 Bft)
28.03.2019 11:44 8,1 °C 51 % 1031,6 hPa 0,0 mm 9,7 km/h (2 Bft) O-NO 68 ° 0 min 0,000 mm 2,1 UV-I 155 W/m² -1,4 °C 6,4 °C 14,5 km/h (3 Bft)
28.03.2019 11:45 7,9 °C 52 % 1031,6 hPa 0,0 mm 13,3 km/h (3 Bft) O-SO 113 ° 0 min 0,000 mm 2,2 UV-I 179 W/m² -1,3 °C 5,6 °C 19,3 km/h (3 Bft)
28.03.2019 11:46 7,9 °C 52 % 1031,6 hPa 0,0 mm 14,8 km/h (3 Bft) NO 55 ° 0 min 0,000 mm 2,3 UV-I 179 W/m² -1,3 °C 5,4 °C 22,5 km/h (4 Bft)
28.03.2019 11:47 7,9 °C 52 % 1031,6 hPa 0,0 mm 14,0 km/h (3 Bft) O 86 ° 0 min 0,000 mm 2,4 UV-I 241 W/m² -1,3 °C 5,5 °C 19,3 km/h (3 Bft)
28.03.2019 11:48 7,9 °C 52 % 1031,6 hPa 0,0 mm 17,1 km/h (3 Bft) NO 56 ° 0 min 0,000 mm 2,7 UV-I 276 W/m² -1,3 °C 5,1 °C 35,4 km/h (5 Bft)
28.03.2019 11:49 7,9 °C 51 % 1031,6 hPa 0,0 mm 12,9 km/h (3 Bft) NO 53 ° 0 min 0,000 mm 4,9 UV-I 276 W/m² -1,6 °C 5,6 °C 17,7 km/h (3 Bft)
28.03.2019 11:50 8,1 °C 51 % 1031,6 hPa 0,0 mm 14,1 km/h (3 Bft) O-NO 63 ° 0 min 0,000 mm 3,3 UV-I 276 W/m² -1,4 °C 5,7 °C 19,3 km/h (3 Bft)
28.03.2019 11:51 8,2 °C 51 % 1031,6 hPa 0,0 mm 15,8 km/h (3 Bft) O-NO 71 ° 0 min 0,000 mm 4,7 UV-I 276 W/m² -1,3 °C 5,6 °C 24,1 km/h (4 Bft)
28.03.2019 11:52 8,2 °C 51 % 1031,6 hPa 0,0 mm 15,9 km/h (3 Bft) NO 43 ° 0 min 0,000 mm 2,8 UV-I 267 W/m² -1,3 °C 5,6 °C 30,6 km/h (5 Bft)
28.03.2019 11:53 8,3 °C 51 % 1031,6 hPa 0,0 mm 13,7 km/h (3 Bft) NO 51 ° 0 min 0,000 mm 3,8 UV-I 359 W/m² -1,2 °C 6,0 °C 20,9 km/h (4 Bft)
28.03.2019 11:54 8,3 °C 52 % 1031,6 hPa 0,0 mm 10,7 km/h (2 Bft) O-NO 61 ° 0 min 0,000 mm 4,7 UV-I 359 W/m² -1,0 °C 6,5 °C 17,7 km/h (3 Bft)
28.03.2019 11:55 8,4 °C 51 % 1031,6 hPa 0,0 mm 17,9 km/h (3 Bft) NO 48 ° 0 min 0,000 mm 4,5 UV-I 359 W/m² -1,1 °C 5,6 °C 29,0 km/h (5 Bft)
28.03.2019 11:56 8,4 °C 51 % 1031,7 hPa 0,0 mm 14,6 km/h (3 Bft) O-NO 69 ° 0 min 0,000 mm 3,1 UV-I 185 W/m² -1,1 °C 6,0 °C 17,7 km/h (3 Bft)
28.03.2019 11:57 8,3 °C 51 % 1031,7 hPa 0,0 mm 13,6 km/h (3 Bft) N-NO 25 ° 0 min 0,000 mm 2,4 UV-I 213 W/m² -1,2 °C 6,0 °C 20,9 km/h (4 Bft)
28.03.2019 11:58 8,3 °C 50 % 1031,6 hPa 0,0 mm 8,9 km/h (2 Bft) NO 48 ° 0 min 0,000 mm 4,6 UV-I 213 W/m² -1,5 °C 6,8 °C 14,5 km/h (3 Bft)
28.03.2019 11:59 8,2 °C 50 % 1031,6 hPa 0,0 mm 12,1 km/h (2 Bft) O 84 ° 0 min 0,000 mm 2,5 UV-I 404 W/m² -1,6 °C 6,1 °C 17,7 km/h (3 Bft)
28.03.2019 12:00 8,2 °C 51 % 1031,6 hPa 0,0 mm 8,7 km/h (2 Bft) NO 51 ° 0 min 0,000 mm 2,3 UV-I 404 W/m² -1,3 °C 6,7 °C 17,7 km/h (3 Bft)
28.03.2019 12:01 8,3 °C 51 % 1031,7 hPa 0,0 mm 9,9 km/h (2 Bft) O-NO 71 ° 0 min 0,305 mm 4,7 UV-I 404 W/m² -1,2 °C 6,6 °C 17,7 km/h (3 Bft)
28.03.2019 12:02 8,3 °C 51 % 1031,7 hPa 0,0 mm 14,4 km/h (3 Bft) O-NO 65 ° 0 min 0,000 mm 2,6 UV-I 332 W/m² -1,2 °C 5,9 °C 19,3 km/h (3 Bft)
28.03.2019 12:03 8,3 °C 51 % 1031,7 hPa 0,0 mm 19,8 km/h (3 Bft) O-NO 59 ° 0 min 0,000 mm 3,5 UV-I 399 W/m² -1,2 °C 5,3 °C 24,1 km/h (4 Bft)
28.03.2019 12:04 8,3 °C 51 % 1031,6 hPa 0,0 mm 15,2 km/h (3 Bft) N 10 ° 0 min 0,000 mm 2,8 UV-I 404 W/m² -1,2 °C 5,8 °C 22,5 km/h (4 Bft)
28.03.2019 12:05 8,4 °C 51 % 1031,6 hPa 0,0 mm 11,5 km/h (2 Bft) O 84 ° 0 min 0,000 mm 4,7 UV-I 404 W/m² -1,1 °C 6,5 °C 19,3 km/h (3 Bft)
28.03.2019 12:06 8,5 °C 52 % 1031,6 hPa 0,0 mm 15,2 km/h (3 Bft) O 89 ° 1 min 0,000 mm 4,7 UV-I 867 W/m² -0,8 °C 6,0 °C 20,9 km/h (4 Bft)
28.03.2019 12:07 8,6 °C 52 % 1031,6 hPa 0,0 mm 12,3 km/h (3 Bft) NO 44 ° 1 min 0,000 mm 4,6 UV-I 844 W/m² -0,7 °C 6,6 °C 19,3 km/h (3 Bft)
28.03.2019 12:08 8,7 °C 51 % 1031,5 hPa 0,0 mm 8,0 km/h (2 Bft) O-NO 58 ° 1 min 0,000 mm 4,6 UV-I 838 W/m² -0,9 °C 7,5 °C 16,1 km/h (3 Bft)
28.03.2019 12:09 8,8 °C 51 % 1031,4 hPa 0,0 mm 12,2 km/h (2 Bft) O 82 ° 1 min 0,000 mm 4,7 UV-I 853 W/m² -0,8 °C 6,8 °C 22,5 km/h (4 Bft)
28.03.2019 12:10 8,9 °C 52 % 1031,5 hPa 0,0 mm 13,9 km/h (3 Bft) O-NO 71 ° 1 min 0,000 mm 4,7 UV-I 900 W/m² -0,4 °C 6,7 °C 24,1 km/h (4 Bft)
28.03.2019 12:11 9,0 °C 51 % 1031,5 hPa 0,0 mm 13,7 km/h (3 Bft) N-NO 32 ° 1 min 0,000 mm 2,6 UV-I 900 W/m² -0,6 °C 6,9 °C 19,3 km/h (3 Bft)
28.03.2019 12:12 9,1 °C 50 % 1031,5 hPa 0,0 mm 16,2 km/h (3 Bft) NO 38 ° 1 min 0,000 mm 2,7 UV-I 900 W/m² -0,8 °C 6,7 °C 24,1 km/h (4 Bft)
28.03.2019 12:13 8,9 °C 50 % 1031,5 hPa 0,0 mm 14,7 km/h (3 Bft) NO 40 ° 1 min 0,000 mm 2,4 UV-I 900 W/m² -0,9 °C 6,6 °C 27,4 km/h (4 Bft)
28.03.2019 12:14 8,9 °C 50 % 1031,5 hPa 0,0 mm 17,1 km/h (3 Bft) NO 36 ° 1 min 0,000 mm 4,4 UV-I 900 W/m² -0,9 °C 6,3 °C 24,1 km/h (4 Bft)
28.03.2019 12:15 8,9 °C 51 % 1031,5 hPa 0,0 mm 18,0 km/h (3 Bft) O-NO 74 ° 1 min 0,000 mm 4,6 UV-I 853 W/m² -0,7 °C 6,2 °C 27,4 km/h (4 Bft)
28.03.2019 12:16 8,9 °C 50 % 1031,6 hPa 0,0 mm 15,6 km/h (3 Bft) NO 41 ° 1 min 0,000 mm 4,6 UV-I 851 W/m² -0,9 °C 6,5 °C 22,5 km/h (4 Bft)
28.03.2019 12:17 8,9 °C 51 % 1031,5 hPa 0,0 mm 11,3 km/h (2 Bft) O-NO 63 ° 1 min 0,000 mm 4,1 UV-I 851 W/m² -0,7 °C 7,1 °C 17,7 km/h (3 Bft)
28.03.2019 12:18 9,1 °C 50 % 1031,5 hPa 0,0 mm 7,9 km/h (2 Bft) O 89 ° 1 min 0,000 mm 4,7 UV-I 851 W/m² -0,8 °C 8,0 °C 12,9 km/h (3 Bft)
28.03.2019 12:19 9,2 °C 52 % 1031,5 hPa 0,0 mm 6,9 km/h (2 Bft) N-NO 30 ° 1 min 0,000 mm 4,7 UV-I 851 W/m² -0,1 °C 8,3 °C 11,3 km/h (2 Bft)
28.03.2019 12:20 9,2 °C 50 % 1031,4 hPa 0,0 mm 13,3 km/h (3 Bft) O 83 ° 0 min 0,000 mm 2,3 UV-I 163 W/m² -0,7 °C 7,2 °C 17,7 km/h (3 Bft)
28.03.2019 12:21 9,1 °C 49 % 1031,4 hPa 0,0 mm 10,5 km/h (2 Bft) O 82 ° 0 min 0,000 mm 4,6 UV-I 163 W/m² -1,0 °C 7,5 °C 24,1 km/h (4 Bft)
28.03.2019 12:22 9,2 °C 50 % 1031,5 hPa 0,0 mm 13,3 km/h (3 Bft) NO 42 ° 1 min 0,000 mm 4,6 UV-I 823 W/m² -0,7 °C 7,2 °C 17,7 km/h (3 Bft)
28.03.2019 12:23 9,3 °C 49 % 1031,5 hPa 0,0 mm 8,0 km/h (2 Bft) O 90 ° 1 min 0,000 mm 4,6 UV-I 821 W/m² -0,9 °C 8,2 °C 12,9 km/h (3 Bft)
28.03.2019 12:24 9,3 °C 52 % 1031,5 hPa 0,0 mm 10,9 km/h (2 Bft) NO 49 ° 1 min 0,000 mm 4,6 UV-I 826 W/m² -0,0 °C 7,6 °C 19,3 km/h (3 Bft)
28.03.2019 12:25 9,4 °C 49 % 1031,5 hPa 0,0 mm 13,1 km/h (3 Bft) O-NO 76 ° 1 min 0,000 mm 4,7 UV-I 846 W/m² -0,8 °C 7,4 °C 30,6 km/h (5 Bft)
28.03.2019 12:26 9,4 °C 49 % 1031,5 hPa 0,0 mm 13,5 km/h (3 Bft) O-SO 107 ° 1 min 0,000 mm 4,8 UV-I 877 W/m² -0,8 °C 7,4 °C 22,5 km/h (4 Bft)
28.03.2019 12:27 9,3 °C 48 % 1031,5 hPa 0,0 mm 9,9 km/h (2 Bft) O 94 ° 1 min 0,000 mm 3,6 UV-I 877 W/m² -1,1 °C 7,8 °C 14,5 km/h (3 Bft)
28.03.2019 12:28 9,3 °C 49 % 1031,5 hPa 0,0 mm 12,9 km/h (3 Bft) N-NO 30 ° 1 min 0,000 mm 3,3 UV-I 877 W/m² -0,9 °C 7,3 °C 20,9 km/h (4 Bft)
28.03.2019 12:29 9,3 °C 50 % 1031,5 hPa 0,0 mm 10,1 km/h (2 Bft) O-NO 69 ° 1 min 0,000 mm 3,1 UV-I 877 W/m² -0,6 °C 7,8 °C 16,1 km/h (3 Bft)
28.03.2019 12:30 9,2 °C 49 % 1031,6 hPa 0,0 mm 14,0 km/h (3 Bft) O-NO 61 ° 1 min 0,000 mm 3,2 UV-I 877 W/m² -0,9 °C 7,1 °C 20,9 km/h (4 Bft)
28.03.2019 12:31 9,1 °C 49 % 1031,5 hPa 0,0 mm 14,3 km/h (3 Bft) O 79 ° 1 min 0,000 mm 4,6 UV-I 877 W/m² -1,0 °C 6,9 °C 19,3 km/h (3 Bft)
28.03.2019 12:32 9,1 °C 48 % 1031,5 hPa 0,0 mm 5,9 km/h (2 Bft) O-NO 78 ° 1 min 0,000 mm 4,5 UV-I 810 W/m² -1,3 °C 8,5 °C 8,0 km/h (2 Bft)
28.03.2019 12:33 9,0 °C 49 % 1031,5 hPa 0,0 mm 8,2 km/h (2 Bft) O-SO 111 ° 1 min 0,000 mm 4,5 UV-I 809 W/m² -1,1 °C 7,8 °C 14,5 km/h (3 Bft)
28.03.2019 12:34 9,1 °C 51 % 1031,5 hPa 0,0 mm 9,3 km/h (2 Bft) O-NO 74 ° 1 min 0,000 mm 4,6 UV-I 847 W/m² -0,5 °C 7,7 °C 16,1 km/h (3 Bft)
28.03.2019 12:35 9,1 °C 48 % 1031,5 hPa 0,0 mm 12,4 km/h (3 Bft) NO 54 ° 1 min 0,000 mm 3,7 UV-I 847 W/m² -1,3 °C 7,2 °C 16,1 km/h (3 Bft)
28.03.2019 12:36 9,0 °C 48 % 1031,4 hPa 0,0 mm 7,3 km/h (2 Bft) NO 47 ° 1 min 0,000 mm 2,3 UV-I 847 W/m² -1,4 °C 8,0 °C 11,3 km/h (2 Bft)
28.03.2019 12:37 8,9 °C 49 % 1031,4 hPa 0,0 mm 11,1 km/h (2 Bft) O-NO 65 ° 1 min 0,000 mm 4,2 UV-I 812 W/m² -1,2 °C 7,1 °C 30,6 km/h (5 Bft)
28.03.2019 12:38 9,0 °C 49 % 1031,5 hPa 0,0 mm 16,2 km/h (3 Bft) NO 44 ° 1 min 0,000 mm 4,3 UV-I 812 W/m² -1,1 °C 6,5 °C 22,5 km/h (4 Bft)
28.03.2019 12:39 9,0 °C 49 % 1031,5 hPa 0,0 mm 11,8 km/h (2 Bft) O 96 ° 1 min 0,000 mm 3,9 UV-I 812 W/m² -1,1 °C 7,1 °C 17,7 km/h (3 Bft)
28.03.2019 12:40 8,9 °C 49 % 1031,4 hPa 0,0 mm 15,0 km/h (3 Bft) O-NO 78 ° 1 min 0,000 mm 2,3 UV-I 812 W/m² -1,2 °C 6,6 °C 19,3 km/h (3 Bft)
28.03.2019 12:41 8,8 °C 48 % 1031,4 hPa 0,0 mm 11,9 km/h (2 Bft) O-NO 57 ° 1 min 0,000 mm 2,6 UV-I 812 W/m² -1,6 °C 6,9 °C 19,3 km/h (3 Bft)
28.03.2019 12:42 8,7 °C 49 % 1031,4 hPa 0,0 mm 8,7 km/h (2 Bft) O 101 ° 1 min 0,000 mm 2,1 UV-I 812 W/m² -1,4 °C 7,3 °C 14,5 km/h (3 Bft)
28.03.2019 12:43 8,7 °C 50 % 1031,4 hPa 0,0 mm 4,2 km/h (1 Bft) SO 132 ° 1 min 0,000 mm 2,9 UV-I 812 W/m² -1,1 °C 8,7 °C 6,4 km/h (2 Bft)
28.03.2019 12:44 8,7 °C 50 % 1031,3 hPa 0,0 mm 2,0 km/h (1 Bft) O-NO 76 ° 1 min 0,000 mm 4,5 UV-I 802 W/m² -1,1 °C 8,7 °C 4,8 km/h (1 Bft)
28.03.2019 12:45 8,9 °C 51 % 1031,4 hPa 0,0 mm 7,9 km/h (2 Bft) O 90 ° 1 min 0,000 mm 4,5 UV-I 800 W/m² -0,7 °C 7,7 °C 20,9 km/h (4 Bft)
28.03.2019 12:46 9,1 °C 51 % 1031,4 hPa 0,0 mm 14,0 km/h (3 Bft) NO 47 ° 1 min 0,000 mm 4,4 UV-I 788 W/m² -0,5 °C 6,9 °C 20,9 km/h (4 Bft)
28.03.2019 12:47 9,2 °C 50 % 1031,3 hPa 0,0 mm 11,1 km/h (2 Bft) N-NO 33 ° 1 min 0,000 mm 4,4 UV-I 788 W/m² -0,7 °C 7,5 °C 17,7 km/h (3 Bft)
28.03.2019 12:48 9,3 °C 48 % 1031,3 hPa 0,0 mm 13,9 km/h (3 Bft) O-NO 57 ° 1 min 0,000 mm 4,4 UV-I 780 W/m² -1,1 °C 7,2 °C 20,9 km/h (4 Bft)
28.03.2019 12:49 9,3 °C 47 % 1031,4 hPa 0,0 mm 14,1 km/h (3 Bft) NO 55 ° 1 min 0,000 mm 4,4 UV-I 789 W/m² -1,4 °C 7,2 °C 29,0 km/h (5 Bft)
28.03.2019 12:50 9,3 °C 47 % 1031,3 hPa 0,0 mm 8,1 km/h (2 Bft) N-NO 26 ° 1 min 0,000 mm 4,1 UV-I 782 W/m² -1,4 °C 8,2 °C 14,5 km/h (3 Bft)
28.03.2019 12:51 9,3 °C 47 % 1031,3 hPa 0,0 mm 10,3 km/h (2 Bft) O 86 ° 1 min 0,000 mm 2,1 UV-I 782 W/m² -1,4 °C 7,7 °C 16,1 km/h (3 Bft)
28.03.2019 12:52 9,3 °C 48 % 1031,3 hPa 0,0 mm 10,4 km/h (2 Bft) O-NO 65 ° 1 min 0,000 mm 3,7 UV-I 782 W/m² -1,1 °C 7,7 °C 19,3 km/h (3 Bft)
28.03.2019 12:53 9,3 °C 49 % 1031,4 hPa 0,0 mm 10,5 km/h (2 Bft) O 79 ° 1 min 0,000 mm 4,4 UV-I 782 W/m² -0,9 °C 7,7 °C 19,3 km/h (3 Bft)
28.03.2019 12:54 9,3 °C 49 % 1031,4 hPa 0,0 mm 12,9 km/h (3 Bft) O-NO 78 ° 1 min 0,000 mm 4,4 UV-I 780 W/m² -0,9 °C 7,3 °C 20,9 km/h (4 Bft)
28.03.2019 12:55 9,4 °C 49 % 1031,4 hPa 0,0 mm 10,0 km/h (2 Bft) O-NO 70 ° 1 min 0,000 mm 4,4 UV-I 763 W/m² -0,8 °C 7,9 °C 20,9 km/h (4 Bft)
28.03.2019 12:56 9,6 °C 49 % 1031,3 hPa 0,0 mm 5,9 km/h (2 Bft) O-NO 65 ° 1 min 0,000 mm 4,3 UV-I 766 W/m² -0,6 °C 9,0 °C 12,9 km/h (3 Bft)
28.03.2019 12:57 9,7 °C 50 % 1031,4 hPa 0,0 mm 16,9 km/h (3 Bft) NO 53 ° 1 min 0,000 mm 4,3 UV-I 766 W/m² -0,2 °C 7,3 °C 22,5 km/h (4 Bft)
28.03.2019 12:58 9,7 °C 48 % 1031,4 hPa 0,0 mm 13,4 km/h (3 Bft) O-NO 63 ° 1 min 0,000 mm 4,4 UV-I 770 W/m² -0,8 °C 7,8 °C 20,9 km/h (4 Bft)
28.03.2019 12:59 9,6 °C 47 % 1031,4 hPa 0,0 mm 13,0 km/h (3 Bft) O 86 ° 1 min 0,000 mm 4,4 UV-I 766 W/m² -1,1 °C 7,7 °C 17,7 km/h (3 Bft)
28.03.2019 13:00 9,6 °C 49 % 1031,4 hPa 0,0 mm 7,2 km/h (2 Bft) O-NO 74 ° 1 min 0,000 mm 4,4 UV-I 766 W/m² -0,6 °C 8,7 °C 16,1 km/h (3 Bft)
28.03.2019 13:01 9,6 °C 50 % 1031,3 hPa 0,0 mm 7,1 km/h (2 Bft) N-NO 22 ° 1 min 0,355 mm 4,4 UV-I 768 W/m² -0,3 °C 8,7 °C 9,7 km/h (2 Bft)
28.03.2019 13:02 9,7 °C 50 % 1031,3 hPa 0,0 mm 16,4 km/h (3 Bft) O-SO 103 ° 1 min 0,000 mm 4,4 UV-I 773 W/m² -0,2 °C 7,4 °C 27,4 km/h (4 Bft)
28.03.2019 13:03 9,8 °C 49 % 1031,3 hPa 0,0 mm 13,1 km/h (3 Bft) O-NO 67 ° 1 min 0,000 mm 4,4 UV-I 784 W/m² -0,4 °C 7,9 °C 17,7 km/h (3 Bft)
28.03.2019 13:04 10,0 °C 49 % 1031,3 hPa 0,0 mm 12,8 km/h (3 Bft) N-NO 17 ° 1 min 0,000 mm 4,4 UV-I 793 W/m² -0,2 °C 8,2 °C 17,7 km/h (3 Bft)
28.03.2019 13:05 10,1 °C 48 % 1031,3 hPa 0,0 mm 10,8 km/h (2 Bft) O 82 ° 1 min 0,000 mm 4,4 UV-I 805 W/m² -0,4 °C 10,1 °C 16,1 km/h (3 Bft)
28.03.2019 13:06 9,9 °C 47 % 1031,3 hPa 0,0 mm 13,2 km/h (3 Bft) O 94 ° 1 min 0,000 mm 4,3 UV-I 819 W/m² -0,9 °C 8,0 °C 17,7 km/h (3 Bft)
28.03.2019 13:07 9,7 °C 48 % 1031,3 hPa 0,0 mm 15,5 km/h (3 Bft) NO 54 ° 1 min 0,000 mm 4,6 UV-I 853 W/m² -0,8 °C 7,5 °C 25,7 km/h (4 Bft)
28.03.2019 13:08 9,7 °C 48 % 1031,3 hPa 0,0 mm 14,5 km/h (3 Bft) N-NO 25 ° 1 min 0,000 mm 3,7 UV-I 853 W/m² -0,8 °C 7,6 °C 20,9 km/h (4 Bft)
28.03.2019 13:09 9,5 °C 47 % 1031,3 hPa 0,0 mm 16,3 km/h (3 Bft) NO 49 ° 1 min 0,000 mm 4,5 UV-I 853 W/m² -1,2 °C 7,1 °C 20,9 km/h (4 Bft)
28.03.2019 13:10 9,4 °C 48 % 1031,3 hPa 0,0 mm 6,3 km/h (2 Bft) O-NO 71 ° 1 min 0,000 mm 4,4 UV-I 853 W/m² -1,0 °C 8,7 °C 12,9 km/h (3 Bft)
28.03.2019 13:11 9,3 °C 49 % 1031,3 hPa 0,0 mm 12,3 km/h (3 Bft) O 83 ° 1 min 0,000 mm 4,1 UV-I 745 W/m² -0,9 °C 7,4 °C 20,9 km/h (4 Bft)
28.03.2019 13:12 9,3 °C 47 % 1031,3 hPa 0,0 mm 15,5 km/h (3 Bft) O-NO 59 ° 1 min 0,000 mm 4,3 UV-I 765 W/m² -1,4 °C 7,0 °C 20,9 km/h (4 Bft)
28.03.2019 13:13 9,3 °C 49 % 1031,2 hPa 0,0 mm 15,9 km/h (3 Bft) O-NO 63 ° 1 min 0,000 mm 4,3 UV-I 765 W/m² -0,9 °C 6,9 °C 29,0 km/h (5 Bft)
28.03.2019 13:14 9,4 °C 48 % 1031,2 hPa 0,0 mm 14,3 km/h (3 Bft) O-NO 71 ° 1 min 0,000 mm 4,4 UV-I 788 W/m² -1,0 °C 7,3 °C 20,9 km/h (4 Bft)
28.03.2019 13:15 9,5 °C 49 % 1031,2 hPa 0,0 mm 16,5 km/h (3 Bft) NO 56 ° 1 min 0,000 mm 3,7 UV-I 788 W/m² -0,7 °C 7,1 °C 19,3 km/h (3 Bft)
28.03.2019 13:16 9,6 °C 48 % 1031,2 hPa 0,0 mm 8,7 km/h (2 Bft) O-NO 69 ° 1 min 0,000 mm 4,2 UV-I 788 W/m² -0,9 °C 8,4 °C 16,1 km/h (3 Bft)
28.03.2019 13:17 9,6 °C 48 % 1031,2 hPa 0,0 mm 13,9 km/h (3 Bft) O 86 ° 1 min 0,000 mm 4,2 UV-I 766 W/m² -0,9 °C 7,6 °C 22,5 km/h (4 Bft)
28.03.2019 13:18 9,7 °C 48 % 1031,2 hPa 0,0 mm 14,6 km/h (3 Bft) O 82 ° 1 min 0,000 mm 4,2 UV-I 751 W/m² -0,8 °C 7,6 °C 22,5 km/h (4 Bft)
28.03.2019 13:19 9,6 °C 48 % 1031,2 hPa 0,0 mm 11,7 km/h (2 Bft) NO 53 ° 1 min 0,000 mm 4,2 UV-I 765 W/m² -0,9 °C 7,9 °C 20,9 km/h (4 Bft)
28.03.2019 13:20 9,7 °C 49 % 1031,1 hPa 0,0 mm 13,9 km/h (3 Bft) NO 49 ° 1 min 0,000 mm 4,3 UV-I 687 W/m² -0,5 °C 7,7 °C 20,9 km/h (4 Bft)
28.03.2019 13:21 9,8 °C 49 % 1031,2 hPa 0,0 mm 14,3 km/h (3 Bft) NO 49 ° 1 min 0,000 mm 4,2 UV-I 728 W/m² -0,4 °C 7,8 °C 22,5 km/h (4 Bft)
28.03.2019 13:22 9,8 °C 48 % 1031,2 hPa 0,0 mm 15,3 km/h (3 Bft) NO 37 ° 1 min 0,000 mm 4,2 UV-I 775 W/m² -0,7 °C 7,6 °C 24,1 km/h (4 Bft)
28.03.2019 13:23 9,8 °C 48 % 1031,2 hPa 0,0 mm 13,9 km/h (3 Bft) N-NO 13 ° 1 min 0,000 mm 4,3 UV-I 788 W/m² -0,7 °C 7,8 °C 19,3 km/h (3 Bft)
28.03.2019 13:24 9,8 °C 48 % 1031,1 hPa 0,0 mm 12,3 km/h (3 Bft) O-NO 76 ° 1 min 0,000 mm 3,9 UV-I 810 W/m² -0,7 °C 8,0 °C 17,7 km/h (3 Bft)
28.03.2019 13:25 9,7 °C 48 % 1031,1 hPa 0,0 mm 9,9 km/h (2 Bft) O-NO 74 ° 0 min 0,000 mm 2,6 UV-I 186 W/m² -0,8 °C 8,3 °C 14,5 km/h (3 Bft)
28.03.2019 13:26 9,6 °C 49 % 1031,1 hPa 0,0 mm 12,8 km/h (3 Bft) N-NO 19 ° 0 min 0,000 mm 2,3 UV-I 186 W/m² -0,6 °C 7,7 °C 17,7 km/h (3 Bft)
28.03.2019 13:27 9,5 °C 49 % 1031,2 hPa 0,0 mm 11,1 km/h (2 Bft) NO 55 ° 0 min 0,000 mm 2,1 UV-I 186 W/m² -0,7 °C 7,8 °C 17,7 km/h (3 Bft)
28.03.2019 13:28 9,4 °C 50 % 1031,1 hPa 0,0 mm 5,7 km/h (1 Bft) O 80 ° 0 min 0,000 mm 3,0 UV-I 186 W/m² -0,5 °C 8,9 °C 14,5 km/h (3 Bft)
28.03.2019 13:29 9,3 °C 50 % 1031,1 hPa 0,0 mm 13,1 km/h (3 Bft) O 91 ° 0 min 0,000 mm 4,2 UV-I 186 W/m² -0,6 °C 7,3 °C 20,9 km/h (4 Bft)
28.03.2019 13:30 9,3 °C 50 % 1031,1 hPa 0,0 mm 11,1 km/h (2 Bft) N-NO 28 ° 1 min 0,000 mm 4,1 UV-I 754 W/m² -0,6 °C 7,6 °C 19,3 km/h (3 Bft)
28.03.2019 13:31 9,4 °C 50 % 1031,1 hPa 0,0 mm 11,7 km/h (2 Bft) NO 53 ° 1 min 0,000 mm 4,1 UV-I 752 W/m² -0,5 °C 7,6 °C 20,9 km/h (4 Bft)
28.03.2019 13:32 9,4 °C 48 % 1031,1 hPa 0,0 mm 8,1 km/h (2 Bft) O-SO 110 ° 1 min 0,000 mm 4,1 UV-I 752 W/m² -1,0 °C 8,3 °C 16,1 km/h (3 Bft)
28.03.2019 13:33 9,4 °C 49 % 1031,0 hPa 0,0 mm 6,8 km/h (2 Bft) O-SO 113 ° 1 min 0,000 mm 4,1 UV-I 759 W/m² -0,8 °C 8,6 °C 12,9 km/h (3 Bft)
28.03.2019 13:34 9,5 °C 49 % 1031,1 hPa 0,0 mm 9,5 km/h (2 Bft) NO 50 ° 1 min 0,000 mm 4,1 UV-I 761 W/m² -0,7 °C 8,1 °C 12,9 km/h (3 Bft)
28.03.2019 13:35 9,6 °C 48 % 1031,1 hPa 0,0 mm 12,3 km/h (3 Bft) N-NO 30 ° 1 min 0,000 mm 4,1 UV-I 761 W/m² -0,9 °C 7,8 °C 17,7 km/h (3 Bft)
28.03.2019 13:36 9,7 °C 48 % 1031,1 hPa 0,0 mm 17,0 km/h (3 Bft) O-NO 71 ° 1 min 0,000 mm 4,1 UV-I 766 W/m² -0,8 °C 7,3 °C 22,5 km/h (4 Bft)
28.03.2019 13:37 9,6 °C 48 % 1031,1 hPa 0,0 mm 12,9 km/h (3 Bft) O-NO 67 ° 1 min 0,000 mm 3,4 UV-I 740 W/m² -0,9 °C 7,7 °C 17,7 km/h (3 Bft)
28.03.2019 13:38 9,7 °C 48 % 1031,0 hPa 0,0 mm 9,4 km/h (2 Bft) NO 53 ° 1 min 0,000 mm 4,0 UV-I 759 W/m² -0,8 °C 8,4 °C 19,3 km/h (3 Bft)
28.03.2019 13:39 9,7 °C 47 % 1031,0 hPa 0,0 mm 9,8 km/h (2 Bft) O 82 ° 1 min 0,000 mm 4,0 UV-I 738 W/m² -1,1 °C 8,3 °C 12,9 km/h (3 Bft)
28.03.2019 13:40 9,7 °C 49 % 1031,0 hPa 0,0 mm 10,6 km/h (2 Bft) O-NO 72 ° 1 min 0,000 mm 3,2 UV-I 738 W/m² -0,5 °C 8,2 °C 14,5 km/h (3 Bft)
28.03.2019 13:41 9,7 °C 49 % 1031,0 hPa 0,0 mm 8,4 km/h (2 Bft) N-NO 28 ° 1 min 0,000 mm 3,3 UV-I 647 W/m² -0,5 °C 8,6 °C 16,1 km/h (3 Bft)
28.03.2019 13:42 9,7 °C 49 % 1030,9 hPa 0,0 mm 6,7 km/h (2 Bft) O-NO 78 ° 1 min 0,000 mm 2,4 UV-I 647 W/m² -0,5 °C 8,9 °C 11,3 km/h (2 Bft)
28.03.2019 13:43 9,7 °C 48 % 1031,0 hPa 0,0 mm 15,1 km/h (3 Bft) O 80 ° 1 min 0,000 mm 4,0 UV-I 719 W/m² -0,8 °C 7,5 °C 25,7 km/h (4 Bft)
28.03.2019 13:44 9,7 °C 48 % 1031,0 hPa 0,0 mm 10,5 km/h (2 Bft) O 88 ° 1 min 0,000 mm 3,9 UV-I 715 W/m² -0,8 °C 8,2 °C 19,3 km/h (3 Bft)
28.03.2019 13:45 9,8 °C 48 % 1031,0 hPa 0,0 mm 11,3 km/h (2 Bft) O-NO 67 ° 1 min 0,000 mm 3,9 UV-I 712 W/m² -0,7 °C 8,2 °C 17,7 km/h (3 Bft)
28.03.2019 13:46 9,8 °C 47 % 1031,0 hPa 0,0 mm 14,6 km/h (3 Bft) NO 44 ° 1 min 0,000 mm 3,9 UV-I 714 W/m² -1,0 °C 7,7 °C 25,7 km/h (4 Bft)
28.03.2019 13:47 9,8 °C 48 % 1031,0 hPa 0,0 mm 13,1 km/h (3 Bft) O-NO 65 ° 1 min 0,000 mm 3,9 UV-I 715 W/m² -0,7 °C 7,9 °C 16,1 km/h (3 Bft)
28.03.2019 13:48 9,9 °C 47 % 1031,0 hPa 0,0 mm 7,8 km/h (2 Bft) O-NO 77 ° 1 min 0,000 mm 3,9 UV-I 719 W/m² -0,9 °C 8,9 °C 14,5 km/h (3 Bft)
28.03.2019 13:49 9,8 °C 47 % 1031,0 hPa 0,0 mm 5,5 km/h (1 Bft) NW 323 ° 1 min 0,000 mm 3,8 UV-I 731 W/m² -1,0 °C 9,4 °C 8,0 km/h (2 Bft)
28.03.2019 13:50 9,8 °C 48 % 1030,8 hPa 0,0 mm 4,6 km/h (1 Bft) NO 49 ° 1 min 0,000 mm 2,7 UV-I 731 W/m² -0,7 °C 9,7 °C 11,3 km/h (2 Bft)
28.03.2019 13:51 9,8 °C 48 % 1030,8 hPa 0,0 mm 15,2 km/h (3 Bft) N-NO 33 ° 1 min 0,000 mm 4,0 UV-I 731 W/m² -0,7 °C 7,6 °C 20,9 km/h (4 Bft)
28.03.2019 13:52 9,8 °C 48 % 1030,8 hPa 0,0 mm 13,4 km/h (3 Bft) N-NO 28 ° 1 min 0,000 mm 3,5 UV-I 731 W/m² -0,7 °C 7,9 °C 17,7 km/h (3 Bft)
28.03.2019 13:53 9,8 °C 48 % 1030,8 hPa 0,0 mm 10,3 km/h (2 Bft) O 82 ° 1 min 0,000 mm 3,9 UV-I 731 W/m² -0,7 °C 8,3 °C 19,3 km/h (3 Bft)
28.03.2019 13:54 9,9 °C 49 % 1030,9 hPa 0,0 mm 14,0 km/h (3 Bft) O-NO 69 ° 1 min 0,000 mm 3,9 UV-I 710 W/m² -0,3 °C 7,9 °C 20,9 km/h (4 Bft)
28.03.2019 13:55 9,9 °C 48 % 1030,9 hPa 0,0 mm 8,2 km/h (2 Bft) N-NO 32 ° 1 min 0,000 mm 3,9 UV-I 714 W/m² -0,6 °C 8,8 °C 14,5 km/h (3 Bft)
28.03.2019 13:56 9,8 °C 47 % 1030,8 hPa 0,0 mm 11,8 km/h (2 Bft) O-NO 65 ° 1 min 0,000 mm 3,9 UV-I 717 W/m² -1,0 °C 8,1 °C 16,1 km/h (3 Bft)
28.03.2019 13:57 9,8 °C 47 % 1030,8 hPa 0,0 mm 13,0 km/h (3 Bft) N-NO 26 ° 1 min 0,000 mm 3,9 UV-I 722 W/m² -1,0 °C 7,9 °C 20,9 km/h (4 Bft)
28.03.2019 13:58 9,8 °C 47 % 1030,8 hPa 0,0 mm 11,6 km/h (2 Bft) O-NO 61 ° 1 min 0,000 mm 3,8 UV-I 731 W/m² -1,0 °C 8,1 °C 19,3 km/h (3 Bft)
28.03.2019 13:59 9,7 °C 48 % 1030,8 hPa 0,0 mm 14,5 km/h (3 Bft) O-SO 104 ° 1 min 0,000 mm 1,9 UV-I 731 W/m² -0,8 °C 7,6 °C 19,3 km/h (3 Bft)
28.03.2019 14:00 9,7 °C 48 % 1030,7 hPa 0,0 mm 14,0 km/h (3 Bft) NO 54 ° 0 min 0,000 mm 2,5 UV-I 209 W/m² -0,8 °C 7,7 °C 20,9 km/h (4 Bft)
28.03.2019 14:01 9,6 °C 48 % 1030,7 hPa 0,0 mm 10,1 km/h (2 Bft) O-NO 76 ° 1 min 0,381 mm 3,8 UV-I 714 W/m² -0,9 °C 8,1 °C 14,5 km/h (3 Bft)
28.03.2019 14:02 9,6 °C 48 % 1030,7 hPa 0,0 mm 14,1 km/h (3 Bft) O-NO 67 ° 1 min 0,000 mm 3,7 UV-I 712 W/m² -0,9 °C 7,5 °C 22,5 km/h (4 Bft)
28.03.2019 14:03 9,7 °C 49 % 1030,8 hPa 0,0 mm 18,0 km/h (3 Bft) NO 54 ° 1 min 0,000 mm 3,7 UV-I 710 W/m² -0,5 °C 7,2 °C 24,1 km/h (4 Bft)
28.03.2019 14:04 9,8 °C 49 % 1030,7 hPa 0,0 mm 11,3 km/h (2 Bft) O 81 ° 1 min 0,000 mm 3,7 UV-I 701 W/m² -0,4 °C 8,2 °C 19,3 km/h (3 Bft)
28.03.2019 14:05 9,8 °C 48 % 1030,7 hPa 0,0 mm 7,3 km/h (2 Bft) O-NO 76 ° 1 min 0,000 mm 3,7 UV-I 698 W/m² -0,7 °C 8,9 °C 14,5 km/h (3 Bft)
28.03.2019 14:06 9,7 °C 48 % 1030,7 hPa 0,0 mm 6,8 km/h (2 Bft) O 97 ° 1 min 0,000 mm 3,7 UV-I 689 W/m² -0,8 °C 8,9 °C 11,3 km/h (2 Bft)
28.03.2019 14:07 9,7 °C 49 % 1030,6 hPa 0,0 mm 8,0 km/h (2 Bft) N-NO 29 ° 1 min 0,000 mm 3,7 UV-I 694 W/m² -0,5 °C 8,7 °C 14,5 km/h (3 Bft)
28.03.2019 14:08 9,8 °C 49 % 1030,7 hPa 0,0 mm 9,5 km/h (2 Bft) N 9 ° 1 min 0,000 mm 3,7 UV-I 698 W/m² -0,4 °C 8,5 °C 17,7 km/h (3 Bft)
28.03.2019 14:09 9,9 °C 48 % 1030,6 hPa 0,0 mm 9,1 km/h (2 Bft) N-NO 29 ° 1 min 0,000 mm 3,7 UV-I 701 W/m² -0,6 °C 8,7 °C 19,3 km/h (3 Bft)
28.03.2019 14:10 9,9 °C 48 % 1030,8 hPa 0,0 mm 13,1 km/h (3 Bft) NO 42 ° 1 min 0,000 mm 3,6 UV-I 684 W/m² -0,6 °C 8,0 °C 24,1 km/h (4 Bft)
28.03.2019 14:11 10,0 °C 48 % 1030,7 hPa 0,0 mm 4,2 km/h (1 Bft) NO 44 ° 1 min 0,000 mm 3,6 UV-I 629 W/m² -0,5 °C 10,0 °C 9,7 km/h (2 Bft)
28.03.2019 14:12 10,2 °C 50 % 1030,7 hPa 0,0 mm 6,6 km/h (2 Bft) O-SO 103 ° 1 min 0,000 mm 3,7 UV-I 691 W/m² 0,3 °C 10,2 °C 11,3 km/h (2 Bft)
28.03.2019 14:13 10,2 °C 49 % 1030,7 hPa 0,0 mm 11,1 km/h (2 Bft) O-NO 63 ° 1 min 0,000 mm 3,6 UV-I 680 W/m² -0,0 °C 10,2 °C 17,7 km/h (3 Bft)
28.03.2019 14:14 10,3 °C 48 % 1030,7 hPa 0,0 mm 15,9 km/h (3 Bft) O 92 ° 1 min 0,000 mm 3,6 UV-I 673 W/m² -0,2 °C 10,3 °C 24,1 km/h (4 Bft)
28.03.2019 14:15 10,2 °C 47 % 1030,7 hPa 0,0 mm 15,3 km/h (3 Bft) O 87 ° 1 min 0,000 mm 3,6 UV-I 668 W/m² -0,6 °C 10,2 °C 24,1 km/h (4 Bft)
28.03.2019 14:16 10,2 °C 47 % 1030,7 hPa 0,0 mm 10,5 km/h (2 Bft) N-NO 27 ° 1 min 0,000 mm 3,6 UV-I 666 W/m² -0,6 °C 10,2 °C 16,1 km/h (3 Bft)
28.03.2019 14:17 10,1 °C 46 % 1030,7 hPa 0,0 mm 10,2 km/h (2 Bft) NO 49 ° 1 min 0,000 mm 3,5 UV-I 664 W/m² -1,0 °C 10,1 °C 16,1 km/h (3 Bft)
28.03.2019 14:18 10,1 °C 47 % 1030,7 hPa 0,0 mm 9,1 km/h (2 Bft) NO 56 ° 1 min 0,000 mm 3,5 UV-I 663 W/m² -0,7 °C 10,1 °C 12,9 km/h (3 Bft)
28.03.2019 14:19 10,1 °C 47 % 1030,6 hPa 0,0 mm 9,0 km/h (2 Bft) O-NO 77 ° 1 min 0,000 mm 3,5 UV-I 661 W/m² -0,7 °C 10,1 °C 12,9 km/h (3 Bft)
28.03.2019 14:20 10,2 °C 47 % 1030,7 hPa 0,0 mm 11,0 km/h (2 Bft) NO 49 ° 1 min 0,000 mm 3,5 UV-I 659 W/m² -0,6 °C 10,2 °C 19,3 km/h (3 Bft)
28.03.2019 14:21 10,2 °C 47 % 1030,7 hPa 0,0 mm 10,3 km/h (2 Bft) O 88 ° 1 min 0,000 mm 3,5 UV-I 657 W/m² -0,6 °C 10,2 °C 17,7 km/h (3 Bft)
28.03.2019 14:22 10,1 °C 46 % 1030,6 hPa 0,0 mm 5,9 km/h (2 Bft) O-NO 77 ° 1 min 0,000 mm 3,5 UV-I 654 W/m² -1,0 °C 10,1 °C 14,5 km/h (3 Bft)
28.03.2019 14:23 10,2 °C 48 % 1030,6 hPa 0,0 mm 11,1 km/h (2 Bft) NO 55 ° 1 min 0,000 mm 3,5 UV-I 652 W/m² -0,3 °C 10,2 °C 16,1 km/h (3 Bft)
28.03.2019 14:24 10,3 °C 48 % 1030,7 hPa 0,0 mm 9,9 km/h (2 Bft) NO 42 ° 1 min 0,000 mm 3,4 UV-I 649 W/m² -0,2 °C 10,3 °C 16,1 km/h (3 Bft)
28.03.2019 14:25 10,3 °C 46 % 1030,6 hPa 0,0 mm 12,5 km/h (3 Bft) N-NO 30 ° 1 min 0,000 mm 3,4 UV-I 647 W/m² -0,8 °C 10,3 °C 19,3 km/h (3 Bft)
28.03.2019 14:26 10,2 °C 45 % 1030,6 hPa 0,0 mm 14,6 km/h (3 Bft) NO 34 ° 1 min 0,000 mm 3,4 UV-I 645 W/m² -1,2 °C 10,2 °C 20,9 km/h (4 Bft)
28.03.2019 14:27 10,2 °C 45 % 1030,6 hPa 0,0 mm 11,9 km/h (2 Bft) O 92 ° 1 min 0,000 mm 3,4 UV-I 642 W/m² -1,2 °C 10,2 °C 24,1 km/h (4 Bft)
28.03.2019 14:28 10,1 °C 45 % 1030,8 hPa 0,0 mm 15,9 km/h (3 Bft) O-SO 104 ° 1 min 0,000 mm 3,4 UV-I 642 W/m² -1,3 °C 10,1 °C 24,1 km/h (4 Bft)
28.03.2019 14:29 10,0 °C 46 % 1030,7 hPa 0,0 mm 13,1 km/h (3 Bft) O-NO 61 ° 1 min 0,000 mm 3,4 UV-I 638 W/m² -1,1 °C 8,2 °C 17,7 km/h (3 Bft)
28.03.2019 14:30 10,0 °C 45 % 1030,6 hPa 0,0 mm 10,1 km/h (2 Bft) O-NO 71 ° 1 min 0,000 mm 3,3 UV-I 636 W/m² -1,4 °C 8,6 °C 16,1 km/h (3 Bft)
28.03.2019 14:31 9,9 °C 46 % 1030,7 hPa 0,0 mm 15,3 km/h (3 Bft) NO 38 ° 1 min 0,000 mm 3,3 UV-I 636 W/m² -1,2 °C 7,8 °C 19,3 km/h (3 Bft)
28.03.2019 14:32 9,9 °C 45 % 1030,6 hPa 0,0 mm 9,1 km/h (2 Bft) O-NO 67 ° 1 min 0,000 mm 3,3 UV-I 631 W/m² -1,5 °C 8,7 °C 14,5 km/h (3 Bft)
28.03.2019 14:33 9,9 °C 48 % 1030,6 hPa 0,0 mm 5,5 km/h (1 Bft) O-NO 72 ° 1 min 0,000 mm 3,3 UV-I 631 W/m² -0,6 °C 9,5 °C 12,9 km/h (3 Bft)
28.03.2019 14:34 10,0 °C 47 % 1030,6 hPa 0,0 mm 5,5 km/h (1 Bft) O-NO 60 ° 1 min 0,000 mm 3,3 UV-I 631 W/m² -0,8 °C 9,6 °C 9,7 km/h (2 Bft)
28.03.2019 14:35 10,1 °C 47 % 1030,6 hPa 0,0 mm 11,9 km/h (2 Bft) O-NO 78 ° 1 min 0,000 mm 3,3 UV-I 628 W/m² -0,7 °C 10,1 °C 22,5 km/h (4 Bft)
28.03.2019 14:36 10,1 °C 46 % 1030,6 hPa 0,0 mm 11,3 km/h (2 Bft) N-NO 27 ° 1 min 0,000 mm 3,2 UV-I 624 W/m² -1,0 °C 10,1 °C 17,7 km/h (3 Bft)
28.03.2019 14:37 10,1 °C 47 % 1030,6 hPa 0,0 mm 7,4 km/h (2 Bft) NO 46 ° 1 min 0,000 mm 3,2 UV-I 624 W/m² -0,7 °C 10,1 °C 12,9 km/h (3 Bft)
28.03.2019 14:38 10,1 °C 47 % 1030,6 hPa 0,0 mm 10,5 km/h (2 Bft) NO 36 ° 1 min 0,000 mm 3,2 UV-I 621 W/m² -0,7 °C 10,1 °C 16,1 km/h (3 Bft)
28.03.2019 14:39 10,1 °C 45 % 1030,5 hPa 0,0 mm 11,1 km/h (2 Bft) N-NO 15 ° 1 min 0,000 mm 3,2 UV-I 621 W/m² -1,3 °C 10,1 °C 16,1 km/h (3 Bft)
28.03.2019 14:40 10,1 °C 46 % 1030,5 hPa 0,0 mm 9,7 km/h (2 Bft) O 79 ° 1 min 0,000 mm 3,2 UV-I 622 W/m² -1,0 °C 10,1 °C 12,9 km/h (3 Bft)
28.03.2019 14:41 10,2 °C 47 % 1030,5 hPa 0,0 mm 12,9 km/h (3 Bft) O-SO 117 ° 1 min 0,000 mm 3,2 UV-I 622 W/m² -0,6 °C 10,2 °C 17,7 km/h (3 Bft)
28.03.2019 14:42 10,2 °C 47 % 1030,5 hPa 0,0 mm 15,7 km/h (3 Bft) N-NO 17 ° 1 min 0,000 mm 3,2 UV-I 631 W/m² -0,6 °C 10,2 °C 20,9 km/h (4 Bft)
28.03.2019 14:43 10,3 °C 47 % 1030,5 hPa 0,0 mm 9,7 km/h (2 Bft) O 79 ° 1 min 0,000 mm 2,5 UV-I 631 W/m² -0,5 °C 10,3 °C 17,7 km/h (3 Bft)
28.03.2019 14:44 10,3 °C 46 % 1030,6 hPa 0,0 mm 12,1 km/h (2 Bft) O 83 ° 0 min 0,000 mm 2,2 UV-I 418 W/m² -0,8 °C 10,3 °C 22,5 km/h (4 Bft)
28.03.2019 14:45 10,1 °C 45 % 1030,5 hPa 0,0 mm 11,1 km/h (2 Bft) O-NO 67 ° 0 min 0,000 mm 3,1 UV-I 418 W/m² -1,3 °C 10,1 °C 17,7 km/h (3 Bft)
28.03.2019 14:46 10,1 °C 45 % 1030,6 hPa 0,0 mm 13,5 km/h (3 Bft) O 94 ° 1 min 0,000 mm 3,1 UV-I 606 W/m² -1,3 °C 10,1 °C 17,7 km/h (3 Bft)
28.03.2019 14:47 10,0 °C 45 % 1030,5 hPa 0,0 mm 6,0 km/h (2 Bft) O-NO 69 ° 1 min 0,000 mm 3,1 UV-I 603 W/m² -1,4 °C 9,5 °C 14,5 km/h (3 Bft)
28.03.2019 14:48 10,0 °C 46 % 1030,5 hPa 0,0 mm 6,4 km/h (2 Bft) O-NO 67 ° 1 min 0,000 mm 3,1 UV-I 603 W/m² -1,1 °C 9,4 °C 11,3 km/h (2 Bft)
28.03.2019 14:49 10,1 °C 47 % 1030,5 hPa 0,0 mm 16,1 km/h (3 Bft) O 80 ° 0 min 0,000 mm 3,1 UV-I 599 W/m² -0,7 °C 10,1 °C 22,5 km/h (4 Bft)
28.03.2019 14:50 10,1 °C 47 % 1030,5 hPa 0,0 mm 13,7 km/h (3 Bft) O-NO 59 ° 0 min 0,000 mm 3,0 UV-I 599 W/m² -0,7 °C 10,1 °C 17,7 km/h (3 Bft)
28.03.2019 14:51 10,1 °C 46 % 1030,5 hPa 0,0 mm 9,4 km/h (2 Bft) NO 44 ° 1 min 0,000 mm 3,0 UV-I 601 W/m² -1,0 °C 10,1 °C 14,5 km/h (3 Bft)
28.03.2019 14:52 10,2 °C 47 % 1030,4 hPa 0,0 mm 15,2 km/h (3 Bft) O 84 ° 0 min 0,000 mm 3,0 UV-I 592 W/m² -0,6 °C 10,2 °C 20,9 km/h (4 Bft)
28.03.2019 14:53 10,3 °C 46 % 1030,5 hPa 0,0 mm 13,1 km/h (3 Bft) O-NO 75 ° 0 min 0,000 mm 3,0 UV-I 594 W/m² -0,8 °C 10,3 °C 24,1 km/h (4 Bft)
28.03.2019 14:54 10,3 °C 46 % 1030,5 hPa 0,0 mm 9,6 km/h (2 Bft) O 80 ° 0 min 0,000 mm 3,0 UV-I 589 W/m² -0,8 °C 10,3 °C 16,1 km/h (3 Bft)
28.03.2019 14:55 10,2 °C 45 % 1030,6 hPa 0,0 mm 12,5 km/h (3 Bft) O-NO 74 ° 0 min 0,000 mm 2,9 UV-I 589 W/m² -1,2 °C 10,2 °C 17,7 km/h (3 Bft)
28.03.2019 14:56 10,2 °C 45 % 1030,5 hPa 0,0 mm 14,4 km/h (3 Bft) O-NO 65 ° 0 min 0,000 mm 2,9 UV-I 584 W/m² -1,2 °C 10,2 °C 19,3 km/h (3 Bft)
28.03.2019 14:57 10,1 °C 46 % 1030,4 hPa 0,0 mm 7,1 km/h (2 Bft) O-SO 121 ° 0 min 0,000 mm 2,9 UV-I 580 W/m² -1,0 °C 10,1 °C 12,9 km/h (3 Bft)
28.03.2019 14:58 10,2 °C 46 % 1030,4 hPa 0,0 mm 13,0 km/h (3 Bft) O-NO 63 ° 0 min 0,000 mm 2,9 UV-I 575 W/m² -0,9 °C 10,2 °C 19,3 km/h (3 Bft)
28.03.2019 14:59 10,3 °C 46 % 1030,4 hPa 0,0 mm 17,2 km/h (3 Bft) O 82 ° 0 min 0,000 mm 2,8 UV-I 573 W/m² -0,8 °C 10,3 °C 25,7 km/h (4 Bft)
28.03.2019 15:00 10,3 °C 47 % 1030,5 hPa 0,0 mm 9,5 km/h (2 Bft) O 86 ° 0 min 0,000 mm 2,8 UV-I 573 W/m² -0,5 °C 10,3 °C 16,1 km/h (3 Bft)
28.03.2019 15:01 10,3 °C 45 % 1030,4 hPa 0,0 mm 9,0 km/h (2 Bft) O 82 ° 0 min 0,356 mm 2,8 UV-I 573 W/m² -1,1 °C 10,3 °C 14,5 km/h (3 Bft)
28.03.2019 15:02 10,3 °C 46 % 1030,4 hPa 0,0 mm 7,8 km/h (2 Bft) NO 48 ° 0 min 0,000 mm 2,8 UV-I 571 W/m² -0,8 °C 10,3 °C 12,9 km/h (3 Bft)
28.03.2019 15:03 10,2 °C 45 % 1030,4 hPa 0,0 mm 10,2 km/h (2 Bft) O-NO 76 ° 0 min 0,000 mm 2,7 UV-I 570 W/m² -1,2 °C 10,2 °C 14,5 km/h (3 Bft)
28.03.2019 15:04 10,2 °C 46 % 1030,4 hPa 0,0 mm 9,8 km/h (2 Bft) O-NO 73 ° 0 min 0,000 mm 2,7 UV-I 566 W/m² -0,9 °C 10,2 °C 16,1 km/h (3 Bft)
28.03.2019 15:05 10,3 °C 46 % 1030,4 hPa 0,0 mm 8,1 km/h (2 Bft) NO 39 ° 0 min 0,000 mm 2,6 UV-I 563 W/m² -0,8 °C 10,3 °C 14,5 km/h (3 Bft)
28.03.2019 15:06 10,4 °C 47 % 1030,4 hPa 0,0 mm 14,0 km/h (3 Bft) O-NO 69 ° 0 min 0,000 mm 2,6 UV-I 563 W/m² -0,4 °C 10,4 °C 19,3 km/h (3 Bft)
28.03.2019 15:07 10,4 °C 46 % 1030,4 hPa 0,0 mm 14,1 km/h (3 Bft) O 90 ° 0 min 0,000 mm 2,5 UV-I 561 W/m² -0,7 °C 10,4 °C 19,3 km/h (3 Bft)
28.03.2019 15:08 10,6 °C 46 % 1030,4 hPa 0,0 mm 12,2 km/h (2 Bft) O-NO 63 ° 0 min 0,000 mm 2,5 UV-I 561 W/m² -0,5 °C 10,6 °C 19,3 km/h (3 Bft)
28.03.2019 15:09 10,6 °C 44 % 1030,4 hPa 0,0 mm 13,9 km/h (3 Bft) O-NO 62 ° 0 min 0,000 mm 2,5 UV-I 555 W/m² -1,1 °C 10,6 °C 19,3 km/h (3 Bft)
28.03.2019 15:10 10,4 °C 44 % 1030,4 hPa 0,0 mm 9,0 km/h (2 Bft) SO 126 ° 0 min 0,000 mm 2,5 UV-I 552 W/m² -1,3 °C 10,4 °C 14,5 km/h (3 Bft)
28.03.2019 15:11 10,3 °C 45 % 1030,4 hPa 0,0 mm 11,4 km/h (2 Bft) O 79 ° 0 min 0,000 mm 2,4 UV-I 552 W/m² -1,1 °C 10,3 °C 16,1 km/h (3 Bft)
28.03.2019 15:12 10,3 °C 45 % 1030,4 hPa 0,0 mm 10,9 km/h (2 Bft) O 94 ° 0 min 0,000 mm 2,4 UV-I 548 W/m² -1,1 °C 10,3 °C 16,1 km/h (3 Bft)
28.03.2019 15:13 10,3 °C 46 % 1030,4 hPa 0,0 mm 14,0 km/h (3 Bft) O 80 ° 0 min 0,000 mm 2,4 UV-I 547 W/m² -0,8 °C 10,3 °C 20,9 km/h (4 Bft)
28.03.2019 15:14 10,3 °C 46 % 1030,4 hPa 0,0 mm 16,5 km/h (3 Bft) O-NO 78 ° 0 min 0,000 mm 2,4 UV-I 545 W/m² -0,8 °C 10,3 °C 24,1 km/h (4 Bft)
28.03.2019 15:15 10,3 °C 47 % 1030,3 hPa 0,0 mm 14,6 km/h (3 Bft) NO 48 ° 0 min 0,000 mm 2,4 UV-I 545 W/m² -0,5 °C 10,3 °C 19,3 km/h (3 Bft)
28.03.2019 15:16 10,3 °C 48 % 1030,3 hPa 0,0 mm 8,3 km/h (2 Bft) O 95 ° 0 min 0,000 mm 2,4 UV-I 541 W/m² -0,2 °C 10,3 °C 19,3 km/h (3 Bft)
28.03.2019 15:17 10,3 °C 47 % 1030,4 hPa 0,0 mm 11,4 km/h (2 Bft) O-SO 119 ° 0 min 0,000 mm 2,4 UV-I 541 W/m² -0,5 °C 10,3 °C 16,1 km/h (3 Bft)
28.03.2019 15:18 10,3 °C 47 % 1030,3 hPa 0,0 mm 9,8 km/h (2 Bft) O 80 ° 0 min 0,000 mm 2,3 UV-I 538 W/m² -0,5 °C 10,3 °C 17,7 km/h (3 Bft)
28.03.2019 15:19 10,3 °C 47 % 1030,3 hPa 0,0 mm 13,6 km/h (3 Bft) N-NO 26 ° 0 min 0,000 mm 2,3 UV-I 536 W/m² -0,5 °C 10,3 °C 25,7 km/h (4 Bft)
28.03.2019 15:20 10,4 °C 46 % 1030,3 hPa 0,0 mm 15,0 km/h (3 Bft) O-NO 71 ° 0 min 0,000 mm 2,3 UV-I 540 W/m² -0,7 °C 10,4 °C 22,5 km/h (4 Bft)
28.03.2019 15:21 10,4 °C 46 % 1030,3 hPa 0,0 mm 18,4 km/h (3 Bft) NO 40 ° 0 min 0,000 mm 2,3 UV-I 538 W/m² -0,7 °C 10,4 °C 24,1 km/h (4 Bft)
28.03.2019 15:22 10,4 °C 46 % 1030,3 hPa 0,0 mm 14,3 km/h (3 Bft) O-NO 67 ° 0 min 0,000 mm 2,3 UV-I 541 W/m² -0,7 °C 10,4 °C 24,1 km/h (4 Bft)
28.03.2019 15:23 10,3 °C 46 % 1030,3 hPa 0,0 mm 10,7 km/h (2 Bft) O-NO 74 ° 0 min 0,000 mm 2,3 UV-I 541 W/m² -0,8 °C 10,3 °C 17,7 km/h (3 Bft)
28.03.2019 15:24 10,4 °C 47 % 1030,3 hPa 0,0 mm 15,2 km/h (3 Bft) NO 40 ° 0 min 0,000 mm 2,3 UV-I 541 W/m² -0,4 °C 10,4 °C 20,9 km/h (4 Bft)
28.03.2019 15:25 10,4 °C 47 % 1030,3 hPa 0,0 mm 13,6 km/h (3 Bft) NO 42 ° 0 min 0,000 mm 2,3 UV-I 541 W/m² -0,4 °C 10,4 °C 22,5 km/h (4 Bft)
28.03.2019 15:26 10,4 °C 47 % 1030,3 hPa 0,0 mm 13,3 km/h (3 Bft) N-NO 25 ° 0 min 0,000 mm 2,1 UV-I 529 W/m² -0,4 °C 10,4 °C 24,1 km/h (4 Bft)
28.03.2019 15:27 10,4 °C 47 % 1030,2 hPa 0,0 mm 12,4 km/h (3 Bft) NO 43 ° 0 min 0,000 mm 1,6 UV-I 519 W/m² -0,4 °C 10,4 °C 16,1 km/h (3 Bft)
28.03.2019 15:28 10,5 °C 46 % 1030,2 hPa 0,0 mm 10,4 km/h (2 Bft) O-NO 63 ° 0 min 0,000 mm 2,0 UV-I 513 W/m² -0,6 °C 10,5 °C 14,5 km/h (3 Bft)
28.03.2019 15:29 10,6 °C 47 % 1030,2 hPa 0,0 mm 7,5 km/h (2 Bft) O 92 ° 0 min 0,000 mm 2,2 UV-I 517 W/m² -0,2 °C 10,6 °C 11,3 km/h (2 Bft)
28.03.2019 15:30 10,6 °C 46 % 1030,2 hPa 0,0 mm 7,6 km/h (2 Bft) O-NO 72 ° 0 min 0,000 mm 2,2 UV-I 510 W/m² -0,5 °C 10,6 °C 16,1 km/h (3 Bft)
28.03.2019 15:31 10,6 °C 47 % 1030,2 hPa 0,0 mm 14,1 km/h (3 Bft) O-NO 78 ° 0 min 0,000 mm 2,2 UV-I 504 W/m² -0,2 °C 10,6 °C 20,9 km/h (4 Bft)
28.03.2019 15:32 10,6 °C 46 % 1030,2 hPa 0,0 mm 12,0 km/h (2 Bft) O-NO 74 ° 0 min 0,000 mm 2,2 UV-I 501 W/m² -0,5 °C 10,6 °C 17,7 km/h (3 Bft)
28.03.2019 15:33 10,6 °C 47 % 1030,2 hPa 0,0 mm 16,9 km/h (3 Bft) O-SO 102 ° 0 min 0,000 mm 2,1 UV-I 490 W/m² -0,2 °C 10,6 °C 22,5 km/h (4 Bft)
28.03.2019 15:34 10,6 °C 47 % 1030,2 hPa 0,0 mm 16,0 km/h (3 Bft) O-NO 67 ° 0 min 0,000 mm 2,1 UV-I 487 W/m² -0,2 °C 10,6 °C 22,5 km/h (4 Bft)
28.03.2019 15:35 10,6 °C 46 % 1030,2 hPa 0,0 mm 13,0 km/h (3 Bft) NO 53 ° 0 min 0,000 mm 2,0 UV-I 429 W/m² -0,5 °C 10,6 °C 16,1 km/h (3 Bft)
28.03.2019 15:36 10,6 °C 47 % 1030,2 hPa 0,0 mm 8,6 km/h (2 Bft) N-NO 18 ° 0 min 0,000 mm 2,0 UV-I 434 W/m² -0,2 °C 10,6 °C 17,7 km/h (3 Bft)
28.03.2019 15:37 10,6 °C 46 % 1030,2 hPa 0,0 mm 11,5 km/h (2 Bft) O-NO 59 ° 0 min 0,000 mm 2,0 UV-I 443 W/m² -0,5 °C 10,6 °C 17,7 km/h (3 Bft)
28.03.2019 15:38 10,6 °C 47 % 1030,2 hPa 0,0 mm 13,5 km/h (3 Bft) NO 55 ° 0 min 0,000 mm 2,0 UV-I 450 W/m² -0,2 °C 10,6 °C 17,7 km/h (3 Bft)
28.03.2019 15:39 10,5 °C 47 % 1030,2 hPa 0,0 mm 13,2 km/h (3 Bft) N-NO 19 ° 0 min 0,000 mm 1,9 UV-I 457 W/m² -0,3 °C 10,5 °C 19,3 km/h (3 Bft)
28.03.2019 15:40 10,4 °C 48 % 1030,2 hPa 0,0 mm 6,8 km/h (2 Bft) O-NO 65 ° 0 min 0,000 mm 1,8 UV-I 476 W/m² -0,1 °C 10,4 °C 11,3 km/h (2 Bft)
28.03.2019 15:41 10,5 °C 49 % 1030,3 hPa 0,0 mm 12,8 km/h (3 Bft) NO 44 ° 0 min 0,000 mm 1,8 UV-I 434 W/m² 0,2 °C 10,5 °C 19,3 km/h (3 Bft)
28.03.2019 15:42 10,5 °C 48 % 1030,2 hPa 0,0 mm 15,8 km/h (3 Bft) NO 46 ° 0 min 0,000 mm 1,8 UV-I 464 W/m² -0,0 °C 10,5 °C 24,1 km/h (4 Bft)
28.03.2019 15:43 10,4 °C 48 % 1030,2 hPa 0,0 mm 15,0 km/h (3 Bft) O-NO 76 ° 0 min 0,000 mm 1,7 UV-I 429 W/m² -0,1 °C 10,4 °C 22,5 km/h (4 Bft)
28.03.2019 15:44 10,4 °C 48 % 1030,2 hPa 0,0 mm 10,5 km/h (2 Bft) O-SO 119 ° 0 min 0,000 mm 1,7 UV-I 418 W/m² -0,1 °C 10,4 °C 16,1 km/h (3 Bft)
28.03.2019 15:45 10,4 °C 50 % 1030,2 hPa 0,0 mm 11,3 km/h (2 Bft) SO 135 ° 0 min 0,000 mm 1,7 UV-I 343 W/m² 0,4 °C 10,4 °C 24,1 km/h (4 Bft)
28.03.2019 15:46 10,4 °C 49 % 1030,1 hPa 0,0 mm 14,2 km/h (3 Bft) O 79 ° 0 min 0,000 mm 1,6 UV-I 274 W/m² 0,2 °C 10,4 °C 20,9 km/h (4 Bft)
28.03.2019 15:47 10,4 °C 48 % 1030,1 hPa 0,0 mm 12,7 km/h (3 Bft) O-SO 103 ° 0 min 0,000 mm 1,6 UV-I 265 W/m² -0,1 °C 10,4 °C 20,9 km/h (4 Bft)
28.03.2019 15:48 10,4 °C 48 % 1030,2 hPa 0,0 mm 5,6 km/h (1 Bft) N-NW 328 ° 0 min 0,000 mm 1,6 UV-I 264 W/m² -0,1 °C 10,4 °C 9,7 km/h (2 Bft)
28.03.2019 15:49 10,4 °C 49 % 1030,1 hPa 0,0 mm 12,8 km/h (3 Bft) O-NO 61 ° 0 min 0,000 mm 1,5 UV-I 206 W/m² 0,2 °C 10,4 °C 24,1 km/h (4 Bft)
28.03.2019 15:50 10,6 °C 50 % 1030,2 hPa 0,0 mm 11,1 km/h (2 Bft) O 90 ° 0 min 0,000 mm 1,5 UV-I 213 W/m² 0,6 °C 10,6 °C 20,9 km/h (4 Bft)
28.03.2019 15:51 10,6 °C 49 % 1030,2 hPa 0,0 mm 18,6 km/h (3 Bft) O-NO 76 ° 0 min 0,000 mm 1,4 UV-I 218 W/m² 0,3 °C 10,6 °C 27,4 km/h (4 Bft)
28.03.2019 15:52 10,6 °C 48 % 1030,2 hPa 0,0 mm 14,2 km/h (3 Bft) O 94 ° 0 min 0,000 mm 1,5 UV-I 308 W/m² 0,1 °C 10,6 °C 25,7 km/h (4 Bft)
28.03.2019 15:53 10,5 °C 48 % 1030,4 hPa 0,0 mm 18,3 km/h (3 Bft) O 86 ° 0 min 0,000 mm 1,5 UV-I 260 W/m² -0,0 °C 10,5 °C 27,4 km/h (4 Bft)
28.03.2019 15:54 10,4 °C 48 % 1030,3 hPa 0,0 mm 14,9 km/h (3 Bft) O-NO 67 ° 0 min 0,000 mm 1,6 UV-I 288 W/m² -0,1 °C 10,4 °C 22,5 km/h (4 Bft)
28.03.2019 15:55 10,4 °C 48 % 1030,3 hPa 0,0 mm 15,8 km/h (3 Bft) NO 55 ° 0 min 0,000 mm 1,5 UV-I 248 W/m² -0,1 °C 10,4 °C 20,9 km/h (4 Bft)
28.03.2019 15:56 10,4 °C 48 % 1030,3 hPa 0,0 mm 13,0 km/h (3 Bft) O-NO 78 ° 0 min 0,000 mm 1,5 UV-I 271 W/m² -0,1 °C 10,4 °C 19,3 km/h (3 Bft)
28.03.2019 15:57 10,3 °C 47 % 1030,3 hPa 0,0 mm 11,4 km/h (2 Bft) NO 43 ° 0 min 0,000 mm 1,5 UV-I 253 W/m² -0,5 °C 10,3 °C 22,5 km/h (4 Bft)
28.03.2019 15:58 10,4 °C 48 % 1030,4 hPa 0,0 mm 13,2 km/h (3 Bft) NO 37 ° 0 min 0,000 mm 1,5 UV-I 227 W/m² -0,1 °C 10,4 °C 19,3 km/h (3 Bft)
28.03.2019 15:59 10,3 °C 48 % 1030,4 hPa 0,0 mm 17,3 km/h (3 Bft) O-NO 58 ° 0 min 0,000 mm 1,4 UV-I 230 W/m² -0,2 °C 10,3 °C 22,5 km/h (4 Bft)
28.03.2019 16:00 10,3 °C 48 % 1030,3 hPa 0,0 mm 15,7 km/h (3 Bft) N-NO 33 ° 0 min 0,000 mm 1,4 UV-I 229 W/m² -0,2 °C 10,3 °C 22,5 km/h (4 Bft)
28.03.2019 16:01 10,3 °C 48 % 1030,4 hPa 0,0 mm 19,9 km/h (4 Bft) O-NO 76 ° 0 min 0,279 mm 1,4 UV-I 285 W/m² -0,2 °C 10,3 °C 32,2 km/h (5 Bft)
28.03.2019 16:02 10,3 °C 47 % 1030,4 hPa 0,0 mm 16,0 km/h (3 Bft) NO 42 ° 0 min 0,000 mm 1,5 UV-I 355 W/m² -0,5 °C 10,3 °C 19,3 km/h (3 Bft)
28.03.2019 16:03 10,3 °C 47 % 1030,4 hPa 0,0 mm 17,1 km/h (3 Bft) NO 54 ° 0 min 0,000 mm 1,5 UV-I 308 W/m² -0,5 °C 10,3 °C 24,1 km/h (4 Bft)
28.03.2019 16:04 10,4 °C 48 % 1030,3 hPa 0,0 mm 12,0 km/h (2 Bft) NO 44 ° 0 min 0,000 mm 1,5 UV-I 287 W/m² -0,1 °C 10,4 °C 19,3 km/h (3 Bft)
28.03.2019 16:05 10,4 °C 48 % 1030,4 hPa 0,0 mm 13,4 km/h (3 Bft) O 84 ° 0 min 0,000 mm 1,5 UV-I 216 W/m² -0,1 °C 10,4 °C 20,9 km/h (4 Bft)
28.03.2019 16:06 10,4 °C 48 % 1030,4 hPa 0,0 mm 17,5 km/h (3 Bft) NO 44 ° 0 min 0,000 mm 1,3 UV-I 153 W/m² -0,1 °C 10,4 °C 27,4 km/h (4 Bft)
28.03.2019 16:07 10,4 °C 47 % 1030,4 hPa 0,0 mm 13,2 km/h (3 Bft) O 95 ° 0 min 0,000 mm 1,3 UV-I 206 W/m² -0,4 °C 10,4 °C 24,1 km/h (4 Bft)
28.03.2019 16:08 10,4 °C 47 % 1030,4 hPa 0,0 mm 10,6 km/h (2 Bft) N-NO 25 ° 0 min 0,000 mm 1,3 UV-I 128 W/m² -0,4 °C 10,4 °C 17,7 km/h (3 Bft)
28.03.2019 16:09 10,3 °C 48 % 1030,4 hPa 0,0 mm 13,1 km/h (3 Bft) NO 46 ° 0 min 0,000 mm 1,2 UV-I 160 W/m² -0,2 °C 10,3 °C 16,1 km/h (3 Bft)
28.03.2019 16:10 10,3 °C 48 % 1030,3 hPa 0,0 mm 12,2 km/h (2 Bft) O 83 ° 0 min 0,000 mm 1,1 UV-I 95 W/m² -0,2 °C 10,3 °C 20,9 km/h (4 Bft)
28.03.2019 16:11 10,3 °C 48 % 1030,3 hPa 0,0 mm 15,7 km/h (3 Bft) N-NO 29 ° 0 min 0,000 mm 1,1 UV-I 76 W/m² -0,2 °C 10,3 °C 22,5 km/h (4 Bft)
28.03.2019 16:12 10,3 °C 48 % 1030,3 hPa 0,0 mm 7,9 km/h (2 Bft) O 80 ° 0 min 0,000 mm 1,3 UV-I 76 W/m² -0,2 °C 10,3 °C 16,1 km/h (3 Bft)
28.03.2019 16:13 10,3 °C 48 % 1030,2 hPa 0,0 mm 7,2 km/h (2 Bft) O-NO 63 ° 0 min 0,000 mm 1,3 UV-I 239 W/m² -0,2 °C 10,3 °C 12,9 km/h (3 Bft)
28.03.2019 16:14 10,3 °C 48 % 1030,2 hPa 0,0 mm 8,8 km/h (2 Bft) O-NO 60 ° 0 min 0,000 mm 1,2 UV-I 271 W/m² -0,2 °C 10,3 °C 16,1 km/h (3 Bft)
28.03.2019 16:15 10,3 °C 48 % 1030,3 hPa 0,0 mm 10,6 km/h (2 Bft) NO 46 ° 0 min 0,000 mm 1,3 UV-I 244 W/m² -0,2 °C 10,3 °C 14,5 km/h (3 Bft)
28.03.2019 16:16 10,3 °C 49 % 1030,2 hPa 0,0 mm 12,0 km/h (2 Bft) N-NO 29 ° 0 min 0,000 mm 1,2 UV-I 188 W/m² 0,1 °C 10,3 °C 24,1 km/h (4 Bft)
28.03.2019 16:17 10,4 °C 49 % 1030,3 hPa 0,0 mm 17,7 km/h (3 Bft) O-NO 68 ° 0 min 0,000 mm 1,2 UV-I 188 W/m² 0,2 °C 10,4 °C 25,7 km/h (4 Bft)
28.03.2019 16:18 10,3 °C 48 % 1030,3 hPa 0,0 mm 17,8 km/h (3 Bft) O-NO 73 ° 0 min 0,000 mm 1,3 UV-I 320 W/m² -0,2 °C 10,3 °C 25,7 km/h (4 Bft)
28.03.2019 16:19 10,2 °C 49 % 1030,2 hPa 0,0 mm 16,4 km/h (3 Bft) NO 53 ° 0 min 0,000 mm 1,2 UV-I 243 W/m² -0,0 °C 10,2 °C 22,5 km/h (4 Bft)
28.03.2019 16:20 10,2 °C 49 % 1030,3 hPa 0,0 mm 12,6 km/h (3 Bft) NO 56 ° 0 min 0,000 mm 1,1 UV-I 165 W/m² -0,0 °C 10,2 °C 16,1 km/h (3 Bft)
28.03.2019 16:21 10,1 °C 50 % 1030,2 hPa 0,0 mm 11,0 km/h (2 Bft) O-NO 63 ° 0 min 0,000 mm 1,2 UV-I 297 W/m² 0,2 °C 10,1 °C 17,7 km/h (3 Bft)
28.03.2019 16:22 10,1 °C 50 % 1030,3 hPa 0,0 mm 14,7 km/h (3 Bft) NO 55 ° 0 min 0,000 mm 1,0 UV-I 297 W/m² 0,2 °C 10,1 °C 19,3 km/h (3 Bft)
28.03.2019 16:23 10,0 °C 50 % 1030,3 hPa 0,0 mm 15,8 km/h (3 Bft) O-NO 69 ° 0 min 0,000 mm 0,0 UV-I 53 W/m² 0,1 °C 7,8 °C 20,9 km/h (4 Bft)
28.03.2019 16:24 9,9 °C 50 % 1030,3 hPa 0,0 mm 8,3 km/h (2 Bft) NO 50 ° 0 min 0,000 mm 1,1 UV-I 53 W/m² -0,0 °C 8,8 °C 16,1 km/h (3 Bft)
28.03.2019 16:25 9,9 °C 50 % 1030,3 hPa 0,0 mm 4,7 km/h (1 Bft) NO 55 ° 0 min 0,000 mm 1,1 UV-I 167 W/m² -0,0 °C 9,7 °C 8,0 km/h (2 Bft)
28.03.2019 16:26 9,8 °C 51 % 1030,3 hPa 0,0 mm 4,3 km/h (1 Bft) O-NO 57 ° 0 min 0,000 mm 1,1 UV-I 237 W/m² 0,2 °C 9,8 °C 6,4 km/h (2 Bft)
28.03.2019 16:27 9,8 °C 51 % 1030,2 hPa 0,0 mm 7,1 km/h (2 Bft) O-NO 60 ° 0 min 0,000 mm 0,0 UV-I 237 W/m² 0,2 °C 9,0 °C 12,9 km/h (3 Bft)
28.03.2019 16:28 9,8 °C 50 % 1030,2 hPa 0,0 mm 6,4 km/h (2 Bft) O-NO 59 ° 0 min 0,000 mm 1,1 UV-I 69 W/m² -0,1 °C 9,1 °C 11,3 km/h (2 Bft)
28.03.2019 16:29 9,8 °C 52 % 1030,3 hPa 0,0 mm 6,6 km/h (2 Bft) O 80 ° 0 min 0,000 mm 0,0 UV-I 51 W/m² 0,4 °C 9,1 °C 12,9 km/h (3 Bft)
28.03.2019 16:30 9,8 °C 51 % 1030,2 hPa 0,0 mm 8,3 km/h (2 Bft) NO 34 ° 0 min 0,000 mm 1,3 UV-I 51 W/m² 0,2 °C 8,7 °C 16,1 km/h (3 Bft)
28.03.2019 16:31 9,7 °C 51 % 1030,2 hPa 0,0 mm 11,6 km/h (2 Bft) N-NO 27 ° 0 min 0,000 mm 1,0 UV-I 121 W/m² 0,1 °C 8,0 °C 19,3 km/h (3 Bft)
28.03.2019 16:32 9,7 °C 51 % 1030,2 hPa 0,0 mm 13,5 km/h (3 Bft) NO 34 ° 0 min 0,000 mm 1,1 UV-I 151 W/m² 0,1 °C 7,7 °C 19,3 km/h (3 Bft)
28.03.2019 16:33 9,8 °C 51 % 1030,3 hPa 0,0 mm 15,0 km/h (3 Bft) O 80 ° 0 min 0,000 mm 1,0 UV-I 90 W/m² 0,2 °C 7,7 °C 19,3 km/h (3 Bft)
28.03.2019 16:34 9,7 °C 51 % 1030,3 hPa 0,0 mm 14,2 km/h (3 Bft) O-NO 78 ° 0 min 0,000 mm 0,9 UV-I 77 W/m² 0,1 °C 7,6 °C 19,3 km/h (3 Bft)
28.03.2019 16:35 9,7 °C 51 % 1030,3 hPa 0,0 mm 11,9 km/h (2 Bft) N-NO 28 ° 0 min 0,000 mm 0,9 UV-I 104 W/m² 0,1 °C 8,0 °C 19,3 km/h (3 Bft)
28.03.2019 16:36 9,7 °C 52 % 1030,2 hPa 0,0 mm 10,1 km/h (2 Bft) NO 48 ° 0 min 0,000 mm 1,0 UV-I 202 W/m² 0,3 °C 8,3 °C 16,1 km/h (3 Bft)
28.03.2019 16:37 9,8 °C 52 % 1030,3 hPa 0,0 mm 10,5 km/h (2 Bft) O 84 ° 0 min 0,000 mm 1,0 UV-I 135 W/m² 0,4 °C 8,3 °C 19,3 km/h (3 Bft)
28.03.2019 16:38 9,9 °C 52 % 1030,2 hPa 0,0 mm 12,6 km/h (3 Bft) O-NO 64 ° 0 min 0,000 mm 1,0 UV-I 130 W/m² 0,5 °C 8,1 °C 19,3 km/h (3 Bft)
28.03.2019 16:39 9,9 °C 51 % 1030,2 hPa 0,0 mm 7,6 km/h (2 Bft) SO 125 ° 0 min 0,000 mm 0,9 UV-I 86 W/m² 0,2 °C 9,0 °C 17,7 km/h (3 Bft)
28.03.2019 16:40 9,9 °C 52 % 1030,2 hPa 0,0 mm 14,9 km/h (3 Bft) NO 36 ° 0 min 0,000 mm 0,9 UV-I 83 W/m² 0,5 °C 7,8 °C 20,9 km/h (4 Bft)
28.03.2019 16:41 9,9 °C 51 % 1030,2 hPa 0,0 mm 11,7 km/h (2 Bft) O 95 ° 0 min 0,000 mm 0,9 UV-I 107 W/m² 0,2 °C 8,2 °C 16,1 km/h (3 Bft)
28.03.2019 16:42 9,9 °C 51 % 1030,2 hPa 0,0 mm 7,5 km/h (2 Bft) O-NO 59 ° 0 min 0,000 mm 1,0 UV-I 139 W/m² 0,2 °C 9,0 °C 12,9 km/h (3 Bft)
28.03.2019 16:43 9,9 °C 51 % 1030,3 hPa 0,0 mm 12,7 km/h (3 Bft) O-NO 74 ° 0 min 0,000 mm 1,0 UV-I 179 W/m² 0,2 °C 8,1 °C 16,1 km/h (3 Bft)
28.03.2019 16:44 9,9 °C 51 % 1030,2 hPa 0,0 mm 8,7 km/h (2 Bft) N 355 ° 0 min 0,000 mm 0,9 UV-I 130 W/m² 0,2 °C 8,7 °C 12,9 km/h (3 Bft)
28.03.2019 16:45 9,9 °C 51 % 1030,3 hPa 0,0 mm 14,4 km/h (3 Bft) N-NO 32 ° 0 min 0,000 mm 0,9 UV-I 118 W/m² 0,2 °C 7,9 °C 24,1 km/h (4 Bft)
28.03.2019 16:46 9,9 °C 52 % 1030,3 hPa 0,0 mm 12,5 km/h (3 Bft) O 90 ° 0 min 0,000 mm 0,9 UV-I 146 W/m² 0,5 °C 8,1 °C 19,3 km/h (3 Bft)
28.03.2019 16:47 9,8 °C 52 % 1030,3 hPa 0,0 mm 13,8 km/h (3 Bft) NO 53 ° 0 min 0,000 mm 0,9 UV-I 153 W/m² 0,4 °C 7,8 °C 20,9 km/h (4 Bft)
28.03.2019 16:48 9,8 °C 52 % 1030,3 hPa 0,0 mm 11,2 km/h (2 Bft) O-NO 76 ° 0 min 0,000 mm 0,0 UV-I 153 W/m² 0,4 °C 8,2 °C 19,3 km/h (3 Bft)
28.03.2019 16:49 9,7 °C 51 % 1030,3 hPa 0,0 mm 10,9 km/h (2 Bft) NO 55 ° 0 min 0,000 mm 0,9 UV-I 114 W/m² 0,1 °C 8,1 °C 17,7 km/h (3 Bft)
28.03.2019 16:50 9,7 °C 51 % 1030,3 hPa 0,0 mm 12,9 km/h (3 Bft) NO 51 ° 0 min 0,000 mm 0,9 UV-I 128 W/m² 0,1 °C 7,8 °C 19,3 km/h (3 Bft)
28.03.2019 16:51 9,6 °C 52 % 1030,3 hPa 0,0 mm 13,1 km/h (3 Bft) O 94 ° 0 min 0,000 mm 0,9 UV-I 118 W/m² 0,2 °C 7,7 °C 19,3 km/h (3 Bft)
28.03.2019 16:52 9,6 °C 52 % 1030,3 hPa 0,0 mm 13,5 km/h (3 Bft) O 94 ° 0 min 0,000 mm 0,8 UV-I 86 W/m² 0,2 °C 7,6 °C 17,7 km/h (3 Bft)
28.03.2019 16:53 9,6 °C 52 % 1030,3 hPa 0,0 mm 16,3 km/h (3 Bft) NO 55 ° 0 min 0,000 mm 0,8 UV-I 86 W/m² 0,2 °C 7,3 °C 22,5 km/h (4 Bft)
28.03.2019 16:54 9,5 °C 52 % 1030,3 hPa 0,0 mm 7,0 km/h (2 Bft) NO 49 ° 0 min 0,000 mm 0,8 UV-I 79 W/m² 0,1 °C 8,6 °C 12,9 km/h (3 Bft)
28.03.2019 16:55 9,4 °C 52 % 1030,3 hPa 0,0 mm 7,4 km/h (2 Bft) N-NO 22 ° 0 min 0,000 mm 0,7 UV-I 46 W/m² 0,1 °C 8,4 °C 11,3 km/h (2 Bft)
28.03.2019 16:56 9,5 °C 53 % 1030,2 hPa 0,0 mm 7,1 km/h (2 Bft) O-NO 63 ° 0 min 0,000 mm 0,0 UV-I 44 W/m² 0,4 °C 8,6 °C 11,3 km/h (2 Bft)
28.03.2019 16:57 9,6 °C 53 % 1030,2 hPa 0,0 mm 9,5 km/h (2 Bft) SO 126 ° 0 min 0,000 mm 0,0 UV-I 44 W/m² 0,5 °C 8,2 °C 14,5 km/h (3 Bft)
28.03.2019 16:58 9,6 °C 53 % 1030,2 hPa 0,0 mm 11,2 km/h (2 Bft) N-NO 19 ° 0 min 0,000 mm 0,0 UV-I 44 W/m² 0,5 °C 8,0 °C 19,3 km/h (3 Bft)
28.03.2019 16:59 9,6 °C 52 % 1030,3 hPa 0,0 mm 11,1 km/h (2 Bft) O 80 ° 0 min 0,000 mm 0,0 UV-I 44 W/m² 0,2 °C 8,0 °C 22,5 km/h (4 Bft)
28.03.2019 17:00 9,6 °C 53 % 1030,2 hPa 0,0 mm 14,7 km/h (3 Bft) O-NO 68 ° 0 min 0,000 mm 0,0 UV-I 46 W/m² 0,5 °C 7,5 °C 24,1 km/h (4 Bft)
28.03.2019 17:01 9,6 °C 53 % 1030,2 hPa 0,0 mm 10,2 km/h (2 Bft) O-SO 122 ° 0 min 0,127 mm 0,0 UV-I 63 W/m² 0,5 °C 8,1 °C 14,5 km/h (3 Bft)
28.03.2019 17:02 9,6 °C 53 % 1030,3 hPa 0,0 mm 14,6 km/h (3 Bft) N-NO 33 ° 0 min 0,000 mm 0,7 UV-I 72 W/m² 0,5 °C 7,5 °C 19,3 km/h (3 Bft)
28.03.2019 17:03 9,6 °C 53 % 1030,3 hPa 0,0 mm 10,7 km/h (2 Bft) O-NO 75 ° 0 min 0,000 mm 0,7 UV-I 67 W/m² 0,5 °C 8,0 °C 17,7 km/h (3 Bft)
28.03.2019 17:04 9,5 °C 53 % 1030,3 hPa 0,0 mm 7,8 km/h (2 Bft) O 92 ° 0 min 0,000 mm 0,0 UV-I 54 W/m² 0,4 °C 8,5 °C 12,9 km/h (3 Bft)
28.03.2019 17:05 9,4 °C 53 % 1030,3 hPa 0,0 mm 4,5 km/h (1 Bft) NO 46 ° 0 min 0,000 mm 0,0 UV-I 49 W/m² 0,3 °C 9,4 °C 14,5 km/h (3 Bft)
28.03.2019 17:06 9,4 °C 53 % 1030,3 hPa 0,0 mm 8,7 km/h (2 Bft) O 88 ° 0 min 0,000 mm 0,0 UV-I 39 W/m² 0,3 °C 8,2 °C 14,5 km/h (3 Bft)
28.03.2019 17:07 9,4 °C 54 % 1030,3 hPa 0,0 mm 16,6 km/h (3 Bft) NO 46 ° 0 min 0,000 mm 0,0 UV-I 37 W/m² 0,6 °C 7,0 °C 24,1 km/h (4 Bft)
28.03.2019 17:08 9,4 °C 53 % 1030,4 hPa 0,0 mm 17,6 km/h (3 Bft) O-NO 69 ° 0 min 0,000 mm 0,0 UV-I 39 W/m² 0,3 °C 6,9 °C 24,1 km/h (4 Bft)
28.03.2019 17:09 9,4 °C 53 % 1030,3 hPa 0,0 mm 14,3 km/h (3 Bft) O 84 ° 0 min 0,000 mm 0,0 UV-I 54 W/m² 0,3 °C 7,3 °C 22,5 km/h (4 Bft)
28.03.2019 17:10 9,3 °C 53 % 1030,3 hPa 0,0 mm 11,3 km/h (2 Bft) NO 50 ° 0 min 0,000 mm 0,6 UV-I 70 W/m² 0,2 °C 7,6 °C 22,5 km/h (4 Bft)
28.03.2019 17:11 9,3 °C 54 % 1030,3 hPa 0,0 mm 12,1 km/h (2 Bft) N-NO 32 ° 0 min 0,000 mm 0,6 UV-I 77 W/m² 0,5 °C 7,5 °C 22,5 km/h (4 Bft)
28.03.2019 17:12 9,3 °C 54 % 1030,3 hPa 0,0 mm 10,2 km/h (2 Bft) NO 45 ° 0 min 0,000 mm 0,6 UV-I 79 W/m² 0,5 °C 7,8 °C 17,7 km/h (3 Bft)
28.03.2019 17:13 9,3 °C 54 % 1030,3 hPa 0,0 mm 10,2 km/h (2 Bft) NO 56 ° 0 min 0,000 mm 0,6 UV-I 70 W/m² 0,5 °C 7,8 °C 16,1 km/h (3 Bft)
28.03.2019 17:14 9,3 °C 54 % 1030,3 hPa 0,0 mm 9,4 km/h (2 Bft) O-NO 58 ° 0 min 0,000 mm 0,6 UV-I 67 W/m² 0,5 °C 7,9 °C 12,9 km/h (3 Bft)
28.03.2019 17:15 9,3 °C 54 % 1030,3 hPa 0,0 mm 11,1 km/h (2 Bft) NO 50 ° 0 min 0,000 mm 0,6 UV-I 67 W/m² 0,5 °C 7,6 °C 16,1 km/h (3 Bft)
28.03.2019 17:16 9,3 °C 54 % 1030,3 hPa 0,0 mm 9,7 km/h (2 Bft) O-NO 69 ° 0 min 0,000 mm 0,6 UV-I 56 W/m² 0,5 °C 7,8 °C 14,5 km/h (3 Bft)
28.03.2019 17:17 9,3 °C 54 % 1030,3 hPa 0,0 mm 10,1 km/h (2 Bft) NO 40 ° 0 min 0,000 mm 0,6 UV-I 46 W/m² 0,5 °C 7,8 °C 16,1 km/h (3 Bft)
28.03.2019 17:18 9,3 °C 54 % 1030,4 hPa 0,0 mm 11,1 km/h (2 Bft) N-NO 28 ° 0 min 0,000 mm 0,0 UV-I 46 W/m² 0,5 °C 7,6 °C 17,7 km/h (3 Bft)
28.03.2019 17:19 9,3 °C 54 % 1030,3 hPa 0,0 mm 9,1 km/h (2 Bft) NO 40 ° 0 min 0,000 mm 0,0 UV-I 33 W/m² 0,5 °C 8,0 °C 14,5 km/h (3 Bft)
28.03.2019 17:20 9,3 °C 54 % 1030,3 hPa 0,0 mm 6,5 km/h (2 Bft) NO 54 ° 0 min 0,000 mm 0,0 UV-I 33 W/m² 0,5 °C 8,5 °C 14,5 km/h (3 Bft)
28.03.2019 17:21 9,3 °C 54 % 1030,3 hPa 0,0 mm 11,3 km/h (2 Bft) O-NO 74 ° 0 min 0,000 mm 0,0 UV-I 33 W/m² 0,5 °C 7,6 °C 16,1 km/h (3 Bft)
28.03.2019 17:22 9,3 °C 54 % 1030,4 hPa 0,0 mm 12,4 km/h (3 Bft) O-NO 78 ° 0 min 0,000 mm 0,0 UV-I 33 W/m² 0,5 °C 7,4 °C 19,3 km/h (3 Bft)
28.03.2019 17:23 9,3 °C 54 % 1030,4 hPa 0,0 mm 11,0 km/h (2 Bft) NO 53 ° 0 min 0,000 mm 0,0 UV-I 35 W/m² 0,5 °C 7,6 °C 16,1 km/h (3 Bft)
28.03.2019 17:24 9,3 °C 54 % 1030,4 hPa 0,0 mm 12,1 km/h (2 Bft) NO 53 ° 0 min 0,000 mm 0,0 UV-I 33 W/m² 0,5 °C 7,5 °C 17,7 km/h (3 Bft)
28.03.2019 17:25 9,2 °C 54 % 1030,4 hPa 0,0 mm 7,8 km/h (2 Bft) O-NO 76 ° 0 min 0,000 mm 0,0 UV-I 32 W/m² 0,4 °C 8,1 °C 11,3 km/h (2 Bft)
28.03.2019 17:26 9,2 °C 54 % 1030,4 hPa 0,0 mm 10,9 km/h (2 Bft) NO 48 ° 0 min 0,000 mm 0,0 UV-I 32 W/m² 0,4 °C 7,5 °C 16,1 km/h (3 Bft)
28.03.2019 17:27 9,2 °C 54 % 1030,4 hPa 0,0 mm 6,1 km/h (2 Bft) NO 51 ° 0 min 0,000 mm 0,0 UV-I 30 W/m² 0,4 °C 8,5 °C 11,3 km/h (2 Bft)
28.03.2019 17:28 9,2 °C 54 % 1030,4 hPa 0,0 mm 9,7 km/h (2 Bft) NO 42 ° 0 min 0,000 mm 0,0 UV-I 30 W/m² 0,4 °C 7,7 °C 14,5 km/h (3 Bft)
28.03.2019 17:29 9,1 °C 54 % 1030,4 hPa 0,0 mm 9,7 km/h (2 Bft) O-NO 62 ° 0 min 0,000 mm 0,0 UV-I 30 W/m² 0,3 °C 7,6 °C 12,9 km/h (3 Bft)
28.03.2019 17:30 9,1 °C 54 % 1030,4 hPa 0,0 mm 9,1 km/h (2 Bft) NO 36 ° 0 min 0,000 mm 0,0 UV-I 30 W/m² 0,3 °C 7,7 °C 14,5 km/h (3 Bft)
28.03.2019 17:31 9,1 °C 55 % 1030,3 hPa 0,0 mm 7,3 km/h (2 Bft) O-NO 63 ° 0 min 0,000 mm 0,0 UV-I 40 W/m² 0,5 °C 8,1 °C 12,9 km/h (3 Bft)
28.03.2019 17:32 9,1 °C 55 % 1030,3 hPa 0,0 mm 10,5 km/h (2 Bft) O-NO 65 ° 0 min 0,000 mm 0,0 UV-I 51 W/m² 0,5 °C 7,5 °C 17,7 km/h (3 Bft)
28.03.2019 17:33 9,1 °C 55 % 1030,4 hPa 0,0 mm 8,0 km/h (2 Bft) NO 54 ° 0 min 0,000 mm 0,0 UV-I 53 W/m² 0,5 °C 7,9 °C 14,5 km/h (3 Bft)
28.03.2019 17:34 9,1 °C 55 % 1030,3 hPa 0,0 mm 5,4 km/h (1 Bft) O-NO 71 ° 0 min 0,000 mm 0,0 UV-I 51 W/m² 0,5 °C 8,6 °C 9,7 km/h (2 Bft)
28.03.2019 17:35 9,0 °C 56 % 1030,3 hPa 0,0 mm 5,8 km/h (2 Bft) O-NO 66 ° 0 min 0,000 mm 0,0 UV-I 44 W/m² 0,7 °C 8,4 °C 8,0 km/h (2 Bft)
28.03.2019 17:36 9,0 °C 56 % 1030,3 hPa 0,0 mm 8,2 km/h (2 Bft) NO 45 ° 0 min 0,000 mm 0,0 UV-I 46 W/m² 0,7 °C 7,8 °C 14,5 km/h (3 Bft)
28.03.2019 17:37 8,9 °C 56 % 1030,3 hPa 0,0 mm 12,3 km/h (3 Bft) O 88 ° 0 min 0,000 mm 0,0 UV-I 51 W/m² 0,6 °C 6,9 °C 22,5 km/h (4 Bft)
28.03.2019 17:38 8,9 °C 56 % 1030,3 hPa 0,0 mm 10,0 km/h (2 Bft) NO 55 ° 0 min 0,000 mm 0,0 UV-I 53 W/m² 0,6 °C 7,3 °C 22,5 km/h (4 Bft)
28.03.2019 17:39 8,9 °C 56 % 1030,3 hPa 0,0 mm 6,2 km/h (2 Bft) O-NO 74 ° 0 min 0,000 mm 0,0 UV-I 54 W/m² 0,6 °C 8,2 °C 9,7 km/h (2 Bft)
28.03.2019 17:40 8,9 °C 56 % 1030,4 hPa 0,0 mm 12,3 km/h (3 Bft) O-NO 69 ° 0 min 0,000 mm 0,0 UV-I 62 W/m² 0,6 °C 6,9 °C 16,1 km/h (3 Bft)
28.03.2019 17:41 8,9 °C 56 % 1030,3 hPa 0,0 mm 11,7 km/h (2 Bft) O-NO 65 ° 0 min 0,000 mm 0,0 UV-I 62 W/m² 0,6 °C 7,0 °C 17,7 km/h (3 Bft)
28.03.2019 17:42 8,8 °C 56 % 1030,3 hPa 0,0 mm 8,4 km/h (2 Bft) O 82 ° 0 min 0,000 mm 0,0 UV-I 65 W/m² 0,5 °C 7,5 °C 11,3 km/h (2 Bft)
28.03.2019 17:43 8,8 °C 56 % 1030,3 hPa 0,0 mm 8,2 km/h (2 Bft) O-NO 71 ° 0 min 0,000 mm 0,0 UV-I 70 W/m² 0,5 °C 7,6 °C 16,1 km/h (3 Bft)
28.03.2019 17:44 8,8 °C 56 % 1030,3 hPa 0,0 mm 7,8 km/h (2 Bft) N-NO 22 ° 0 min 0,000 mm 0,0 UV-I 74 W/m² 0,5 °C 7,6 °C 12,9 km/h (3 Bft)
28.03.2019 17:45 8,7 °C 56 % 1030,4 hPa 0,0 mm 4,5 km/h (1 Bft) NO 56 ° 0 min 0,000 mm 0,0 UV-I 74 W/m² 0,4 °C 8,7 °C 9,7 km/h (2 Bft)
28.03.2019 17:46 8,7 °C 57 % 1030,4 hPa 0,0 mm 7,6 km/h (2 Bft) N 355 ° 0 min 0,000 mm 0,0 UV-I 76 W/m² 0,7 °C 7,6 °C 12,9 km/h (3 Bft)
28.03.2019 17:47 8,7 °C 57 % 1030,4 hPa 0,0 mm 9,7 km/h (2 Bft) O-NO 65 ° 0 min 0,000 mm 0,0 UV-I 77 W/m² 0,7 °C 7,1 °C 19,3 km/h (3 Bft)
28.03.2019 17:48 8,7 °C 57 % 1030,4 hPa 0,0 mm 6,4 km/h (2 Bft) NO 55 ° 0 min 0,000 mm 0,0 UV-I 74 W/m² 0,7 °C 7,9 °C 14,5 km/h (3 Bft)
28.03.2019 17:49 8,7 °C 57 % 1030,4 hPa 0,0 mm 6,4 km/h (2 Bft) NO 49 ° 0 min 0,000 mm 0,0 UV-I 67 W/m² 0,7 °C 7,9 °C 9,7 km/h (2 Bft)
28.03.2019 17:50 8,7 °C 57 % 1030,4 hPa 0,0 mm 4,0 km/h (1 Bft) NO 47 ° 0 min 0,000 mm 0,0 UV-I 58 W/m² 0,7 °C 8,7 °C 6,4 km/h (2 Bft)
28.03.2019 17:51 8,7 °C 57 % 1030,5 hPa 0,0 mm 8,5 km/h (2 Bft) O 92 ° 0 min 0,000 mm 0,0 UV-I 58 W/m² 0,7 °C 7,4 °C 17,7 km/h (3 Bft)
28.03.2019 17:52 8,6 °C 57 % 1030,4 hPa 0,0 mm 10,5 km/h (2 Bft) O-NO 64 ° 0 min 0,000 mm 0,0 UV-I 62 W/m² 0,6 °C 6,9 °C 17,7 km/h (3 Bft)
28.03.2019 17:53 8,6 °C 57 % 1030,4 hPa 0,0 mm 11,5 km/h (2 Bft) O-NO 57 ° 0 min 0,000 mm 0,0 UV-I 62 W/m² 0,6 °C 6,7 °C 20,9 km/h (4 Bft)
28.03.2019 17:54 8,6 °C 57 % 1030,4 hPa 0,0 mm 13,9 km/h (3 Bft) O-NO 70 ° 0 min 0,000 mm 0,0 UV-I 60 W/m² 0,6 °C 6,3 °C 19,3 km/h (3 Bft)
28.03.2019 17:55 8,6 °C 57 % 1030,5 hPa 0,0 mm 13,7 km/h (3 Bft) O 82 ° 0 min 0,000 mm 0,0 UV-I 58 W/m² 0,6 °C 6,4 °C 17,7 km/h (3 Bft)
28.03.2019 17:56 8,6 °C 57 % 1030,4 hPa 0,0 mm 13,5 km/h (3 Bft) NO 53 ° 0 min 0,000 mm 0,0 UV-I 54 W/m² 0,6 °C 6,4 °C 19,3 km/h (3 Bft)
28.03.2019 17:57 8,6 °C 57 % 1030,4 hPa 0,0 mm 9,6 km/h (2 Bft) NO 52 ° 0 min 0,000 mm 0,0 UV-I 53 W/m² 0,6 °C 7,0 °C 17,7 km/h (3 Bft)
28.03.2019 17:58 8,5 °C 57 % 1030,4 hPa 0,0 mm 8,4 km/h (2 Bft) N-NO 32 ° 0 min 0,000 mm 0,0 UV-I 51 W/m² 0,5 °C 7,2 °C 12,9 km/h (3 Bft)
28.03.2019 17:59 8,5 °C 57 % 1030,4 hPa 0,0 mm 9,1 km/h (2 Bft) O-NO 59 ° 0 min 0,000 mm 0,0 UV-I 47 W/m² 0,5 °C 7,0 °C 12,9 km/h (3 Bft)
28.03.2019 18:00 8,5 °C 57 % 1030,4 hPa 0,0 mm 6,6 km/h (2 Bft) NO 49 ° 0 min 0,000 mm 0,0 UV-I 46 W/m² 0,5 °C 7,6 °C 9,7 km/h (2 Bft)
28.03.2019 18:01 8,4 °C 58 % 1030,4 hPa 0,0 mm 8,9 km/h (2 Bft) NO 51 ° 0 min 0,076 mm 0,0 UV-I 44 W/m² 0,6 °C 6,9 °C 12,9 km/h (3 Bft)
28.03.2019 18:02 8,4 °C 58 % 1030,4 hPa 0,0 mm 7,2 km/h (2 Bft) O-NO 65 ° 0 min 0,000 mm 0,0 UV-I 42 W/m² 0,6 °C 7,3 °C 14,5 km/h (3 Bft)
28.03.2019 18:03 8,4 °C 58 % 1030,4 hPa 0,0 mm 3,6 km/h (1 Bft) O 90 ° 0 min 0,000 mm 0,0 UV-I 40 W/m² 0,6 °C 8,4 °C 4,8 km/h (1 Bft)
28.03.2019 18:04 8,3 °C 58 % 1030,4 hPa 0,0 mm 7,6 km/h (2 Bft) N-NO 31 ° 0 min 0,000 mm 0,0 UV-I 39 W/m² 0,5 °C 7,1 °C 14,5 km/h (3 Bft)
28.03.2019 18:05 8,3 °C 58 % 1030,5 hPa 0,0 mm 6,6 km/h (2 Bft) O-NO 73 ° 0 min 0,000 mm 0,0 UV-I 35 W/m² 0,5 °C 7,4 °C 11,3 km/h (2 Bft)
28.03.2019 18:06 8,3 °C 58 % 1030,5 hPa 0,0 mm 4,4 km/h (1 Bft) O-NO 71 ° 0 min 0,000 mm 0,0 UV-I 33 W/m² 0,5 °C 8,3 °C 8,0 km/h (2 Bft)
28.03.2019 18:07 8,2 °C 58 % 1030,5 hPa 0,0 mm 3,3 km/h (1 Bft) O 94 ° 0 min 0,000 mm 0,0 UV-I 32 W/m² 0,4 °C 8,2 °C 4,8 km/h (1 Bft)
28.03.2019 18:08 8,2 °C 59 % 1030,5 hPa 0,0 mm 1,6 km/h (1 Bft) NO 34 ° 0 min 0,000 mm 0,0 UV-I 32 W/m² 0,7 °C 8,2 °C 4,8 km/h (1 Bft)
28.03.2019 18:09 8,2 °C 59 % 1030,5 hPa 0,0 mm 6,1 km/h (2 Bft) NO 45 ° 0 min 0,000 mm 0,0 UV-I 30 W/m² 0,7 °C 7,4 °C 8,0 km/h (2 Bft)
28.03.2019 18:10 8,2 °C 59 % 1030,5 hPa 0,0 mm 3,8 km/h (1 Bft) O-NO 68 ° 0 min 0,000 mm 0,0 UV-I 28 W/m² 0,7 °C 8,2 °C 12,9 km/h (3 Bft)
28.03.2019 18:11 8,1 °C 59 % 1030,6 hPa 0,0 mm 6,0 km/h (2 Bft) O 89 ° 0 min 0,000 mm 0,0 UV-I 25 W/m² 0,6 °C 7,3 °C 9,7 km/h (2 Bft)
28.03.2019 18:12 8,1 °C 59 % 1030,5 hPa 0,0 mm 4,7 km/h (1 Bft) O 80 ° 0 min 0,000 mm 0,0 UV-I 25 W/m² 0,6 °C 7,7 °C 8,0 km/h (2 Bft)
28.03.2019 18:13 8,0 °C 60 % 1030,6 hPa 0,0 mm 7,5 km/h (2 Bft) O-NO 67 ° 0 min 0,000 mm 0,0 UV-I 23 W/m² 0,7 °C 6,8 °C 9,7 km/h (2 Bft)
28.03.2019 18:14 7,9 °C 60 % 1030,6 hPa 0,0 mm 3,3 km/h (1 Bft) NO 54 ° 0 min 0,000 mm 0,0 UV-I 21 W/m² 0,6 °C 7,9 °C 8,0 km/h (2 Bft)
28.03.2019 18:15 7,9 °C 60 % 1030,6 hPa 0,0 mm 6,8 km/h (2 Bft) O-NO 70 ° 0 min 0,000 mm 0,0 UV-I 21 W/m² 0,6 °C 6,8 °C 9,7 km/h (2 Bft)
28.03.2019 18:16 7,8 °C 60 % 1030,6 hPa 0,0 mm 5,0 km/h (1 Bft) O 80 ° 0 min 0,000 mm 0,0 UV-I 19 W/m² 0,5 °C 7,3 °C 9,7 km/h (2 Bft)
28.03.2019 18:17 7,8 °C 61 % 1030,6 hPa 0,0 mm 1,9 km/h (1 Bft) O-NO 69 ° 0 min 0,000 mm 0,0 UV-I 18 W/m² 0,8 °C 7,8 °C 4,8 km/h (1 Bft)
28.03.2019 18:18 7,7 °C 61 % 1030,5 hPa 0,0 mm 2,1 km/h (1 Bft) O 91 ° 0 min 0,000 mm 0,0 UV-I 16 W/m² 0,7 °C 7,7 °C 4,8 km/h (1 Bft)
28.03.2019 18:19 7,6 °C 61 % 1030,6 hPa 0,0 mm 0,5 km/h (0 Bft) O 91 ° 0 min 0,000 mm 0,0 UV-I 16 W/m² 0,6 °C 7,6 °C 1,6 km/h (1 Bft)
28.03.2019 18:20 7,4 °C 61 % 1030,6 hPa 0,0 mm 1,7 km/h (1 Bft) O 91 ° 0 min 0,000 mm 0,0 UV-I 14 W/m² 0,4 °C 7,4 °C 6,4 km/h (2 Bft)
28.03.2019 18:21 7,4 °C 62 % 1030,6 hPa 0,0 mm 1,3 km/h (1 Bft) O 91 ° 0 min 0,000 mm 0,0 UV-I 14 W/m² 0,6 °C 7,4 °C 3,2 km/h (1 Bft)
28.03.2019 18:22 7,3 °C 62 % 1030,6 hPa 0,0 mm 0,0 km/h (0 Bft) O 91 ° 0 min 0,000 mm 0,0 UV-I 12 W/m² 0,5 °C 7,3 °C 0,0 km/h (0 Bft)
28.03.2019 18:23 7,3 °C 62 % 1030,6 hPa 0,0 mm 0,7 km/h (0 Bft) O 91 ° 0 min 0,000 mm 0,0 UV-I 12 W/m² 0,5 °C 7,3 °C 3,2 km/h (1 Bft)
28.03.2019 18:24 7,2 °C 63 % 1030,7 hPa 0,0 mm 0,9 km/h (0 Bft) O 91 ° 0 min 0,000 mm 0,0 UV-I 12 W/m² 0,6 °C 7,2 °C 3,2 km/h (1 Bft)
28.03.2019 18:25 7,2 °C 63 % 1030,7 hPa 0,0 mm 1,1 km/h (1 Bft) O 91 ° 0 min 0,000 mm 0,0 UV-I 11 W/m² 0,6 °C 7,2 °C 3,2 km/h (1 Bft)
28.03.2019 18:26 7,2 °C 63 % 1030,7 hPa 0,0 mm 0,0 km/h (0 Bft) O 91 ° 0 min 0,000 mm 0,0 UV-I 11 W/m² 0,6 °C 7,2 °C 0,0 km/h (0 Bft)
28.03.2019 18:27 7,2 °C 63 % 1030,6 hPa 0,0 mm 0,0 km/h (0 Bft) O 91 ° 0 min 0,000 mm 0,0 UV-I 11 W/m² 0,6 °C 7,2 °C 0,0 km/h (0 Bft)
28.03.2019 18:28 7,2 °C 63 % 1030,7 hPa 0,0 mm 0,7 km/h (0 Bft) O 91 ° 0 min 0,000 mm 0,0 UV-I 11 W/m² 0,6 °C 7,2 °C 1,6 km/h (1 Bft)
28.03.2019 18:29 7,1 °C 64 % 1030,7 hPa 0,0 mm 1,2 km/h (1 Bft) O 91 ° 0 min 0,000 mm 0,0 UV-I 9 W/m² 0,8 °C 7,1 °C 3,2 km/h (1 Bft)
28.03.2019 18:30 6,9 °C 64 % 1030,7 hPa 0,0 mm 1,3 km/h (1 Bft) O 91 ° 0 min 0,000 mm 0,0 UV-I 9 W/m² 0,6 °C 6,9 °C 3,2 km/h (1 Bft)
28.03.2019 18:31 6,9 °C 64 % 1030,7 hPa 0,0 mm 0,0 km/h (0 Bft) O 91 ° 0 min 0,000 mm 0,0 UV-I 9 W/m² 0,6 °C 6,9 °C 0,0 km/h (0 Bft)
28.03.2019 18:32 6,9 °C 64 % 1030,7 hPa 0,0 mm 0,0 km/h (0 Bft) O 91 ° 0 min 0,000 mm 0,0 UV-I 7 W/m² 0,6 °C 6,9 °C 0,0 km/h (0 Bft)
28.03.2019 18:33 6,8 °C 65 % 1030,7 hPa 0,0 mm 0,0 km/h (0 Bft) O 91 ° 0 min 0,000 mm 0,0 UV-I 7 W/m² 0,7 °C 6,8 °C 0,0 km/h (0 Bft)
28.03.2019 18:34 6,8 °C 65 % 1030,7 hPa 0,0 mm 0,5 km/h (0 Bft) O 91 ° 0 min 0,000 mm 0,0 UV-I 7 W/m² 0,7 °C 6,8 °C 1,6 km/h (1 Bft)
28.03.2019 18:35 6,8 °C 65 % 1030,7 hPa 0,0 mm 1,0 km/h (0 Bft) O 91 ° 0 min 0,000 mm 0,0 UV-I 7 W/m² 0,7 °C 6,8 °C 3,2 km/h (1 Bft)
28.03.2019 18:36 6,7 °C 65 % 1030,7 hPa 0,0 mm 0,2 km/h (0 Bft) O 91 ° 0 min 0,000 mm 0,0 UV-I 5 W/m² 0,6 °C 6,7 °C 1,6 km/h (1 Bft)
28.03.2019 18:37 6,7 °C 65 % 1030,7 hPa 0,0 mm 0,5 km/h (0 Bft) O 91 ° 0 min 0,000 mm 0,0 UV-I 5 W/m² 0,6 °C 6,7 °C 1,6 km/h (1 Bft)
28.03.2019 18:38 6,7 °C 65 % 1030,7 hPa 0,0 mm 0,0 km/h (0 Bft) O 91 ° 0 min 0,000 mm 0,0 UV-I 5 W/m² 0,6 °C 6,7 °C 0,0 km/h (0 Bft)
28.03.2019 18:39 6,6 °C 66 % 1030,8 hPa 0,0 mm 0,2 km/h (0 Bft) O 91 ° 0 min 0,000 mm 0,0 UV-I 5 W/m² 0,7 °C 6,6 °C 1,6 km/h (1 Bft)
28.03.2019 18:40 6,6 °C 65 % 1030,7 hPa 0,0 mm 0,0 km/h (0 Bft) O 91 ° 0 min 0,000 mm 0,0 UV-I 5 W/m² 0,5 °C 6,6 °C 0,0 km/h (0 Bft)
28.03.2019 18:41 6,6 °C 66 % 1030,8 hPa 0,0 mm 1,3 km/h (1 Bft) O 91 ° 0 min 0,000 mm 0,0 UV-I 0 W/m² 0,7 °C 6,6 °C 3,2 km/h (1 Bft)
28.03.2019 18:42 6,6 °C 66 % 1030,8 hPa 0,0 mm 1,8 km/h (1 Bft) O 91 ° 0 min 0,000 mm 0,0 UV-I 0 W/m² 0,7 °C 6,6 °C 3,2 km/h (1 Bft)
28.03.2019 18:43 6,5 °C 66 % 1030,8 hPa 0,0 mm 0,7 km/h (0 Bft) O 91 ° 0 min 0,000 mm 0,0 UV-I 0 W/m² 0,6 °C 6,5 °C 3,2 km/h (1 Bft)
28.03.2019 18:44 6,5 °C 66 % 1030,8 hPa 0,0 mm 0,1 km/h (0 Bft) O 91 ° 0 min 0,000 mm 0,0 UV-I 0 W/m² 0,6 °C 6,5 °C 1,6 km/h (1 Bft)
28.03.2019 18:45 6,4 °C 66 % 1030,9 hPa 0,0 mm 0,0 km/h (0 Bft) O 91 ° 0 min 0,000 mm 0,0 UV-I 0 W/m² 0,5 °C 6,4 °C 0,0 km/h (0 Bft)
28.03.2019 18:46 6,4 °C 67 % 1030,8 hPa 0,0 mm 0,8 km/h (0 Bft) O 92 ° 0 min 0,000 mm 0,0 UV-I 0 W/m² 0,7 °C 6,4 °C 3,2 km/h (1 Bft)
28.03.2019 18:47 6,3 °C 67 % 1030,8 hPa 0,0 mm 3,3 km/h (1 Bft) O 91 ° 0 min 0,000 mm 0,0 UV-I 0 W/m² 0,6 °C 6,3 °C 4,8 km/h (1 Bft)
28.03.2019 18:48 6,3 °C 67 % 1030,8 hPa 0,0 mm 1,5 km/h (1 Bft) O 92 ° 0 min 0,000 mm 0,0 UV-I 0 W/m² 0,6 °C 6,3 °C 4,8 km/h (1 Bft)
28.03.2019 18:49 6,3 °C 67 % 1030,9 hPa 0,0 mm 2,8 km/h (1 Bft) O 92 ° 0 min 0,000 mm 0,0 UV-I 0 W/m² 0,6 °C 6,3 °C 3,2 km/h (1 Bft)
28.03.2019 18:50 6,3 °C 67 % 1030,8 hPa 0,0 mm 2,9 km/h (1 Bft) O 92 ° 0 min 0,000 mm 0,0 UV-I 0 W/m² 0,6 °C 6,3 °C 4,8 km/h (1 Bft)
28.03.2019 18:51 6,3 °C 67 % 1030,8 hPa 0,0 mm 2,1 km/h (1 Bft) O 92 ° 0 min 0,000 mm 0,0 UV-I 0 W/m² 0,6 °C 6,3 °C 4,8 km/h (1 Bft)
28.03.2019 18:52 6,2 °C 67 % 1030,9 hPa 0,0 mm 1,5 km/h (1 Bft) O 92 ° 0 min 0,000 mm 0,0 UV-I 0 W/m² 0,5 °C 6,2 °C 3,2 km/h (1 Bft)
28.03.2019 18:53 6,2 °C 68 % 1030,9 hPa 0,0 mm 0,6 km/h (0 Bft) O 92 ° 0 min 0,000 mm 0,0 UV-I 0 W/m² 0,7 °C 6,2 °C 1,6 km/h (1 Bft)
28.03.2019 18:54 6,1 °C 68 % 1030,8 hPa 0,0 mm 0,1 km/h (0 Bft) O 92 ° 0 min 0,000 mm 0,0 UV-I 0 W/m² 0,6 °C 6,1 °C 1,6 km/h (1 Bft)
28.03.2019 18:55 6,1 °C 68 % 1030,9 hPa 0,0 mm 0,0 km/h (0 Bft) O 92 ° 0 min 0,000 mm 0,0 UV-I 0 W/m² 0,6 °C 6,1 °C 0,0 km/h (0 Bft)
28.03.2019 18:56 6,0 °C 68 % 1030,9 hPa 0,0 mm 0,4 km/h (0 Bft) O-NO 72 ° 0 min 0,000 mm 0,0 UV-I 0 W/m² 0,6 °C 6,0 °C 3,2 km/h (1 Bft)
28.03.2019 18:57 5,9 °C 69 % 1031,0 hPa 0,0 mm 2,3 km/h (1 Bft) SO 142 ° 0 min 0,000 mm 0,0 UV-I 0 W/m² 0,7 °C 5,9 °C 3,2 km/h (1 Bft)
28.03.2019 18:58 6,0 °C 69 % 1030,9 hPa 0,0 mm 1,8 km/h (1 Bft) SO 142 ° 0 min 0,000 mm 0,0 UV-I 0 W/m² 0,8 °C 6,0 °C 3,2 km/h (1 Bft)
28.03.2019 18:59 6,1 °C 68 % 1030,9 hPa 0,0 mm 0,8 km/h (0 Bft) SO 142 ° 0 min 0,000 mm 0,0 UV-I 0 W/m² 0,6 °C 6,1 °C 3,2 km/h (1 Bft)
28.03.2019 19:00 6,0 °C 68 % 1030,9 hPa 0,0 mm 0,2 km/h (0 Bft) O-SO 121 ° 0 min 0,000 mm 0,0 UV-I 0 W/m² 0,6 °C 6,0 °C 1,6 km/h (1 Bft)
28.03.2019 19:01 6,1 °C 68 % 1030,9 hPa 0,0 mm 0,2 km/h (0 Bft) O-SO 121 ° 0 min 0,026 mm 0,0 UV-I 0 W/m² 0,6 °C 6,1 °C 1,6 km/h (1 Bft)
28.03.2019 19:03 6,1 °C 69 % 1030,9 hPa 0,0 mm 1,2 km/h (1 Bft) O-SO 121 ° 0 min 0,000 mm 0,0 UV-I 0 W/m² 0,8 °C 6,1 °C 3,2 km/h (1 Bft)
28.03.2019 19:04 6,0 °C 68 % 1030,9 hPa 0,0 mm 1,0 km/h (0 Bft) O-SO 121 ° 0 min 0,000 mm 0,0 UV-I 0 W/m² 0,6 °C 6,0 °C 3,2 km/h (1 Bft)
28.03.2019 19:05 5,9 °C 69 % 1030,9 hPa 0,0 mm 2,1 km/h (1 Bft) O-SO 121 ° 0 min 0,000 mm 0,0 UV-I 0 W/m² 0,7 °C 5,9 °C 3,2 km/h (1 Bft)
28.03.2019 19:06 5,9 °C 69 % 1031,0 hPa 0,0 mm 1,8 km/h (1 Bft) O-SO 121 ° 0 min 0,000 mm 0,0 UV-I 0 W/m² 0,7 °C 5,9 °C 4,8 km/h (1 Bft)
28.03.2019 19:07 5,8 °C 70 % 1030,9 hPa 0,0 mm 0,5 km/h (0 Bft) O-SO 121 ° 0 min 0,000 mm 0,0 UV-I 0 W/m² 0,8 °C 5,8 °C 1,6 km/h (1 Bft)
28.03.2019 19:08 5,8 °C 70 % 1031,0 hPa 0,0 mm 0,5 km/h (0 Bft) O-SO 121 ° 0 min 0,000 mm 0,0 UV-I 0 W/m² 0,8 °C 5,8 °C 3,2 km/h (1 Bft)
28.03.2019 19:09 5,8 °C 70 % 1031,1 hPa 0,0 mm 0,3 km/h (0 Bft) O-SO 121 ° 0 min 0,000 mm 0,0 UV-I 0 W/m² 0,8 °C 5,8 °C 3,2 km/h (1 Bft)
28.03.2019 19:10 5,7 °C 70 % 1031,0 hPa 0,0 mm 0,6 km/h (0 Bft) O-SO 121 ° 0 min 0,000 mm 0,0 UV-I 0 W/m² 0,7 °C 5,7 °C 1,6 km/h (1 Bft)
28.03.2019 19:11 5,7 °C 70 % 1031,1 hPa 0,0 mm 0,4 km/h (0 Bft) O-SO 121 ° 0 min 0,000 mm 0,0 UV-I 0 W/m² 0,7 °C 5,7 °C 1,6 km/h (1 Bft)
28.03.2019 19:12 5,6 °C 70 % 1031,1 hPa 0,0 mm 0,8 km/h (0 Bft) O-SO 121 ° 0 min 0,000 mm 0,0 UV-I 0 W/m² 0,6 °C 5,6 °C 1,6 km/h (1 Bft)
28.03.2019 19:13 5,6 °C 71 % 1031,1 hPa 0,0 mm 1,8 km/h (1 Bft) O-SO 121 ° 0 min 0,000 mm 0,0 UV-I 0 W/m² 0,8 °C 5,6 °C 3,2 km/h (1 Bft)
28.03.2019 19:14 5,6 °C 71 % 1031,1 hPa 0,0 mm 0,1 km/h (0 Bft) O-SO 121 ° 0 min 0,000 mm 0,0 UV-I 0 W/m² 0,8 °C 5,6 °C 1,6 km/h (1 Bft)
28.03.2019 19:15 5,5 °C 71 % 1031,1 hPa 0,0 mm 3,0 km/h (1 Bft) O-SO 104 ° 0 min 0,000 mm 0,0 UV-I 0 W/m² 0,7 °C 5,5 °C 4,8 km/h (1 Bft)
28.03.2019 19:16 5,5 °C 71 % 1031,1 hPa 0,0 mm 3,6 km/h (1 Bft) O 92 ° 0 min 0,000 mm 0,0 UV-I 0 W/m² 0,7 °C 5,5 °C 4,8 km/h (1 Bft)
28.03.2019 19:17 5,6 °C 71 % 1031,1 hPa 0,0 mm 1,1 km/h (1 Bft) O 92 ° 0 min 0,000 mm 0,0 UV-I 0 W/m² 0,8 °C 5,6 °C 1,6 km/h (1 Bft)
28.03.2019 19:18 5,6 °C 71 % 1031,1 hPa 0,0 mm 1,9 km/h (1 Bft) O 92 ° 0 min 0,000 mm 0,0 UV-I 0 W/m² 0,8 °C 5,6 °C 3,2 km/h (1 Bft)
28.03.2019 19:19 5,5 °C 71 % 1031,1 hPa 0,0 mm 2,0 km/h (1 Bft) O 99 ° 0 min 0,000 mm 0,0 UV-I 0 W/m² 0,7 °C 5,5 °C 3,2 km/h (1 Bft)
28.03.2019 19:20 5,4 °C 71 % 1031,1 hPa 0,0 mm 1,1 km/h (1 Bft) O 99 ° 0 min 0,000 mm 0,0 UV-I 0 W/m² 0,6 °C 5,4 °C 3,2 km/h (1 Bft)
28.03.2019 19:21 5,4 °C 72 % 1031,2 hPa 0,0 mm 0,1 km/h (0 Bft) O 99 ° 0 min 0,000 mm 0,0 UV-I 0 W/m² 0,8 °C 5,4 °C 1,6 km/h (1 Bft)
28.03.2019 19:22 5,4 °C 72 % 1031,2 hPa 0,0 mm 0,0 km/h (0 Bft) O 99 ° 0 min 0,000 mm 0,0 UV-I 0 W/m² 0,8 °C 5,4 °C 0,0 km/h (0 Bft)
28.03.2019 19:23 5,3 °C 72 % 1031,1 hPa 0,0 mm 2,0 km/h (1 Bft) O-SO 103 ° 0 min 0,000 mm 0,0 UV-I 0 W/m² 0,7 °C 5,3 °C 4,8 km/h (1 Bft)
28.03.2019 19:24 5,4 °C 72 % 1031,2 hPa 0,0 mm 1,3 km/h (1 Bft) O-SO 103 ° 0 min 0,000 mm 0,0 UV-I 0 W/m² 0,8 °C 5,4 °C 3,2 km/h (1 Bft)
28.03.2019 19:25 5,4 °C 72 % 1031,1 hPa 0,0 mm 0,3 km/h (0 Bft) O-SO 103 ° 0 min 0,000 mm 0,0 UV-I 0 W/m² 0,8 °C 5,4 °C 1,6 km/h (1 Bft)
28.03.2019 19:26 5,4 °C 72 % 1031,2 hPa 0,0 mm 0,3 km/h (0 Bft) O-SO 103 ° 0 min 0,000 mm 0,0 UV-I 0 W/m² 0,8 °C 5,4 °C 1,6 km/h (1 Bft)
28.03.2019 19:27 5,4 °C 72 % 1031,2 hPa 0,0 mm 0,1 km/h (0 Bft) O-SO 103 ° 0 min 0,000 mm 0,0 UV-I 0 W/m² 0,8 °C 5,4 °C 1,6 km/h (1 Bft)
28.03.2019 19:28 5,4 °C 72 % 1031,2 hPa 0,0 mm 0,1 km/h (0 Bft) O-SO 103 ° 0 min 0,000 mm 0,0 UV-I 0 W/m² 0,8 °C 5,4 °C 1,6 km/h (1 Bft)
28.03.2019 19:29 5,4 °C 72 % 1031,2 hPa 0,0 mm 1,0 km/h (0 Bft) O-SO 103 ° 0 min 0,000 mm 0,0 UV-I 0 W/m² 0,8 °C 5,4 °C 3,2 km/h (1 Bft)
28.03.2019 19:30 5,4 °C 72 % 1031,2 hPa 0,0 mm 0,1 km/h (0 Bft) O-SO 103 ° 0 min 0,000 mm 0,0 UV-I 0 W/m² 0,8 °C 5,4 °C 1,6 km/h (1 Bft)
28.03.2019 19:31 5,4 °C 72 % 1031,2 hPa 0,0 mm 0,4 km/h (0 Bft) O-SO 103 ° 0 min 0,000 mm 0,0 UV-I 0 W/m² 0,8 °C 5,4 °C 3,2 km/h (1 Bft)
28.03.2019 19:32 5,4 °C 72 % 1031,2 hPa 0,0 mm 2,1 km/h (1 Bft) O-SO 106 ° 0 min 0,000 mm 0,0 UV-I 0 W/m² 0,8 °C 5,4 °C 4,8 km/h (1 Bft)
28.03.2019 19:33 5,4 °C 72 % 1031,2 hPa 0,0 mm 0,2 km/h (0 Bft) O-SO 106 ° 0 min 0,000 mm 0,0 UV-I 0 W/m² 0,8 °C 5,4 °C 3,2 km/h (1 Bft)
28.03.2019 19:34 5,4 °C 72 % 1031,2 hPa 0,0 mm 0,0 km/h (0 Bft) O-SO 106 ° 0 min 0,000 mm 0,0 UV-I 0 W/m² 0,8 °C 5,4 °C 0,0 km/h (0 Bft)
28.03.2019 19:35 5,4 °C 72 % 1031,2 hPa 0,0 mm 0,0 km/h (0 Bft) O-SO 106 ° 0 min 0,000 mm 0,0 UV-I 0 W/m² 0,8 °C 5,4 °C 0,0 km/h (0 Bft)
28.03.2019 19:36 5,4 °C 72 % 1031,2 hPa 0,0 mm 0,0 km/h (0 Bft) O-SO 106 ° 0 min 0,000 mm 0,0 UV-I 0 W/m² 0,8 °C 5,4 °C 0,0 km/h (0 Bft)
28.03.2019 19:37 5,4 °C 73 % 1031,2 hPa 0,0 mm 0,7 km/h (0 Bft) O-SO 106 ° 0 min 0,000 mm 0,0 UV-I 0 W/m² 1,0 °C 5,4 °C 3,2 km/h (1 Bft)
28.03.2019 19:38 5,4 °C 73 % 1031,2 hPa 0,0 mm 0,1 km/h (0 Bft) O-SO 106 ° 0 min 0,000 mm 0,0 UV-I 0 W/m² 1,0 °C 5,4 °C 1,6 km/h (1 Bft)
28.03.2019 19:39 5,3 °C 72 % 1031,2 hPa 0,0 mm 0,0 km/h (0 Bft) O-SO 106 ° 0 min 0,000 mm 0,0 UV-I 0 W/m² 0,7 °C 5,3 °C 0,0 km/h (0 Bft)
28.03.2019 19:40 5,3 °C 73 % 1031,2 hPa 0,0 mm 0,0 km/h (0 Bft) O-SO 106 ° 0 min 0,000 mm 0,0 UV-I 0 W/m² 0,9 °C 5,3 °C 0,0 km/h (0 Bft)
28.03.2019 19:41 5,3 °C 73 % 1031,2 hPa 0,0 mm 0,7 km/h (0 Bft) O-SO 106 ° 0 min 0,000 mm 0,0 UV-I 0 W/m² 0,9 °C 5,3 °C 3,2 km/h (1 Bft)
28.03.2019 19:42 5,2 °C 73 % 1031,2 hPa 0,0 mm 1,5 km/h (1 Bft) O-SO 106 ° 0 min 0,000 mm 0,0 UV-I 0 W/m² 0,8 °C 5,2 °C 3,2 km/h (1 Bft)
28.03.2019 19:43 5,2 °C 73 % 1031,2 hPa 0,0 mm 1,6 km/h (1 Bft) O-SO 106 ° 0 min 0,000 mm 0,0 UV-I 0 W/m² 0,8 °C 5,2 °C 3,2 km/h (1 Bft)
28.03.2019 19:44 5,1 °C 73 % 1031,2 hPa 0,0 mm 0,3 km/h (0 Bft) O-SO 106 ° 0 min 0,000 mm 0,0 UV-I 0 W/m² 0,7 °C 5,1 °C 3,2 km/h (1 Bft)
28.03.2019 19:45 5,1 °C 73 % 1031,3 hPa 0,0 mm 0,0 km/h (0 Bft) O-SO 106 ° 0 min 0,000 mm 0,0 UV-I 0 W/m² 0,7 °C 5,1 °C 0,0 km/h (0 Bft)
28.03.2019 19:46 5,1 °C 73 % 1031,3 hPa 0,0 mm 0,0 km/h (0 Bft) O-SO 106 ° 0 min 0,000 mm 0,0 UV-I 0 W/m² 0,7 °C 5,1 °C 0,0 km/h (0 Bft)
28.03.2019 19:47 5,1 °C 74 % 1031,3 hPa 0,0 mm 0,0 km/h (0 Bft) O-SO 106 ° 0 min 0,000 mm 0,0 UV-I 0 W/m² 0,9 °C 5,1 °C 0,0 km/h (0 Bft)
28.03.2019 19:48 5,1 °C 73 % 1031,3 hPa 0,0 mm 0,0 km/h (0 Bft) O-SO 106 ° 0 min 0,000 mm 0,0 UV-I 0 W/m² 0,7 °C 5,1 °C 0,0 km/h (0 Bft)
28.03.2019 19:49 5,1 °C 74 % 1031,3 hPa 0,0 mm 0,0 km/h (0 Bft) O-SO 106 ° 0 min 0,000 mm 0,0 UV-I 0 W/m² 0,9 °C 5,1 °C 0,0 km/h (0 Bft)
28.03.2019 19:50 5,1 °C 74 % 1031,3 hPa 0,0 mm 0,0 km/h (0 Bft) O-SO 106 ° 0 min 0,000 mm 0,0 UV-I 0 W/m² 0,9 °C 5,1 °C 0,0 km/h (0 Bft)
28.03.2019 19:51 4,9 °C 73 % 1031,3 hPa 0,0 mm 0,0 km/h (0 Bft) O-SO 106 ° 0 min 0,000 mm 0,0 UV-I 0 W/m² 0,5 °C 4,9 °C 0,0 km/h (0 Bft)
28.03.2019 19:52 4,9 °C 74 % 1031,3 hPa 0,0 mm 0,0 km/h (0 Bft) O-SO 106 ° 0 min 0,000 mm 0,0 UV-I 0 W/m² 0,7 °C 4,9 °C 0,0 km/h (0 Bft)
28.03.2019 19:53 4,9 °C 74 % 1031,3 hPa 0,0 mm 0,0 km/h (0 Bft) O-SO 106 ° 0 min 0,000 mm 0,0 UV-I 0 W/m² 0,7 °C 4,9 °C 0,0 km/h (0 Bft)
28.03.2019 19:54 4,8 °C 74 % 1031,3 hPa 0,0 mm 0,0 km/h (0 Bft) O-SO 106 ° 0 min 0,000 mm 0,0 UV-I 0 W/m² 0,6 °C 4,8 °C 0,0 km/h (0 Bft)
28.03.2019 19:55 4,8 °C 75 % 1031,2 hPa 0,0 mm 0,0 km/h (0 Bft) O-SO 106 ° 0 min 0,000 mm 0,0 UV-I 0 W/m² 0,8 °C 4,8 °C 0,0 km/h (0 Bft)
28.03.2019 19:56 4,7 °C 74 % 1031,2 hPa 0,0 mm 0,0 km/h (0 Bft) O-SO 106 ° 0 min 0,000 mm 0,0 UV-I 0 W/m² 0,5 °C 4,7 °C 0,0 km/h (0 Bft)
28.03.2019 19:57 4,7 °C 75 % 1031,3 hPa 0,0 mm 0,0 km/h (0 Bft) O-SO 106 ° 0 min 0,000 mm 0,0 UV-I 0 W/m² 0,7 °C 4,7 °C 0,0 km/h (0 Bft)
28.03.2019 19:58 4,6 °C 75 % 1031,3 hPa 0,0 mm 0,0 km/h (0 Bft) O-SO 106 ° 0 min 0,000 mm 0,0 UV-I 0 W/m² 0,6 °C 4,6 °C 0,0 km/h (0 Bft)
28.03.2019 19:59 4,6 °C 76 % 1031,2 hPa 0,0 mm 0,0 km/h (0 Bft) O-SO 106 ° 0 min 0,000 mm 0,0 UV-I 0 W/m² 0,7 °C 4,6 °C 0,0 km/h (0 Bft)
28.03.2019 20:00 4,5 °C 76 % 1031,2 hPa 0,0 mm 0,0 km/h (0 Bft) O-SO 106 ° 0 min 0,000 mm 0,0 UV-I 0 W/m² 0,6 °C 4,5 °C 0,0 km/h (0 Bft)
28.03.2019 20:01 4,4 °C 76 % 1031,3 hPa 0,0 mm 0,3 km/h (0 Bft) O-SO 106 ° 0 min 0,025 mm 0,0 UV-I 0 W/m² 0,5 °C 4,4 °C 1,6 km/h (1 Bft)
28.03.2019 20:02 4,4 °C 76 % 1031,2 hPa 0,0 mm 1,9 km/h (1 Bft) O-SO 107 ° 0 min 0,000 mm 0,0 UV-I 0 W/m² 0,5 °C 4,4 °C 6,4 km/h (2 Bft)
28.03.2019 20:03 4,4 °C 76 % 1031,2 hPa 0,0 mm 0,0 km/h (0 Bft) O-SO 107 ° 0 min 0,000 mm 0,0 UV-I 0 W/m² 0,5 °C 4,4 °C 0,0 km/h (0 Bft)
28.03.2019 20:04 4,3 °C 77 % 1031,2 hPa 0,0 mm 0,0 km/h (0 Bft) O-SO 107 ° 0 min 0,000 mm 0,0 UV-I 0 W/m² 0,6 °C 4,3 °C 0,0 km/h (0 Bft)
28.03.2019 20:05 4,3 °C 76 % 1031,2 hPa 0,0 mm 0,0 km/h (0 Bft) O-SO 107 ° 0 min 0,000 mm 0,0 UV-I 0 W/m² 0,5 °C 4,3 °C 0,0 km/h (0 Bft)
28.03.2019 20:06 4,2 °C 76 % 1031,3 hPa 0,0 mm 0,0 km/h (0 Bft) O-SO 107 ° 0 min 0,000 mm 0,0 UV-I 0 W/m² 0,4 °C 4,2 °C 0,0 km/h (0 Bft)
28.03.2019 20:07 4,2 °C 77 % 1031,3 hPa 0,0 mm 0,0 km/h (0 Bft) O-SO 107 ° 0 min 0,000 mm 0,0 UV-I 0 W/m² 0,5 °C 4,2 °C 0,0 km/h (0 Bft)
28.03.2019 20:08 4,2 °C 77 % 1031,3 hPa 0,0 mm 0,0 km/h (0 Bft) O-SO 107 ° 0 min 0,000 mm 0,0 UV-I 0 W/m² 0,5 °C 4,2 °C 0,0 km/h (0 Bft)
28.03.2019 20:09 4,0 °C 77 % 1031,3 hPa 0,0 mm 0,0 km/h (0 Bft) O-SO 107 ° 0 min 0,000 mm 0,0 UV-I 0 W/m² 0,3 °C 4,0 °C 0,0 km/h (0 Bft)
28.03.2019 20:10 3,9 °C 77 % 1031,3 hPa 0,0 mm 0,0 km/h (0 Bft) O-SO 107 ° 0 min 0,000 mm 0,0 UV-I 0 W/m² 0,2 °C 3,9 °C 0,0 km/h (0 Bft)
28.03.2019 20:11 3,8 °C 77 % 1031,3 hPa 0,0 mm 0,0 km/h (0 Bft) O-SO 107 ° 0 min 0,000 mm 0,0 UV-I 0 W/m² 0,1 °C 3,8 °C 0,0 km/h (0 Bft)
28.03.2019 20:12 3,7 °C 78 % 1031,4 hPa 0,0 mm 0,0 km/h (0 Bft) O-SO 107 ° 0 min 0,000 mm 0,0 UV-I 0 W/m² 0,2 °C 3,7 °C 0,0 km/h (0 Bft)
28.03.2019 20:13 3,6 °C 78 % 1031,4 hPa 0,0 mm 0,0 km/h (0 Bft) O-SO 107 ° 0 min 0,000 mm 0,0 UV-I 0 W/m² 0,1 °C 3,6 °C 0,0 km/h (0 Bft)
28.03.2019 20:14 3,5 °C 79 % 1031,4 hPa 0,0 mm 0,0 km/h (0 Bft) O-SO 107 ° 0 min 0,000 mm 0,0 UV-I 0 W/m² 0,2 °C 3,5 °C 0,0 km/h (0 Bft)
28.03.2019 20:15 3,4 °C 79 % 1031,4 hPa 0,0 mm 0,0 km/h (0 Bft) O-SO 107 ° 0 min 0,000 mm 0,0 UV-I 0 W/m² 0,1 °C 3,4 °C 0,0 km/h (0 Bft)
28.03.2019 20:16 3,4 °C 80 % 1031,4 hPa 0,0 mm 0,0 km/h (0 Bft) O-SO 107 ° 0 min 0,000 mm 0,0 UV-I 0 W/m² 0,3 °C 3,4 °C 0,0 km/h (0 Bft)
28.03.2019 20:17 3,4 °C 80 % 1031,4 hPa 0,0 mm 0,0 km/h (0 Bft) O-SO 107 ° 0 min 0,000 mm 0,0 UV-I 0 W/m² 0,3 °C 3,4 °C 0,0 km/h (0 Bft)
28.03.2019 20:18 3,5 °C 81 % 1031,5 hPa 0,0 mm 0,0 km/h (0 Bft) O-SO 107 ° 0 min 0,000 mm 0,0 UV-I 0 W/m² 0,6 °C 3,5 °C 0,0 km/h (0 Bft)
28.03.2019 20:19 3,6 °C 81 % 1031,4 hPa 0,0 mm 0,0 km/h (0 Bft) O-SO 107 ° 0 min 0,000 mm 0,0 UV-I 0 W/m² 0,7 °C 3,6 °C 0,0 km/h (0 Bft)
28.03.2019 20:20 3,7 °C 80 % 1031,4 hPa 0,0 mm 0,0 km/h (0 Bft) O-SO 107 ° 0 min 0,000 mm 0,0 UV-I 0 W/m² 0,6 °C 3,7 °C 0,0 km/h (0 Bft)
28.03.2019 20:21 3,7 °C 80 % 1031,4 hPa 0,0 mm 0,0 km/h (0 Bft) O-SO 107 ° 0 min 0,000 mm 0,0 UV-I 0 W/m² 0,6 °C 3,7 °C 0,0 km/h (0 Bft)
28.03.2019 20:22 3,6 °C 80 % 1031,4 hPa 0,0 mm 0,0 km/h (0 Bft) O-SO 107 ° 0 min 0,000 mm 0,0 UV-I 0 W/m² 0,5 °C 3,6 °C 0,0 km/h (0 Bft)
28.03.2019 20:23 3,5 °C 80 % 1031,4 hPa 0,0 mm 0,0 km/h (0 Bft) O-SO 107 ° 0 min 0,000 mm 0,0 UV-I 0 W/m² 0,4 °C 3,5 °C 0,0 km/h (0 Bft)
28.03.2019 20:24 3,6 °C 81 % 1031,4 hPa 0,0 mm 0,0 km/h (0 Bft) O-SO 107 ° 0 min 0,000 mm 0,0 UV-I 0 W/m² 0,7 °C 3,6 °C 0,0 km/h (0 Bft)
28.03.2019 20:25 3,5 °C 80 % 1031,4 hPa 0,0 mm 0,0 km/h (0 Bft) O-SO 107 ° 0 min 0,000 mm 0,0 UV-I 0 W/m² 0,4 °C 3,5 °C 0,0 km/h (0 Bft)
28.03.2019 20:26 3,4 °C 80 % 1031,4 hPa 0,0 mm 0,0 km/h (0 Bft) O-SO 107 ° 0 min 0,000 mm 0,0 UV-I 0 W/m² 0,3 °C 3,4 °C 0,0 km/h (0 Bft)
28.03.2019 20:27 3,3 °C 80 % 1031,4 hPa 0,0 mm 0,0 km/h (0 Bft) O-SO 107 ° 0 min 0,000 mm 0,0 UV-I 0 W/m² 0,2 °C 3,3 °C 0,0 km/h (0 Bft)
28.03.2019 20:28 3,3 °C 80 % 1031,5 hPa 0,0 mm 0,0 km/h (0 Bft) O-SO 107 ° 0 min 0,000 mm 0,0 UV-I 0 W/m² 0,2 °C 3,3 °C 0,0 km/h (0 Bft)
28.03.2019 20:29 3,2 °C 80 % 1031,4 hPa 0,0 mm 0,0 km/h (0 Bft) O-SO 107 ° 0 min 0,000 mm 0,0 UV-I 0 W/m² 0,1 °C 3,2 °C 0,0 km/h (0 Bft)
28.03.2019 20:30 3,1 °C 80 % 1031,5 hPa 0,0 mm 0,0 km/h (0 Bft) O-SO 107 ° 0 min 0,000 mm 0,0 UV-I 0 W/m² -0,0 °C 3,1 °C 0,0 km/h (0 Bft)
28.03.2019 20:31 3,1 °C 81 % 1031,5 hPa 0,0 mm 0,0 km/h (0 Bft) O-SO 107 ° 0 min 0,000 mm 0,0 UV-I 0 W/m² 0,2 °C 3,1 °C 0,0 km/h (0 Bft)
28.03.2019 20:32 2,9 °C 81 % 1031,5 hPa 0,0 mm 0,0 km/h (0 Bft) O-SO 107 ° 0 min 0,000 mm 0,0 UV-I 0 W/m² -0,0 °C 2,9 °C 0,0 km/h (0 Bft)
28.03.2019 20:33 2,9 °C 81 % 1031,5 hPa 0,0 mm 0,0 km/h (0 Bft) O-SO 107 ° 0 min 0,000 mm 0,0 UV-I 0 W/m² -0,0 °C 2,9 °C 0,0 km/h (0 Bft)
28.03.2019 20:34 3,0 °C 82 % 1031,5 hPa 0,0 mm 0,0 km/h (0 Bft) O-SO 107 ° 0 min 0,000 mm 0,0 UV-I 0 W/m² 0,2 °C 3,0 °C 0,0 km/h (0 Bft)
28.03.2019 20:35 3,1 °C 82 % 1031,5 hPa 0,0 mm 0,0 km/h (0 Bft) O-SO 107 ° 0 min 0,000 mm 0,0 UV-I 0 W/m² 0,3 °C 3,1 °C 0,0 km/h (0 Bft)
28.03.2019 20:36 3,1 °C 82 % 1031,5 hPa 0,0 mm 0,0 km/h (0 Bft) O-SO 107 ° 0 min 0,000 mm 0,0 UV-I 0 W/m² 0,3 °C 3,1 °C 0,0 km/h (0 Bft)
28.03.2019 20:37 3,1 °C 82 % 1031,5 hPa 0,0 mm 0,0 km/h (0 Bft) O-SO 107 ° 0 min 0,000 mm 0,0 UV-I 0 W/m² 0,3 °C 3,1 °C 0,0 km/h (0 Bft)
28.03.2019 20:38 3,2 °C 83 % 1031,5 hPa 0,0 mm 0,0 km/h (0 Bft) O-SO 107 ° 0 min 0,000 mm 0,0 UV-I 0 W/m² 0,6 °C 3,2 °C 0,0 km/h (0 Bft)
28.03.2019 20:39 3,3 °C 83 % 1031,5 hPa 0,0 mm 0,2 km/h (0 Bft) O-SO 107 ° 0 min 0,000 mm 0,0 UV-I 0 W/m² 0,7 °C 3,3 °C 3,2 km/h (1 Bft)
28.03.2019 20:40 3,5 °C 83 % 1031,5 hPa 0,0 mm 1,3 km/h (1 Bft) O-SO 123 ° 0 min 0,000 mm 0,0 UV-I 0 W/m² 0,9 °C 3,5 °C 4,8 km/h (1 Bft)
28.03.2019 20:41 3,6 °C 83 % 1031,5 hPa 0,0 mm 0,6 km/h (0 Bft) O-SO 123 ° 0 min 0,000 mm 0,0 UV-I 0 W/m² 1,0 °C 3,6 °C 3,2 km/h (1 Bft)
28.03.2019 20:42 3,8 °C 82 % 1031,5 hPa 0,0 mm 1,4 km/h (1 Bft) O-SO 123 ° 0 min 0,000 mm 0,0 UV-I 0 W/m² 1,0 °C 3,8 °C 3,2 km/h (1 Bft)
28.03.2019 20:43 4,0 °C 82 % 1031,4 hPa 0,0 mm 0,2 km/h (0 Bft) O-SO 123 ° 0 min 0,000 mm 0,0 UV-I 0 W/m² 1,2 °C 4,0 °C 1,6 km/h (1 Bft)
28.03.2019 20:44 4,2 °C 81 % 1031,5 hPa 0,0 mm 0,4 km/h (0 Bft) O-SO 123 ° 0 min 0,000 mm 0,0 UV-I 0 W/m² 1,2 °C 4,2 °C 3,2 km/h (1 Bft)
28.03.2019 20:45 4,2 °C 80 % 1031,5 hPa 0,0 mm 0,0 km/h (0 Bft) O-SO 123 ° 0 min 0,000 mm 0,0 UV-I 0 W/m² 1,1 °C 4,2 °C 0,0 km/h (0 Bft)
28.03.2019 20:46 4,3 °C 81 % 1031,5 hPa 0,0 mm 1,5 km/h (1 Bft) O-SO 123 ° 0 min 0,000 mm 0,0 UV-I 0 W/m² 1,3 °C 4,3 °C 4,8 km/h (1 Bft)
28.03.2019 20:47 4,4 °C 80 % 1031,5 hPa 0,0 mm 0,0 km/h (0 Bft) O-SO 123 ° 0 min 0,000 mm 0,0 UV-I 0 W/m² 1,3 °C 4,4 °C 0,0 km/h (0 Bft)
28.03.2019 20:48 4,4 °C 79 % 1031,5 hPa 0,0 mm 1,2 km/h (1 Bft) O-SO 123 ° 0 min 0,000 mm 0,0 UV-I 0 W/m² 1,1 °C 4,4 °C 3,2 km/h (1 Bft)
28.03.2019 20:49 4,4 °C 79 % 1031,5 hPa 0,0 mm 1,0 km/h (0 Bft) O-SO 123 ° 0 min 0,000 mm 0,0 UV-I 0 W/m² 1,1 °C 4,4 °C 3,2 km/h (1 Bft)
28.03.2019 20:50 4,4 °C 79 % 1031,5 hPa 0,0 mm 1,7 km/h (1 Bft) O-SO 117 ° 0 min 0,000 mm 0,0 UV-I 0 W/m² 1,1 °C 4,4 °C 3,2 km/h (1 Bft)
28.03.2019 20:51 4,4 °C 79 % 1031,5 hPa 0,0 mm 0,8 km/h (0 Bft) O-SO 117 ° 0 min 0,000 mm 0,0 UV-I 0 W/m² 1,1 °C 4,4 °C 3,2 km/h (1 Bft)
28.03.2019 20:52 4,5 °C 79 % 1031,5 hPa 0,0 mm 1,9 km/h (1 Bft) O-SO 117 ° 0 min 0,000 mm 0,0 UV-I 0 W/m² 1,2 °C 4,5 °C 3,2 km/h (1 Bft)
28.03.2019 20:53 4,6 °C 79 % 1031,5 hPa 0,0 mm 0,5 km/h (0 Bft) O-SO 117 ° 0 min 0,000 mm 0,0 UV-I 0 W/m² 1,3 °C 4,6 °C 1,6 km/h (1 Bft)
28.03.2019 20:54 4,6 °C 79 % 1031,5 hPa 0,0 mm 1,5 km/h (1 Bft) O-SO 122 ° 0 min 0,000 mm 0,0 UV-I 0 W/m² 1,3 °C 4,6 °C 3,2 km/h (1 Bft)
28.03.2019 20:55 4,6 °C 79 % 1031,5 hPa 0,0 mm 0,0 km/h (0 Bft) O-SO 122 ° 0 min 0,000 mm 0,0 UV-I 0 W/m² 1,3 °C 4,6 °C 0,0 km/h (0 Bft)
28.03.2019 20:56 4,6 °C 79 % 1031,5 hPa 0,0 mm 1,7 km/h (1 Bft) O-SO 122 ° 0 min 0,000 mm 0,0 UV-I 0 W/m² 1,3 °C 4,6 °C 4,8 km/h (1 Bft)
28.03.2019 20:57 4,7 °C 79 % 1031,5 hPa 0,0 mm 0,7 km/h (0 Bft) O-SO 122 ° 0 min 0,000 mm 0,0 UV-I 0 W/m² 1,4 °C 4,7 °C 1,6 km/h (1 Bft)
28.03.2019 20:58 4,7 °C 79 % 1031,5 hPa 0,0 mm 0,8 km/h (0 Bft) O-SO 122 ° 0 min 0,000 mm 0,0 UV-I 0 W/m² 1,4 °C 4,7 °C 3,2 km/h (1 Bft)
28.03.2019 20:59 4,7 °C 78 % 1031,5 hPa 0,0 mm 0,5 km/h (0 Bft) O-SO 122 ° 0 min 0,000 mm 0,0 UV-I 0 W/m² 1,2 °C 4,7 °C 3,2 km/h (1 Bft)
28.03.2019 21:00 4,6 °C 79 % 1031,6 hPa 0,0 mm 0,0 km/h (0 Bft) O-SO 122 ° 0 min 0,000 mm 0,0 UV-I 0 W/m² 1,3 °C 4,6 °C 0,0 km/h (0 Bft)
28.03.2019 21:01 4,6 °C 78 % 1031,6 hPa 0,0 mm 0,0 km/h (0 Bft) O-SO 122 ° 0 min 0,000 mm 0,0 UV-I 0 W/m² 1,1 °C 4,6 °C 0,0 km/h (0 Bft)
28.03.2019 21:02 4,6 °C 79 % 1031,5 hPa 0,0 mm 1,5 km/h (1 Bft) O-SO 122 ° 0 min 0,000 mm 0,0 UV-I 0 W/m² 1,3 °C 4,6 °C 3,2 km/h (1 Bft)
28.03.2019 21:03 4,6 °C 79 % 1031,5 hPa 0,0 mm 0,3 km/h (0 Bft) O-SO 122 ° 0 min 0,000 mm 0,0 UV-I 0 W/m² 1,3 °C 4,6 °C 1,6 km/h (1 Bft)
28.03.2019 21:04 4,5 °C 79 % 1031,5 hPa 0,0 mm 0,1 km/h (0 Bft) O-SO 122 ° 0 min 0,000 mm 0,0 UV-I 0 W/m² 1,2 °C 4,5 °C 1,6 km/h (1 Bft)
28.03.2019 21:05 4,5 °C 79 % 1031,5 hPa 0,0 mm 0,5 km/h (0 Bft) O-SO 122 ° 0 min 0,000 mm 0,0 UV-I 0 W/m² 1,2 °C 4,5 °C 1,6 km/h (1 Bft)
28.03.2019 21:06 4,5 °C 79 % 1031,5 hPa 0,0 mm 0,0 km/h (0 Bft) O-SO 122 ° 0 min 0,000 mm 0,0 UV-I 0 W/m² 1,2 °C 4,5 °C 0,0 km/h (0 Bft)
28.03.2019 21:07 4,5 °C 79 % 1031,5 hPa 0,0 mm 0,0 km/h (0 Bft) O-SO 122 ° 0 min 0,000 mm 0,0 UV-I 0 W/m² 1,2 °C 4,5 °C 0,0 km/h (0 Bft)
28.03.2019 21:08 4,4 °C 79 % 1031,5 hPa 0,0 mm 0,0 km/h (0 Bft) O-SO 122 ° 0 min 0,000 mm 0,0 UV-I 0 W/m² 1,1 °C 4,4 °C 0,0 km/h (0 Bft)
28.03.2019 21:09 4,4 °C 79 % 1031,5 hPa 0,0 mm 0,0 km/h (0 Bft) O-SO 122 ° 0 min 0,000 mm 0,0 UV-I 0 W/m² 1,1 °C 4,4 °C 0,0 km/h (0 Bft)
28.03.2019 21:10 4,4 °C 79 % 1031,5 hPa 0,0 mm 0,0 km/h (0 Bft) O-SO 122 ° 0 min 0,000 mm 0,0 UV-I 0 W/m² 1,1 °C 4,4 °C 0,0 km/h (0 Bft)
28.03.2019 21:11 4,4 °C 79 % 1031,5 hPa 0,0 mm 0,0 km/h (0 Bft) O-SO 122 ° 0 min 0,000 mm 0,0 UV-I 0 W/m² 1,1 °C 4,4 °C 0,0 km/h (0 Bft)
28.03.2019 21:12 4,4 °C 79 % 1031,5 hPa 0,0 mm 0,0 km/h (0 Bft) O-SO 122 ° 0 min 0,000 mm 0,0 UV-I 0 W/m² 1,1 °C 4,4 °C 0,0 km/h (0 Bft)
28.03.2019 21:13 4,4 °C 79 % 1031,5 hPa 0,0 mm 0,0 km/h (0 Bft) O-SO 122 ° 0 min 0,000 mm 0,0 UV-I 0 W/m² 1,1 °C 4,4 °C 0,0 km/h (0 Bft)
28.03.2019 21:14 4,3 °C 79 % 1031,5 hPa 0,0 mm 0,0 km/h (0 Bft) O-SO 122 ° 0 min 0,000 mm 0,0 UV-I 0 W/m² 1,0 °C 4,3 °C 0,0 km/h (0 Bft)
28.03.2019 21:15 4,3 °C 79 % 1031,6 hPa 0,0 mm 0,0 km/h (0 Bft) O-SO 122 ° 0 min 0,000 mm 0,0 UV-I 0 W/m² 1,0 °C 4,3 °C 0,0 km/h (0 Bft)
28.03.2019 21:16 4,1 °C 78 % 1031,6 hPa 0,0 mm 0,0 km/h (0 Bft) O-SO 122 ° 0 min 0,000 mm 0,0 UV-I 0 W/m² 0,6 °C 4,1 °C 0,0 km/h (0 Bft)
28.03.2019 21:17 3,8 °C 78 % 1031,6 hPa 0,0 mm 0,0 km/h (0 Bft) O-SO 122 ° 0 min 0,000 mm 0,0 UV-I 0 W/m² 0,3 °C 3,8 °C 0,0 km/h (0 Bft)
28.03.2019 21:18 3,6 °C 80 % 1031,5 hPa 0,0 mm 0,0 km/h (0 Bft) O-SO 122 ° 0 min 0,000 mm 0,0 UV-I 0 W/m² 0,5 °C 3,6 °C 0,0 km/h (0 Bft)
28.03.2019 21:19 3,4 °C 79 % 1031,6 hPa 0,0 mm 0,0 km/h (0 Bft) O-SO 122 ° 0 min 0,000 mm 0,0 UV-I 0 W/m² 0,1 °C 3,4 °C 0,0 km/h (0 Bft)
28.03.2019 21:20 3,2 °C 80 % 1031,6 hPa 0,0 mm 0,0 km/h (0 Bft) O-SO 122 ° 0 min 0,000 mm 0,0 UV-I 0 W/m² 0,1 °C 3,2 °C 0,0 km/h (0 Bft)
28.03.2019 21:21 3,1 °C 80 % 1031,6 hPa 0,0 mm 0,0 km/h (0 Bft) O-SO 122 ° 0 min 0,000 mm 0,0 UV-I 0 W/m² -0,0 °C 3,1 °C 0,0 km/h (0 Bft)
28.03.2019 21:22 3,0 °C 82 % 1031,5 hPa 0,0 mm 0,0 km/h (0 Bft) O-SO 122 ° 0 min 0,000 mm 0,0 UV-I 0 W/m² 0,2 °C 3,0 °C 0,0 km/h (0 Bft)
28.03.2019 21:23 3,2 °C 83 % 1031,6 hPa 0,0 mm 0,0 km/h (0 Bft) O-SO 122 ° 0 min 0,000 mm 0,0 UV-I 0 W/m² 0,6 °C 3,2 °C 0,0 km/h (0 Bft)
28.03.2019 21:24 3,3 °C 84 % 1031,6 hPa 0,0 mm 0,0 km/h (0 Bft) O-SO 122 ° 0 min 0,000 mm 0,0 UV-I 0 W/m² 0,9 °C 3,3 °C 0,0 km/h (0 Bft)
28.03.2019 21:25 3,5 °C 83 % 1031,6 hPa 0,0 mm 0,0 km/h (0 Bft) O-SO 122 ° 0 min 0,000 mm 0,0 UV-I 0 W/m² 0,9 °C 3,5 °C 0,0 km/h (0 Bft)
28.03.2019 21:26 3,4 °C 82 % 1031,6 hPa 0,0 mm 0,0 km/h (0 Bft) O-SO 122 ° 0 min 0,000 mm 0,0 UV-I 0 W/m² 0,6 °C 3,4 °C 0,0 km/h (0 Bft)
28.03.2019 21:27 3,3 °C 80 % 1031,6 hPa 0,0 mm 0,0 km/h (0 Bft) O-SO 122 ° 0 min 0,000 mm 0,0 UV-I 0 W/m² 0,2 °C 3,3 °C 0,0 km/h (0 Bft)
28.03.2019 21:28 3,0 °C 80 % 1031,6 hPa 0,0 mm 0,0 km/h (0 Bft) O-SO 122 ° 0 min 0,000 mm 0,0 UV-I 0 W/m² -0,1 °C 3,0 °C 0,0 km/h (0 Bft)
28.03.2019 21:29 2,9 °C 81 % 1031,6 hPa 0,0 mm 0,0 km/h (0 Bft) O-SO 122 ° 0 min 0,000 mm 0,0 UV-I 0 W/m² -0,0 °C 2,9 °C 0,0 km/h (0 Bft)
28.03.2019 21:30 2,7 °C 81 % 1031,6 hPa 0,0 mm 0,0 km/h (0 Bft) O-SO 122 ° 0 min 0,000 mm 0,0 UV-I 0 W/m² -0,2 °C 2,7 °C 0,0 km/h (0 Bft)
28.03.2019 21:31 2,5 °C 81 % 1031,6 hPa 0,0 mm 0,0 km/h (0 Bft) O-SO 122 ° 0 min 0,000 mm 0,0 UV-I 0 W/m² -0,4 °C 2,5 °C 0,0 km/h (0 Bft)
28.03.2019 21:32 2,4 °C 82 % 1031,6 hPa 0,0 mm 0,0 km/h (0 Bft) O-SO 122 ° 0 min 0,000 mm 0,0 UV-I 0 W/m² -0,4 °C 2,4 °C 0,0 km/h (0 Bft)
28.03.2019 21:33 2,3 °C 83 % 1031,6 hPa 0,0 mm 0,0 km/h (0 Bft) O-SO 122 ° 0 min 0,000 mm 0,0 UV-I 0 W/m² -0,3 °C 2,3 °C 0,0 km/h (0 Bft)
28.03.2019 21:34 2,3 °C 84 % 1031,6 hPa 0,0 mm 0,0 km/h (0 Bft) O-SO 122 ° 0 min 0,000 mm 0,0 UV-I 0 W/m² -0,1 °C 2,3 °C 0,0 km/h (0 Bft)
28.03.2019 21:35 2,3 °C 84 % 1031,6 hPa 0,0 mm 0,0 km/h (0 Bft) O-SO 122 ° 0 min 0,000 mm 0,0 UV-I 0 W/m² -0,1 °C 2,3 °C 0,0 km/h (0 Bft)
28.03.2019 21:36 2,4 °C 85 % 1031,6 hPa 0,0 mm 0,0 km/h (0 Bft) O-SO 122 ° 0 min 0,000 mm 0,0 UV-I 0 W/m² 0,1 °C 2,4 °C 0,0 km/h (0 Bft)
28.03.2019 21:37 2,6 °C 85 % 1031,6 hPa 0,0 mm 0,0 km/h (0 Bft) O-SO 122 ° 0 min 0,000 mm 0,0 UV-I 0 W/m² 0,3 °C 2,6 °C 0,0 km/h (0 Bft)
28.03.2019 21:38 2,8 °C 86 % 1031,6 hPa 0,0 mm 0,1 km/h (0 Bft) O-SO 122 ° 0 min 0,000 mm 0,0 UV-I 0 W/m² 0,7 °C 2,8 °C 1,6 km/h (1 Bft)
28.03.2019 21:39 3,1 °C 86 % 1031,6 hPa 0,0 mm 0,0 km/h (0 Bft) O-SO 122 ° 0 min 0,000 mm 0,0 UV-I 0 W/m² 1,0 °C 3,1 °C 0,0 km/h (0 Bft)
28.03.2019 21:40 3,3 °C 85 % 1031,6 hPa 0,0 mm 0,0 km/h (0 Bft) O-SO 122 ° 0 min 0,000 mm 0,0 UV-I 0 W/m² 1,0 °C 3,3 °C 0,0 km/h (0 Bft)
28.03.2019 21:41 3,4 °C 84 % 1031,6 hPa 0,0 mm 0,0 km/h (0 Bft) O-SO 122 ° 0 min 0,000 mm 0,0 UV-I 0 W/m² 1,0 °C 3,4 °C 0,0 km/h (0 Bft)
28.03.2019 21:42 3,3 °C 82 % 1031,6 hPa 0,0 mm 0,0 km/h (0 Bft) O-SO 122 ° 0 min 0,000 mm 0,0 UV-I 0 W/m² 0,5 °C 3,3 °C 0,0 km/h (0 Bft)
28.03.2019 21:43 3,1 °C 81 % 1031,6 hPa 0,0 mm 0,0 km/h (0 Bft) O-SO 122 ° 0 min 0,000 mm 0,0 UV-I 0 W/m² 0,2 °C 3,1 °C 0,0 km/h (0 Bft)
28.03.2019 21:44 2,9 °C 82 % 1031,6 hPa 0,0 mm 0,0 km/h (0 Bft) O-SO 122 ° 0 min 0,000 mm 0,0 UV-I 0 W/m² 0,1 °C 2,9 °C 0,0 km/h (0 Bft)
28.03.2019 21:45 2,8 °C 81 % 1031,6 hPa 0,0 mm 0,0 km/h (0 Bft) O-SO 122 ° 0 min 0,000 mm 0,0 UV-I 0 W/m² -0,1 °C 2,8 °C 0,0 km/h (0 Bft)
28.03.2019 21:46 2,6 °C 82 % 1031,7 hPa 0,0 mm 0,0 km/h (0 Bft) O-SO 122 ° 0 min 0,000 mm 0,0 UV-I 0 W/m² -0,2 °C 2,6 °C 0,0 km/h (0 Bft)
28.03.2019 21:47 2,4 °C 83 % 1031,6 hPa 0,0 mm 0,0 km/h (0 Bft) O-SO 122 ° 0 min 0,000 mm 0,0 UV-I 0 W/m² -0,2 °C 2,4 °C 0,0 km/h (0 Bft)
28.03.2019 21:48 2,3 °C 83 % 1031,7 hPa 0,0 mm 0,0 km/h (0 Bft) O-SO 122 ° 0 min 0,000 mm 0,0 UV-I 0 W/m² -0,3 °C 2,3 °C 0,0 km/h (0 Bft)
28.03.2019 21:49 2,3 °C 84 % 1031,7 hPa 0,0 mm 0,0 km/h (0 Bft) O-SO 122 ° 0 min 0,000 mm 0,0 UV-I 0 W/m² -0,1 °C 2,3 °C 0,0 km/h (0 Bft)
28.03.2019 21:50 2,2 °C 84 % 1031,7 hPa 0,0 mm 0,0 km/h (0 Bft) O-SO 122 ° 0 min 0,000 mm 0,0 UV-I 0 W/m² -0,2 °C 2,2 °C 0,0 km/h (0 Bft)
28.03.2019 21:51 2,1 °C 83 % 1031,7 hPa 0,0 mm 0,0 km/h (0 Bft) O-SO 122 ° 0 min 0,000 mm 0,0 UV-I 0 W/m² -0,5 °C 2,1 °C 0,0 km/h (0 Bft)
28.03.2019 21:52 2,1 °C 84 % 1031,7 hPa 0,0 mm 0,0 km/h (0 Bft) O-SO 122 ° 0 min 0,000 mm 0,0 UV-I 0 W/m² -0,3 °C 2,1 °C 0,0 km/h (0 Bft)
28.03.2019 21:53 1,9 °C 84 % 1031,7 hPa 0,0 mm 0,0 km/h (0 Bft) O-SO 122 ° 0 min 0,000 mm 0,0 UV-I 0 W/m² -0,5 °C 1,9 °C 0,0 km/h (0 Bft)
28.03.2019 21:54 1,9 °C 85 % 1031,7 hPa 0,0 mm 0,0 km/h (0 Bft) O-SO 122 ° 0 min 0,000 mm 0,0 UV-I 0 W/m² -0,3 °C 1,9 °C 0,0 km/h (0 Bft)
28.03.2019 21:55 2,0 °C 85 % 1031,7 hPa 0,0 mm 0,0 km/h (0 Bft) O-SO 122 ° 0 min 0,000 mm 0,0 UV-I 0 W/m² -0,3 °C 2,0 °C 0,0 km/h (0 Bft)
28.03.2019 21:56 1,9 °C 85 % 1031,8 hPa 0,0 mm 0,0 km/h (0 Bft) O-SO 122 ° 0 min 0,000 mm 0,0 UV-I 0 W/m² -0,3 °C 1,9 °C 0,0 km/h (0 Bft)
28.03.2019 21:57 1,9 °C 85 % 1031,7 hPa 0,0 mm 0,0 km/h (0 Bft) O-SO 122 ° 0 min 0,000 mm 0,0 UV-I 0 W/m² -0,3 °C 1,9 °C 0,0 km/h (0 Bft)
28.03.2019 21:58 1,9 °C 85 % 1031,8 hPa 0,0 mm 0,0 km/h (0 Bft) O-SO 122 ° 0 min 0,000 mm 0,0 UV-I 0 W/m² -0,3 °C 1,9 °C 0,0 km/h (0 Bft)
28.03.2019 21:59 1,9 °C 85 % 1031,8 hPa 0,0 mm 0,0 km/h (0 Bft) O-SO 122 ° 0 min 0,000 mm 0,0 UV-I 0 W/m² -0,3 °C 1,9 °C 0,0 km/h (0 Bft)
28.03.2019 22:00 2,0 °C 86 % 1031,8 hPa 0,0 mm 0,0 km/h (0 Bft) O-SO 122 ° 0 min 0,000 mm 0,0 UV-I 0 W/m² -0,1 °C 2,0 °C 0,0 km/h (0 Bft)
28.03.2019 22:01 2,1 °C 86 % 1031,8 hPa 0,0 mm 0,0 km/h (0 Bft) O-SO 122 ° 0 min 0,000 mm 0,0 UV-I 0 W/m² 0,0 °C 2,1 °C 0,0 km/h (0 Bft)
28.03.2019 22:02 2,2 °C 87 % 1031,8 hPa 0,0 mm 0,0 km/h (0 Bft) O-SO 122 ° 0 min 0,000 mm 0,0 UV-I 0 W/m² 0,3 °C 2,2 °C 0,0 km/h (0 Bft)
28.03.2019 22:03 2,2 °C 85 % 1031,8 hPa 0,0 mm 0,0 km/h (0 Bft) O-SO 122 ° 0 min 0,000 mm 0,0 UV-I 0 W/m² -0,1 °C 2,2 °C 0,0 km/h (0 Bft)
28.03.2019 22:04 2,0 °C 85 % 1031,8 hPa 0,0 mm 0,0 km/h (0 Bft) O-SO 122 ° 0 min 0,000 mm 0,0 UV-I 0 W/m² -0,3 °C 2,0 °C 0,0 km/h (0 Bft)
28.03.2019 22:05 1,9 °C 85 % 1031,8 hPa 0,0 mm 0,0 km/h (0 Bft) O-SO 122 ° 0 min 0,000 mm 0,0 UV-I 0 W/m² -0,3 °C 1,9 °C 0,0 km/h (0 Bft)
28.03.2019 22:06 1,8 °C 85 % 1031,8 hPa 0,0 mm 0,0 km/h (0 Bft) O-SO 122 ° 0 min 0,000 mm 0,0 UV-I 0 W/m² -0,4 °C 1,8 °C 0,0 km/h (0 Bft)
28.03.2019 22:07 1,7 °C 85 % 1031,8 hPa 0,0 mm 0,0 km/h (0 Bft) O-SO 122 ° 0 min 0,000 mm 0,0 UV-I 0 W/m² -0,5 °C 1,7 °C 0,0 km/h (0 Bft)
28.03.2019 22:08 1,6 °C 85 % 1031,8 hPa 0,0 mm 0,0 km/h (0 Bft) O-SO 122 ° 0 min 0,000 mm 0,0 UV-I 0 W/m² -0,6 °C 1,6 °C 0,0 km/h (0 Bft)
28.03.2019 22:09 1,6 °C 86 % 1031,8 hPa 0,0 mm 0,0 km/h (0 Bft) O-SO 122 ° 0 min 0,000 mm 0,0 UV-I 0 W/m² -0,5 °C 1,6 °C 0,0 km/h (0 Bft)
28.03.2019 22:10 1,7 °C 86 % 1031,8 hPa 0,0 mm 0,0 km/h (0 Bft) O-SO 122 ° 0 min 0,000 mm 0,0 UV-I 0 W/m² -0,4 °C 1,7 °C 0,0 km/h (0 Bft)
28.03.2019 22:11 1,7 °C 87 % 1031,8 hPa 0,0 mm 0,0 km/h (0 Bft) O-SO 122 ° 0 min 0,000 mm 0,0 UV-I 0 W/m² -0,2 °C 1,7 °C 0,0 km/h (0 Bft)
28.03.2019 22:12 1,7 °C 86 % 1031,9 hPa 0,0 mm 0,0 km/h (0 Bft) O-SO 122 ° 0 min 0,000 mm 0,0 UV-I 0 W/m² -0,4 °C 1,7 °C 0,0 km/h (0 Bft)
28.03.2019 22:13 1,7 °C 86 % 1031,9 hPa 0,0 mm 0,0 km/h (0 Bft) O-SO 122 ° 0 min 0,000 mm 0,0 UV-I 0 W/m² -0,4 °C 1,7 °C 0,0 km/h (0 Bft)
28.03.2019 22:14 1,7 °C 86 % 1031,9 hPa 0,0 mm 0,0 km/h (0 Bft) O-SO 122 ° 0 min 0,000 mm 0,0 UV-I 0 W/m² -0,4 °C 1,7 °C 0,0 km/h (0 Bft)
28.03.2019 22:15 1,7 °C 86 % 1031,8 hPa 0,0 mm 0,0 km/h (0 Bft) O-SO 122 ° 0 min 0,000 mm 0,0 UV-I 0 W/m² -0,4 °C 1,7 °C 0,0 km/h (0 Bft)
28.03.2019 22:16 1,6 °C 86 % 1031,9 hPa 0,0 mm 0,0 km/h (0 Bft) O-SO 122 ° 0 min 0,000 mm 0,0 UV-I 0 W/m² -0,5 °C 1,6 °C 0,0 km/h (0 Bft)
28.03.2019 22:17 1,6 °C 86 % 1031,9 hPa 0,0 mm 0,0 km/h (0 Bft) O-SO 122 ° 0 min 0,000 mm 0,0 UV-I 0 W/m² -0,5 °C 1,6 °C 0,0 km/h (0 Bft)
28.03.2019 22:18 1,4 °C 86 % 1031,9 hPa 0,0 mm 0,0 km/h (0 Bft) O-SO 122 ° 0 min 0,000 mm 0,0 UV-I 0 W/m² -0,7 °C 1,4 °C 0,0 km/h (0 Bft)
28.03.2019 22:19 1,4 °C 86 % 1031,9 hPa 0,0 mm 0,0 km/h (0 Bft) O-SO 122 ° 0 min 0,000 mm 0,0 UV-I 0 W/m² -0,7 °C 1,4 °C 0,0 km/h (0 Bft)
28.03.2019 22:20 1,4 °C 87 % 1031,9 hPa 0,0 mm 0,0 km/h (0 Bft) O-SO 122 ° 0 min 0,000 mm 0,0 UV-I 0 W/m² -0,5 °C 1,4 °C 0,0 km/h (0 Bft)
28.03.2019 22:21 1,4 °C 87 % 1031,9 hPa 0,0 mm 0,0 km/h (0 Bft) O-SO 122 ° 0 min 0,000 mm 0,0 UV-I 0 W/m² -0,5 °C 1,4 °C 0,0 km/h (0 Bft)
28.03.2019 22:22 1,4 °C 87 % 1031,9 hPa 0,0 mm 0,0 km/h (0 Bft) O-SO 122 ° 0 min 0,000 mm 0,0 UV-I 0 W/m² -0,5 °C 1,4 °C 0,0 km/h (0 Bft)
28.03.2019 22:23 1,4 °C 87 % 1031,9 hPa 0,0 mm 0,0 km/h (0 Bft) O-SO 122 ° 0 min 0,000 mm 0,0 UV-I 0 W/m² -0,5 °C 1,4 °C 0,0 km/h (0 Bft)
28.03.2019 22:24 1,4 °C 87 % 1031,9 hPa 0,0 mm 0,0 km/h (0 Bft) O-SO 122 ° 0 min 0,000 mm 0,0 UV-I 0 W/m² -0,5 °C 1,4 °C 0,0 km/h (0 Bft)
28.03.2019 22:25 1,3 °C 86 % 1031,9 hPa 0,0 mm 0,0 km/h (0 Bft) O-SO 122 ° 0 min 0,000 mm 0,0 UV-I 0 W/m² -0,8 °C 1,3 °C 0,0 km/h (0 Bft)
28.03.2019 22:26 1,3 °C 86 % 1031,9 hPa 0,0 mm 0,0 km/h (0 Bft) O-SO 122 ° 0 min 0,000 mm 0,0 UV-I 0 W/m² -0,8 °C 1,3 °C 0,0 km/h (0 Bft)
28.03.2019 22:27 1,2 °C 86 % 1031,9 hPa 0,0 mm 0,0 km/h (0 Bft) O-SO 122 ° 0 min 0,000 mm 0,0 UV-I 0 W/m² -0,9 °C 1,2 °C 0,0 km/h (0 Bft)
28.03.2019 22:28 1,1 °C 86 % 1031,9 hPa 0,0 mm 0,0 km/h (0 Bft) O-SO 122 ° 0 min 0,000 mm 0,0 UV-I 0 W/m² -1,0 °C 1,1 °C 0,0 km/h (0 Bft)
28.03.2019 22:29 1,1 °C 87 % 1031,9 hPa 0,0 mm 0,0 km/h (0 Bft) O-SO 122 ° 0 min 0,000 mm 0,0 UV-I 0 W/m² -0,8 °C 1,1 °C 0,0 km/h (0 Bft)
28.03.2019 22:30 1,1 °C 87 % 1031,9 hPa 0,0 mm 0,0 km/h (0 Bft) O-SO 122 ° 0 min 0,000 mm 0,0 UV-I 0 W/m² -0,8 °C 1,1 °C 0,0 km/h (0 Bft)
28.03.2019 22:31 1,0 °C 87 % 1031,9 hPa 0,0 mm 0,0 km/h (0 Bft) O-SO 122 ° 0 min 0,000 mm 0,0 UV-I 0 W/m² -0,9 °C 1,0 °C 0,0 km/h (0 Bft)
28.03.2019 22:32 0,9 °C 86 % 1031,9 hPa 0,0 mm 0,0 km/h (0 Bft) O-SO 122 ° 0 min 0,000 mm 0,0 UV-I 0 W/m² -1,2 °C 0,9 °C 0,0 km/h (0 Bft)
28.03.2019 22:33 1,0 °C 87 % 1031,8 hPa 0,0 mm 0,0 km/h (0 Bft) O-SO 122 ° 0 min 0,000 mm 0,0 UV-I 0 W/m² -0,9 °C 1,0 °C 0,0 km/h (0 Bft)
28.03.2019 22:34 1,0 °C 87 % 1031,8 hPa 0,0 mm 0,0 km/h (0 Bft) O-SO 122 ° 0 min 0,000 mm 0,0 UV-I 0 W/m² -0,9 °C 1,0 °C 0,0 km/h (0 Bft)
28.03.2019 22:35 1,1 °C 87 % 1031,8 hPa 0,0 mm 0,0 km/h (0 Bft) O-SO 122 ° 0 min 0,000 mm 0,0 UV-I 0 W/m² -0,8 °C 1,1 °C 0,0 km/h (0 Bft)
28.03.2019 22:36 1,2 °C 88 % 1031,8 hPa 0,0 mm 0,0 km/h (0 Bft) O-SO 122 ° 0 min 0,000 mm 0,0 UV-I 0 W/m² -0,6 °C 1,2 °C 0,0 km/h (0 Bft)
28.03.2019 22:37 1,4 °C 88 % 1031,8 hPa 0,0 mm 0,0 km/h (0 Bft) O-SO 122 ° 0 min 0,000 mm 0,0 UV-I 0 W/m² -0,4 °C 1,4 °C 0,0 km/h (0 Bft)
28.03.2019 22:38 1,7 °C 89 % 1031,8 hPa 0,0 mm 0,0 km/h (0 Bft) O-SO 122 ° 0 min 0,000 mm 0,0 UV-I 0 W/m² 0,1 °C 1,7 °C 0,0 km/h (0 Bft)
28.03.2019 22:39 2,0 °C 89 % 1031,8 hPa 0,0 mm 0,0 km/h (0 Bft) O-SO 122 ° 0 min 0,000 mm 0,0 UV-I 0 W/m² 0,4 °C 2,0 °C 0,0 km/h (0 Bft)
28.03.2019 22:40 2,3 °C 89 % 1031,8 hPa 0,0 mm 0,2 km/h (0 Bft) O-SO 122 ° 0 min 0,000 mm 0,0 UV-I 0 W/m² 0,7 °C 2,3 °C 1,6 km/h (1 Bft)
28.03.2019 22:41 2,4 °C 89 % 1031,8 hPa 0,0 mm 1,6 km/h (1 Bft) O-SO 122 ° 0 min 0,000 mm 0,0 UV-I 0 W/m² 0,8 °C 2,4 °C 3,2 km/h (1 Bft)
28.03.2019 22:42 2,6 °C 88 % 1031,8 hPa 0,0 mm 1,3 km/h (1 Bft) O-SO 122 ° 0 min 0,000 mm 0,0 UV-I 0 W/m² 0,8 °C 2,6 °C 3,2 km/h (1 Bft)
28.03.2019 22:43 2,8 °C 88 % 1031,8 hPa 0,0 mm 0,0 km/h (0 Bft) O-SO 122 ° 0 min 0,000 mm 0,0 UV-I 0 W/m² 1,0 °C 2,8 °C 0,0 km/h (0 Bft)
28.03.2019 22:44 2,7 °C 87 % 1031,8 hPa 0,0 mm 0,0 km/h (0 Bft) O-SO 122 ° 0 min 0,000 mm 0,0 UV-I 0 W/m² 0,8 °C 2,7 °C 0,0 km/h (0 Bft)
28.03.2019 22:45 2,4 °C 84 % 1031,8 hPa 0,0 mm 0,4 km/h (0 Bft) O-SO 122 ° 0 min 0,000 mm 0,0 UV-I 0 W/m² -0,0 °C 2,4 °C 3,2 km/h (1 Bft)
28.03.2019 22:46 2,2 °C 85 % 1031,8 hPa 0,0 mm 2,1 km/h (1 Bft) O-SO 115 ° 0 min 0,000 mm 0,0 UV-I 0 W/m² -0,1 °C 2,2 °C 3,2 km/h (1 Bft)
28.03.2019 22:47 2,2 °C 85 % 1031,8 hPa 0,0 mm 0,5 km/h (0 Bft) O-SO 115 ° 0 min 0,000 mm 0,0 UV-I 0 W/m² -0,1 °C 2,2 °C 3,2 km/h (1 Bft)
28.03.2019 22:48 2,3 °C 87 % 1031,7 hPa 0,0 mm 0,0 km/h (0 Bft) O-SO 115 ° 0 min 0,000 mm 0,0 UV-I 0 W/m² 0,4 °C 2,3 °C 0,0 km/h (0 Bft)
28.03.2019 22:49 2,3 °C 87 % 1031,7 hPa 0,0 mm 0,0 km/h (0 Bft) O-SO 115 ° 0 min 0,000 mm 0,0 UV-I 0 W/m² 0,4 °C 2,3 °C 0,0 km/h (0 Bft)
28.03.2019 22:50 2,0 °C 84 % 1031,8 hPa 0,0 mm 0,0 km/h (0 Bft) O-SO 115 ° 0 min 0,000 mm 0,0 UV-I 0 W/m² -0,4 °C 2,0 °C 0,0 km/h (0 Bft)
28.03.2019 22:51 1,7 °C 83 % 1031,8 hPa 0,0 mm 0,0 km/h (0 Bft) O-SO 115 ° 0 min 0,000 mm 0,0 UV-I 0 W/m² -0,9 °C 1,7 °C 0,0 km/h (0 Bft)
28.03.2019 22:52 1,4 °C 84 % 1031,7 hPa 0,0 mm 0,0 km/h (0 Bft) O-SO 115 ° 0 min 0,000 mm 0,0 UV-I 0 W/m² -1,0 °C 1,4 °C 0,0 km/h (0 Bft)
28.03.2019 22:53 1,3 °C 85 % 1031,7 hPa 0,0 mm 0,4 km/h (0 Bft) O-SO 119 ° 0 min 0,000 mm 0,0 UV-I 0 W/m² -0,9 °C 1,3 °C 3,2 km/h (1 Bft)
28.03.2019 22:54 1,4 °C 87 % 1031,7 hPa 0,0 mm 2,3 km/h (1 Bft) O-SO 110 ° 0 min 0,000 mm 0,0 UV-I 0 W/m² -0,5 °C 1,4 °C 4,8 km/h (1 Bft)
28.03.2019 22:55 1,4 °C 86 % 1031,7 hPa 0,0 mm 0,9 km/h (0 Bft) O-SO 110 ° 0 min 0,000 mm 0,0 UV-I 0 W/m² -0,7 °C 1,4 °C 3,2 km/h (1 Bft)
28.03.2019 22:56 1,4 °C 87 % 1031,7 hPa 0,0 mm 0,0 km/h (0 Bft) O-SO 110 ° 0 min 0,000 mm 0,0 UV-I 0 W/m² -0,5 °C 1,4 °C 0,0 km/h (0 Bft)
28.03.2019 22:57 1,4 °C 87 % 1031,7 hPa 0,0 mm 0,0 km/h (0 Bft) O-SO 110 ° 0 min 0,000 mm 0,0 UV-I 0 W/m² -0,5 °C 1,4 °C 0,0 km/h (0 Bft)
28.03.2019 22:58 1,4 °C 88 % 1031,7 hPa 0,0 mm 0,0 km/h (0 Bft) O-SO 110 ° 0 min 0,000 mm 0,0 UV-I 0 W/m² -0,4 °C 1,4 °C 0,0 km/h (0 Bft)
28.03.2019 22:59 1,5 °C 88 % 1031,7 hPa 0,0 mm 0,1 km/h (0 Bft) O-SO 110 ° 0 min 0,000 mm 0,0 UV-I 0 W/m² -0,3 °C 1,5 °C 1,6 km/h (1 Bft)
28.03.2019 23:00 1,6 °C 88 % 1031,7 hPa 0,0 mm 0,0 km/h (0 Bft) O-SO 110 ° 0 min 0,000 mm 0,0 UV-I 0 W/m² -0,2 °C 1,6 °C 0,0 km/h (0 Bft)
28.03.2019 23:01 1,4 °C 87 % 1031,8 hPa 0,0 mm 0,0 km/h (0 Bft) O-SO 110 ° 0 min 0,000 mm 0,0 UV-I 0 W/m² -0,5 °C 1,4 °C 0,0 km/h (0 Bft)
28.03.2019 23:02 1,3 °C 86 % 1031,7 hPa 0,0 mm 0,0 km/h (0 Bft) O-SO 110 ° 0 min 0,000 mm 0,0 UV-I 0 W/m² -0,8 °C 1,3 °C 0,0 km/h (0 Bft)
28.03.2019 23:03 1,2 °C 86 % 1031,8 hPa 0,0 mm 0,0 km/h (0 Bft) O-SO 110 ° 0 min 0,000 mm 0,0 UV-I 0 W/m² -0,9 °C 1,2 °C 0,0 km/h (0 Bft)
28.03.2019 23:04 1,0 °C 86 % 1031,7 hPa 0,0 mm 0,0 km/h (0 Bft) O-SO 110 ° 0 min 0,000 mm 0,0 UV-I 0 W/m² -1,1 °C 1,0 °C 0,0 km/h (0 Bft)
28.03.2019 23:05 0,9 °C 87 % 1031,7 hPa 0,0 mm 0,0 km/h (0 Bft) O-SO 110 ° 0 min 0,000 mm 0,0 UV-I 0 W/m² -1,0 °C 0,9 °C 0,0 km/h (0 Bft)
28.03.2019 23:06 0,9 °C 87 % 1031,7 hPa 0,0 mm 0,0 km/h (0 Bft) O-SO 110 ° 0 min 0,000 mm 0,0 UV-I 0 W/m² -1,0 °C 0,9 °C 0,0 km/h (0 Bft)
28.03.2019 23:07 1,0 °C 87 % 1031,7 hPa 0,0 mm 0,0 km/h (0 Bft) O-SO 110 ° 0 min 0,000 mm 0,0 UV-I 0 W/m² -0,9 °C 1,0 °C 0,0 km/h (0 Bft)
28.03.2019 23:08 1,2 °C 89 % 1031,7 hPa 0,0 mm 0,0 km/h (0 Bft) O-SO 110 ° 0 min 0,000 mm 0,0 UV-I 0 W/m² -0,4 °C 1,2 °C 0,0 km/h (0 Bft)
28.03.2019 23:09 1,6 °C 90 % 1031,6 hPa 0,0 mm 0,0 km/h (0 Bft) O-SO 110 ° 0 min 0,000 mm 0,0 UV-I 0 W/m² 0,1 °C 1,6 °C 0,0 km/h (0 Bft)
28.03.2019 23:10 1,8 °C 89 % 1031,6 hPa 0,0 mm 0,0 km/h (0 Bft) O-SO 110 ° 0 min 0,000 mm 0,0 UV-I 0 W/m² 0,2 °C 1,8 °C 0,0 km/h (0 Bft)
28.03.2019 23:11 2,0 °C 90 % 1031,6 hPa 0,0 mm 0,0 km/h (0 Bft) O-SO 110 ° 0 min 0,000 mm 0,0 UV-I 0 W/m² 0,5 °C 2,0 °C 0,0 km/h (0 Bft)
28.03.2019 23:12 2,3 °C 90 % 1031,6 hPa 0,0 mm 0,0 km/h (0 Bft) O-SO 110 ° 0 min 0,000 mm 0,0 UV-I 0 W/m² 0,8 °C 2,3 °C 0,0 km/h (0 Bft)
28.03.2019 23:13 2,4 °C 89 % 1031,6 hPa 0,0 mm 0,0 km/h (0 Bft) O-SO 110 ° 0 min 0,000 mm 0,0 UV-I 0 W/m² 0,8 °C 2,4 °C 0,0 km/h (0 Bft)
28.03.2019 23:14 2,7 °C 89 % 1031,6 hPa 0,0 mm 0,0 km/h (0 Bft) O-SO 110 ° 0 min 0,000 mm 0,0 UV-I 0 W/m² 1,1 °C 2,7 °C 0,0 km/h (0 Bft)
28.03.2019 23:15 2,8 °C 88 % 1031,6 hPa 0,0 mm 0,0 km/h (0 Bft) O-SO 110 ° 0 min 0,000 mm 0,0 UV-I 0 W/m² 1,0 °C 2,8 °C 0,0 km/h (0 Bft)
28.03.2019 23:16 2,9 °C 88 % 1031,6 hPa 0,0 mm 0,0 km/h (0 Bft) O-SO 110 ° 0 min 0,000 mm 0,0 UV-I 0 W/m² 1,1 °C 2,9 °C 0,0 km/h (0 Bft)
28.03.2019 23:17 2,9 °C 88 % 1031,6 hPa 0,0 mm 0,0 km/h (0 Bft) O-SO 110 ° 0 min 0,000 mm 0,0 UV-I 0 W/m² 1,1 °C 2,9 °C 0,0 km/h (0 Bft)
28.03.2019 23:18 2,7 °C 87 % 1031,5 hPa 0,0 mm 0,0 km/h (0 Bft) O-SO 110 ° 0 min 0,000 mm 0,0 UV-I 0 W/m² 0,8 °C 2,7 °C 0,0 km/h (0 Bft)
28.03.2019 23:19 2,3 °C 84 % 1031,6 hPa 0,0 mm 0,0 km/h (0 Bft) O-SO 110 ° 0 min 0,000 mm 0,0 UV-I 0 W/m² -0,1 °C 2,3 °C 0,0 km/h (0 Bft)
28.03.2019 23:20 1,9 °C 83 % 1031,6 hPa 0,0 mm 0,0 km/h (0 Bft) O-SO 110 ° 0 min 0,000 mm 0,0 UV-I 0 W/m² -0,7 °C 1,9 °C 0,0 km/h (0 Bft)
28.03.2019 23:21 1,6 °C 84 % 1031,6 hPa 0,0 mm 0,0 km/h (0 Bft) O-SO 110 ° 0 min 0,000 mm 0,0 UV-I 0 W/m² -0,8 °C 1,6 °C 0,0 km/h (0 Bft)
28.03.2019 23:22 1,3 °C 84 % 1031,6 hPa 0,0 mm 0,0 km/h (0 Bft) O-SO 110 ° 0 min 0,000 mm 0,0 UV-I 0 W/m² -1,1 °C 1,3 °C 0,0 km/h (0 Bft)
28.03.2019 23:23 1,1 °C 85 % 1031,6 hPa 0,0 mm 0,0 km/h (0 Bft) O-SO 110 ° 0 min 0,000 mm 0,0 UV-I 0 W/m² -1,1 °C 1,1 °C 0,0 km/h (0 Bft)
28.03.2019 23:24 1,1 °C 86 % 1031,6 hPa 0,0 mm 0,0 km/h (0 Bft) O-SO 110 ° 0 min 0,000 mm 0,0 UV-I 0 W/m² -1,0 °C 1,1 °C 0,0 km/h (0 Bft)
28.03.2019 23:25 1,1 °C 87 % 1031,6 hPa 0,0 mm 0,0 km/h (0 Bft) O-SO 110 ° 0 min 0,000 mm 0,0 UV-I 0 W/m² -0,8 °C 1,1 °C 0,0 km/h (0 Bft)
28.03.2019 23:26 1,0 °C 87 % 1031,6 hPa 0,0 mm 0,0 km/h (0 Bft) O-SO 110 ° 0 min 0,000 mm 0,0 UV-I 0 W/m² -0,9 °C 1,0 °C 0,0 km/h (0 Bft)
28.03.2019 23:27 0,9 °C 87 % 1031,5 hPa 0,0 mm 0,0 km/h (0 Bft) O-SO 110 ° 0 min 0,000 mm 0,0 UV-I 0 W/m² -1,0 °C 0,9 °C 0,0 km/h (0 Bft)
28.03.2019 23:28 0,8 °C 87 % 1031,5 hPa 0,0 mm 0,0 km/h (0 Bft) O-SO 110 ° 0 min 0,000 mm 0,0 UV-I 0 W/m² -1,1 °C 0,8 °C 0,0 km/h (0 Bft)
28.03.2019 23:29 0,9 °C 88 % 1031,5 hPa 0,0 mm 0,0 km/h (0 Bft) O-SO 110 ° 0 min 0,000 mm 0,0 UV-I 0 W/m² -0,9 °C 0,9 °C 0,0 km/h (0 Bft)
28.03.2019 23:30 1,1 °C 89 % 1031,5 hPa 0,0 mm 0,0 km/h (0 Bft) O-SO 110 ° 0 min 0,000 mm 0,0 UV-I 0 W/m² -0,5 °C 1,1 °C 0,0 km/h (0 Bft)
28.03.2019 23:31 1,3 °C 89 % 1031,5 hPa 0,0 mm 0,0 km/h (0 Bft) O-SO 110 ° 0 min 0,000 mm 0,0 UV-I 0 W/m² -0,3 °C 1,3 °C 0,0 km/h (0 Bft)
28.03.2019 23:32 1,5 °C 90 % 1031,4 hPa 0,0 mm 0,0 km/h (0 Bft) O-SO 110 ° 0 min 0,000 mm 0,0 UV-I 0 W/m² 0,0 °C 1,5 °C 0,0 km/h (0 Bft)
28.03.2019 23:33 1,5 °C 89 % 1031,4 hPa 0,0 mm 0,0 km/h (0 Bft) O-SO 110 ° 0 min 0,000 mm 0,0 UV-I 0 W/m² -0,1 °C 1,5 °C 0,0 km/h (0 Bft)
28.03.2019 23:34 1,4 °C 88 % 1031,5 hPa 0,0 mm 0,0 km/h (0 Bft) O-SO 110 ° 0 min 0,000 mm 0,0 UV-I 0 W/m² -0,4 °C 1,4 °C 0,0 km/h (0 Bft)
28.03.2019 23:35 1,3 °C 88 % 1031,4 hPa 0,0 mm 0,0 km/h (0 Bft) O-SO 110 ° 0 min 0,000 mm 0,0 UV-I 0 W/m² -0,5 °C 1,3 °C 0,0 km/h (0 Bft)
28.03.2019 23:36 1,3 °C 88 % 1031,5 hPa 0,0 mm 0,0 km/h (0 Bft) O-SO 110 ° 0 min 0,000 mm 0,0 UV-I 0 W/m² -0,5 °C 1,3 °C 0,0 km/h (0 Bft)
28.03.2019 23:37 1,3 °C 88 % 1031,4 hPa 0,0 mm 0,0 km/h (0 Bft) O-SO 110 ° 0 min 0,000 mm 0,0 UV-I 0 W/m² -0,5 °C 1,3 °C 0,0 km/h (0 Bft)
28.03.2019 23:38 1,3 °C 88 % 1031,4 hPa 0,0 mm 0,0 km/h (0 Bft) O-SO 110 ° 0 min 0,000 mm 0,0 UV-I 0 W/m² -0,5 °C 1,3 °C 0,0 km/h (0 Bft)
28.03.2019 23:39 1,2 °C 88 % 1031,4 hPa 0,0 mm 0,0 km/h (0 Bft) O-SO 110 ° 0 min 0,000 mm 0,0 UV-I 0 W/m² -0,6 °C 1,2 °C 0,0 km/h (0 Bft)
28.03.2019 23:40 1,2 °C 88 % 1031,4 hPa 0,0 mm 0,0 km/h (0 Bft) O-SO 110 ° 0 min 0,000 mm 0,0 UV-I 0 W/m² -0,6 °C 1,2 °C 0,0 km/h (0 Bft)
28.03.2019 23:41 1,1 °C 88 % 1031,4 hPa 0,0 mm 0,0 km/h (0 Bft) O-SO 110 ° 0 min 0,000 mm 0,0 UV-I 0 W/m² -0,7 °C 1,1 °C 0,0 km/h (0 Bft)
28.03.2019 23:42 1,0 °C 88 % 1031,4 hPa 0,0 mm 0,0 km/h (0 Bft) O-SO 110 ° 0 min 0,000 mm 0,0 UV-I 0 W/m² -0,8 °C 1,0 °C 0,0 km/h (0 Bft)
28.03.2019 23:43 0,8 °C 87 % 1031,4 hPa 0,0 mm 0,0 km/h (0 Bft) O-SO 110 ° 0 min 0,000 mm 0,0 UV-I 0 W/m² -1,1 °C 0,8 °C 0,0 km/h (0 Bft)
28.03.2019 23:44 0,7 °C 88 % 1031,4 hPa 0,0 mm 0,0 km/h (0 Bft) O-SO 110 ° 0 min 0,000 mm 0,0 UV-I 0 W/m² -1,1 °C 0,7 °C 0,0 km/h (0 Bft)
28.03.2019 23:45 0,6 °C 88 % 1031,4 hPa 0,0 mm 0,0 km/h (0 Bft) O-SO 110 ° 0 min 0,000 mm 0,0 UV-I 0 W/m² -1,2 °C 0,6 °C 0,0 km/h (0 Bft)
28.03.2019 23:46 0,6 °C 88 % 1031,4 hPa 0,0 mm 0,0 km/h (0 Bft) O-SO 110 ° 0 min 0,000 mm 0,0 UV-I 0 W/m² -1,2 °C 0,6 °C 0,0 km/h (0 Bft)
28.03.2019 23:47 0,6 °C 88 % 1031,3 hPa 0,0 mm 0,0 km/h (0 Bft) O-SO 110 ° 0 min 0,000 mm 0,0 UV-I 0 W/m² -1,2 °C 0,6 °C 0,0 km/h (0 Bft)
28.03.2019 23:48 0,7 °C 89 % 1031,4 hPa 0,0 mm 0,0 km/h (0 Bft) O-SO 110 ° 0 min 0,000 mm 0,0 UV-I 0 W/m² -0,9 °C 0,7 °C 0,0 km/h (0 Bft)
28.03.2019 23:49 0,8 °C 90 % 1031,3 hPa 0,0 mm 0,0 km/h (0 Bft) O-SO 110 ° 0 min 0,000 mm 0,0 UV-I 0 W/m² -0,6 °C 0,8 °C 0,0 km/h (0 Bft)
28.03.2019 23:50 1,0 °C 90 % 1031,3 hPa 0,0 mm 0,0 km/h (0 Bft) O-SO 110 ° 0 min 0,000 mm 0,0 UV-I 0 W/m² -0,5 °C 1,0 °C 0,0 km/h (0 Bft)
28.03.2019 23:51 0,9 °C 89 % 1031,3 hPa 0,0 mm 0,0 km/h (0 Bft) O-SO 110 ° 0 min 0,000 mm 0,0 UV-I 0 W/m² -0,7 °C 0,9 °C 0,0 km/h (0 Bft)
28.03.2019 23:52 0,8 °C 89 % 1031,3 hPa 0,0 mm 0,0 km/h (0 Bft) O-SO 110 ° 0 min 0,000 mm 0,0 UV-I 0 W/m² -0,8 °C 0,8 °C 0,0 km/h (0 Bft)
28.03.2019 23:53 0,7 °C 88 % 1031,3 hPa 0,0 mm 0,0 km/h (0 Bft) O-SO 110 ° 0 min 0,000 mm 0,0 UV-I 0 W/m² -1,1 °C 0,7 °C 0,0 km/h (0 Bft)
28.03.2019 23:54 0,6 °C 88 % 1031,3 hPa 0,0 mm 0,0 km/h (0 Bft) O-SO 110 ° 0 min 0,000 mm 0,0 UV-I 0 W/m² -1,2 °C 0,6 °C 0,0 km/h (0 Bft)
28.03.2019 23:55 0,4 °C 88 % 1031,3 hPa 0,0 mm 0,0 km/h (0 Bft) O-SO 110 ° 0 min 0,000 mm 0,0 UV-I 0 W/m² -1,3 °C 0,4 °C 0,0 km/h (0 Bft)
28.03.2019 23:56 0,4 °C 89 % 1031,3 hPa 0,0 mm 0,0 km/h (0 Bft) O-SO 110 ° 0 min 0,000 mm 0,0 UV-I 0 W/m² -1,2 °C 0,4 °C 0,0 km/h (0 Bft)
28.03.2019 23:57 0,4 °C 89 % 1031,3 hPa 0,0 mm 0,0 km/h (0 Bft) O-SO 110 ° 0 min 0,000 mm 0,0 UV-I 0 W/m² -1,2 °C 0,4 °C 0,0 km/h (0 Bft)
28.03.2019 23:58 0,4 °C 89 % 1031,3 hPa 0,0 mm 0,0 km/h (0 Bft) O-SO 110 ° 0 min 0,000 mm 0,0 UV-I 0 W/m² -1,2 °C 0,4 °C 0,0 km/h (0 Bft)
28.03.2019 23:59 0,4 °C 89 % 1031,3 hPa 0,0 mm 0,0 km/h (0 Bft) O-SO 110 ° 0 min 0,000 mm 0,0 UV-I 0 W/m² -1,2 °C 0,4 °C 0,0 km/h (0 Bft)
_ Min-Zeit 06:57 15:10 15:49 - 23:59 - - - - - - 10:37 06:00 23:59
Minimum _ -0,4 °C 44 % 1030,1 hPa - 0,0 km/h (0 Bft) - - - - - - -1,9 °C -0,7 °C 0,0 km/h (0 Bft)
_ Max-Zeit 15:52 07:57 00:06 23:59 16:01 - - 14:51 14:01 11:49 12:14 09:22 15:52 11:48
Maximum _ 10,6 °C 93 % 1032,4 hPa 0,0 mm 19,9 km/h
O-NO (4 Bft)
- - 1 min 0,381 mm 4,9 UV-I 900 W/m² 1,6 °C 10,6 °C 35,4 km/h
NO (5 Bft)
Durchschnitt _ 4,6 °C 73 % 1031,5 hPa #0,0 mm 4,4 km/h (1 Bft) O-NO - #3:30 h #2,489 mm 2,6 UV-I 189 W/m² -0,3 °C 4,1 °C 7,2 km/h (2 Bft)